ENHM 240220Z AUTO 19013KT 9999NDV FEW031/// SCT036/// BKN180/// 15/13 Q1018 W15/S2 UUOK 240230Z 35003MPS CAVOK 16/15 Q1010 R30/////// NOSIG RMK QFE739/0985 KIWI 240153Z AUTO 00000KT 10SM CLR 19/18 A2980 RMK AO2 SLP091 T01940178 KJMR 240234Z AUTO 11004KT 10SM OVC020 21/20 A2980 RMK AO2 KIXA 240240Z AUTO 19003KT 10SM CLR 26/25 A2997 RMK AO2 PPIT 240156Z AUTO 26014KT 3SM -RA BR BKN008 OVC012 13/12 A2964 RMK AO2 RAE22B52 SLP037 P0003 T01280122 KJMS 240156Z AUTO 29009KT 10SM FEW048 24/19 A2978 RMK AO2 SLP077 T02390189 $ UUOO 240230Z 02004MPS 9999 BKN014 17/15 Q1007 R12/190060 NOSIG RMK QFE741 KIXD 240153Z 16005KT 10SM CLR 30/23 A2987 RMK AO2 SLP101 T03000233 ENHV 231250Z VRB02KT CAVOK 18/09 Q1018 KM63 240158Z AUTO 23007KT 9SM CLR 37/03 A2992 RMK AO2 SLP045 T03700032 KIYA 240235Z AUTO 00000KT 10SM CLR 27/26 A2996 RMK AO2 T02740260 FDSK 231500Z 16010KT 9999 BKN035 24/11 Q1015 NOSIG ENKB 240220Z AUTO 04005KT 9999 NCD 15/14 Q1019 KJNX 240245Z AUTO 00000KT 10SM CLR 26/22 A2999 RMK AO2 VLPS 240200Z 09002KT 9999 FEW020 FEW050 SCT200 29/25 Q1011 NOSIG KIZA 240227Z AUTO 26006KT 10SM CLR 22/10 A2982 RMK AO2 ENLA 240220Z AUTO 20015KT 9999NDV BKN054/// BKN130/// 16/15 Q1019 W///S2 KJOT 240235Z AUTO 12005KT 10SM BKN110 25/23 A2994 RMK AO2 LTG DSNT W THRU N T02500225 FDST 240000Z AUTO 21005KT //// // ////// 12/11 Q//// KJQF 240150Z 00000KT 10SM CLR 24/23 A3003 LBGO 240230Z AUTO 00000KT 9999 NCD 16/16 Q1014 KIZG 231906Z AUTO 34011KT 5SM -TSRA FEW046 BKN080 BKN110 22/17 A2973 RMK AO2 LTG DSNT ALQDS RAB1855 TSB00 P0009 T02220172 ENKR 240220Z AUTO 16008KT 9999NDV NCD 16/11 Q1019 RMK WIND 731FT 22008KT KJRB 240235Z 00000KT 10SM CLR 30/14 A2988 RMK AO1 ENLK 231950Z 36008KT 6000 VV004 12/12 Q1020 KM91 240105Z AUTO 00000KT 9SM CLR 25/24 A2997 RMK A01 KN03 240235Z AUTO 00000KT 10SM CLR 20/15 A2997 RMK AO2 ENMH 231150Z 20015KT CAVOK 27/08 Q1017 VLSK 240200Z 36002KT 4000 BR SCT033 BKN083 28/25 Q1013 NOSIG KLAA 240153Z AUTO 09012KT 10SM CLR 31/16 A2989 RMK AO2 SLP061 T03110161 TSNO FDUS 240000Z AUTO 11007KT //// // ////// 11/11 Q1022 ENNA 240220Z AUTO VRB02KT 9999 NCD 15/12 Q1019 RMK WIND 1800FT 30003KT ENML 240220Z AUTO 02006KT 9999NDV NSC 15/13 Q1019 ENNE 240220Z AUTO 20004KT 9999NDV OVC024/// 14/13 Q1021 W///S3 KLAF 240154Z AUTO 00000KT 10SM CLR 27/25 A2996 RMK AO2 SLP138 T02670250 KLBB 240153Z 17007KT 10SM FEW090 FEW250 32/12 A2997 RMK AO2 SLP087 CB DSNT NW MOV E T03220122 ENMS 231450Z 33010KT 300V360 CAVOK 21/14 Q1018 RMK WIND 412FT 36008KT 310V050 ENOA 240150Z 21015KT 9999 BKN020 15/14 Q1018 W///S2 ENNK 230950Z VRB02KT 9999 FEW080 22/16 Q1018 KLAL 240235Z AUTO 00000KT 10SM SCT045 25/22 A3005 RMK AO2 KJSL 240240Z AUTO 13008G13KT 10SM CLR 30/24 A2997 RMK A01 KJTC 240235Z AUTO 19016G22KT 10SM VCTS BKN100 BKN120 24/08 A3031 RMK AO2 LTG DSNT S AND SW KLAM 240235Z AUTO 34004KT 10SM SCT100 OVC120 A3023 RMK AO2 KLAN 240153Z 10004KT 10SM CLR 25/19 A2996 RMK AO2 SLP141 T02500194 ENNM 230820Z 25005KT CAVOK 20/16 Q1018 KLBE 240235Z AUTO 00000KT 10SM CLR 22/22 A3002 RMK AO2 KLBF 240153Z AUTO 02005KT 10SM CLR 27/19 A2990 RMK AO2 SLP094 T02670194 KJSO 240235Z AUTO 04007KT 10SM SCT065 31/22 A2998 RMK AO2 LTG DSNT NE AND E T03150221 KLAR 240153Z AUTO 28014KT 10SM CLR 24/00 A3022 RMK AO2 SLP104 T02390000 TSNO LATI 240250Z 18003KT CAVOK 21/16 Q1014 NOSIG VMMC 240230Z 12004KT 090V190 9999 FEW018 31/26 Q1009 NOSIG KLAS 240156Z 22011KT 10SM CLR 43/M03 A2971 RMK AO2 SLP024 T04281033 KJST 240154Z AUTO 28005KT 10SM CLR 23/19 A3005 RMK AO2 SLP159 T02330189 KLBL 240235Z 17009KT 10SM CLR 31/10 A2989 RMK AO1 ENOL 240150Z VRB02KT 9999 2500SW VCFG FEW002 SCT080 12/11 Q1020 KJSV 240235Z AUTO 10003KT 10SM SCT070 30/21 A2992 RMK AO2 KLAW 240153Z AUTO 14008KT 10SM CLR 33/19 A2986 RMK AO2 SLP097 T03280194 TSNO KLAX 240153Z 13009KT 9SM SCT100 25/18 A2980 RMK AO2 SLP089 FU SCT100 T02500178 KLCG 240235Z AUTO 18003KT 10SM CLR 27/26 A2978 RMK AO2 T02720256 KLCH 240153Z 17003KT 10SM CLR 29/24 A2992 RMK AO2 SLP139 T02890239 KLCI 240156Z AUTO 27008KT 10SM SCT120 18/16 A2986 RMK AO2 SLP122 T01830156 KN38 240235Z AUTO 33005KT 10SM CLR 24/13 A3002 RMK AO2 ENQA 240220Z AUTO 17013KT 0200NDV FG NCD 15/15 Q1019 W13/S2 KLBT 240154Z AUTO 26005KT 10SM FEW050 26/22 A2999 RMK AO2 SLP153 T02560222 KLCK 240240Z AUTO 00000KT 10SM CLR 27/23 A3000 RMK AO2 T02670234 ENQC 240220Z AUTO 16013KT 0450NDV FG NCD 15/15 Q1018 W///S2 ENOV 231250Z VRB04KT 9999 BKN059 19/14 Q1020 RMK WIND 2175FT VRB03KT KLBX 240153Z AUTO 17007KT 10SM CLR 30/24 A2991 RMK AO2 SLP128 T03000244 KLCQ 240235Z AUTO 11003KT 10SM BKN050 BKN070 26/23 A3003 RMK AO2 LTG DSNT S AND SW VLVT 240230Z 32002KT 9999 SCT020 FEW200 30/24 Q1010 NOSIG KLDJ 240235Z AUTO 00000KT 10SM CLR 31/12 A2989 RMK AO2 T03090120 KKLS 240156Z AUTO 29007KT 10SM OVC044 21/13 A3019 RMK AO2 SLP228 T02060133 KLEB 240153Z 00000KT 10SM CLR 17/16 A2988 RMK AO2 SLP110 T01670156 ENRA 231250Z 33006KT CAVOK 24/13 Q1018 KJVL 240145Z 14009KT 5SM -TSRA BKN055 OVC075 22/22 A2992 RMK OCNL LTGCCCG TS OVD MOV E LAST KLDM 240236Z AUTO 00000KT 10SM CLR 23/20 A2993 RMK AO2 T02250204 KLEE 240200Z AUTO 23005KT 5SM BR SCT055 BKN070 BKN110 24/22 A3004 RMK AO2 LTG DSNT S T02390222 PWINO KJWG 240235Z AUTO 14008KT 10SM CLR 32/20 A2990 RMK AO2 T03210200 ENQR 240220Z AUTO 16013KT 0100NDV -RA NCD 14/14 Q1017 W///S2 KN60 240152Z AUTO 30010KT 22/14 A2984 RMK AO1 SLP098 T02220144 UUWW 240230Z 36003MPS 6000 NSC 18/17 Q1014 R06/000070 NOSIG ENSB 240150Z 25006KT 9999 SCT009 BKN017 07/05 Q1018 RMK WIND 1400FT 24006KT ENSD 231220Z VRB02KT 9999 FEW045 SCT048 SCT058 22/12 Q1019 RMK WIND 1138FT VRB02KT UWGG 240230Z 34002MPS 2400 BR NSC 17/16 Q1013 R36L/090070 NOSIG RMK QFE752 ENRM 230820Z 21009KT 9999 SCT002 BKN004 14/14 Q1019 KJVW 240235Z AUTO 36003KT 6SM HZ CLR 24/21 A2996 RMK AO2 KJWN 240235Z AUTO 00000KT 10SM CLR 27/23 A2999 RMK LCEN 240220Z 20004KT CAVOK 25/18 Q1004 NOSIG ENSE 240220Z AUTO 18013KT 0100NDV FG NCD 14/14 Q1017 W///S2 ENSF 240220Z AUTO 19015KT 0100NDV -RA FG NCD ///// Q//// W///S2 ENRO 240220Z AUTO 31004KT 9999NDV FEW007/// BKN011/// OVC018/// 14/14 Q1021 ENSG 231050Z VRB02KT 9999 FEW025 20/12 Q1020 RMK WIND 3806FT 30006KT ENSH 231550Z 02015KT CAVOK 17/13 Q1019 KJXI 240235Z AUTO 12006KT 10SM CLR 26/22 A2995 RMK AO2 LTG DSNT SE T02570222 KLFI 240158Z AUTO 14006KT 10SM CLR 31/24 A2994 RMK AO2 SLP145 T03080241 $ KLGA 240151Z 35008KT 10SM FEW100 SCT250 32/14 A2985 RMK AO2 SLP108 T03170139 ENRS 231120Z 36008KT 0500 FG 0VC002 12/11 Q1019 KLFK 240153Z AUTO 15005KT 10SM CLR 31/23 A2992 RMK AO2 SLP126 T03110233 KLGB 240153Z 18008KT 8SM CLR 23/19 A2981 RMK AO2 SLP093 T02280189 ENSK 231350Z VRB04KT 9999 FEW002 17/13 Q1019 KLGC 240235Z AUTO 05003KT 10SM SCT055 28/25 A3002 RMK AO2 T02820249 ENSL 240220Z AUTO 19013KT 9999NDV FEW003/// BKN120/// 16/15 Q1019 W14/S2 ENTC 240150Z 05003KT 0250 R01/0700N R19/0600N FG VV001 10/09 Q1020 RMK WIND 2600FT 20005KT KLGD 240235Z AUTO 32008KT 10SM CLR 24/03 A3010 RMK AO1 LBPD 240230Z AUTO 16003KT 9999 NCD 21/14 Q1015 KLEW 240156Z AUTO 00000KT 10SM 18/17 A2983 RMK AO2 SLP112 T01830172 $ KJXN 240156Z AUTO 00000KT 10SM CLR 26/22 A2998 RMK AO2 SLP144 T02610222 $ KLEX 240154Z 00000KT 10SM OVC043 29/22 A3000 RMK AO2 SLP147 T02940222 KJYG 240235Z AUTO 14006KT 10SM CLR 23/22 A2977 RMK AO2 KJWY 240235Z AUTO 12003KT 10SM CLR 31/22 A2992 RMK AO2 T03100215 ENRY 240220Z AUTO VRB01KT 9999NDV NCD 15/14 Q1020 ENSR 231350Z 32008KT CAVOK 21/13 Q1019 WIND 1119FT 11004KT 060V200 ENSS 231250Z 18010KT CAVOK 26/08 Q1019 RMK WIND 500FT 20016KT KLFT 240153Z AUTO 14003KT 10SM CLR 29/26 A2994 RMK AO2 SLP136 T02940256 $ KLHB 240235Z AUTO 00000KT 10SM CLR 31/21 A2990 RMK AO2 T03110213 ENST 231150Z 21011KT 9999 FEW025 BKN110 17/14 Q1019 RMK WIND 300FT 21013KT UUYY 240230Z 03004MPS CAVOK 16/10 Q1019 R01/CLRD61 NOSIG RMK QFE755/1007 EPCE 240200Z 00000KT 9999 OVC017 15/15 Q1021 RMK 145 100 8/8 = KJYO 240235Z AUTO 25003KT 10SM CLR 28/25 A2995 RMK AO2 ENTO 240220Z AUTO 24003KT 190V290 2300 BKN001/// BKN003/// OVC004/// 16/16 Q1020 ENUG 240220Z AUTO 27012KT 0150NDV -RA NCD 11/10 Q1018 W///S3 KJZI 240235Z AUTO 19007KT 10SM CLR 29/25 A3002 RMK AO2 KJYR 240235Z AUTO 00000KT 10SM CLR 29/25 A2982 RMK AO2 EPDA 240230Z 08003KT 7000 FEW022 BKN206 15/14 Q1021 RMK 148 098 7/2 = ENVA 240150Z VRB01KT 9999 -RA FEW019 SCT020 BKN032 16/15 Q1020 RMK WIND 670FT VRB01KT FGBT 240100Z 15004KT 9999 SCT010 OVC100 25/24 Q1013 KLGU 240151Z AUTO 00000KT 10SM CLR 31/M03 A3003 RMK AO2 SLP114 T03111028 KLIC 240245Z AUTO 35014KT 10SM VCTS -RA FEW049 BKN090 OVC100 19/14 A3020 RMK AO2 LTG DSNT N AND NE TSE25 P0002 T01890144 KLHM 240235Z AUTO 27003KT 10SM CLR 36/03 A2977 RMK AO1 ENVD 231220Z 21008KT 160V250 CAVOK 26/11 Q1019 EPDE 240230Z VRB02KT 8000 MIFG SCT050 13/13 Q1019 RMK 133 097 3/3= KJZP 240235Z AUTO 31003KT 7SM CLR 24/22 A3010 RMK AO2 T02430218 KLHQ 240153Z AUTO 00000KT 10SM CLR 24/24 A3000 RMK AO2 SLP150 T02440239 EPBY 240230Z 05004KT CAVOK 16/15 Q1020 ENVH 240220Z AUTO VRB04KT 9999NDV SCT140/// 17/12 Q1020 W///S2 UWKD 240230Z 03003MPS 6000 FEW045 18/15 Q1010 R29/CLRD70 NOSIG RMK QFE747/0996 UWKE 240230Z 03003MPS 5000 BR OVC200 17/15 Q1010 R03/090070 NOSIG RMK OBST OBSC QFE741/0988 VOBG 240230Z 24008KT 9999 SCT008 SCT012 BKN080 21/20 Q1011 KMAE 240153Z AUTO 29007KT 10SM CLR 36/09 A2979 RMK AO2 SLP083 T03610089 KLHW 240158Z AUTO 00000KT 10SM CLR 27/22 A2999 RMK AO2 SLP158 T02710221 $ KLHX 240243Z AUTO 03012KT 3SM +TSRA BR BKN034 OVC070 19/17 A3008 RMK AO2 PK WND 30051/0214 WSHFT 0210 LTG DSNT ALQDS RAB13 TSB05 P0095 T01890172 KMAF 240153Z 15008KT 10SM CLR 34/13 A2992 RMK AO2 SLP076 T03440133 KLJF 240233Z AUTO 13005KT 10SM CLR 24/24 A2976 RMK AO2 LBSF 240230Z 08004KT CAVOK 16/16 Q1018 NOSIG DXNG 240000Z 22002KT CAVOK 22/22 Q1017 KLHZ 240240Z AUTO 00000KT 10SM CLR 26/24 A3001 RMK AO2 VOCB 240200Z 19005KT 5000 HZ FEW010 SCT015 BKN080 24/21 Q1009 NOSIG KMAI 240153Z AUTO 29003KT 10SM CLR 27/23 A2999 RMK AO2 SLP152 T02720233 ENVR 230550Z 36012KT 9999 4000NE VCFG NSC 12/11 Q1019 VOBL 240230Z 28009KT 6000 SCT010 BKN080 21/21 Q1012 NOSIG VOBM 240200Z 27003KT 6000 SCT007 SCT015 BKN080 21/20 Q1010 KLIT 240153Z 00000KT 10SM FEW120 BKN250 26/21 A2993 RMK AO2 SLP134 T02560206 $ KO22 240235Z AUTO 29004KT 10SM CLR 32/00 A2990 RMK AO1 KMAN 240235Z AUTO 33004KT 10SM CLR 28/01 A3002 RMK A01 KMAO 240235Z AUTO 17007KT 10SM 25/22 A3001 RMK AO2 VOCI 240230Z 00000KT 2500 DZ SCT008 SCT012 OVC080 24/23 Q1009 BECMG 3000 DZ KMBG 240152Z AUTO 34004KT 10SM CLR 26/17 A2983 RMK AO2 SLP087 T02560167 UWKS 240230Z 01002MPS 3800 BR NSC 17/16 Q1012 R06/010060 TEMPO 1600 BR RMK QFE744 VNKT 240250Z VRB02KT 6000 FEW008 SCT030 BKN100 24/21 Q1014 NOSIG VOCL 240230Z 00000KT 3000 BR SCT004 SCT012 BKN080 27/26 Q1009 NOSIG KMCB 240153Z AUTO 35004KT 7SM SCT070 27/22 A2998 RMK AO2 SLP145 T02670222 KMBL 240156Z AUTO 00000KT 10SM CLR 23/18 A2993 RMK AO2 SLP145 T02280183 KMCC 240235Z AUTO 28005KT 10SM CLR 37/03 A2978 RMK AO2 KMCD 240236Z AUTO 14004KT 10SM CLR 21/14 A2995 RMK AO2 T02090137 KMCE 240153Z AUTO 31008KT 10SM CLR 36/08 A2977 RMK AO2 SLP079 T03610078 TSNO KMAW 240235Z AUTO 00000KT 10SM SCT043 29/25 A2996 RMK AO2 LTG DSNT S EPGD 240230Z 03002KT 9999 FEW008 BKN015 17/15 Q1021 VOBZ 240230Z 27003KT 3000 HZ SCT018 OVC080 28/25 Q1004 NOSIG KMBO 240235Z AUTO 00000KT 10SM CLR 23/23 A2997 RMK AO2 PWINO KMCF 240158Z AUTO 00000KT 10SM SCT140 BKN200 28/26 A3001 RMK AO2 SLP165 T02790260 KLKR 240235Z AUTO 00000KT 10SM CLR 25/24 A3002 RMK AO2 PWINO KMCI 240153Z 16007KT 10SM SCT120 BKN250 29/24 A2985 RMK AO2 SLP095 T02890239 KMBS 240153Z 17003KT 10SM CLR 27/16 A2997 RMK AO2 SLP143 T02670161 KMCJ 240235Z AUTO 00000KT 10SM CLR 30/24 A2989 RMK AO1 KLLJ 240155Z AUTO 32011G19KT 10SM CLR 26/M02 A3006 RMK AO2 SLP116 T02611017 KMCK 240153Z AUTO 03004KT 10SM CLR 29/21 A2987 RMK AO2 SLP085 T02940211 LCLK 240230Z 09003KT 9999 FEW005 25/24 Q1004 NOSIG UWLW 240200Z 07001MPS 5000 BR NSC 16/14 Q1009 R02/CLRD60 NOSIG RMK QFE750 KLKU 240235Z AUTO 00000KT 10SM SCT075 BKN110 27/25 A2995 RMK AO2 KLKV 240235Z 35009KT 10SM CLR A3014 RMK AO1 KMDD 240235Z AUTO 15007KT 10SM CLR 34/12 A2994 RMK AO2 T03400121 KMCN 240153Z AUTO 18004KT 10SM CLR 29/22 A2999 RMK AO2 SLP148 T02890217 TSNO KMCO 240153Z 18004KT 10SM SCT050 BKN080 BKN250 26/21 A3003 RMK AO2 TSE33 SLP169 CONS LTGICCC DSNT W TS DSIPTD CB DSNT W T02610211 KMDH 240152Z 12005KT 7SM CLR 28/25 A2995 RMK AO2 SLP136 T02830250 KLLQ 240153Z AUTO 35003KT 10SM CLR 26/23 A2996 RMK AO2 SLP140 T02560233 KMDJ 240235Z AUTO 00000KT 10SM CLR 30/24 A2999 RMK A01 KMEB 240152Z AUTO 19006KT 10SM CLR 26/22 A2999 RMK AO2 SLP154 T02610222 KLNC 240235Z AUTO 11003KT 10SM CLR 32/21 A2991 RMK AO2 T03200210 KLND 240153Z AUTO 27008KT 10SM CLR 29/M06 A3004 RMK AO2 SLP098 T02891061 KMCW 240206Z AUTO 12005KT 10SM OVC004 26/24 A2981 RMK AO2 T02560244 TSNO KLMO 240234Z AUTO 14011G17KT 10SM CLR 29/06 A3007 RMK AO2 T02870064 KMCX 240235Z AUTO 00000KT 10SM CLR 26/24 A2999 RMK AO2 T02610237 KMEH 240156Z AUTO 00000KT 10SM CLR 22/02 A3017 RMK AO2 SLP207 T02170022 KMDQ 240235Z AUTO 00000KT 7SM CLR 23/20 A3000 RMK AO2 KMEI 240158Z 30003KT 10SM CLR 27/24 A2998 RMK AO2 SLP146 T02720239 KMDS 240230Z AUTO 23004KT 10SM CLR 27/27 A2977 RMK AO2 KLMT 240153Z 33013KT 10SM CLR 28/01 A3011 RMK AO2 SLP159 T02830006 KLNK 240154Z 16008KT 10SM CLR 31/23 A2978 RMK AO2 SLP068 T03110228 KMDT 240156Z 00000KT 10SM FEW100 FEW250 27/23 A2989 RMK AO2 SLP120 T02720228 KLNL 240235Z AUTO 14004KT 10SM SCT019 SCT036 BKN120 22/20 A2991 RMK AO2 T02190196 LDDU 240230Z 10004KT CAVOK 23/18 Q1014 NOSIG UWOO 240230Z VRB01MPS 5000 HZ OVC040CB 18/16 Q1007 R26/190060 NOSIG RMK QFE744/0993 KMFD 240152Z 00000KT 10SM CLR 27/21 A3002 RMK AO2 SLP152 T02670206 KMEM 240237Z 17004KT 10SM BKN038 BKN075 OVC120 28/23 A2997 RMK AO2 ENZV 240150Z VRB01KT 9000 NSC 15/14 Q1020 KMDW 240153Z 10011KT 10SM FEW050 SCT095 BKN180 OVC250 24/21 A2994 RMK AO2 SLP126 T02390211 KMFE 240153Z 14016KT 10SM CLR 32/22 A2987 RMK AO2 SLP112 T03220217 KLNN 240235Z AUTO 00000KT 10SM CLR 23/19 A2999 RMK AO1 T02310194 LBWN 240230Z VRB02KT CAVOK 18/13 Q1013 NOSIG UWOR 240200Z 02002MPS 5000 -SHRA HZ OVC017CB 17/15 Q1005 R25/CLRD65 NOSIG RMK QFE730/0974 KLNP 240235Z AUTO 00000KT 10SM CLR 23/14 A3015 RMK AO2 KMDZ 240235Z AUTO 14003KT 10SM SCT060 OVC075 19/19 A2988 RMK AO2 T01930193 KMFI 240154Z AUTO 14005KT 10SM OVC110 21/19 A2987 RMK AO2 SLP107 T02110189 KLNR 240156Z AUTO 10005KT 10SM BKN110 22/22 A2988 RMK AO2 RAE18 SLP106 P0000 T02220217 KMER 240245Z 32008KT 10SM SKC 34/09 A2978 EPIR 240200Z 01006KT 4000 BR SCT037 BKN200 15/14 Q1020 RMK 149 095 5/3= KLNS 240153Z 36003KT 10SM CLR 23/21 A2991 RMK AO2 SLP125 T02280211 KO69 240235Z AUTO 26008KT 9SM CLR 22/10 A2986 RMK AO1 DXSK 231800Z 00000KT 9999 FEW013 BKN120 26/22 Q//// KLOL 240153Z AUTO 06003KT 10SM CLR 34/M06 A3000 RMK AO2 SLP116 T03441056 KLPC 240156Z AUTO 26008KT 9SM CLR 16/12 A2983 RMK AO2 SLP104 T01610122 KMGC 240235Z AUTO 12004KT 10SM SCT110 22/22 A2995 RMK AO2 VOGO 231530Z 33007KT 4000 RA SCT006 FEW020TCU OVC070 24/24 Q1007 TEMPO 1000 RA KLOM 240235Z AUTO 00000KT 10SM CLR 22/20 A2990 RMK AO1 KMEV 240235Z AUTO 30004KT 10SM CLR 29/M03 A3008 RMK AO2 KMGE 240158Z 00000KT 10SM OVC170 26/23 A3002 RMK AO2A SLP155 T02630226 $ KMGG 240233Z AUTO 12003KT 10SM SCT046 SCT055 24/23 A2978 RMK AO2 T02350225 KMEZ 240235Z AUTO 28003KT 10SM CLR 26/25 A2999 RMK AO2 LCPH 240230Z AUTO 33006KT 9999 NCD 25/24 Q1004 KLOR 240153Z AUTO 24003KT 10SM CLR 27/22 A2998 RMK AO2 SLP148 T02670217 KMFR 240153Z 33012KT 10SM CLR 31/06 A3001 RMK AO2 SLP152 T03110061 KMGJ 240154Z AUTO 00000KT 10SM CLR 23/16 A2989 RMK AO2 SLP119 T02330156 TSNO KLOT 240235Z AUTO 12005KT 10SM BKN100 24/21 A2995 RMK AO2 LTG DSNT W THRU NE T02350205 KLOU 240153Z AUTO 14003KT 10SM CLR 31/23 A2997 RMK AO2 SLP142 T03110228 EPLB 240230Z VRB01KT CAVOK 16/14 Q1019 EPKK 240230Z 04004KT CAVOK 16/14 Q1019 KMGM 240153Z 22003KT 10SM SCT050 29/24 A2997 RMK AO2 SLP146 T02940239 KMFV 240235Z AUTO 00000KT 10SM CLR 29/24 A2993 RMK AO2 KMHE 240153Z AUTO 34015KT 10SM CLR 30/24 A2976 RMK AO2 SLP066 T03000239 KMGN 240234Z AUTO 06003KT 10SM CLR 22/17 A2995 RMK AO2 T02270178 FHAW 232050Z 13014KT 9999 FEW030 24/17 Q1017 BLU VOHS 240200Z 28009KT 4000 HZ SCT015 BKN100 24/23 Q1007 NOSIG KLOZ 240153Z AUTO 00000KT 10SM CLR 28/21 A3001 RMK AO2 SLP147 T02780206 KO86 240235Z AUTO 32005KT 10SM CLR 32/00 A2996 RMK AO1 KLPR 240153Z AUTO 00000KT 10SM CLR 23/18 A3000 RMK AO2 SLP151 T02330183 TSNO KMGR 240234Z AUTO 00000KT 10SM CLR 27/22 A3002 RMK AO2 KMIA 240153Z 23005KT 10SM -RA FEW028 SCT055 BKN120 OVC250 24/20 A3004 RMK AO2 RAE0056B47 TSE46 SLP174 CONS LTGICCCCG DSNT NW-N TS DSIPTD CB DSNT NW-N P0000 T02440200 LCRA 240150Z 25001KT CAVOK 25/22 Q1003 NOSIG EPKS 240200Z VRB02KT 9999 MIFG NSC 14/13 Q1019 RMK 142 094 3/3= KMHK 240152Z 17007KT 10SM CLR 32/22 A2980 RMK AO2 SLP080 T03220217 KLQK 240235Z AUTO 00000KT 1 3/4SM BR VV007 24/23 A3002 RMK AO2 T02350232 KMIB 240158Z AUTO 30012KT 10SM CLR 22/15 A2979 RMK AO2 SLP088 T02160146 EPMB 240230Z 23002KT 0900 FG SCT019 14/14 Q1020 RMK 143 095 3/3= EPLK 240200Z AUTO 05002KT 0150 12/12 Q1019 RMK 123 100 = KMIC 240153Z 10003KT 10SM CLR 23/21 A2977 RMK AO2 SLP074 T02330206 KMHL 240235Z AUTO 16004KT 10SM CLR 30/26 A2990 RMK AO2 EPKT 240230Z 07002KT 5000 MIFG BR NSC 13/12 Q1019 KLRD 240156Z AUTO 13009KT 10SM CLR 36/19 A2982 RMK AO2 SLP094 T03560194 $ EPLL 240230Z VRB01KT 6000 MIFG FEW035 12/12 Q1019 VOHY 240230Z 27002KT 5000 HZ FEW010 SCT015 BKN100 22/19 Q1008 NOSIG KMGW 240153Z 00000KT 10SM FEW043 26/22 A3001 RMK AO2 SLP150 T02610222 KMIE 240153Z 12003KT 10SM SCT038 26/23 A3000 RMK AO2 SLP144 T02610233 KLRF 240158Z AUTO 00000KT 10SM CLR 25/23 A2992 RMK AO2 SLP131 T02500233 KMGY 240153Z AUTO 00000KT 10SM CLR 27/22 A3000 RMK AO2 SLP148 T02720217 KMHR 240245Z 23010KT 10SM SKC 34/10 A2977 EPMI 240200Z 12004KT 5000 BR NSC 15/15 Q1021 RMK 153 095 5/5= KLRJ 240235Z AUTO 18007KT 10SM CLR 28/25 A2977 RMK AO2 KP08 240235Z AUTO 26005KT 10SM CLR 39/13 A2978 RMK AO2 KMHS 240156Z AUTO VRB03KT 10SM CLR 28/01 A3005 RMK AO2 SLP165 T02780006 LEAB 240200Z 10005KT 070V140 CAVOK 19/13 Q1021 NOSIG KMHT 240153Z 27005KT 10SM FEW150 19/16 A2984 RMK AO2 SLP114 T01940161 KLSB 240235Z AUTO 01015G22KT 10SM CLR 32/06 A2998 RMK AO2 LTG DSNT W AND NW KMHV 240220Z AUTO 28020G27KT 10SM CLR 32/04 A2988 RMK A01 EPMM 240230Z 08002KT 8000 SCT050 BKN200 17/16 Q1019 RMK 167 094 5/4 = KLSE 240153Z AUTO 16011KT 10SM FEW095 23/20 A2981 RMK AO2 SLP085 T02330200 KLRO 240235Z AUTO 00000KT 10SM CLR 28/25 A3001 RMK AO2 KLSF 240158Z AUTO 14002KT 10SM CLR 26/25 A2998 RMK AO2 SLP152 T02640247 LEAG 240230Z AUTO 09011KT 050V140 9999 SCT015 BKN017 24/20 Q1017 EPMO 240230Z 03003KT 7000 NSC 16/16 Q1019 EPLY 240200Z VRB02KT 6000 MIFG NSC 13/13 Q1019 RMK 133 096 2/2= UWSS 240230Z 05004MPS 5000 BR OVC007 17/17 Q1007 R12/010095 TEMPO BKN005 RMK OBST OBSC QFE744 LEBA 240230Z AUTO 25002KT 9999 NCD 24/18 Q1016 KMIS 240235Z AUTO 22005KT 10SM CLR 30/23 A2998 RMK A01 KLSK 240219Z AUTO 04006KT 7SM CLR 23/05 A3007 RMK AO2 LEBB 240230Z AUTO VRB02KT 8000 FEW023/// BKN044/// BKN050/// 18/17 Q1024 KNAK 240154Z AUTO 00000KT 10SM FEW070 27/24 A2991 RMK AO2 RAE03 SLP130 P0000 T02670244 LEAL 240230Z 32003KT 280V340 CAVOK 22/16 Q1018 NOSIG KMKC 240154Z 18005KT 10SM CLR 32/21 A2984 RMK AO2 SLP094 T03220211 $ KNBC 240156Z AUTO 19004KT 10SM CLR 29/24 A3001 RMK AO2 SLP162 T02940239 $ KLRU 240235Z AUTO 14005KT 10SM CLR 33/03 A2997 RMK AO2 T03340025 LEAM 240230Z AUTO 34007KT 300V010 9999 NCD 25/14 Q1017 KMIV 240154Z AUTO 16003KT 7SM CLR 24/23 A2990 RMK AO2 SLP123 T02440228 KMKE 240223Z 18005KT 5SM RA BR FEW030 BKN095 OVC110 23/21 A2995 RMK AO2 TSE17 P0008 T02280206 KMIW 240153Z AUTO 18007KT 10SM CLR 29/26 A2980 RMK AO2 SLP082 T02890261 LEBG 240230Z AUTO 04009KT 9999 BKN006/// 12/11 Q1024 KNBG 240155Z AUTO 00000KT 10SM CLR 28/26 A2994 RMK AO2 SLP139 T02780256 PNO $ KMKG 240155Z 18004KT 10SM SCT100 BKN170 BKN240 27/23 A2994 RMK AO2 SLP132 T02670228 KMJQ 240231Z AUTO 19003KT 10SM CLR 26/23 A2979 RMK AO2 LEAS 240230Z AUTO VRB01KT 8000 OVC020/// 17/16 Q1023 KNCA 240156Z AUTO 20003KT 10SM CLR 26/23 A2999 RMK AO2 SLP158 T02610233 KLUA 240235Z AUTO 00000KT 10SM CLR 25/25 A2998 RMK AO2 KMKJ 240235Z AUTO 00000KT 10SM CLR 23/21 A3014 RMK AO2 T02250205 KP28 240156Z AUTO 18010KT 35/14 A2983 RMK AO1 SLP079 T03500139 VOMD 240230Z 29004KT 7000 FEW020 SCT100 29/22 Q1008 NOSIG KMLB 240153Z 32004KT 10SM CLR 26/22 A3003 RMK AO2 SLP167 T02610222 EPOK 240230Z 15002KT 9999 OVC020 18/15 Q1020 RMK 177 083 8/8 = LEBL 240230Z 32004KT 9999 FEW040 22/18 Q1018 NOSIG KMKL 240153Z AUTO 20004KT 10SM SCT027 BKN034 BKN042 26/25 A2997 RMK AO2 LTG DSNT NW RAE0054 SLP143 P0000 T02610250 KMLC 240153Z AUTO 12006KT 10SM SCT070 31/22 A2992 RMK AO2 SLP118 T03060222 KLUD 240235Z AUTO 13006KT 10SM CLR 31/19 A2992 RMK AO2 T03100185 KLSV 240158Z AUTO 21013KT 10SM CLR 43/01 A2970 RMK AO2 SLP026 T04260008 $ KMKN 240235Z AUTO 12005KT 10SM CLR 30/17 A2992 RMK AO2 T02970171 KMLE 240235Z AUTO 12003KT 10SM CLR 29/26 A2978 RMK AO2 T02930257 KMLF 240152Z AUTO VRB04KT 10SM CLR 36/M01 A2997 RMK AO2 RAE0055 SLP066 P0000 T03611011 KMKO 240153Z AUTO 14005KT 10SM CLR 31/22 A2991 RMK AO2 SLP117 T03110222 KMJX 240235Z 24005KT 10SM CLR 23/21 A2989 RMK AO2 SLP299 PWINO FZRANO RVRNO KLUF 240158Z AUTO 24009KT 10SM CLR 43/12 A2969 RMK AO2 SLP036 T04290119 $ LECH 240230Z AUTO VRB01KT 9999 NCD 20/14 Q1020 KMLI 240218Z 11010KT 10SM VCTS FEW017 SCT021 BKN065 27/22 A2990 RMK AO2 WSHFT 0149 LTG DSNT NE AND E TSE18 T02670217 UWUU 240230Z 02003MPS 360V060 4000 HZ NSC 19/15 Q1008 R14L/0///60 NOSIG RMK QFE746/0994 KMLJ 240235Z AUTO 00000KT 10SM CLR 28/25 A3001 RMK AO2 VOML 240230Z 00000KT 1500 BR SCT003 SCT012 BKN080 24/23 Q1008 NOSIG KLTS 240158Z AUTO 13007KT 10SM CLR 30/19 A2985 RMK AO2 SLP090 T02980193 KMKS 240235Z AUTO 21004KT 10SM CLR 25/22 A3000 RMK AO2 KNBT 232256Z AUTO 21009KT 10SM CLR A2997 RMK AO2 SLP155 $ LEBT 240200Z AUTO VRB02KT 9999 // NCD 20/14 Q1019 VOMM 240230Z 24006KT 5000 HZ SCT020 SCT100 30/23 Q1004 BECMG 6000 KLUK 240153Z VRB03KT 10SM SCT050 26/24 A2998 RMK AO2 SLP146 T02610239 KMKT 240235Z 14008KT 10SM OVC011 25/22 A2978 RMK AO1 KLUM 240235Z AUTO 09003KT 10SM CLR 21/21 A2983 RMK AO2 T02120210 LDLO 231800Z 32005KT CAVOK 27/20 Q1015 LECO 240230Z AUTO 00000KT 9999 NCD 16/14 Q1023 KMLP 240153Z AUTO 31006KT 10SM CLR 13/06 A3025 RMK AO2 SLP171 T01330061 $ KMKY 240235Z AUTO 09003KT 10SM CLR 26/22 A3004 RMK AO1 DXXX 240230Z 24008KT 9999 SCT010 25/23 Q1013 NOSIG EPPO 240230Z VRB01KT CAVOK 15/13 Q1019 LEBZ 231900Z 02006KT CAVOK 32/08 Q1014 KMMH 240235Z AUTO 31008KT 10SM 26/M06 A3024 RMK AO2 T02611062 KMMI 240235Z AUTO VRB03KT 10SM CLR 23/22 A3005 RMK KLVJ 240153Z AUTO 17005KT 10SM CLR 31/25 A2992 RMK AO2 SLP130 T03060250 KMLS 240153Z AUTO 34011KT 10SM CLR 27/06 A2997 RMK AO2 SLP126 T02720061 KLWA 240237Z AUTO 15003KT 7SM RA SCT035 BKN060 OVC070 24/23 A2998 RMK AO2 T02410232 KLVK 240153Z 28012KT 10SM CLR 32/07 A2982 RMK AO2 SLP095 T03220072 KMLT 240153Z AUTO 32005KT 10SM CLR 22/17 A2976 RMK AO2 SLP079 T02220167 KMMK 240153Z AUTO 36007KT 10SM CLR 29/13 A2986 RMK AO2 SLP109 T02890133 TSNO KLWB 240235Z AUTO 00000KT 10SM CLR 24/20 A3011 RMK AO2 T02370204 EPRA 240230Z VRB02KT CAVOK 16/15 Q1019 RMK 156 093 2/1= KLWC 240152Z AUTO 15006KT 10SM CLR 28/24 A2984 RMK AO2 SLP094 T02830244 KMML 240156Z AUTO 15006KT 10SM FEW036 29/26 A2973 RMK AO2 SLP061 T02890261 KMLU 240225Z 00000KT 10SM FEW060 27/22 A2996 RMK AO2 LTG DSNT SE AND S TSE01 T02670222 KLVL 240235Z AUTO 00000KT 10SM CLR 27/25 A2997 RMK AO1 T02660245 LECV 231800Z 09009KT CAVOK 28/07 Q1021 KLVM 240153Z AUTO 34007KT 10SM CLR 26/00 A3007 RMK AO2 LTG DSNT S SLP134 T02560000 KLWD 240153Z AUTO 18008KT 10SM CLR 28/24 A2984 RMK AO2 SLP094 T02830239 VOMY 230800Z 27014KT 8000 SCT012 BKN080 28/19 Q1011 KLVN 240234Z AUTO 15004KT 10SM BKN020 23/23 A2979 RMK AO2 KMNE 240235Z AUTO 02003KT 10SM VCTS SCT055 28/23 A2997 RMK AO2 LTG DSNT SW AND NW T02750226 KP53 240156Z AUTO 00000KT 22/19 A2990 RMK AO1 SLP124 T02170189 EPPW 240230Z VRB02KT 4000 MIFG BR SCT040 16/15 Q1019 RMK 155 096 3/3 = KLUX 240235Z AUTO 00000KT 10SM CLR 25/23 A3003 RMK AO2 KMNH 240238Z AUTO 00000KT 10SM OVC100 20/09 A3030 RMK AO2 KMNI 240235Z AUTO 19003KT 10SM CLR 28/23 A3000 RMK AO2 KP58 240151Z AUTO 14004KT 22/17 A2998 RMK AO1 SLP143 T02220167 KLVS 240228Z AUTO 08008KT 10SM SCT055 BKN090 OVC110 23/07 A3027 RMK AO2 LTG DSNT N-SE RAE03 P0000 T02330072 KP60 240156Z AUTO VRB04KT 18/M07 A3031 RMK AO1 SLP186 T01781067 $ KP59 240151Z AUTO VRB05KT 21/15 A2988 RMK AO1 SLP113 T02060150 $ KMOB 240156Z 21003KT 10SM FEW070 SCT250 27/24 A2998 RMK AO2 SLP148 T02720239 KMMT 240158Z AUTO 00000KT 10SM FEW065 SCT110 25/22 A3000 RMK AO2 SLP159 T02450217 $ UWWW 240230Z 35002MPS 310V030 6000 NSC 17/15 Q1009 R05/190055 NOSIG RMK QFE744/0992 KMMU 240235Z AUTO 00000KT 10SM CLR 21/16 A2990 RMK AO2 KNEL 240200Z AUTO 24007KT 10SM CLR 24/21 A2987 RMK AO2 SLP114 T02440206 PNO $ KMMV 240153Z AUTO 02012KT 10SM CLR 24/11 A3016 RMK AO2 SLP211 T02390111 KMOD 240153Z 34010KT 10SM CLR 37/07 A2977 RMK AO2 SLP081 T03720072 KLWM 240154Z AUTO 29006KT 10SM CLR 20/17 A2985 RMK AO2 SLP107 T02000167 KMNM 240156Z AUTO 15006KT 10SM FEW120 24/18 A2990 RMK AO2 SLP133 T02440178 EPSC 240230Z 07004KT CAVOK 16/15 Q1020 KMNN 240153Z AUTO 24003KT 10SM CLR 27/22 A3000 RMK AO2 SLP151 T02720217 TSNO KNFE 240156Z AUTO VRB03KT 10SM CLR 31/24 A2996 RMK AO2 SLP146 T03110244 KNFG 240155Z AUTO 4SM HZ CLR 24/19 A2981 RMK AO2 SLP094 T02390194 $ KNDZ 240156Z AUTO 16004KT 10SM CLR 28/26 A2998 RMK AO2 SLP135 T02830256 $ LEGA 231200Z 35004KT 220V360 9999 FEW080 31/08 Q1018 KP68 240153Z AUTO 01013KT 31/M10 A3011 RMK AO1 SLP109 T03061100 KLWS 240156Z AUTO 34004KT 10SM CLR 28/08 A3005 RMK AO2 SLP166 T02830078 KP69 240152Z AUTO 00000KT 22/11 A3005 RMK AO1 SLP162 T02220106 KLWT 240154Z AUTO 32004KT 10SM CLR 23/07 A3007 RMK AO2 SLP147 T02330067 KLXL 240233Z AUTO 12004KT 10SM OVC015 22/20 A2977 RMK AO2 KNFL 240156Z AUTO 03008KT 10SM CLR 34/M10 A2999 RMK AO2 SLP127 T03441100 FGSL 240100Z 26005KT 9999 FEW008 25/22 Q1013 NOSIG KLWV 240153Z AUTO 08003KT 6SM BR CLR 28/26 A2996 RMK AO2 SLP140 T02780261 KMNV 240235Z AUTO 00000KT 3SM BR CLR 23/23 A3004 RMK A01 LEGE 240230Z 00000KT CAVOK 19/15 Q1018 KNEW 240230Z 29005KT 9SM BKN029 BKN035 31/25 A2997 RMK AO2 T03060250 KLXN 240235Z AUTO 36006KT 10SM CLR 27/25 A2988 RMK AO2 T02690248 EPSN 240230Z 08002KT 6000 SCT030 15/15 Q1021 RMK 149 099 3/3 = KMOP 240236Z AUTO 00000KT 10SM CLR 27/19 A2995 RMK AO2 T02670188 KLYH 240154Z 00000KT 10SM CLR 24/22 A3000 RMK AO2 SLP146 T02440222 KMNZ 240235Z AUTO 13007KT 10SM CLR 31/18 A2994 RMK AO2 T03120177 KMOR 240235Z AUTO 20004KT 10SM BKN050 BKN060 25/21 A3005 RMK A01 EPRZ 240230Z 23004KT CAVOK 14/13 Q1019 LDOS 232000Z 14002KT CAVOK 26/22 Q1015 KLXT 240153Z AUTO 18007KT 10SM CLR 32/23 A2988 RMK AO2 SLP104 T03220228 KMOT 240154Z 28014G21KT 10SM CLR 24/13 A2980 RMK AO2 SLP086 T02390133 KMQB 240235Z AUTO 16006KT 10SM CLR 27/26 A2993 RMK AO2 T02700255 LEHC 240230Z AUTO 27006KT 9999 NSC 14/12 Q1020 LDPL 240230Z VRB01KT CAVOK 20/18 Q1016 NOSIG KLXV 240153Z AUTO 01012KT 10SM CLR 18/00 A3048 RMK AO2 WSHFT 0118 SLP133 T01830000 KNFW 240152Z AUTO 13008KT 10SM CLR 35/18 A2988 RMK AO2 SLP104 T03500183 $ KMQE 240154Z AUTO 31007KT 270V330 21/13 A2985 RMK AO1 SLP114 T02060133 KMPO 240153Z AUTO 36006KT 10SM CLR 23/ A3000 RMK AO2 SLP143 T0228 $ KMOX 240233Z AUTO 13007KT 10SM SCT050 SCT070 25/24 A2971 RMK AO2 LTG DSNT E W AND NW KLXY 240235Z AUTO 00000KT 10SM CLR 30/21 A2991 RMK AO2 T03000213 KNGP 240156Z AUTO 14012KT 10SM CLR 29/26 A2987 RMK AO2 SLP116 T02940261 $ EPSY 231800Z 32003KT CAVOK 22/17 Q1019 KMQI 240240Z AUTO 23011KT 10SM 28/25 A3000 RMK AO2 T02800251 LEGR 240230Z AUTO VRB02KT 8000 NCD 21/18 Q1019 KMQJ 240238Z AUTO 17004KT 10SM SCT032 SCT038 26/24 A3001 RMK AO1 LEGT 231800Z 06007KT CAVOK 31/05 Q1018 LEIB 240230Z 34004KT CAVOK 21/18 Q1018 NOSIG KMRB 240153Z AUTO 25004KT 10SM CLR 29/20 A2993 RMK AO2 SLP129 T02890200 TSNO KNHK 240152Z AUTO 20003KT 10SM CLR 29/23 A2990 RMK AO2 SLP126 T02940228 PWINO KMRC 240235Z AUTO 20006KT 10SM CLR 26/26 A2998 RMK KNGU 240159Z 22006KT 9SM FEW280 31/23 A2996 RMK AO2 SLP145 T03060233 KMPV 240151Z AUTO 30005KT 10SM CLR 17/15 A2996 RMK AO2 SLP141 T01670150 $ KP92 240153Z AUTO 00000KT 30/24 A2993 RMK AO1 SLP134 T03000244 KLYV 240236Z AUTO 17006KT 10SM CLR 27/23 A2977 RMK AO2 KNID 240156Z AUTO 19017G23KT 10SM FEW120 42/M08 A2974 RMK AO2 PK WND 20026/0116 SLP042 T04221078 $ KMRF 240156Z AUTO 14010KT 10SM CLR 31/09 A3005 RMK AO2 SLP103 T03060094 KMPZ 240235Z AUTO 16005KT 10SM CLR 29/29 A2988 RMK AO2 T02920287 KMRH 240158Z AUTO 22006KT 10SM CLR 28/24 A3001 RMK AO2 SLP161 T02780244 TSNO LDRI 240230Z 11003KT CAVOK 23/22 Q1015 KMQS 240235Z AUTO 28005KT 10SM FEW100 23/20 A2994 RMK AO2 KMRJ 240230Z AUTO 13006KT 10SM SCT039 BKN045 22/21 A2990 RMK AO2 LDSB 231800Z 30010KT CAVOK 27/11 Q1017 EPWA 240230Z VRB02KT CAVOK 18/16 Q1019 NOSIG KLZU 240045Z 00000KT 10SM CLR 26/24 A3002 KMRN 240235Z AUTO 00000KT 10SM CLR 24/23 A3009 RMK AO2 T02350227 VORY 240230Z 00000KT 4000 BR BKN020 OVC080 29/26 Q1005 KMQY 240156Z AUTO 00000KT 10SM CLR 27/22 A3000 RMK AO2 T02660216 LTG DSNT W SLP162 $ KNIP 240153Z 15010KT 10SM FEW250 31/22 A3001 RMK AO2 SLP159 T03060222 $ KLZZ 240235Z AUTO 11004KT 10SM CLR 31/22 A2992 RMK AO2 T03120215 VOTK 240230Z 27004KT 6000 FEW020 SCT025 30/22 Q1007 LFBA 240230Z AUTO 28005KT CAVOK 17/15 Q1022 KOAJ 240156Z AUTO 23003KT 10SM CLR 25/23 A3000 RMK AO2 SLP163 T02500228 KOAK 240153Z 28015KT 10SM CLR 21/13 A2986 RMK AO2 SLP111 T02060133 KMRT 240233Z AUTO 00000KT 10SM CLR 25/23 A3002 RMK AO2 T02490233 KNJK 240215Z AUTO 13010KT 6SM HZ OVC032 40/17 A2964 RMK AO2 T04000167 $ KMSL 240153Z AUTO 12008KT 10SM SCT039 SCT095 29/23 A3000 RMK AO2 LTG DSNT E SLP151 T02890233 KMTC 240158Z 03005KT 12SM FEW100 BKN250 23/17 A2997 RMK AO2A SLP148 T02330172 $ LFBC 240230Z AUTO 00000KT 9999 FEW023 14/12 Q1023 LFBD 240230Z AUTO 33004KT CAVOK 17/15 Q1023 TEMPO 3000 BR BKN008 KNJM 240157Z 23006KT 10SM CLR 29/24 A3001 RMK AO2 SLP164 T02890244 VOTP 240230Z 00000KT 6000 FEW020 BKN100 28/21 Q1006 LFBE 240230Z AUTO 27005KT CAVOK 16/15 Q1022 TEMPO BKN006 KMSN 240153Z 12005KT 10SM -RA FEW100 SCT120 OVC140 22/21 A2991 RMK AO2 TSE41 SLP120 OCNL LTG DSNT S P0009 T02220211 $ KOBE 240235Z AUTO 00000KT 10SM SCT080 23/22 A3005 RMK AO2 LTG DSNT S AND SW KMSO 240153Z 31010KT 10SM CLR 25/03 A3009 RMK AO2 SLP170 T02500028 VOTR 240230Z 29009KT 6000 FEW018 SCT100 29/22 Q1007 NOSIG LFBG 240230Z AUTO 25004KT CAVOK 16/14 Q1022 KMSP 240153Z 12006KT 10SM FEW250 24/22 A2978 RMK AO2 SLP078 T02390217 KMRY 240154Z 25010KT 8SM CLR 17/11 A2990 RMK AO2 SLP137 T01670111 LDSP 240230Z 28001KT CAVOK 24/13 Q1014 NOSIG LFBH 240230Z AUTO 32009KT 9999 FEW014 18/15 Q1022 NOSIG LFAQ 240230Z AUTO 26004KT 7000 NSC 13/12 Q1021 KMTH 240153Z AUTO 12003KT 10SM CLR 28/24 A3002 RMK AO2 LTG DSNT N AND NW SLP166 T02830244 LFBI 240230Z AUTO 32005KT CAVOK 16/14 Q1021 NOSIG LEJR 240230Z VRB02KT CAVOK 23/19 Q1014 KMTJ 240153Z AUTO 21004KT 10SM CLR 30/09 A3010 RMK AO2 SLP100 T03000089 KMSS 240153Z AUTO 00000KT 10SM CLR 19/17 A2993 RMK AO2 SLP135 T01890172 EPWR 240230Z VRB02KT CAVOK 16/15 Q1019 VOTV 240230Z 30006KT 1500 -RA/BR FEW008 SCT012 OVC080 24/23 Q1009 NOSIG LFAT 240230Z AUTO 00000KT CAVOK 13/12 Q1021 LELC 232100Z 07004KT 360V080 CAVOK 25/20 Q1018 NOSIG LFBL 240230Z AUTO 30004KT CAVOK 16/13 Q1022 TEMPO 3000 BR LFBM 240230Z AUTO 00000KT CAVOK 16/15 Q1023 KMSV 240235Z AUTO 00000KT 10SM CLR 21/13 A2997 RMK AO1 KMTN 240233Z AUTO 00000KT 10SM CLR 28/23 A2992 RMK AO2 LFBO 240230Z AUTO 28009KT CAVOK 18/15 Q1022 TEMPO OVC008 KMTO 240153Z AUTO 00000KT 10SM CLR 28/24 A2995 RMK AO2 SLP135 T02780244 KOCF 240235Z AUTO 14004KT 10SM SCT044 SCT050 25/19 A3004 RMK AO1 LFBP 240230Z AUTO 00000KT 9999 BKN010 BKN014 BKN023 17/16 Q1023 BECMG BKN015 KMSY 240153Z 31004KT 10SM SCT033 BKN250 30/23 A2995 RMK AO2 SLP146 T03000233 KMTP 240154Z AUTO 29003KT 27/18 A2984 RMK AO1 SLP103 T02720183 KOCH 240235Z 09003KT 10SM BKN060 A2993 RMK AO1 LTG DSNT N KMUI 240158Z AUTO 31004KT 10SM CLR 30/13 A2991 RMK AO2 SLP126 T03000129 LFCK 240230Z AUTO 30009KT 9999 OVC014 19/16 Q1023 LFBT 240230Z AUTO VRB02KT 9999 OVC026 17/15 Q1023 BECMG BKN012 KNKT 240154Z 20003KT 10SM CLR 27/23 A3002 RMK AO2 SLP160 T02670233 LELL 240230Z AUTO 00000KT 9999 NCD 19/17 Q1018 LFBU 240230Z AUTO 25003KT 220V280 CAVOK 16/12 Q1022 LEMD 240230Z 35006KT CAVOK 20/11 Q1021 NOSIG KMTV 240235Z AUTO 00000KT 10SM CLR 23/22 A3002 RMK AO2 T02310219 LELN 232300Z 14005KT CAVOK 16/10 Q1025 KMVE 240232Z AUTO 16005KT 10SM CLR 26/25 A2975 RMK AO2 LTG DSNT NW KMTW 240224Z AUTO 08004KT 2SM -RA BR CLR 21/19 A2992 RMK AO2 P0000 LELO 232100Z 27003KT 230V300 9999 FEW015 SCT045 19/13 Q1024 KNKX 240155Z 20008KT 10SM FEW010 SCT200 26/14 A2982 RMK AO2 SLP090 T02560144 KMUO 240158Z AUTO 33016KT 10SM CLR 29/M03 A3002 RMK AO2 SLP141 T02901028 $ LEMG 240230Z VRB01KT 9999 FEW015 SCT040 24/21 Q1018 NOSIG LFBY 240230Z AUTO 19003KT 9999 // BKN016 OVC037 18/16 Q1023 LEMH 240230Z AUTO 29004KT 260V330 CAVOK 22/19 Q1018 LFBZ 240230Z AUTO 19003KT 9999 SCT024 BKN031 OVC042 17/15 Q1023 TEMPO 31010KT KMVH 240235Z AUTO 31006KT 10SM CLR 20/06 A3011 RMK AO2 KOCQ 240235Z AUTO 17004KT 10SM SCT090 BKN120 24/24 A2989 RMK AO1 T02370237 EPZG 232000Z 02003KT CAVOK 18/15 Q1019 LFCR 240230Z AUTO 21002KT CAVOK 13/11 Q1022 BECMG 31010KT KMWA 240235Z AUTO 13003KT 10SM CLR 29/26 A2998 RMK AO2 KMUT 240235Z AUTO 15006KT 10SM CLR 29/27 A2987 RMK AO2 KOEB 240235Z AUTO 00000KT 10SM CLR 25/23 A2999 RMK AO2 T02450233 KMVL 240245Z AUTO 00000KT 1 1/4SM BR OVC007 16/15 A2994 RMK AO2 VIS 1/2V4 T01610150 TSNO KMWC 240235Z AUTO 18003KT 10SM -RA SCT047 BKN060 OVC070 22/19 A2995 RMK AO2 P0006 KNMM 240156Z AUTO 00000KT 10SM CLR 27/24 A2998 RMK AO2 SLP158 T02720239 $ KOCW 240240Z AUTO 20005KT 10SM CLR 27/23 A2999 RMK AO2 T02680232 KMVN 240235Z AUTO 15003KT 10SM CLR 26/23 A2998 RMK AO1 VOVZ 240100Z 00000KT 5000 TS SCT016 FEW025CB OVC080 26/25 Q1005 TEMPO 4000 -RA/DZ KODO 240153Z AUTO 16010KT 10SM CLR 34/12 A2994 RMK AO2 SLP080 T03440122 LEMO 240200Z 19001KT CAVOK 24/21 Q1015 NOSIG KMWH 240152Z 15005KT 10SM CLR 28/06 A3005 RMK AO2 SLP170 T02780056 KMWK 240240Z AUTO 00000KT 10SM CLR 28/23 A3005 RMK AO2 T02750230 KMWL 240153Z AUTO 13006KT 10SM CLR 32/19 A2987 RMK AO2 SLP100 T03220194 KMWM 240234Z AUTO 17004KT 10SM CLR 28/24 A2978 RMK AO2 KMWN 240151Z 33031G44KT 1/16SM FG VV001 08/08 RMK KODX 240153Z AUTO 34004KT 10SM CLR 28/24 A2981 RMK AO2 SLP081 T02830239 $ KOFF 240158Z AUTO 13006KT 10SM CLR 29/25 A2977 RMK AO2 SLP074 T02900253 KMWO 240235Z AUTO 33003KT 10SM CLR 27/22 A3002 RMK AO2 T02650216 KOEO 240235Z AUTO 13003KT 10SM CLR 22/22 A2983 RMK AO2 T02150215 KMXF 240158Z AUTO 00000KT 10SM CLR 29/25 A2997 RMK AO2 SLP150 T02870250 KMVY 240200Z 03006KT 10SM FEW100 19/17 A2983 RMK AO2 LTG DSNT E TSE0155 T01940172 PNO KNOG 240156Z AUTO 15011KT 10SM CLR 31/23 A2988 RMK AO2 SLP096 T03060233 $ LEPA 240230Z 06002KT CAVOK 19/17 Q1018 NOSIG LFGA 240230Z AUTO 21003KT CAVOK 18/16 Q1019 PTKK 240059Z 06007KT 14SM -SHRA SCT012CB OVC110 28/25 A2978 RMK CB ALQDS MOV SW SLP088 T02810249 KNPA 240156Z AUTO 00000KT 10SM CLR 27/23 A2997 RMK AO2 SLP148 T02670228 $ KOGA 240235Z AUTO 13003KT 10SM CLR 26/20 A2995 RMK AO2 T02580198 KOGB 240153Z AUTO 14004KT 10SM FEW070 SCT085 28/23 A3000 RMK AO2 SLP156 T02830233 KMWT 240153Z AUTO 00000KT 10SM CLR 27/24 A2995 RMK AO2 SLP128 T02670244 KOFK 240156Z AUTO 17006KT 10SM CLR 29/24 A2978 RMK AO2 SLP068 T02890239 KOGD 240153Z 00000KT 10SM CLR 31/M07 A3003 RMK AO2 SLP105 T03061072 KMYF 240153Z 19006KT 10SM CLR 25/15 A2982 RMK AO2 SLP093 T02500150 KMXO 240235Z AUTO 13003KT 10SM FEW015 22/21 A2986 RMK AO2 KOFP 240154Z AUTO 00000KT 9SM CLR 27/23 A2994 RMK AO2 SLP137 T02670228 $ GABG 240000Z 00000KT 9999 SCT030 FEW040CB 23/22 Q//// PTKR 240054Z 00000KT 15SM SCT016CB BKN120 OVC300 29/22 A2983 RMK CB DSNT SW-NW SLP101 T02940224 KMYJ 240235Z AUTO 15003KT 10SM CLR 28/28 A2992 RMK AO2 PWINO LFGJ 240230Z AUTO 00000KT 9999 FEW023 BKN029 OVC037 19/17 Q1020 KNQA 232350Z 00000KT 10SM FEW080 BKN160 BKN210 30/25 A2992 LDZA 240230Z 26003KT CAVOK 19/16 Q1015 NOSIG KMYL 240151Z AUTO 30007KT 10SM CLR 23/M01 A3017 RMK AO2 SLP175 T02281006 LDZD 240230Z 02002KT CAVOK 20/19 Q1015 NOSIG KNOW 240235Z AUTO 28014G23KT 10SM CLR 16/11 A3023 RMK AO2 T01560108 LEPP 240230Z AUTO 32008KT 9999 OVC025/// 16/12 Q1023 ESCF 240220Z AUTO 00000KT 9999 NCD 15/13 Q1020 KMYP 240228Z AUTO 10SM SCT090 13/02 A3077 RMK AO2 KMZG 240235Z AUTO 14007G15KT 10SM FEW021 30/25 A2991 RMK A01 KMZH 240235Z AUTO 00000KT 10SM OVC020 19/17 A2980 RMK AO2 TSNO KMYR 240235Z 18005KT 10SM CLR 29/22 A3003 RMK AO1 KNQI 240156Z AUTO 10SM CLR 29/25 A2987 RMK AO2 SLP112 T02890250 $ GABS 240230Z 22007KT 9999 -RA SCT020 23/23 Q1014 NOSIG KNRB 240152Z AUTO 16007KT 10SM CLR 28/22 A3001 RMK AO2 SLP161 T02780222 $ KMYV 240153Z AUTO 24006KT 10SM CLR 37/09 A2977 RMK AO2 SLP082 T03720094 $ ESDF 240220Z AUTO 00000KT 9999 0150// R01/0275V0750U R19/P2000N FEW190/// 16/15 Q1020 FJDG 240220Z 13019G28KT 9000 -SHRA SCT020 BKN050 BKN220 25/23 A2987 RMK SLP112 KMYZ 240235Z AUTO 17012G16KT 10SM CLR 31/22 A2981 RMK AO2 LERI 231800Z 15010KT CAVOK 29/15 Q1017 NOSIG WIBB 240230Z 00000KT 9999 FEW012 28/24 Q1010 LESA 232130Z 08009KT CAVOK 21/09 Q1022 KOJA 240235Z AUTO 15006KT 10SM CLR 30/19 A2990 RMK AO2 KOJC 240153Z 17005KT 10SM CLR 28/24 A2987 RMK AO2 SLP101 T02830239 LGAD 240150Z 00000KT CAVOK 19/17 Q1012 KPAE 240153Z 36006KT 10SM CLR 19/11 A3023 RMK AO2 SLP234 T01890111 KNSE 240156Z AUTO 14003KT 10SM CLR 26/24 A2998 RMK AO2 RAB16E25 SLP135 P0000 T02610244 $ KNQX 240153Z 36004KT 10SM FEW023 BKN080 OVC250 27/24 A3002 RMK AO2 RAB13E47 SLP165 OCNL LTGIC DSNT N CB DSNT N T2 SET P0000 T02720244 $ KPAH 240153Z 16003KT 10SM CLR 28/24 A2994 RMK AO2 LTG DSNT S SLP135 T02780239 KMZZ 240235Z AUTO 00000KT 7SM CLR 24/22 A3002 RMK AO2 T02400224 FIMP 240200Z 11010KT 9999 VCSH BKN017 21/17 Q1023 KNSI 240157Z AUTO 31006KT 9SM CLR 28/13 A2979 RMK AO2 SLP079 T02780133 PWINO $ LERS 240230Z AUTO VRB01KT 9999 NCD 20/17 Q1018 KNRS 240156Z AUTO 21013G19KT 7SM CLR 23/18 A2981 RMK AO2 SLP094 T02280183 $ FIMR 231600Z 10020KT 9999 SCT018 22/17 Q1023 LERT 240200Z 11014KT CAVOK 25/19 Q1014 NOSIG LFKB 240230Z VRB02KT 9999 SCT019 BKN033 23/20 Q1013 NOSIG KOKB 240152Z AUTO 20006KT 6SM HZ CLR 23/18 A2980 RMK AO2 SLP091 T02330178 LFJL 240230Z AUTO VRB02KT 0650 0450 R22/1000U R04/0600U FG VV/// 17/17 Q1020 TEMPO 0300 BCFG BKN002 LFKC 231800Z 02004KT 300V060 9999 FEW026 BKN110 27/19 Q1012 KOKC 240152Z 16007KT 10SM CLR 31/20 A2988 RMK AO2 SLP099 T03110200 LGAL 240220Z 00000KT CAVOK 20/14 Q1013 RCFN 240030Z VRB02KT 9999 FEW025 31/23 Q1010 NOSIG RMK A2985 KPAM 240156Z AUTO 19005KT 10SM FEW190 29/24 A2998 RMK AO2 SLP155 T02870240 $ KNTD 240156Z 22008KT 6SM HZ BKN120 22/17 A2978 RMK AO2 SLP087 FU BKN120 T02220167 $ KPAN 240235Z AUTO 04006KT 10SM FEW100 31/09 A3012 RMK AO2 KPAO 240247Z 33017KT 10SM SKC 20/16 A2985 LESO 240230Z AUTO 15003KT 120V190 9999 BKN043 17/17 Q1023 LFKF 240230Z AUTO 23006KT CAVOK 20/17 Q1014 KPBF 240153Z AUTO VRB04KT 10SM CLR 23/22 A2993 RMK AO2 SLP133 T02330217 TSNO KPBG 240153Z AUTO 18003KT 10SM BKN055 19/18 A2990 RMK AO2 SLP126 T01890178 KPBH 240235Z AUTO 18006KT 5SM RA SCT013 SCT025 OVC037 20/20 A2989 RMK AO2 P0010 T02020200 LFJR 240230Z AUTO 00000KT CAVOK 14/12 Q1022 KPBI 240153Z 13005KT 10SM SCT020 BKN200 28/23 A3003 RMK AO2 SLP169 FRQ LTGIC DSNT SW CB DSNT SW T02830228 LFKJ 240230Z AUTO 08003KT 030V110 CAVOK 21/18 Q1013 TEMPO BKN008 BKN030 WIDD 240230Z 10005KT 080V220 9999 FEW014 30/25 Q1012 LEST 240230Z VRB02KT CAVOK 14/12 Q1022 NOSIG LFLB 240230Z AUTO VRB01KT 9999 FEW010 BKN047 19/18 Q1019 NOSIG KOKK 240235Z AUTO 00000KT 10SM CLR 26/22 A3001 RMK AO1 LESU 231700Z 03011KT 9999 FEW050 SCT065 23/07 Q1021 LETL 240230Z AUTO 32005KT 9999 NCD 13/09 Q1024 LFLC 240230Z AUTO 00000KT CAVOK 14/12 Q1021 NOSIG LGBL 240150Z 29003KT CAVOK 21/13 Q1013 NOSIG LGAV 240220Z 03005KT CAVOK 24/10 Q1012 NOSIG KOKM 240235Z AUTO 13005KT 10SM CLR 29/24 A2989 RMK AO2 T02890238 PTPN 240150Z 09004KT 15SM BKN017TCU BKN130 OVC300 31/25 A2975 RMK TCU SE-SW KOLE 240235Z AUTO 00000KT 10SM CLR 21/14 A3005 RMK AO2 LETO 240200Z 02007KT CAVOK 19/11 Q1021 NOSIG KOLF 240153Z AUTO 34010KT 10SM CLR 24/09 A2996 RMK AO2 SLP135 T02390094 KOLG 240235Z AUTO 14005KT 10SM BKN016 OVC022 22/20 A2983 RMK AO1 ESGG 240220Z 00000KT CAVOK 16/15 Q1021 KNUI 240153Z AUTO 00000KT 10SM CLR 30/24 A2990 RMK AO2 SLP125 T03000244 LFKS 240230Z AUTO 28003KT 9999 SCT017 BKN024 OVC031 23/19 Q1013 KOMA 240152Z 17012KT 10SM FEW160 FEW250 31/24 A2977 RMK AO2 SLP068 T03060244 ESGJ 240220Z AUTO 00000KT 9999 BKN150/// 12/10 Q1020 WIEE 240230Z 13007KT 8000 BKN019 24/23 Q1013 LEVC 240230Z VRB02KT CAVOK 22/17 Q1018 NOSIG LFLL 240230Z 33006KT CAVOK 18/16 Q1020 NOSIG LFMC 240230Z AUTO 00000KT //// // ////// 18/17 Q1015 KNTU 240156Z 22008KT 10SM CLR 32/24 A2994 RMK AO2 SLP142 PRESRR T03220239 KPDC 240235Z AUTO 12003KT 10SM CLR 21/20 A2984 RMK AO2 T02100203 LEVD 231930Z 07011KT CAVOK 22/09 Q1022 LFMD 240230Z AUTO 34003KT 300V040 CAVOK 18/17 Q1014 NOSIG KOLM 240154Z 01005KT 10SM SCT055 23/11 A3020 RMK AO2 SLP226 T02280106 KPCM 240235Z AUTO RMK AO2 PWINO KOKV 240235Z AUTO 00000KT 10SM SCT120 28/21 A2996 RMK AO2 LFLN 240230Z AUTO 00000KT 5000 BR NSC 15/14 Q1021 KPBX 240235Z AUTO 00000KT 10SM CLR 24/21 A3006 RMK AO2 T02400210 LFLP 240230Z AUTO VRB02KT 1900 // VV/// 17/16 Q1020 LFMH 240230Z AUTO 29001KT 0450 0400 R18/0500D FG VV/// 16/15 Q1021 TEMPO 0800 BCFG OVC002 ESGP 240220Z AUTO 00000KT 9999 OVC120/// 16/15 Q1020 KNUQ 240156Z 35012KT 10SM CLR 22/14 A2986 RMK AO2 SLP113 T02220144 KOMH 240235Z AUTO 00000KT 10SM 27/23 A2997 RMK AO2 KOKZ 240235Z AUTO 00000KT 10SM CLR 27/24 A3001 RMK AO2 T02690235 PTSA 231650Z 13004KT 10SM SCT020 BKN130 BKN300 28/25 A2973 RMK LAST LFMI 240230Z AUTO 34008KT CAVOK 22/16 Q1015 BECMG 35020G30KT LFLS 240230Z AUTO 00000KT 6000 SCT002 OVC064 15/15 Q1020 TEMPO 4000 BR OVC009 ESGR 240220Z AUTO 00000KT 9999 FEW140/// SCT160/// 14/11 Q1020 KONA 240233Z AUTO 15004KT 10SM SCT037 BKN046 BKN050 23/21 A2982 RMK AO2 KOLS 240154Z AUTO 23005KT 10SM CLR 33/15 A2998 RMK AO2 SLP073 T03280150 KPEA 240235Z AUTO 16005KT 10SM CLR 28/25 A2985 RMK AO2 T02760245 LFMK 240230Z AUTO 29010KT 260V320 9999 OVC024 20/16 Q1021 TEMPO BKN013 KOMK 240153Z AUTO 17004KT 10SM SCT100 28/04 A3004 RMK AO2 SLP166 T02830044 KPDK 240153Z 01003KT 10SM CLR 26/22 A3001 RMK AO2 SLP143 T02610222 LFLU 231800Z AUTO 02009KT 9999 RA SCT048/// BKN056/// BKN068/// ///CB 20/19 Q1018 LFML 240230Z AUTO VRB03KT CAVOK 19/17 Q1015 NOSIG ESIB 240220Z AUTO 14002KT 9999 SCT220/// 15/15 Q1020 KOLU 240235Z AUTO 19004KT 10SM CLR 29/22 A2980 RMK AO2 PWINO FZRANO RVRNO KOLV 240050Z 00000KT 10SM BKN140 OVC250 A2995 KOMN 232250Z 13004KT 10SM SKC 30/23 A2999 RMK LAST LFLW 240230Z AUTO 12001KT CAVOK 12/11 Q1022 LFMN 240230Z 34007KT CAVOK 23/15 Q1014 NOSIG PTRO 240155Z 06004KT 15SM SCT015TCU BKN120 OVC300 30/24 A2981 TCU VC ALQDS KPCW 240238Z AUTO 12004KT 10SM CLR 26/23 A2998 RMK AO2 $ KNUW 240156Z 27005KT 10SM FEW035 FEW060 17/10 A3026 RMK AO2 SLP246 T01670100 $ LFLX 240230Z AUTO 01005KT CAVOK 15/15 Q1021 NOSIG LFMO 240230Z AUTO 34015KT CAVOK 21/17 Q1016 LFLY 240230Z AUTO 33008KT CAVOK 19/16 Q1019 TEMPO BKN014 LFMP 240230Z AUTO 31013KT 280V340 9999 BKN094 23/15 Q1019 TEMPO 32020G30KT KOLY 240235Z AUTO 15003KT 7SM CLR 26/26 A2998 RMK AO2 KOLZ 240235Z AUTO 15010KT 10SM CLR 23/22 A2984 RMK AO2 KPCZ 240235Z AUTO 15003KT 10SM OVC100 23/23 A2989 RMK AO2 T02300228 KOOA 232035Z AUTO 19011G16KT 10SM CLR 31/26 A2985 RMK AO2 T03140258 LEVS 232000Z 05003KT 360V100 CAVOK 28/07 Q1019 LFOA 240230Z AUTO 00000KT CAVOK 15/13 Q1021 LEVT 240230Z 10001KT 9999 FEW024 BKN026 14/13 Q1024 LFOB 240230Z AUTO 00000KT CAVOK 11/10 Q1022 TEMPO 3000 BR LFMT 240200Z 28004KT CAVOK 21/15 Q1017 NOSIG KPDT 240153Z 30007KT 10SM CLR 27/02 A3006 RMK AO2 SLP167 T02720022 LFMU 240230Z AUTO 25007KT 220V280 CAVOK 22/15 Q1018 NOSIG LFOC 240230Z AUTO 00000KT 9999 BKN048 15/13 Q1022 LGEL 240150Z 36006KT CAVOK 26/09 Q1012 KONL 240235Z AUTO 31008KT 10SM CLR 28/19 A2984 RMK AO2 T02750188 LFMV 240230Z AUTO 35010KT CAVOK 21/17 Q1016 BECMG 35020G30KT KONM 240235Z AUTO 18006KT 160V220 7SM VCTS SCT065 SCT075 BKN090 32/05 A3004 RMK AO2 LTG DSNT NE AND SE T03160054 LFOE 240230Z AUTO 28002KT CAVOK 13/11 Q1022 ETAD 240228Z AUTO 23003KT 9999 SCT021 17/17 A3012 RMK AO2 $ LEVX 240230Z 00000KT 9999 FEW025 18/10 Q1020 NOSIG KONO 240153Z AUTO 21004KT 10SM CLR 29/04 A3001 RMK AO2 SLP148 T02940039 KPEO 240153Z AUTO 22003KT 10SM CLR 24/13 A2997 RMK AO2 SLP138 T02390133 TSNO KPDX 240153Z 32012G18KT 10SM FEW050 22/12 A3017 RMK AO2 SLP215 T02220117 KNXF 240156Z AUTO 17005KT 5SM HZ FEW010 23/20 A2981 RMK AO2 SLP179 T02280200 $ RCKH 240030Z 04003KT 340V120 9999 FEW016 SCT070 31/25 Q1010 NOSIG RMK A2984 LFMY 240230Z AUTO 00000KT CAVOK 18/15 Q1015 KONP 240235Z AUTO 36012G19KT 10SM CLR 16/12 A3020 RMK AO2 LFOH 240230Z AUTO 27006KT 9999 BKN015 BKN022 16/14 Q1022 KPEQ 240235Z AUTO 10013KT 10SM CLR 35/13 A2986 RMK AO2 T03480127 LEXJ 240230Z AUTO 00000KT 8000 NCD 17/15 Q1023 LFOJ 240230Z AUTO 01004KT CAVOK 14/12 Q1022 KPGA 240153Z AUTO VRB06KT 10SM CLR 38/02 A2991 RMK AO2 SLP044 T03830022 TSNO GAKA 240000Z 00000KT 9000 -RA SCT020 OVC120 24/23 Q1013 LFPB 240230Z AUTO 04001KT CAVOK 15/12 Q1021 TEMPO 4500 BR LFOK 240230Z AUTO 35003KT 9000 NSC 17/16 Q1021 TEMPO 3000 BR KONT 240153Z 26013KT 10SM FEW150 31/16 A2980 RMK AO2 SLP073 FU FEW150 T03060156 LFPC 240230Z AUTO 10002KT CAVOK 13/12 Q1021 KNYC 240151Z AUTO 10SM CLR 31/13 A2989 RMK AO2 SLP112 T03110128 $ KPGD 240153Z 08006KT 10SM CLR 26/24 A3003 RMK AO2 SLP171 T02610239 GAKD 240000Z 26005KT 9999 SCT030 26/25 Q1013 WIHH 240200Z 00000KT 5000 HZ NSC 29/23 Q1012 NOSIG KOPF 240153Z AUTO 22005KT 10SM FEW030 FEW120 27/22 A3004 RMK AO2 LTG DSNT N AND NW SLP173 T02720222 PTTP 240152Z 16004KT 15SM SCT018TCU BKN130 OVC300 28/25 A2978 RMK SHRAB12E25 TUC ALQDS SLP085 T02830253 KONX 240250Z AUTO 20003KT 10SM CLR 29/25 A2998 RMK AO2 T02860246 KPEX 240233Z AUTO 13008KT 10SM CLR 24/24 A2976 RMK AO2 T02350235 VQPR 240230Z 19004KT 4000 -RA FEW006 SCT010 SCT030 OVC045 17/14 Q1020 NOSIG LFPG 240230Z 03002KT 9999 FEW020 16/13 Q1021 NOSIG LFOP 240230Z AUTO 33002KT CAVOK 12/11 Q1022 KNXP 240156Z 22016KT 10SM BKN250 39/07 A2984 RMK AO2 SLP062 T03940067 $ KNYG 240156Z AUTO 30005KT 10SM BKN075 29/25 A2992 RMK AO2 SLP131 T02890250 KONZ 240234Z AUTO 05005KT 10SM CLR 26/19 A2998 RMK AO2 T02620190 KPEZ 240235Z AUTO 13011G18KT 10SM CLR 32/20 A2986 RMK AO2 T03200195 LFQA 240230Z AUTO 30004KT CAVOK 16/15 Q1021 ETAR 240222Z AUTO 00000KT 9999 OVC016 18/18 A3009 RMK AO2 LFOT 240230Z AUTO 07005KT CAVOK 17/14 Q1021 NOSIG LFQB 240230Z AUTO 30004KT CAVOK 18/17 Q1021 KOPL 240235Z AUTO 00000KT 10SM CLR 27/25 A2995 RMK AO2 T02690252 PWINO KNYL 240157Z AUTO 17011KT 10SM CLR 39/17 A2968 RMK AO2 SLP046 T03940172 $ LFOV 240230Z AUTO 36005KT CAVOK 15/13 Q1022 LFPM 240230Z AUTO 02002KT CAVOK 15/13 Q1021 KPHD 240153Z AUTO 00000KT 10SM CLR 27/23 A2999 RMK AO2 SLP147 T02670233 LFPN 240230Z AUTO 32002KT 9999 BKN047 15/13 Q1021 ESKM 240220Z AUTO 26002KT 9999 FEW110/// 15/13 Q1020 KOPN 240235Z AUTO 06003KT 10SM SCT060 27/21 A3004 RMK AO2 LFPO 240230Z 00000KT CAVOK 17/13 Q1021 NOSIG ESKN 240220Z 13003KT CAVOK 15/15 Q1020 KPHF 240154Z 22007KT 10SM CLR 30/24 A2994 RMK AO2 SLP138 T03000244 GAKO 240000Z 22004KT CAVOK 26/24 Q//// LFQG 231800Z AUTO 32008KT CAVOK 26/13 Q1019 LEZG 240230Z 29016KT CAVOK 19/12 Q1021 WIII 240230Z VRB05KT 9999 FEW022 30/25 Q1010 NOSIG LGHI 240150Z 01011KT CAVOK 26/15 Q1009 KPIA 240154Z 20003KT 10SM CLR 29/25 A2992 RMK AO2 SLP125 T02890250 $ LFRB 240230Z AUTO 20002KT 0500 0400 R25/0650U R07/0450D FG VV/// 16/16 Q1022 TEMPO 3000 -DZ OVC002 LFPT 240230Z AUTO 31003KT CAVOK 12/11 Q1021 KORB 240233Z AUTO 14006KT 10SM BKN080 21/17 A2976 RMK AO2 KPIB 240235Z AUTO 18003KT 10SM CLR 27/23 A3000 RMK AO1 GAKT 240000Z 14008KT 9999 BKN030 24/23 Q//// GAMB 240000Z 00000KT CAVOK 26/25 Q1012 LEZL 240230Z VRB01KT CAVOK 24/19 Q1015 NOSIG LFRC 240230Z AUTO 22007KT 8000 NSC 13/13 Q1021 KPHL 240154Z 20006KT 10SM SCT110 27/21 A2990 RMK AO2 SLP125 T02720211 $ LFPV 240230Z AUTO 01003KT 9999 SCT048 17/13 Q1022 LFRD 240230Z AUTO 18003KT 8000 NSC 12/12 Q1022 BECMG BKN012 KORD 240246Z 34011KT 10SM -TSRA FEW028 BKN040CB OVC100 23/21 A2999 RMK AO2 WSHFT 0214 RAB37 TSB40 FRQ LTGIC VC W-N TS VC W-N MOV E P0000 KPGV 240245Z AUTO 21007KT 10SM CLR 27/24 A3000 RMK AO2 KPIE 240153Z 00000KT 10SM CLR 28/22 A3001 RMK AO2 SLP161 T02780222 KORE 240152Z AUTO 34003KT 10SM CLR 19/17 A2989 RMK AO2 SLP120 T01940167 KPHN 240236Z AUTO 00000KT 10SM CLR 18/16 A3001 RMK AO2 KORF 240151Z AUTO 22007KT 10SM CLR 31/23 A2994 RMK AO2 SLP138 T03060228 TSNO RCMQ 240030Z 19006KT 9999 FEW012 SCT200 30/24 Q1011 NOSIG RMK A2986 LFRG 240230Z AUTO 30002KT 9999 1400 R30/P2000 FEW001 10/10 Q1022 KPHP 240155Z AUTO 03005KT 10SM CLR 29/08 A2989 RMK AO2 SLP096 T02890078 KORG 240235Z AUTO 00000KT 10SM CLR 27/23 A2995 RMK AO2 T02740231 GAKY 230600Z 22006KT 9999 TS FEW030 FEW040CB 23/22 Q1011 LFQQ 240230Z AUTO 25003KT CAVOK 14/13 Q1021 TEMPO 0300 BCFG VV/// LFRH 240230Z AUTO 00000KT 9999 FEW015 13/12 Q1022 BECMG OVC004 KPIH 240153Z 21010KT 10SM CLR 26/01 A3008 RMK AO2 SLP138 T02610006 KORH 240154Z AUTO 32010KT 10SM CLR 21/14 A2990 RMK AO2 SLP118 LAST AUGMENTED OBS T02060139 LFRI 240230Z AUTO 30002KT 8000 NSC 14/13 Q1022 LFRJ 240230Z AUTO 22003KT 9999 FEW004 OVC023 17/16 Q1022 KOSA 240235Z AUTO 00000KT 10SM CLR 27/22 A2994 RMK AO1 T02660221 LFRK 240230Z AUTO 24004KT CAVOK 12/11 Q1022 LFSB 240230Z VRB02KT CAVOK 18/16 Q1020 NOSIG KOQT 240153Z AUTO VRB03KT 10SM CLR 25/22 A3003 RMK AO2 SLP149 T02500217 KPHT 240235Z AUTO 00000KT 10SM CLR 24/23 A2999 RMK KOQU 232050Z 29014KT 15SM FEW050 M/M A2974 RMK LAST LFRL 240230Z AUTO 23004KT 0400 0300 R23/0300N R05///// FG VV/// 17/16 Q1022 KORL 240153Z AUTO 00000KT 10SM -RA FEW060 FEW070 SCT110 26/23 A3003 RMK AO2 LTG DSNT SW AND W RAE20B47 SLP171 P0002 T02560233 KPIL 240153Z AUTO 15014KT 10SM FEW021 29/25 A2988 RMK AO2 SLP116 T02940250 ESMK 240220Z AUTO 19003KT 9999 NCD 14/14 Q1020 KOSC 240234Z AUTO 00000KT 10SM CLR 22/15 A2998 RMK AO2 T02240150 ETEB 240158Z AUTO 24003KT 9999 BKN110 BKN170 18/17 A3010 RMK AO2 SLP189 T01780170 $ RCNN 240030Z 08005KT 9999 VCSH FEW012 FEW014TCU BKN025 30/24 Q1010 NOSIG RMK A2983 VCSH W TCU SW LFRM 240230Z AUTO 00000KT CAVOK 16/14 Q1021 LFSD 240230Z AUTO 29004KT 9000 SCT032 BKN041 OVC056 19/18 Q1020 KPIM 240235Z AUTO 35003KT 10SM SCT055 SCT070 29/23 A3003 RMK AO2 T02900227 LFRN 240230Z AUTO 29003KT CAVOK 13/12 Q1022 TEMPO 3000 BR ESND 240220Z AUTO 10002KT 0200 R09/0600N FG VV001 ///// Q1021 LFRO 240230Z AUTO 21005KT 180V240 9999 OVC006 16/15 Q1021 KPHX 240151Z 26012KT 10SM FEW100 FEW250 43/11 A2969 RMK AO2 SLP031 CB DSNT N-E T04280111 LGIO 240220Z AUTO /////KT //// // ////// 16/15 Q1016 RE// LFSG 240230Z AUTO 31002KT 5000 BR OVC019 18/17 Q1020 KNZY 240152Z 17008KT 8SM SCT120 SCT250 21/19 A2981 RMK AO2 SLP093 T02060189 $ LFRQ 240230Z AUTO 23003KT 9999 BKN005 OVC020 17/16 Q1022 KOSH 240153Z AUTO 20007KT 10SM BKN080 BKN090 23/21 A2990 RMK AO2 RAB06E44 SLP112 P0000 T02280211 ESNG 240220Z AUTO 31005KT 9999 NCD 12/08 Q1020 LFSI 240230Z AUTO 30003KT 4500 BR NSC 18/18 Q1020 KPIR 240153Z AUTO 34006KT 10SM CLR 27/14 A2984 RMK AO2 SLP087 T02720144 ESMQ 240220Z AUTO 14004KT 9999 NCD 14/13 Q1020 PTYA 240150Z VRB04KT 12SM SCT017TCU SCT130 BKN300 31/25 A2979 RMK TCU NE AND SW SLP088 T03070249 LGIR 240220Z 00000KT CAVOK 23/17 Q1010 NOSIG LFRS 240230Z AUTO 00000KT CAVOK 14/13 Q1022 NOSIG KORS 240235Z AUTO 20007KT 10SM CLR 20/11 A3019 RMK AO2 LFRT 232100Z AUTO VRB02KT CAVOK 15/13 Q1023 KPKB 240153Z 20003KT 9SM FEW046 27/23 A3000 RMK AO2 SLP151 T02720233 KPIT 240151Z 00000KT 10SM FEW060 BKN250 26/21 A2999 RMK AO2 SLP152 T02560211 ESMS 240220Z 10002KT CAVOK 14/14 Q1021 GANK 240000Z 20004KT CAVOK 26/24 Q//// LGKC 231450Z 04007KT CAVOK 30/16 Q1015 LFRU 232000Z AUTO 00000KT 9999 FEW031 16/13 Q1023 LFSL 240230Z AUTO 31004KT 290V350 CAVOK 16/14 Q1021 NOSIG ESNK 240220Z AUTO 00000KT 9999 NCD 11/10 Q1020 ESMT 240220Z AUTO 00000KT 9999 NCD 18/17 Q1020 LHBC 231745Z 04006KT 9999 FEW040TCU 25/21 Q1016 LFRV 240230Z AUTO 36004KT CAVOK 12/11 Q1022 KPKD 240220Z AUTO 15006KT 10SM BKN023 BKN036 OVC050 24/20 A2974 RMK AO2 T02440200 TSNO ESNL 240220Z AUTO 00000KT 9999 NCD 07/05 Q1020 KQBD 240155Z AUTO 34003KT 10SM VV002 31/M04 A3003 RMK AO2 SLP054 WND DATA ESTMD T03101038 LFSN 240230Z AUTO VRB02KT 4800 BR OVC005 19/18 Q1020 KQD3 240156Z AUTO 21007G17KT 9999 FEW120 BKN170 33/18 A2952 RMK AO2 RAB15E24SHRAB24E36 SLP993 T03270182 KQBF 240156Z AUTO 00000KT 9999 FEW004 BKN120 25/22 A2984 RMK AO2 LTG DSNT S-SW SLPNO T02450223 ESNN 240220Z AUTO 31003KT 9999 NCD 12/10 Q1020 ESOE 240220Z AUTO 19003KT 9999 NCD 16/13 Q1020 LGKF 240150Z 00000KT CAVOK 24/17 Q1012 LFSO 240230Z AUTO 33003KT 3700 BR OVC005 18/18 Q1020 ESNO 240220Z AUTO 31003KT 9999 NCD 08/07 Q1019 ESMX 240220Z AUTO 19003KT 9999 NCD 15/14 Q1020 KOTG 240156Z AUTO 16005KT 10SM CLR 27/25 A2979 RMK AO2 SLP076 T02720250 KS25 240235Z AUTO RMK AO2 PWINO PNO TSNO LFTH 240230Z AUTO 34004KT CAVOK 21/16 Q1014 NOSIG LFRZ 240230Z AUTO 00000KT 1900 1000 R26/1200U BR NSC 13/13 Q1022 BECMG 9999 NSW KOTH 240235Z 36021G30KT 10SM CLR 17/13 A3015 RMK AO1 ESNQ 240220Z AUTO 22003KT 9999 NCD 13/10 Q1020 GANR 240000Z 30004KT 9999 RA BKN150 24/23 Q1014 LFST 240230Z AUTO VRB01KT 9999 SCT033 SCT050 BKN064 19/18 Q1019 TEMPO 4000 -RA BR ESNS 240220Z AUTO 00000KT 0150 R10/0400N R28/P1500N BCFG NCD 14/14 Q1019 ESPA 240220Z AUTO VRB01KT 9999 FEW084/// 16/16 Q1019 KOSU 240153Z 24003KT 10SM CLR 28/22 A2999 RMK AO2 SLP147 T02830217 ESOK 240220Z AUTO 26002KT 9999 SCT068/// BKN091/// 17/15 Q1020 LGKL 240220Z 03004KT CAVOK 21/14 Q1011 KQBL 240156Z AUTO 00000KT 10SM CLR 29/23 A3000 RMK AO2 SLP160 WND DATA ESTMD T02850231 KOTM 240153Z AUTO 18006KT 10SM CLR 28/24 A2985 RMK AO2 SLP098 T02830244 ESNU 240220Z VRB03KT 9999 BCFG NSC 10/// Q1019 ESNV 240220Z AUTO 00000KT 9999 FEW091/// ///// Q1020 REDZ LFSX 240230Z AUTO 14001KT 9999 BKN009 BKN016 BKN030 17/16 Q1020 ESPE 240220Z AUTO 00000KT 9999 NCD 11/10 Q1019 LGKO 240220Z 34005KT CAVOK 24/14 Q1007 ESNX 240220Z AUTO 31001KT 9999NDV NCD 12/11 Q1020 LGKP 240220Z 31023G33KT CAVOK 24/21 Q1006 LHBP 240230Z VRB03KT CAVOK 20/19 Q1017 NOSIG ETGG 240220Z 12008KT 9999 FEW250 15/14 Q1020 BLU+ LGKR 240220Z 26003KT 9999 FEW020 22/21 Q1013 NOSIG ESNZ 240220Z AUTO 15002KT 0550 R12/P1500N R30/P1500N FEW001/// 14/14 Q1020 ETHA 240220Z AUTO 23002KT //// // ////// 14/13 Q1021 /// WIMM 240230Z 05003KT 9999 SCT018 29/24 Q1010 VRMM 240200Z 25011KT 9999 FEW018 BKN270 28/24 Q1009 NOSIG KS39 240240Z AUTO 34009KT 10SM CLR 26/01 A3012 RMK AO2 ETHB 240220Z AUTO 17003KT 7000 // ////// 17/13 Q1019 /// LHDC 232215Z 00000KT CAVOK 20/18 Q1017 ETHC 240220Z 26001KT 9999 BKN100 BKN130 18/16 Q1019 BLU KPMD 240213Z AUTO 27014KT 3SM HZ OVC055 34/M01 A2987 RMK AO2 T03391006 LGKV 240150Z 04004KT CAVOK 22/17 Q1013 LGLM 240220Z 02005KT CAVOK 23/19 Q1012 KPKV 240235Z AUTO 00000KT 10SM CLR 28/25 A2990 RMK AO2 T02790247 LFTW 240230Z AUTO 34007KT CAVOK 22/15 Q1016 NOSIG KOVE 240153Z AUTO 00000KT 10SM CLR 37/09 A2979 RMK AO2 SLP086 T03720089 KPLN 240154Z AUTO 00000KT 10SM CLR 21/18 A2996 RMK AO2 SLP142 T02060183 KOUN 240235Z AUTO 17008KT 10SM CLR 31/20 A2991 RMK AO2 TSNO ETHE 240220Z AUTO 04001KT //// // ////// 17/17 Q1019 /// ESOW 240220Z AUTO 02002KT 9999 OVC090/// 15/13 Q1020 ETHF 240220Z 31003KT 9999 BKN060 18/16 Q1019 BLU KQDG 240156Z AUTO 12012G17KT 9999 SCT008 OVC021 20/17 A3008 RMK AO2 SLP188 T01990174 PWINO $ LGKZ 231150Z 00000KT 9999 FEW070 33/11 Q1018 ETGQ 240220Z AUTO VRB01KT //// // ////// 19/18 Q1019 /// LGLR 232350Z 00000KT CAVOK 24/14 Q1014 BLU KOWA 240235Z AUTO 13005KT 10SM CLR 24/21 A2980 RMK AO2 KPNA 240235Z AUTO 32007KT 10SM CLR 19/00 A3025 RMK AO2 LGMK 240220Z 01014G24KT CAVOK 25/15 Q1009 KOWB 240156Z 00000KT 10SM CLR 29/26 A2996 RMK AO2 T02940261 SLP141 KPNC 240153Z AUTO 15014G24KT 10SM CLR 33/20 A2985 RMK AO2 PK WND 15027/0058 SLP090 T03330200 TSNO KOVL 240233Z AUTO 12005KT 10SM SCT034 SCT041 SCT047 25/23 A2973 RMK AO2 KPLU 240235Z AUTO VRB03KT 21/12 A3020 RMK AO2 ETHL 240220Z 17002KT 8000 SCT050 BKN150 16/15 Q1020 BLU KOWD 240153Z 32004KT 10SM CLR 22/14 A2984 RMK AO2 SLP103 T02220139 ETIC 240242Z AUTO 00000KT 9999 SCT002 BKN020 OVC150 16/16 A3008 RMK AO2 CIG 020V160 BKN V SCT KPNE 240154Z 22004KT 10SM SCT110 27/21 A2990 RMK AO2 SLP123 T02720211 ETHN 240220Z 23003KT 6000 FEW004 BKN120 17/17 Q1019 WHT LFVP 240100Z 22014KT 0750 R26/0750N FG VV/// 16/15 Q1009 NOSIG KPMP 240239Z AUTO 17003KT 10SM VCTS FEW026 28/23 A3005 RMK AO2 LTG DSNT SW-NW TSB11E26 PRESRR T02830233 KOWI 232150Z AUTO 18008KT 10SM CLR 34/24 A2988 RMK AO2 KQEI 240240Z AUTO 00000KT 4800 HZ OVC025 26/23 A2992 RMK A02 TSNO KOVS 240153Z AUTO 00000KT 10SM CLR 22/21 A2986 RMK AO2 SLP106 T02220211 KQEJ 240240Z AUTO 00000KT 6000 HZ OVC021 26/23 A2987 RMK A02 TSNO PWAK 240158Z AUTO M 9999 FEW280 30/25 A2984 RMK AO2 SLP111 T03030252 $ ETHS 240220Z 09001KT 9999 BKN130 17/15 Q1019 BLU KOXB 240153Z AUTO 19003KT 10SM CLR 28/25 A2991 RMK AO2 SLP128 T02780250 TSNO ESSA 240220Z 16005KT CAVOK 16/14 Q1020 NOSIG KQFB 240240Z AUTO 07004KT 9999 CLR 31/21 A2993 RMK A02 TSNO LGMT 240220Z 04005KT CAVOK 25/12 Q1011 KPOB 240248Z AUTO 24004KT 8SM R23/5500FT CLR 26/23 A2998 RMK AO2 KPOC 240147Z 25012KT 10SM CLR 29/16 A2985 ETIK 240158Z AUTO 17003KT 9999 BKN100 17/17 A3010 RMK AO2 SLP182 T01670165 ESSB 240220Z AUTO 16003KT 9999 NCD 16/15 Q1020 KOXC 240235Z 36007KT 10SM 23/12 A2993 RMK AO1 KPMU 240235Z AUTO 00000KT 10SM SCT045 SCT055 SCT090 26/24 A2999 RMK AO2 T02580235 KPNM 240235Z AUTO 09003KT 10SM SCT021 SCT050 23/21 A2978 RMK AO2 P0004 KPMV 240235Z AUTO 16009KT 10SM CLR 28/25 A2979 RMK AO2 T02800250 KPOE 240158Z AUTO 19004KT 10SM CLR 31/26 A2992 RMK AO2 SLP130 T03070255 KPOF 240153Z AUTO 00000KT 10SM CLR 28/24 A2994 RMK AO2 SLP133 T02830244 TSNO KOWP 240235Z AUTO 14004KT 10SM CLR 32/22 A2991 RMK AO2 T03150216 GASG 240000Z 00000KT CAVOK 26/24 Q//// KQEQ 240240Z AUTO 20006KT 8000 HZ CLR 27/24 A2972 RMK A02 TSNO RCSS 240030Z VRB03KT 9999 FEW020 BKN035 31/23 Q1010 NOSIG RMK A2984 KQER 240240Z AUTO 09001KT 2000 BR BKN016 25/23 A2986 RMK A02 TSNO KOXI 240235Z AUTO 04007KT 10SM SCT025 SCT040 SCT065 24/18 A2998 RMK AO1 KPNS 240153Z 17005KT 10SM CLR 28/24 A2997 RMK AO2 SLP149 T02780239 KQES 240240Z AUTO 17009G19KT 9999 CLR 29/23 A2987 RMK A02 TSNO LGPA 231450Z 36014G24KT CAVOK 31/13 Q1011 KPPA 240235Z AUTO 17008KT 10SM CLR 30/13 A2996 RMK AO2 T02950127 PWINO ESTA 240220Z AUTO 00000KT 9999 SCT150/// BKN210/// 15/14 Q1020 KPNT 240235Z AUTO 13004KT 10SM CLR 27/26 A2996 RMK AO2 LTG DSNT N AND NW T02650263 GASK 240000Z 22004KT 9999 FEW020 26/24 Q//// ESSL 240220Z AUTO 15002KT 9999 NCD 15/12 Q1020 KQEV 240240Z AUTO 26003KT 9999 CLR 30/22 A2987 RMK A02 TSNO WIPP 240230Z 18005KT 9999 FEW012 30/25 Q1011 NOSIG FKKD 240200Z 06002KT 9999 TS BKN012 FEW015CB 24/23 Q1012 NOSIG KQEW 240240Z AUTO 24005KT 9999 FEW034 SCT070 31/22 A2986 RMK A02 TSNO KQGE 240156Z AUTO 20002KT 10SM CLR 29/23 A2997 RMK AO2 SLP153 T02910228 GASN 240000Z 00000KT CAVOK 27/25 Q//// RCTP 240030Z 22008KT 9999 FEW015 SCT025 31/25 Q1010 NOSIG RMK A2984 KPPF 240152Z AUTO VRB03KT 10SM CLR 30/22 A2989 RMK AO2 SLP109 T03000222 KQEX 240240Z AUTO 12002KT 9999 CLR 31/21 A2990 RMK A02 TSNO LGNX 231550Z 01016KT CAVOK 28/17 Q1011 KQEY 240240Z AUTO 26003KT 9999 BKN033 31/21 A2990 RMK A02 TSNO ESSP 240220Z 00000KT CAVOK 13/12 Q1020 KOXR 240151Z 25005KT 9SM CLR 24/16 A2978 RMK AO2 SLP083 T02390161 KOZA 240235Z AUTO 18005KT 10SM CLR 30/12 A2995 RMK AO2 KQFT 240240Z AUTO 30001KT 9999 FEW007 SCT010 BKN014 29/24 A2984 RMK A02 TSNO KPOU 240153Z 00000KT 10SM CLR 26/15 A2987 RMK AO2 SLP110 T02610150 ESST 240220Z AUTO 00000KT 9999 OVC092/// 17/17 Q1020 KQFU 240240Z AUTO 03005KT 4000 /CLR 28/23 A2988 RMK A02 TSNO ESTL 240220Z AUTO 14002KT 9999NDV NCD 16/15 Q1021 KQFV 240240Z AUTO 17001KT 1200 /CLR 24/22 A2990 RMK A02 TSNO KOXV 240235Z AUTO 18007KT 10SM CLR 28/24 A2983 RMK AO2 KPOV 240241Z AUTO 00000KT 10SM CLR 21/18 A3003 RMK AO2 T02090184 ESSV 240220Z AUTO 11002KT 3200 1000// R03/P2000N R21/0750VP2000U BR NCD 12/12 Q1021 ESUD 240220Z AUTO 00000KT 9999 NCD 09/08 Q1019 KQFW 240240Z AUTO 12001KT 9999 FEW007 28/23 A2988 RMK A02 TSNO FKKN 231700Z 00000KT 9999 -TSRA BKN016 FEW020CB 20/18 Q1017 KQFX 240240Z AUTO 16002KT 9999 CLR 31/21 A2987 RMK A02 TSNO KPPO 240235Z AUTO 05005KT 10SM -DZ CLR A2997 RMK AO2 LTG DSNT NE KPOY 240235Z AUTO 35010KT 10SM CLR 22/M03 A3009 RMK AO2 KPPQ 240235Z AUTO 16004KT 10SM CLR 28/26 A2993 RMK AO2 T02760257 LFYR 240230Z AUTO 00000KT 0250 FG NSC 12/12 Q1021 KPQI 240156Z AUTO 00000KT 10SM CLR 19/15 A2977 RMK AO2 SLP115 T01890150 FKKR 240000Z 08001KT 2000 TS BKN016 FEW020CB 25/23 Q1012 KPRB 240153Z AUTO 33014KT 10SM CLR 36/04 A2981 RMK AO2 SLP084 T03610044 TSNO KPRC 240153Z 26012KT 10SM CLR 33/08 A3007 RMK AO2 SLP089 CB DSNT N T03280083 KPQL 240153Z 00000KT 10SM CLR 26/26 A2996 RMK AO2 SLP147 T02610256 KQHN 240155Z 03007KT 5000 HZ CLR 29/08 A2971 RMK SLP984 Q1007 DA6033 KPQN 240221Z AUTO 19004KT 10SM CLR 27/26 A2978 RMK AO2 KPRG 240235Z AUTO 00000KT 7SM CLR 25/25 A2999 RMK AO2 T02520248 ESUP 240220Z AUTO 00000KT 9999 NCD 12/10 Q1019 LGPZ 240150Z 00000KT CAVOK 22/20 Q1013 KOZR 240156Z AUTO 00000KT 10SM CLR 25/22 A2999 RMK AO2 SLP155 T02540223 KOZS 240235Z AUTO 15003KT 10SM CLR 28/26 A2994 RMK AO2 LGSA 240220Z 00000KT CAVOK 21/20 Q1011 VTBD 240230Z 05006KT 020V080 9999 FEW020TCU SCT040 29/26 Q1010 NOSIG KQJB 240156Z AUTO 00000KT 9999 FEW002 SCT120 BKN200 23/21 A2995 RMK AO2 SLPNO T02250205 KPSC 240153Z 08007KT 10SM CLR 29/07 A3002 RMK AO2 SLP164 T02890072 ESUT 240220Z AUTO 00000KT 9999 BKN096/// OVC110/// 13/13 Q1020 KRAC 240241Z AUTO 15006KT 7SM -TSRA BKN110 22/20 A2996 RMK AO2 LTG DSNT SE-SW TSB35 P0011 T02220200 KOZW 240235Z AUTO 10005KT 10SM CLR 26/17 A3000 RMK AO2 T02560167 KPRN 240156Z AUTO 23003KT 10SM SCT046 28/22 A2999 RMK AO2 SLP149 T02780222 ETMN 240220Z VRB02KT 0050 FG VV001 16/16 Q1019 RED KPRO 240235Z AUTO 17006KT 10SM CLR 26/26 A2981 RMK AO2 T02610255 KPSF 240154Z AUTO 25006KT 10SM CLR 19/16 A2992 RMK AO2 SLP104 T01940156 LGRP 240220Z 24010KT CAVOK 25/19 Q1005 NOSIG KQHY 240156Z AUTO 21003KT 10SM CLR 29/23 A3000 RMK AO2 SLP160 T02860230 ETNH 240220Z 06003KT 9999 MIFG FEW100 15/14 Q1019 BLU+ VTCC 240230Z 05003KT 9999 FEW018 BKN035 28/22 Q1014 A2994 NOSIG KPRS 240235Z AUTO 13005KT 10SM CLR 36/09 A2986 RMK AO2 T03570090 LGSK 240150Z 00000KT CAVOK 23/18 Q1014 KT20 240235Z AUTO 15007KT 10SM CLR 31/22 A2988 RMK AO2 T03060216 KPSK 240235Z AUTO 00000KT 10SM SCT055 25/21 A3010 RMK AO2 T02460206 KPTB 240235Z AUTO 00000KT 7SM CLR A2996 RMK AO2 LIBC 231650Z 21010KT CAVOK 29/16 Q1015 KRAL 240153Z 28006KT 10SM CLR 31/15 A2980 RMK AO2 SLP073 T03110150 ETNL 240220Z 08003KT 8000 SCT130 BKN160 17/15 Q1020 BLU VTBO 240200Z 00000KT 9999 FEW020 30/26 Q1010 LIBD 240220Z 22006KT CAVOK 20/17 Q1014 KRBD 240153Z 14007KT 10SM CLR 33/20 A2990 RMK AO2 SLP114 T03330200 LGSM 240220Z 01012KT CAVOK 25/19 Q1007 KPSM 240158Z 30007KT 10SM SCT120 BKN200 19/17 A2980 RMK AO2A SLP093 T01880165 LHKE 240215Z 07002KT CAVOK 21/20 Q1016 NOSIG RMK BLU KPSN 240235Z AUTO 06003KT 10SM CLR 29/25 A2993 RMK AO2 T02920254 VTCH 240200Z 31003KT 250V010 9999 FEW018 BKN028 28/22 Q1011 A2988 LIBF 231550Z 07008KT 040V100 CAVOK 33/16 Q1014 ETNN 240220Z 30007KT 5000 BR BKN004 SCT070 19/18 Q1019 YLO KPSO 240235Z AUTO 34004KT 10SM CLR 24/02 A3030 RMK AO2 T02350020 LGSO 240220Z AUTO 34012KT 320V080 //// // ////// 26/16 Q1010 RE// KPRX 240235Z 10009KT 10SM CLR 27/16 A2994 RMK AO1 LGRX 240150Z 00000KT CAVOK 21/19 Q1012 LIBG 231750Z 26005KT CAVOK 31/15 Q1013 KPSP 240153Z 10003KT 10SM CLR 42/15 A2969 RMK AO2 SLP049 T04170150 KRAP 240152Z 02005KT 10SM CLR 26/07 A2997 RMK AO2 SLP117 T02610072 KRBG 240153Z AUTO 01016KT 10SM CLR 28/06 A3007 RMK AO2 SLP181 T02830061 LGTG 232350Z 00000KT CAVOK 23/10 Q1014 BLU KQKG 240155Z AUTO VRB02KT 5SM BR BKN150 BKN220 19/13 A3010 RMK AO2 SLP117 WND DATA ESTMD T01870133 $ LIBH 240155Z 30006KT CAVOK 22/19 Q1013 RMK SKC QUK / QUL / VIS MAR 15 KM VIS MIN 9999 VTBS 240230Z 24003KT 9999 FEW020 30/24 Q1010 NOSIG LGSR 240220Z 29009KT CAVOK 25/15 Q1009 VTCL 240200Z VRB02KT 9999 FEW025 SCT100 28/24 Q1012 A2989 VTBU 240230Z 19004KT 9999 FEW020 30/23 Q1010 NOSIG LICA 240150Z 09005KT CAVOK 19/17 Q1015 KRAS 240235Z AUTO 15012G17KT 10SM SCT019 29/25 A2989 RMK AO2 T02920253 KRCA 240158Z AUTO 36009KT 10SM CLR 29/06 A2996 RMK AO2 SLP117 T02900056 VISNO RWY13 $ ETNS 240220Z AUTO 06005KT 6000 // ////// 16/15 Q1019 /// LICB 232050Z VRB01KT CAVOK 23/17 Q1016 KPUB 240153Z 04025G30KT 10SM CLR 30/09 A3002 RMK AO2 PK WND 04030/0153 LTG DSNT NE AND E SLP088 T03000094 KPTK 240153Z 08004KT 10SM SCT150 OVC250 26/16 A3000 RMK AO2 SLP150 T02610161 ETNT 240220Z AUTO 33003KT 0100 // ////// 17/17 Q1019 /// VTCN 240200Z 00000KT 9999 SCT025 28/22 Q1011 A2987 LICC 240220Z 25003KT CAVOK 19/13 Q1014 KPUC 240153Z AUTO 29009KT 10SM CLR 32/M03 A3009 RMK AO2 PK WND 28026/0055 SLP071 T03221028 KRBL 240154Z AUTO 34004KT 10SM CLR 41/M02 A2978 RMK AO2 SLP079 T04061017 LICD 240150Z 30005KT CAVOK 24/22 Q1016 KQN2 240156Z AUTO 00000KT 5000 BR CLR 20/20 A2997 RMK AO2 SLPNO T01990197 KRCE 240215Z AUTO 16009KT 10SM 30/19 A2991 RMK AO2 LIBN 231755Z 24005KT CAVOK 30/12 Q1014 RMK SKC VIS MIN 9999 WIND THR14 24004KT WIND THR32 25006KT BLU VTCP 240200Z 13001KT 9999 FEW018 29/24 Q1011 A2987 KPTN 240156Z AUTO 00000KT 10SM CLR 27/26 A2995 RMK AO2 SLP143 T02720261 KQN3 240156Z AUTO 00000KT 9999 BKN180 25/23 A2989 RMK AO2 SLP111 T02460231 GAYE 240000Z VRB02KT 9999 -RA NSC 25/24 Q//// ETNW 240220Z AUTO VRB02KT 9000 // ////// 18/16 Q1019 /// LICF 240155Z 01003KT CAVOK 26/21 Q1014 RMK SKC QUK / QUL / VIS MAR 12 KM MON INVIS NC VIS MIN 9999 KPSX 240153Z AUTO 15010KT 10SM CLR 29/24 A2989 RMK AO2 SLP122 T02940244 KRBO 240230Z AUTO 14011G16KT 10SM CLR 30/25 A2989 RMK AO2 T02950249 LGSY 231750Z VRB02KT CAVOK 26/20 Q1011 BLU LICG 231755Z /////KT CAVOK 27/22 Q1014 LIBP 240150Z AUTO 23005KT 9999 BKN140/// OVC160/// 23/18 Q1016 KT35 240235Z AUTO 11004KT 10SM CLR 32/21 A2989 RMK AO2 T03150212 VTCT 240200Z VRB01KT 9999 SCT010 BKN025 27/25 Q1013 A2991 LIBR 240215Z 31004KT CAVOK 25/21 Q1015 NOSIG KQKR 231756Z AUTO 00000KT 9999 CLR 28/24 A2989 RMK AO2 SLPNO T02820235 10314 20282 53003 LICJ 240220Z 20007KT CAVOK 25/20 Q1016 KPTS 240235Z AUTO 16004KT 10SM CLR 29/23 A2990 RMK AO2 T02870233 LGTS 240220Z VRB03KT CAVOK 21/14 Q1013 NOSIG KPUJ 240235Z AUTO 00000KT 10SM CLR 26/26 A3005 RMK AO2 KPVB 240235Z AUTO 12009KT 10SM BKN035 BKN041 22/22 A2989 RMK AO1 T02150215 KPTT 240235Z AUTO 18011KT 10SM CLR 32/14 A2985 RMK AO2 T03200139 KPVC 240156Z AUTO 00000KT 9SM CLR 19/18 A2982 RMK AO2 SLP097 T01890183 KRCM 240115Z AUTO 15004KT 10SM CLR 29/23 A2988 RMK AO2 LIBV 240155Z 32004KT CAVOK 20/17 Q1016 RMK SKC VIS MIN 9999 WIND THR32 34003KT WIND THR14 33003KT BLU KPVD 240151Z 01008KT 10SM FEW050 BKN130 BKN160 26/14 A2985 RMK AO2 SLP106 OCNL LTGICCC DSNT E T02560139 $ KRDD 240153Z 02003KT 10SM CLR 41/M02 A2978 RMK AO2 SLP076 T04061022 KPTV 240156Z AUTO 26006KT 10SM CLR 35/13 A2980 RMK AO2 SLP096 T03500133 ETOU 240244Z AUTO 02007KT 2800 +RA FEW026 OVC031 19/16 A3008 RMK AO2 VIS 2800V6000 RAB25 GCFV 240230Z AUTO 36012KT 9999 OVC018/// 22/18 Q1013 GCGM 240230Z AUTO VRB02KT 9999 OVC008/// 21/19 Q1014 RMK R09/VRB02KT ARP/VRB02KT KPTW 240154Z AUTO 00000KT 10SM CLR 26/19 A2991 RMK AO2 SLP124 T02560194 KPVE 240235Z AUTO 00000KT 9SM SCT040 BKN047 26/25 A2998 RMK KRBW 240235Z AUTO 18004KT 10SM CLR 28/23 A3001 RMK AO2 KPVF 240235Z AUTO 29004KT 10SM CLR 31/00 A2997 RMK AO1 LIBY 240155Z 35008KT CAVOK 27/11 Q1013 RMK SKC QUK / QUL / VIS MAR 15 KM VIS MIN 9999 KPVG 240235Z 21005KT 10SM CLR 25/23 A2998 RMK AO1 KRDG 240154Z 02006KT 10SM FEW110 26/20 A2990 RMK AO2 SLP125 T02560200 LICR 232150Z 00000KT CAVOK 25/20 Q1015 KRCR 240235Z AUTO 00000KT 10SM CLR 28/26 A3000 RMK AO2 GCHI 240230Z AUTO 36019KT //// OVC023/// 22/17 Q1015 LIEA 240220Z 20012KT 9999 FEW012 22/19 Q1014 KPWA 240153Z 17013KT 10SM CLR 33/19 A2988 RMK AO2 SLP096 T03330189 KPVJ 240235Z AUTO 00000KT 10SM CLR 30/21 A2990 RMK AO2 T03000212 LIEB 240055Z 02008KT 9999 SCT040 22/21 Q1013 RMK SCT QUK / QUL / VIS MAR 20 KM MON INVIS VIS MIN 9999 LICT 240155Z 28007KT CAVOK 24/21 Q1015 KRDK 240235Z AUTO 17007KT 10SM FEW150 28/25 A2981 RMK AO2 LIEC 240155Z 26022KT CAVOK 22/19 Q1014 RMK SCT SCT090 SCT200 QUK / QUL / VIS MAR 18 KM VIS MIN 9999 KPWC 240233Z AUTO 14005KT 10SM BKN017 BKN080 22/20 A2980 RMK AO2 LIED 240155Z 31004KT CAVOK 20/18 Q1015 RMK SCT FEW100 VIS MIN 9999 WIND THR35 30004KT WIND THR17 32006KT BLU KRCV 240230Z AUTO 25013KT 10SM CLR 20/07 A3031 RMK AO2 T02010066 KRDM 240156Z AUTO 36008KT 10SM CLR 28/01 A3010 RMK AO2 SLP174 T02780006 KQND 240156Z AUTO 00000KT 9999 BKN180 26/24 A2987 RMK AO2 SLPNO T02560243 LIEE 240220Z 33006KT CAVOK 21/16 Q1015 KPUW 240153Z AUTO 29006KT 10SM CLR 24/04 A3012 RMK AO2 SLP191 T02390044 KRCX 240235Z AUTO 13006KT 10SM BKN027 OVC046 21/20 A2989 RMK AO2 T02100200 KPWG 240156Z AUTO 14007KT 10SM CLR 33/21 A2989 RMK AO2 SLP120 T03330206 LICZ 240155Z 25003KT CAVOK 19/18 Q1015 RMK SKC VIS MIN 9999 WIND THR28 24004KT WIND THR10 23003KT A2999 BLU KRCZ 240240Z AUTO 13003KT 10SM CLR 26/24 A2999 RMK AO2 T02600242 KRDR 240158Z AUTO 23003KT 10SM SCT080 21/21 A2971 RMK AO2 SLP062 T02100205 ETSA 240220Z 15005KT 9999 SCT080 15/14 Q1020 BLU+ KPWK 240230Z 01009G23KT 2 1/2SM +TSRA BR FEW019 OVC050 22/21 A3000 RMK AO2 PK WND 33028/0214 LTG DSNT ALQDS RAB08 TSB11 P0018 T02170206 ETSB 240220Z AUTO 35004KT 5000 // ////// 17/17 Q1020 /// KRDU 240151Z 22008KT 10SM FEW150 FEW250 28/23 A2998 RMK AO2 SLP146 T02780233 KPVU 240155Z 31010KT 10SM SKC 29/10 A3001 KPWM 240151Z 30007KT 10SM FEW100 BKN250 20/17 A2982 RMK AO2 SLP097 T02000167 KRFD 240154Z 17013G22KT 7SM R01/5500VP6000FT -TSRA SCT008 BKN045CB OVC100 22/21 A2995 RMK AO2 PK WND 18027/0143 WSHFT 0135 PRESFR SLP135 CONS LTGICCG OHD TS OHD MOV E P0043 T02170206 $ KPVW 240235Z AUTO 17006KT 10SM CLR 26/14 A2997 RMK AO2 T02630140 KPXE 240235Z AUTO 00000KT 10SM CLR 28/24 A3002 RMK AO2 T02820235 LIEO 240220Z 24003KT 180V290 9999 FEW030 21/18 Q1014 KREO 240152Z AUTO 01007KT 31/M07 A3008 RMK AO1 SLP146 T03061072 KT65 240235Z AUTO 15010G14KT 10SM CLR 28/M15 A2988 RMK AO2 T02771153 ETSH 240220Z VRB02KT 9999 BKN110 19/16 Q1019 BLU KRFI 240235Z AUTO 06011G17KT 4SM TSRA SCT016 BKN050 OVC075 25/23 A2998 RMK AO2 LTG DSNT NE THRU S P0027 T02450232 ETSI 240220Z AUTO VRB03KT 4800 // ////// 18/17 Q1019 /// LHPA 240215Z 35004KT CAVOK 20/19 Q1016 NOSIG RMK BLU KPWT 240235Z AUTO 01004KT 10SM OVC041 19/13 A3024 RMK AO1 KT70 240158Z AUTO 19007KT 10SM CLR 35/15 A2977 RMK AO2 SLP066 T03500146 $ ETSL 240220Z AUTO 21003KT 9999 // ////// 16/15 Q1020 /// ETSN 240120Z 25006KT 9000 FEW035 SCT090 BKN110 18/16 Q1019 BLU LGZA 240220Z 00000KT CAVOK 22/19 Q1013 GCLA 232030Z 02017KT 350V050 9999 SCT030 22/17 Q1017 KRGK 240236Z AUTO 14006KT 10SM OVC029 24/21 A2979 RMK AO2 FLKK 230900Z 10009KT CAVOK 23/13 Q1023 NOSIG KPYM 240152Z AUTO 02004KT 10SM CLR 21/17 A2985 RMK AO2 SLP108 T02110167 KT82 240235Z AUTO 00000KT 10SM CLR 29/16 A2994 RMK AO2 T02920160 LHPP 231645Z 26003KT 9999 SCT040 30/21 Q1016 FMCH 231800Z 00000KT 9999 FEW020 24/21 Q1017 NOSIG KRHI 240153Z AUTO 18005KT 10SM -RA BKN070 OVC090 22/20 A2991 RMK AO2 SLP120 P0001 T02220200 TSNO LHPR 240215Z AUTO 09003KT 5000 BR NCD 19/19 Q1016 RMK WHT AGGH 240200Z 07018KT 9999 FEW020 32/23 Q1009 KRIC 240154Z 00000KT 9SM FEW250 28/24 A2993 RMK AO2 SLP139 T02780239 KQRD 240158Z AUTO 00000KT 10SM CLR 29/23 A2998 RMK AO2 LTG DSNT S SLP156 KPYX 240235Z AUTO 16009KT 10SM CLR 31/12 A2991 RMK AO2 T03110120 KRHP 240240Z AUTO 00000KT 7SM CLR 21/21 A3010 RMK AO2 T02050205 GCLP 240230Z 01026KT 330V030 9999 FEW022 22/16 Q1013 NOSIG KPZQ 240235Z AUTO 19005KT 10SM CLR 24/15 A2998 RMK AO2 T02390145 KQRH 240156Z AUTO 32006G11KT 9999 FEW120 34/16 A2957 RMK AO2 SLP006 T03350164 KSAA 240235Z AUTO 21003KT 10SM CLR 24/00 A3021 RMK AO2 KRIL 240153Z AUTO 32010G20KT 10SM CLR 30/03 A3008 RMK AO2 SLP107 T03000033 KSAC 240153Z AUTO 22010KT 10SM CLR 36/10 A2977 RMK AO2 SLP082 T03610100 TSNO KSAD 240151Z AUTO 03018G24KT 10SM CLR 34/11 A2988 RMK AO2 PK WND 06033/0125 WSHFT 0112 LTG DSNT NE AND SE SLP055 T03440106 KRHV 240149Z 31010KT 10SM SKC 31/11 A2986 FMEE 240230Z 13015KT 9999 BKN020 BKN053 20/18 Q1022 RERA NOSIG KSAF 240218Z 05019G32KT 10SM -TSRA BKN120 26/09 A3011 RMK AO2 PK WND 04032/0215 LTG DSNT ALQDS TSB18 P0001 T02560094 KQQY 240155Z AUTO 00000KT 9999 BKN100 BKN120 26/23 A3004 RMK AO2 SLP150 T02560230 KU16 240058Z AUTO 00000KT 10SM CLR 33/M08 A3000 RMK AO2 SLP782 T03331078 PWINO $ FMCZ 240230Z 24006KT 9999 FEW020 23/21 Q1015 NOSIG KSBA 240153Z 16005KT 6SM HZ CLR 20/16 A2977 RMK AO2 SLP080 T02000161 KSBD 240150Z 26011KT 07SM SKC 35/13 A2981 KRKD 240156Z AUTO 28008KT 10SM CLR 21/18 A2977 RMK AO2 SLP081 T02060183 KRIV 240158Z AUTO 34009KT 10SM CLR 33/14 A2984 RMK AO2 SLP088 T03250141 LHSM 240145Z 00000KT CAVOK 20/20 Q1016 ETWM 240220Z AUTO 02002KT 0200 // ////// 18/17 Q1019 /// KSAN 240151Z 18008KT 9SM FEW010 SCT150 SCT200 21/19 A2982 RMK AO2 SLP099 T02110189 LHSN 240215Z 00000KT CAVOK 20/19 Q1017 NOSIG RMK BLU KRIW 240153Z AUTO 36006KT 10SM CLR 28/M03 A3005 RMK AO2 SLP096 T02831028 FMEP 240230Z AUTO VRB02KT 9999 FEW098 18/14 Q1022 KSAR 240235Z AUTO 16004KT 10SM CLR 27/25 A2996 RMK AO2 T02740246 KSAT 240151Z 12007KT 10SM FEW075 FEW250 33/19 A2986 RMK AO2 SLP092 T03330189 KSAV 240153Z 18003KT 10SM CLR 28/23 A3001 RMK AO2 SLP162 T02830228 KSBM 240153Z AUTO 19007KT 7SM -RA SCT110 24/23 A2993 RMK AO2 RAB0055 SLP129 P0006 T02440228 KSCD 240235Z AUTO 00000KT 10SM CLR 27/23 A3002 RMK AO2 T02740230 KRLD 240235Z AUTO 05006KT 10SM CLR 29/08 A3002 RMK AO2 T02880077 LHUD 240145Z 03003KT CAVOK 22/20 Q1016 GBYD 240200Z VRB02KT 9999 SCT010 BKN100 25/24 Q1011 KSBN 240239Z 34004KT 10SM -RA FEW110 23/23 A2998 RMK AO2 RAB04 TSE08 P0001 T02330228 KSAW 240237Z AUTO 16005KT 10SM CLR 23/15 A2992 RMK AO2 T02270151 LJCE 240230Z AUTO 25003KT 9999 NCD 19/17 Q1015 KSCF 240235Z AUTO 00000KT 10SM CLR 30/24 A2998 RMK A01 KSBO 240235Z AUTO 00000KT 10SM CLR 24/23 A3002 RMK AO2 KRKP 240153Z AUTO 15010KT 10SM CLR 29/24 A2987 RMK AO2 SLP116 T02940244 KSBP 240156Z AUTO 31011KT 9SM CLR 20/11 A2979 RMK AO2 SLP087 T02000111 TSNO KSCH 240055Z 00000KT 10SM CLR 19/18 A2991 RMK LAST KSAZ 240234Z AUTO 15006KT 10SM OVC016 23/19 A2975 RMK AO2 LIMA 231650Z 03003KT 310V100 9999 SCT040 23/15 Q1018 KSDA 240235Z AUTO 17008KT 10SM CLR 28/25 A2981 RMK AO2 KRKS 240154Z AUTO 30012KT 10SM CLR 27/M10 A3018 RMK AO2 SLP124 T02721100 KSBS 240235Z AUTO 00000KT 10SM CLR 22/05 A3021 RMK AO1 T02230051 KSDB 240148Z AUTO 34009KT 10SM CLR 31/M05 A3008 RMK AO2 SLP118 T03111050 KSCK 240155Z 29010KT 10SM CLR 37/06 A2978 RMK AO2 SLP084 T03670061 LIMC 240220Z 02004KT CAVOK 18/16 Q1017 NOSIG KU42 240235Z AUTO 30006KT 10SM CLR 27/00 A3005 RMK AO1 T02741003 LIME 240220Z 36005KT 9999 FEW100 20/15 Q1017 KRME 240153Z AUTO 12004KT 10SM CLR 19/19 A2993 RMK AO2 SLP130 T01890189 LIMF 240220Z VRB02KT CAVOK 18/17 Q1018 KSDF 240156Z 19005KT 9SM BKN046 BKN250 31/23 A2996 RMK AO2 SLP140 T03110228 LIMG 231750Z 01007KT 340V050 9999 SCT050TCU 28/16 Q1014 KRMG 240153Z AUTO 00000KT 5SM BR CLR 24/23 A3000 RMK AO2 SLP148 T02390233 KSBY 240154Z 21004KT 9SM FEW065 28/25 A2992 RMK AO2 SLP131 T02780250 LIMH 240055Z /////KT 9999 FEW030 03/M00 Q1033 KSCR 240240Z AUTO 00000KT 10SM CLR 23/21 A3001 RMK AO2 T02250210 LIMJ 240220Z 04009KT 360V090 CAVOK 24/15 Q1014 KSEA 240153Z 30005KT 10SM FEW045 22/12 A3021 RMK AO2 SLP236 T02170117 LIMK 240055Z 00000KT CAVOK 18/13 Q1019 FKYS 240000Z 28006KT 250V310 8000 SCT003 BKN006 FEW016CB 21/20 Q1018 RETS NOSIG LIML 240220Z 36003KT 9999 SCT060 21/18 Q1016 NOSIG KSDL 240153Z 22009KT 10SM CLR 42/11 A2974 RMK AO2 SLP039 T04170111 KRNC 240235Z AUTO 17015G194KT 140V200 10SM CLR 24/24 A3004 RMK KSDM 240153Z AUTO 33005KT 10SM CLR 27/17 A2981 RMK AO2 SLP091 T02670167 $ KRND 240158Z AUTO 14010KT 10SM FEW070 32/22 A2987 RMK AO2 SLP105 T03210216 KRMN 240235Z AUTO 00000KT 10SM SCT075 26/24 A2997 RMK AO2 T02620242 KSEE 240147Z 24005KT 10SM SKC 27/16 A2981 LIMP 232050Z VRB01KT CAVOK 23/19 Q1017 KSEG 240153Z AUTO 32003KT 10SM CLR 25/15 A2993 RMK AO2 SLP130 T02500150 KRNH 240235Z AUTO 10006KT 10SM CLR 21/21 A2982 RMK AO2 T02110208 KROA 240154Z 00000KT 10SM CLR 30/19 A3001 RMK AO2 SLP147 T03000194 KSFB 240153Z 20004KT 10SM BKN120 27/21 A3002 RMK AO2 LTG DSNT SW TSE53 SLP166 T02670206 $ LIMU 240155Z 35020KT 9999 FEW023 24/11 Q1015 RMK FEW QUK / QUL / VIS MAR 20 KM VIS MIN 9999 KROC 240154Z 29004KT 10SM CLR 25/15 A2995 RMK AO2 SLP140 T02500150 KRNM 240153Z 30007KT 10SM CLR 29/14 A2985 RMK AO2 SLP092 T02890139 $ KSEM 240235Z AUTO 15003KT 10SM SCT050 27/25 A2998 RMK AO2 VTPH 240200Z VRB03KT 9999 FEW030 29/24 Q1009 KSFF 240153Z 01004KT 10SM CLR 26/07 A3009 RMK AO2 SLP178 T02560072 KRNO 240155Z 03009KT 10SM CLR 33/M04 A3003 RMK AO2 SLP113 T03281044 KRMY 240233Z AUTO 00000KT 10SM CLR 25/23 A2998 RMK AO2 T02450226 KRNP 240235Z AUTO 12005KT 10SM CLR 25/17 A2998 RMK AO2 T02450170 KSDY 240156Z AUTO 32011G19KT 10SM CLR 24/11 A2993 RMK AO2 SLP126 T02390111 KSEP 240235Z AUTO 12006KT 10SM CLR 31/17 A2995 RMK AO2 T03100169 KROG 240158Z AUTO 14004KT 10SM CLR 30/26 A2997 RMK AO2 SLP128 T03000256 $ LIMZ 231950Z 21009KT 6000 -TSRA FEW020CB BKN060 18/16 Q1020 RETSRA LIPA 231955Z 02003KT CAVOK 25/21 Q1016 RMK SCT SCT200 VIS MIN 9999 WIND THR05 02004KT WIND THR23 02004KT A3002 BLU GCRR 240000Z 01017KT 9999 BKN019 22/18 Q1014 KU68 240235Z AUTO 03015G20KT 10SM CLR 26/00 A3003 RMK AO2 VTPM 240200Z VRB03KT 9999 SCT025 BKN100 27/23 Q1011 A2988 INFO B/ RWY27 LIPB 232050Z VRB03KT CAVOK 20/18 Q1019 KRNT 240153Z 31009KT 10SM CLR 22/11 A3019 RMK AO2 SLP229 T02220111 PNO $ KSET 240154Z AUTO 12005KT 10SM CLR 29/26 A2990 RMK AO2 SLP120 T02890256 LIPC 240155Z 27004KT CAVOK 22/21 Q1016 FNBC 231600Z 35009KT 5000 BR NSC 25/25 Q//// VTPO 240200Z 00000KT 9999 SCT022 SCT025 29/25 Q1010 KRNV 240235Z AUTO 00000KT 10SM CLR 26/26 A2997 RMK AO2 T02560256 KSFM 240156Z AUTO 29007KT 10SM 18/17 A2982 RMK AO2 SLP106 T01830167 $ KRPD 240235Z AUTO 12004KT 10SM SCT005 OVC041 21/20 A2986 RMK AO2 T02100197 VTPP 240200Z 13004KT 9999 FEW025 29/22 Q1010 LIPE 240220Z 31003KT 280V010 9999 BKN080 22/18 Q1016 LIPF 231755Z 00000KT CAVOK 27/19 Q1016 KSGF 240203Z 18006KT 10SM CLR 30/22 A2994 RMK AO2 T03000222 KQWX 240155Z AUTO VRB01KT 12SM CLR 30/24 A2979 RMK AO2 SLP067 WND DATA ESTMD T02950238 KSFO 240156Z 28025KT 10SM CLR 18/11 A2986 RMK AO2 PK WND 28031/0116 SLP111 T01830106 LIPH 240220Z AUTO VRB01KT 9999 NCD 20/18 Q1016 KSGH 240156Z AUTO 00000KT 10SM CLR 26/23 RMK AO2 SLPNO T02610228 $ KRPH 240235Z AUTO 12004KT 10SM CLR 31/18 A2988 RMK AO2 T03060179 KSFQ 240235Z AUTO 19004KT 10SM CLR 26/24 A2997 RMK AO2 T02630238 KSEZ 240230Z AUTO 35015G21KT 10SM VCTS BKN110 29/07 A3010 RMK AO2 LTG DSNT W THRU N FNBG 231700Z 30008KT 9999 BKN020 21/18 Q1013 KROS 240233Z AUTO 00000KT 10SM BKN017 OVC025 22/21 A2980 RMK AO2 T02200205 KRPJ 240235Z AUTO 12007KT 10SM -TSRA SCT095 OVC110 22/21 A2995 RMK AO2 LTG DSNT ALQS P0007 T02150211 KSGJ 240158Z 16008KT 10SM CLR 28/23 A3003 RMK AO2 SLP167 T02830228 EVLA 240220Z AUTO VRB02KT 9999 OVC038/// 18/16 Q1020 KRQB 240235Z AUTO 28003KT 10SM CLR 22/21 A2996 RMK AO2 T02230210 FNCA 231700Z 21006KT CAVOK 24/20 Q1012 LIQC 232355Z ///06KT CAVOK 26/21 Q1015 RMK SKC QUK / QUL / VIS MAR 15 KM VIS MIN 9999 LIPL 240155Z /////KT CAVOK 22/22 Q1016 RMK BKN SCT110 SCT150 VIS MIN 9999 WIND THR31 22003KT BLU KSHD 240235Z AUTO 31003KT 10SM SCT060 25/22 A3002 RMK AO2 T02450217 KROW 240151Z 14008KT 10SM CLR 36/03 A2992 RMK AO2 SLP054 T03560028 KRQE 240153Z AUTO 33006KT 10SM -RA FEW070 OVC100 27/11 A3020 RMK AO2 RAB30 SLP094 P0000 T02720106 TSNO LIPO 240150Z 12003KT 9999 SCT060 22/17 Q1017 KROX 240234Z AUTO 00000KT 10SM VCTS SCT017 SCT026 22/19 A2970 RMK AO2 LTG DSNT N AND NE KSFY 240235Z AUTO 10004KT 10SM CLR 22/21 A2991 RMK AO2 LTG DSNT E THRU S T02170208 LIPQ 232150Z VRB01KT CAVOK 24/20 Q1016 KSFZ 240235Z AUTO 32007KT 10SM CLR A2987 RMK AO1 VTSB 240200Z 29003KT 9999 FEW020 28/26 Q1010 A2984 LIPR 240215Z 27002KT 9999 SCT070 23/23 Q1016 KSGR 240153Z 18009KT 10SM CLR 29/22 A2990 RMK AO2 SLP125 T02940222 VTSC 240200Z 19006KT 160V220 9999 FEW022 29/24 Q1010 A2984 RWY20 INFO B LIPS 240155Z 00000KT CAVOK 22/18 Q1015 RMK SKC VIS MIN 9999 WIND THR26 00000KT WIND THR08 00000KT BLU LIRA 240220Z 12004KT CAVOK 23/12 Q1014 KSGS 240231Z AUTO 00000KT 10SM CLR 23/22 A2978 RMK AO2 T02300221 GCTS 240230Z 07005KT 040V110 9999 FEW030 21/16 Q1013 NOSIG KSGT 240235Z AUTO 13003KT 10SM FEW070 25/21 A2994 RMK AO1 LIPU 231350Z VRB01KT 9999 SCT060 27/18 Q1016 RERA VTSE 240200Z VRB03KT 9999 FEW020 28/26 Q1010 A2982 KSHL 240235Z AUTO 19007KT 10SM CLR 27/26 A2977 RMK AO2 KSGU 240235Z 27008KT 10SM CLR 39/03 A2984 RMK AO1 VTSF 240200Z 20004KT 9999 TS FEW016CB SCT018 BKN020 26/25 Q1010 A2983 LIQN 231750Z VRB03KT CAVOK 21/18 Q1016 LIRE 240155Z 08005KT CAVOK 24/17 Q1014 RMK SCT SCT100 VIS MIN 9999 WIND THR13 06003KT WIND THR31 09004KT BLU VTSG 240200Z 05004KT 360V150 7000 FEW020 28/25 Q1010 A2985 INFO W RWY32 KSHN 240153Z AUTO 34009KT 10SM SCT041 22/13 A3018 RMK AO2 SLP220 T02220128 VTSH 240200Z 22003KT 9000 VCSH FEW018CB SCT040 30/25 Q1010 NOSIG KRPX 240235Z AUTO 00000KT 10SM 22/06 A2997 LIPX 240220Z 30002KT CAVOK 20/17 Q1016 LIRF 240220Z 25004KT 220V280 CAVOK 22/16 Q1014 NOSIG KRQO 240235Z AUTO 15006KT CLR 30/17 A2990 RMK AO2 PWINO KSIF 240245Z AUTO 00000KT 7SM CLR 24/23 A3000 RMK AO2 T02350232 LIPY 240150Z 18003KT CAVOK 23/19 Q1016 WMBA 240200Z 09002KT 9999 FEW017CB BKN140 BKN280 26/24 Q1011 LIPZ 240220Z 28003KT 260V320 CAVOK 21/19 Q1015 NOSIG LIRI 232250Z 11002KT 9000 FEW035 24/19 Q1015 VTSK 240200Z 25004KT 9999 FEW018CB FEW100 26/23 Q1009 A2981 KSHR 240153Z AUTO 34006KT 10SM CLR 26/03 A3003 RMK AO2 SLP129 T02610028 FMMI 240230Z 00000KT 9999 BKN020 11/10 Q1025 NOSIG LIRK 240155Z AUTO 12015KT //// 15/08 Q1026 VTSM 240230Z 15004KT 9999 FEW020 29/26 Q1011 A2986 KSIK 240255Z AUTO 00000KT 10SM CLR 28/24 A2996 RMK AO2 LTG DSNT SW PWINO KSJC 240153Z 29012KT 10SM CLR 27/11 A2985 RMK AO2 SLP106 T02720111 KRRL 240235Z AUTO 31003KT 10SM -RA BKN060 OVC070 21/21 A2991 RMK AO2 P0001 T02100205 LIRM 240155Z 03005KT 9999 BKN070 24/22 Q1014 KSHV 240156Z 35004KT 10SM SCT060 SCT090 OVC280 27/24 A2995 RMK AO2 SLP137 T02670239 VTSP 240230Z VRB02KT 9000 FEW020 29/24 Q1012 A2989 NOSIG LIRN 240220Z VRB02KT CAVOK 26/17 Q1014 NOSIG VTSR 240100Z 00000KT 9999 FEW023 26/25 Q1009 A2982 LIRP 240215Z 14009KT 9999 FEW030 BKN070 22/20 Q1013 NOSIG VTSS 240230Z 09002KT 9999 FEW020 SCT100 29/26 Q1010 A2984 NOSIG LIRQ 240220Z 16003KT CAVOK 25/18 Q1014 VTST 240200Z 07003KT 8000 FEW020 27/25 Q1009 RWY08 INFO C WMAU 240200Z 25003KT 9999 FEW020 BKN280 29/25 Q//// QFF1010 LIRS 240155Z 11004KT CAVOK 32/25 Q2009 KSKA 240158Z AUTO VRB03KT 10SM CLR 25/05 A3010 RMK AO2 SLP185 T02490050 LIRT 240155Z 13005KT CAVOK 21/14 Q1020 RMK SKC MON INVIS VAL INVIS VIS MIN 9999 VTUD 240200Z 17003KT 140V230 CAVOK 26/24 Q1011 KRRT 240234Z AUTO 00000KT 10SM TS SCT022 BKN043 OVC050 22/21 A2970 RMK AO2 LTG DSNT N AND NE LIRU 231650Z 24004KT 170V300 9999 -RA SCT040 27/17 Q1014 FMMT 240200Z 00000KT -RA SCT017 BKN033 20/20 Q1020 KRSL 240153Z AUTO 16010KT 10SM CLR 33/16 A2979 RMK AO2 SLP063 T03280156 LIRV 231855Z VRB01KT 9999 FEW050 25/21 Q1016 FMNM 240200Z 14006KT CAVOK 21/16 Q1015 KTAN 240152Z AUTO 00000KT 10SM CLR 20/16 A2984 RMK AO2 SLP104 T02000156 KSJN 240154Z AUTO 22014G21KT 10SM FEW120 31/07 A3011 RMK AO2 SLP091 T03060067 TSNO KRSN 240235Z AUTO 01006KT 10SM BKN050 BKN095 28/24 A3001 RMK AO2 LTG DSNT E T02810239 FMNN 231500Z 24004KT 9999 SCT020 26/20 Q1015 LIRX 231755Z 18015KT CAVOK 26/18 Q1013 RMK BKN FEW070 BKN200 VIS MIN 9999 VIS MAR 20 KM KSKF 240158Z AUTO 13014KT 10SM FEW075 35/21 A2984 RMK AO2 SLP096 T03450211 $ KRSP 240154Z AUTO VRB05KT 10SM CLR 25/19 A3002 RMK AO2 SLP152 T02500194 $ VTUI 240200Z VRB01KT 9999 FEW010 SCT025 28/25 Q1011 KSIY 240153Z AUTO 36015KT 10SM CLR 31/00 A3003 RMK AO2 SLP157 T03110000 LIRZ 232050Z 35006KT 9999 BKN060 22/17 Q1016 VTUK 240200Z 27004KT 240V310 9999 FEW035 28/24 Q1011 NOSIG KSJS 240235Z AUTO 00000KT 10SM CLR 26/22 A3004 RMK AO2 T02610220 VTUL 240200Z VRB02KT 9999 FEW012 FEW032 26/24 Q1012 KSJT 240151Z 13004KT 10SM CLR 33/16 A2987 RMK AO2 SLP087 T03280156 KSLB 240235Z AUTO 19005KT 10SM CLR 27/25 A2980 RMK AO2 KRST 240231Z 16007KT 10SM BKN022 22/21 A2984 RMK AO2 T02220211 KTCC 240153Z AUTO 17009KT 10SM CLR 33/03 A2994 RMK AO2 SLP060 T03330033 KSLC 240154Z 35009KT 10SM FEW040 32/M04 A3001 RMK AO2 SLP099 FU FEW040 FU NW T03221044 VTUO 232330Z 19003KT 4000 BR SCT020 BKN100 24/24 Q1011 A2986 INFO X RWY 22 KRSV 240235Z AUTO 19003KT 5SM BR CLR 25/24 A2997 RMK AO2 T02460242 KRSW 240153Z AUTO 11004KT 10SM BKN035 BKN047 27/23 A3002 RMK AO2 SLP163 T02670228 KRTN 240153Z AUTO 21005KT 10SM CLR 26/09 A3014 RMK AO2 SLPNO T02610094 KRUE 240153Z AUTO 12003KT 10SM CLR 28/22 A2992 RMK AO2 SLP122 T02830222 TSNO KSLE 240156Z 05011G17KT 10SM CLR 25/11 A3013 RMK AO2 SLP200 T02500111 KTBN 240158Z AUTO 15006KT 10SM CLR 30/25 A2994 RMK AO2 SLP127 T02990245 VTUQ 240200Z AUTO VRB02KT ////NDV ////// 28/24 Q1012 A2989 KSJX 240236Z AUTO 10005KT 10SM CLR 21/19 A2993 RMK AO2 T02060189 VVCR 240230Z 09005KT CAVOK 32/24 Q1010 NOSIG GCXO 240230Z AUTO 29018G28KT 9999 SCT006/// 16/15 Q1017 KSLG 240235Z AUTO 17006KT 10SM CLR 30/21 A2997 RMK AO1 KSLH 240233Z AUTO 17003KT 10SM CLR 22/17 A2994 RMK AO2 T02280175 KTAZ 240235Z AUTO 06005KT 10SM CLR 27/25 A2995 RMK AO2 T02700254 VVCT 240230Z VRB01KT 9999 BKN015 29/25 Q1010 NOSIG KSLI 240158Z AUTO 18007KT 10SM CLR 25/19 A2980 RMK AO2 SLP094 T02450189 KTBR 240235Z AUTO 00000KT 10SM CLR 26/24 A3001 RMK AO2 T02610238 FNGI 231600Z VRB02KT CAVOK 29/M07 Q1017 VTUU 240200Z 25004KT 9999 FEW018 28/25 Q1011 A2986 NOSIG KRTS 240235Z AUTO 06009KT 10SM CLR 29/M08 A3010 RMK AO2 LJLJ 240230Z 00000KT CAVOK 16/15 Q1017 NOSIG VTUV 240100Z 34003KT 9999 FEW022 28/25 Q1011 A2985 INFO B RWY 36 KSLK 240151Z AUTO 00000KT 10SM FEW043 16/14 A2997 RMK AO2 SLP144 T01560144 LJMB 240230Z AUTO 33002KT 9999 NCD 19/18 Q1016 LIVC 240055Z 18025KT 9999 BKN001 13/08 Q1027 VVDN 240230Z VRB02KT CAVOK 34/25 Q1009 NOSIG VTUW 240230Z AUTO 30004KT 240V340 CAVOK 28/24 Q1011 A2985 KTCL 240153Z AUTO 00000KT 10SM CLR 28/27 A2998 RMK AO2 SLP148 T02830267 LIVD 231755Z 27003KT 9999 BKN030 18/17 Q1023 RMK BKN VIS MIN 9999 KTCM 240158Z AUTO 03007KT 10SM CLR 23/11 A3020 RMK AO2 SLP229 T02270111 $ LIVE 240155Z /////KT CAVOK 12/11 Q1024 RMK SKC VIS MIN 9999 KSLN 240153Z AUTO 14009KT 10SM CLR 33/21 A2980 RMK AO2 SLP072 T03330211 KSME 240235Z AUTO 00000KT 10SM CLR 25/21 A3003 RMK AO2 LIVF 240055Z 25002KT 9999 SCT030 22/17 Q1019 KTDF 240240Z AUTO 00000KT 10SM CLR 25/23 A3001 RMK AO2 KSMF 240153Z 24003KT 10SM CLR 37/08 A2977 RMK AO2 SLP079 T03670083 KSKX 240235Z AUTO 15014KT 10SM FEW065 BKN100 24/04 A3025 RMK AO1 LTG DSNT S TSE02B14E29 KSLO 240235Z AUTO 14004KT 10SM CLR 29/24 A2996 RMK AO2 T02860240 KTBX 240235Z AUTO 35014KT CLR 20/M05 A3029 RMK AO2 PWINO KRUQ 240240Z AUTO 00000KT 10SM CLR 24/22 A3001 RMK AO2 T02410224 KSLR 240235Z AUTO 14005KT 10SM CLR 28/22 A2994 RMK AO2 LTG DSNT SE T02780216 KSNA 240153Z 19012KT 9SM FEW010 FEW150 SCT220 24/18 A2980 RMK AO2 SLP089 FU FEW150 FU SCT220 T02390183 KTCS 240153Z AUTO 32019G24KT 10SM CLR 33/06 A3001 RMK AO2 PK WND 31030/0110 SLP058 T03280056 TSNO EVRA 240220Z 34003KT 8000 FEW024 BKN028 18/18 Q1019 NOSIG KTEB 240151Z 34006KT 10SM CLR 31/12 A2985 RMK AO2 SLP108 T03060117 KRUT 240156Z AUTO 05003KT 10SM FEW070 16/15 A2994 RMK AO2 SLP149 T01610150 $ KSNC 240235Z AUTO 33007G14KT 10SM CLR 27/15 A2988 RMK AO2 LKCV 240200Z 26006KT 9999 -RA NSC 19/17 Q1018 NOSIG RMK BLU BLU KSMN 240235Z AUTO 01010KT 10SM CLR 24/03 A3003 RMK AO1 LIVO 231755Z 30003KT 9999 SCT030 23/17 Q1018 RMK BKN SCT060 VIS MIN 9999 KSMO 240151Z 00000KT 10SM FU BKN120 24/19 A2980 RMK AO2 SLP089 FU BKN012 T02390194 KRWF 240153Z AUTO 16007KT 10SM CLR 28/24 A2973 RMK AO2 SLP060 T02780244 LIVP 231655Z 21006KT 9999 FEW010 13/10 Q1026 RMK SCT MON CLD SCT VAL CLD SCT VIS MIN 9999 KSMP 240156Z AUTO VRB06KT FEW018 13/08 A3025 RMK AO2 SLP238 T01280083 KSMQ 240153Z AUTO 31003KT 10SM CLR 26/18 A2986 RMK AO2 SLP111 T02560178 KSNH 240235Z AUTO 00000KT 10SM CLR 27/24 A2997 RMK A01 LIVR 232355Z 01003KT CAVOK 11/05 Q1026 RMK SKC MON LIB VIS MIN 9999 KRWI 240153Z AUTO 18003KT 10SM CLR 27/25 A2997 RMK AO2 SLP147 T02720250 $ KRVS 240153Z 00000KT 10SM CLR 30/24 A2987 RMK AO2 SLP117 T03000244 KSMS 240235Z AUTO 00000KT 10SM CLR 25/23 A2999 RMK AO2 KSOA 240235Z AUTO 16007KT 10SM CLR 33/13 A2996 RMK AO2 LIVT 240155Z 03001KT CAVOK 23/21 Q1015 RMK FEW FEW200 QUK / QUL / VIS MAR 20 KM VIS MIN 9999 KSNK 240235Z AUTO 12005KT 32/16 A2993 RMK AO2 T03160161 PWINO KRWL 240153Z AUTO 30011KT 10SM CLR 27/M11 A3018 RMK AO2 SLP102 T02721106 KSNL 240235Z AUTO 17007KT 10SM CLR 30/22 A2990 RMK AO2 T03030215 FNHU 231600Z 00000KT CAVOK 25/M01 Q1021 FMSD 240200Z VRB02KT 9999 FEW016 BKN100 21/19 Q1018 KRXE 240153Z AUTO 18010KT 10SM CLR 24/02 A3008 RMK AO2 SLP147 T02440022 KSMX 240151Z 30009KT 5SM HZ CLR 17/12 A2982 RMK AO2 SLP099 T01670117 KTDZ 240153Z AUTO 00000KT 10SM CLR 28/20 A2997 RMK AO2 SLP144 T02780200 KSPA 240235Z AUTO 00000KT 10SM CLR 25/20 A3002 RMK AO2 KSNS 240153Z 31013KT 9SM CLR 18/11 A2987 RMK AO2 SLP122 T01830111 KSNT 240151Z AUTO VRB06KT 23/M04 A3022 RMK AO1 SLP147 T02281039 KSPB 240153Z AUTO 33009KT 10SM SCT038 22/12 A3017 RMK AO2 SLP215 T02170117 KSPD 240156Z AUTO 22009KT 28/12 A2995 RMK AO1 SLP066 T02830122 $ KRWV 240235Z AUTO 00000KT 10SM CLR 30/21 A2992 RMK AO2 KTEW 240232Z AUTO 00000KT 10SM CLR 24/20 A2998 RMK AO2 T02400200 KSPF 240215Z AUTO 35009G14KT 10SM CLR 23/03 A3005 RMK AO2 KTEX 240235Z AUTO 00000KT 10SM CLR 20/03 A3043 RMK AO2 T02020025 KSNY 240153Z AUTO 12007KT 10SM CLR 24/13 A3002 RMK AO2 WSHFT 0051 RAE0054 SLP109 P0000 T02390133 KSPG 240153Z AUTO 00000KT 10SM CLR 28/24 A2999 RMK AO2 SLP155 T02830239 KSOP 240156Z AUTO 18007KT 10SM CLR 27/23 A3000 RMK AO2 SLP167 T02670228 KTFP 240235Z AUTO 15009KT 10SM SCT021 30/25 A2989 RMK AO2 T02970251 KTGI 240237Z AUTO 21009KT 10SM CLR 31/27 A2992 RMK AO1 KSPI 240152Z 16006KT 10SM CLR 29/24 A2992 RMK AO2 SLP124 T02940244 KTHA 240235Z AUTO 00000KT 10SM CLR 22/22 A3004 RMK KSPL 240235Z AUTO 16011G15KT 10SM 29/25 A2991 RMK AO1 KRYM 240156Z AUTO 15006KT 10SM OVC017 23/21 A2978 RMK AO2 LTG DSNT W SLP081 T02340212 TSNO $ KSQE 240235Z AUTO 00000KT 10SM FEW025 30/24 A2998 RMK A01 KRYN 240248Z 34008KT 10SM CLR 38/11 A2986 RMK LAST KSOW 240235Z AUTO 29003KT 5SM HZ CLR 24/11 A3023 RMK AO2 KSQI 240144Z 31003KT 10SM TSRA OVC041 24/22 A2996 RMK AO2 LTG DSNT ALQDS TSE42B44RAB0058 P0000 KSPR 240235Z AUTO 19007KT 10SM FEW027 30/25 A2996 RMK A01 KSPS 240152Z AUTO 13010KT 10SM CLR 32/21 A2986 RMK AO2 SLP094 T03220206 MBGT 240000Z 11009KT 9999 SCT015 SCT040 27/22 Q1016 FNMA 231600Z 18004KT CAVOK 25/21 Q1017 KRYT 240153Z AUTO 00000KT 10SM CLR 25/21 A2995 RMK AO2 SLP126 T02500206 $ EVVA 240220Z AUTO VRB01KT 9000 OVC033 17/16 Q1020 KSRB 240235Z AUTO 00000KT 10SM CLR 24/22 A3002 RMK KSQL 240150Z 27010KT 10SM SKC 25/10 A2986 KSRC 240156Z AUTO 00000KT 10SM SCT065 25/22 A2995 RMK AO2 SLP143 T02500217 PNO $ KRZL 240235Z AUTO 02008G14KT 10SM SCT014 BKN025 BKN030 25/24 A3000 RMK AO2 FNKU 231500Z 18010KT CAVOK 24/05 Q1019 KRYV 240235Z AUTO 14004KT 10SM -RA OVC100 21/21 A2992 RMK AO2 LTG DSNT S T02120212 KRZN 240234Z AUTO 16005KT 10SM BKN024 OVC030 22/21 A2982 RMK AO2 KSPW 240153Z AUTO 15005KT 10SM CLR 27/24 A2977 RMK AO2 SLP071 T02670244 KRYW 240235Z AUTO 11004KT 10SM CLR 31/19 A2993 RMK AO2 T03110187 KTIF 240235Z AUTO 36007KT 10SM CLR 27/14 A2996 RMK AO2 T02740138 KRYY 240158Z 00000KT 10SM BKN150 24/23 A2999 WMKA 240200Z 00000KT 9999 FEW020 SCT140 BKN280 27/26 Q1010 LJPZ 240230Z AUTO 12004KT 9999 NCD 20/19 Q1015 WMKB 240200Z 07003KT 9999 FEW017CB SCT140 BKN280 26/25 Q1010 NOSIG KRZR 240235Z AUTO 00000KT 10SM CLR 25/23 A3003 RMK A01 WMKC 240200Z 19003KT 9999 FEW017CB BKN280 29/24 Q1010 WMKD 240200Z 22006KT 170V260 9999 FEW018 BKN280 29/25 Q1010 NOSIG KRZT 240234Z AUTO 27003KT 10SM CLR 24/23 A3000 RMK AO2 KTIK 240158Z 18007KT 10SM CLR 30/23 A2989 RMK A02A SLP107 WMKE 240100Z 16002KT 8000 RA SCT020 SCT140 BKN240 27/26 Q1010 KSSC 240158Z AUTO 02003KT 7SM CLR 28/22 A2997 RMK AO2 SLP148 T02780219 $ GEML 240230Z AUTO VRB01KT 9999 SCT013/// SCT023/// SCT045/// 24/21 Q1017 FNLU 240200Z 00000KT 6000 BKN022 20/18 Q1013 NOSIG KTHV 240153Z AUTO 14003KT 10SM CLR 24/22 A2992 RMK AO2 SLP128 T02390222 KW13 240235Z AUTO 27005KT 10SM SCT060 27/21 A3003 RMK AO1 T02680206 KSSF 240153Z 15010KT 10SM SCT080 34/21 A2984 RMK AO2 SLP089 T03390206 KTIP 240215Z AUTO 15005KT 10SM CLR 28/26 A2996 RMK AO2 FNMO 231600Z 34011KT 9999 OVC010 19/17 Q1012 WMKI 240200Z 03004KT 9999 FEW007 FEW017CB BKN130 BKN280 27/23 Q1011 WMKJ 240200Z VRB02KT 9999 FEW018 BKN280 29/26 Q1010 KSRQ 240153Z AUTO 17005KT 10SM CLR 28/22 A3000 RMK AO2 SLP158 T02780222 WMKK 240230Z 13003KT 9999 FEW018 SCT140 BKN280 27/24 Q1011 NOSIG KSSI 240153Z AUTO 17008KT 10SM CLR 29/23 A3001 RMK AO2 SLP163 T02940233 $ KSRR 240235Z AUTO 13006KT 10SM 24/04 A3023 RMK AO2 WMKL 240200Z 23009KT 7000 -RA SCT008 SCT025 OVC130 25/23 Q1011 RERA WMKM 240200Z 05001KT 9999 FEW012 BKN140 27/24 Q1011 LKKB 240200Z VRB02KT 6000 -RA FEW004 BKN035 OVC080 19/19 Q1018 WMKN 240200Z 20005KT 9999 FEW018 SCT150 BKN300 29/25 Q1010 KSTC 240222Z 11004KT 10SM FEW015 SCT041 23/22 A2976 RMK AO2 T02280222 KTKC 240234Z AUTO 18005KT 10SM CLR 28/26 A2975 RMK AO2 T02780256 KW22 240235Z AUTO 00000KT 10SM 25/24 A3005 RMK AO2 PWINO WMKP 240230Z 28004KT 200V350 8000 FEW020 SCT140 BKN270 28/24 Q1011 NOSIG KTIW 240153Z 35007KT 10SM BKN050 20/11 A3021 RMK AO2 SLP227 T02000106 KSTE 240235Z AUTO 14003KT 10SM BKN080 BKN110 21/20 A2989 RMK AO2 T02070202 KUBE 240235Z AUTO 14005KT 10SM OVC005 20/19 A2984 RMK AO2 KTIX 240050Z 22010KT 7SM BKN027 27/23 A3003 RMK LAST KUAO 240153Z 03012KT 10SM CLR 23/12 A3016 RMK AO2 SLP213 T02330117 LLBG 240220Z 19005KT 9999 FEW035 24/18 Q1006 NOSIG KTKI 240153Z 14006KT 10SM CLR 32/22 A2990 RMK AO2 SLP117 T03220222 KSTJ 240153Z AUTO 18007KT 10SM CLR 29/23 A2982 RMK AO2 SLP087 T02940233 $ KSUA 240235Z AUTO 15003KT 10SM CLR 28/23 A3005 RMK AO2 LTG DSNT SW KW29 240230Z AUTO 19003KT 10SM CLR 25/23 A2990 RMK AO2 KSTK 240230Z AUTO 07003KT 10SM CLR 26/12 A2998 RMK AO2 LTG DSNT W KSTL 240151Z 16009KT 10SM FEW250 32/23 A2993 RMK AO2 SLP119 T03220233 KW31 240235Z AUTO 00000KT 10SM CLR 25/25 A2997 RMK AO1 T02500249 KSUE 240156Z AUTO 12008KT 10SM -RA FEW080 BKN100 23/18 A2991 RMK AO2 RAB40 SLP139 P0000 T02280183 KSTP 240153Z 11005KT 10SM CLR 23/22 A2978 RMK AO2 SLP078 T02330217 KTLH 240153Z 00000KT 10SM CLR 28/24 A2999 RMK AO2 SLP150 T02780244 $ VVNB 240230Z 05006KT 7000 SCT013 29/24 Q1009 NOSIG KSTS 240153Z 17007KT 9SM CLR 28/12 A2980 RMK AO2 SLP086 T02830117 KTMA 240235Z AUTO 00000KT 10SM CLR 27/23 A3001 RMK AO2 T02710225 KTMB 240153Z 03006KT 10SM -RA FEW060 SCT085 23/20 A3004 RMK AO2 RAE16B51 SLP173 P0000 T02280200 KSVC 240235Z AUTO 31011KT 10SM CLR 26/08 A3010 RMK AO2 LTG DSNT NW T02600079 KTKV 240235Z AUTO 13003KT 3SM -RA SCT014 BKN048 OVC055 20/19 A2991 RMK AO2 T02000190 LKKV 240200Z 10002KT 7000 BKN036 16/16 Q1019 FOGM 231500Z /////KT 9999 FEW011 BKN040 29/22 Q//// LKLN 240244Z AUTO VRB03KT 9999 -RA BKN016 OVC025 18/17 Q1019 RERA KSUN 240147Z 22010KT 10SM FEW180 26/M02 A3010 KTME 240235Z AUTO 17006KT 10SM CLR 29/24 A2992 RMK AO2 KW43 240235Z AUTO 03007KT 10SM CLR 24/01 A3007 RMK AO2 KTKX 240235Z AUTO 10SM TS FEW039 FEW045 SCT075 28/26 A2995 RMK AO2 LTG DSNT SE AND S FOGO 231500Z 00000KT 9999 SCT010 BKN030 26/21 Q//// KUCP 240156Z AUTO 05003KT 10SM CLR 25/17 A3001 RMK AO2 SLP167 T02500172 PNO $ KUDG 240156Z AUTO 00000KT 10SM CLR 27/25 A2999 RMK AO2 SLP159 T02720250 KSVH 240240Z AUTO 00000KT 10SM CLR 24/23 A3001 RMK AO2 T02390227 FOGR 231500Z 26006KT 9999 SCT009 OVC026 26/22 Q//// KSUS 240154Z 14004KT 10SM FEW150 SCT250 31/24 A2991 RMK AO2 SLP119 T03060244 LKNA 240221Z 35004KT 310V050 9999 -RA BKN047 OVC110 18/16 Q1018 RETS RMK BLU KSUT 240240Z AUTO 00000KT 10SM SCT019 SCT025 28/24 A3001 RMK AO2 T02750240 KTMK 240235Z AUTO 30013KT 10SM CLR 18/13 A3020 RMK AO2 KTNB 240235Z AUTO 00000KT 10SM CLR A3018 RMK AO2 KSUU 240158Z AUTO 24012KT 10SM CLR 34/08 A2978 RMK AO2 SLP091 T03350078 PWINO PNO $ KSVN 240158Z AUTO 16004KT 10SM FEW230 28/25 A2999 RMK AO2 SLP158 T02800249 KSUW 240235Z AUTO 06004KT 10SM SCT009 OVC027 17/16 A2982 RMK AO2 T01710160 KSUX 240152Z AUTO 16007KT 10SM CLR 30/25 A2975 RMK AO2 SLP064 T03000250 $ KSWF 240245Z 00000KT 10SM SKC 24/16 A2992 KUCY 240235Z AUTO 00000KT 10SM CLR 27/26 A2996 RMK VVPB 240230Z 12003KT CAVOK 36/26 Q1010 NOSIG FNSA 231500Z 00000KT CAVOK 31/05 Q1018 KTOB 240234Z AUTO 14007KT 10SM OVC012 23/21 A2983 RMK AO2 LKMT 240230Z 18002KT CAVOK 16/14 Q1018 NOSIG KTOC 240235Z AUTO 00000KT 10SM CLR 26/24 A3003 RMK AO2 T02600240 KW63 240235Z AUTO 00000KT 10SM CLR 26/26 A2997 RMK AO1 KSWO 240153Z AUTO 15010KT 10SM CLR 33/19 A2986 RMK AO2 SLP096 T03280194 TSNO KTOI 240153Z AUTO 00000KT 10SM CLR 27/24 A2999 RMK AO2 SLP151 T02670244 KTPA 240153Z 24004KT 10SM FEW025TCU SCT050 BKN250 28/24 A3001 RMK AO2 SLP163 TCU N T02830239 KUES 240235Z AUTO 15003KT 7SM RA SCT043 BKN050 OVC075 20/19 A2995 RMK AO2 P0005 LLET 240230Z 34008KT CAVOK 27/16 Q1006 KTOL 240152Z 00000KT 10SM CLR 27/23 A2997 RMK AO2 SLP142 T02670233 KTNU 240235Z AUTO 17006KT 10SM CLR 27/26 A2983 RMK AO2 PWINO LKPD 240200Z VRB02KT CAVOK 19/15 Q1017 RMK BLU KSWW 240235Z AUTO 12006KT 10SM CLR 31/15 A2996 RMK AO2 T03070152 VVPQ 240230Z VRB03KT 9999 SCT015 31/26 Q1010 NOSIG KSYF 240235Z AUTO 08006KT 10SM CLR 25/13 A2993 RMK AO2 T02530131 KTPF 240235Z AUTO 00000KT 10SM CLR 29/26 A3003 RMK AO2 KTOP 240153Z AUTO 16007KT 10SM 31/22 A2983 RMK AO2 SLP089 T03060222 $ KW75 240235Z AUTO 20003KT 10SM CLR 28/25 A2993 RMK AO1 T02840254 KTPH 240156Z AUTO 34009KT 10SM CLR 34/M13 A3005 RMK AO2 SLP084 T03441133 KTOR 240207Z AUTO 12010KT 10SM CLR 28/05 A2998 RMK AO2 WSHFT 0147 T02780050 TSNO KSYI 240235Z AUTO 00000KT 10SM CLR 23/23 A3003 RMK LLHA 231850Z 27005KT 9999 SCT029 27/20 Q1008 KSXS 240156Z AUTO 19005KT 10SM CLR 27/23 A3001 RMK AO2 SLP160 T02690225 KW78 240235Z AUTO 00000KT 10SM CLR 26/25 A2997 RMK AO1 T02580250 KSXT 240156Z AUTO 34008G17KT 290V010 10SM CLR 20/06 A3016 RMK AO2 SLP173 T02000061 FNUB 231700Z 15006KT CAVOK 22/M06 Q1023 KTPL 240151Z AUTO 14007KT 10SM CLR 33/21 A2989 RMK AO2 SLP119 T03280206 KW81 240235Z AUTO 00000KT 10SM CLR 25/25 A2997 RMK AO1 T02500250 FNSU 231100Z 30005KT 9999 OVC010 23/// Q1018 KSYM 240230Z AUTO 00000KT 10SM CLR 27/23 A3004 RMK AO2 KTQE 240154Z AUTO 16004KT 10SM CLR 29/26 A2976 RMK AO2 SLP062 T02890256 KUGN 240238Z AUTO 17007KT 7SM VCTS -RA FEW048 BKN100 22/21 A2997 RMK AO2 LTG DSNT ALQDS TSE32 P0026 T02170206 KSYN 240225Z AUTO 14005KT 10SM BKN024 OVC028 24/21 A2978 RMK AO2 FNUG 231500Z 24010KT 9999 FEW020 27/17 Q1013 WMSA 240200Z 10004KT 9999 FEW018 BKN140 26/23 Q1011 KTQH 240235Z AUTO 00000KT 10SM CLR 28/22 A2993 RMK AO2 KSYR 240154Z 31009KT 10SM FEW080 FEW150 25/15 A2991 RMK AO2 SLP121 T02500150 LKPR 240230Z VRB02KT 4500 BR SCT024 18/18 Q1018 NOSIG LLIB 231550Z 30012KT 9999 FEW030 27/20 Q1008 KSZL 240158Z AUTO 18005KT 10SM CLR 29/25 A2988 RMK AO2 SLP111 T02860248 $ MBPV 240000Z 13010KT 9999 SCT015 29/24 Q1015 GFLL 231500Z 27004KT 9000 -RA BKN010 FEW026CB 26/24 Q1013 RMK CB-NNE KW96 240235Z AUTO 00000KT 10SM CLR 27/26 A2994 RMK AO1 T02680257 KTRI 240153Z 19004KT 10SM SCT027 BKN070 26/20 A3005 RMK AO2 SLP146 T02560200 MDAB 232200Z 13006KT 9999 SCT020 30/26 Q1015 KSZT 240235Z AUTO 00000KT 10SM CLR 20/11 A3011 RMK AO2 KTRK 240235Z AUTO 27008KT 10SM CLR 26/M01 A3019 RMK AO2 KW99 240235Z AUTO 00000KT 10SM CLR 26/22 A2999 RMK AO2 T02570219 KTRL 240153Z AUTO 11007KT 10SM CLR 33/22 A2992 RMK AO2 SLP122 T03280217 KUIL 240153Z AUTO 29009KT 10SM CLR 18/12 A3024 RMK AO2 SLP241 T01780117 KTRM 240152Z AUTO 15005KT 10SM CLR 41/14 A2962 RMK AO2 SLP032 T04110144 TSNO KVAD 240158Z AUTO 22005KT 10SM CLR 29/22 A3000 RMK AO2 SLP159 T02860216 $ KUIN 240154Z AUTO 16006KT 10SM CLR 29/26 A2989 RMK AO2 SLP113 T02940256 KVAF 240235Z AUTO 17008KT 10SM FEW026 FEW120 30/24 A2995 RMK A01 KTTA 240245Z AUTO 00000KT 10SM CLR 24/22 A2999 RMK AO2 T02440220 LKTB 240230Z 07006KT 020V090 9999 -SHRA VCTS FEW030CB 20/14 Q1016 NOSIG FOOB 231500Z /////KT 9999 BKN020TCU FEW023CB 28/22 Q1009 KTTD 240153Z VRB05KT 10SM CLR 23/12 A3015 RMK AO2 SLP210 T02280117 KTTF 240232Z AUTO 10004KT 10SM CLR 25/22 A2998 RMK AO2 T02530221 KUKF 240235Z AUTO 00000KT 10SM CLR 25/22 A3008 RMK AO2 KTSP 240235Z AUTO 30012KT 10SM CLR 25/04 A3006 RMK AO2 KVBG 240158Z AUTO 32009KT 6SM HZ CLR 15/12 A2983 RMK AO2 SLP104 T01510117 TSNO MDBH 232300Z 13010KT 9999 FEW022CB FEW025 31/23 Q1014 CB/NW/N FOOG 232300Z /////KT 9999 SCT008 24/22 Q1014 VVTS 240230Z VRB02KT 9999 FEW017 30/24 Q1009 NOSIG KUKI 240156Z AUTO 01009KT 10SM CLR 32/07 A2986 RMK AO2 SLP105 T03220067 KVCB 240153Z AUTO 20006KT 10SM CLR 37/08 A2980 RMK AO2 SLP088 T03670083 FOOK 231500Z VRB02KT 9999 OVC013 25/22 Q1012 FOOL 240100Z 16006KT 130V190 9999 SCT011 25/22 Q1013 NOSIG KTTN 240153Z AUTO 27004KT 10SM FEW090 28/19 A2988 RMK AO2 SLP110 T02780194 FOON 232000Z /////KT 9999 SCT013 23/21 Q1015 KVAY 240154Z AUTO 00000KT 10SM FEW110 24/22 A2988 RMK AO2 SLP119 T02390222 TSNO KVBS 240235Z AUTO 00000G10KT 10SM CLR 30/26 A2994 RMK A01 FOOR 231500Z ///// KT 9999 BKN008 27/22 Q//// KTTS 240158Z AUTO 19003KT 10SM SCT024 27/24 A3002 RMK AO2 SLP170 T02740237 $ KVBT 240235Z AUTO 00000KT 10SM CLR 30/22 A2997 RMK AO1 KUKT 240235Z AUTO 00000KT 10SM FEW100 25/20 A2993 RMK AO1 FOOT 231500Z 27010KT 8000 SCT012 29/20 Q1012 KTUL 240153Z 16006KT 10SM FEW150 FEW250 34/22 A2987 RMK AO2 SLP105 T03440217 KTVC 240153Z 00000KT 10SM SCT130 OVC200 24/19 A2991 RMK AO2 SLP124 LAST AUGMENTED OBS OF DAY UNTIL 11Z T02440189 KULM 240234Z AUTO 14007KT 10SM CLR 26/25 A2975 RMK AO2 KVBW 240235Z AUTO 00000KT 3SM SCT065 23/22 A3000 RMK AO2 T02250222 KVDF 240235Z AUTO 00000KT 10SM CLR 26/23 A3004 RMK AO2 KTVF 240235Z AUTO 27007KT 10SM FEW004 BKN026 OVC037 22/21 A2973 RMK AO2 KTUP 240153Z AUTO 00000KT 10SM CLR 27/24 A2999 RMK AO2 SLP149 T02670239 $ KTVI 240235Z AUTO 00000KT 10SM 26/26 A3002 RMK AO2 RJAA 240230Z 03008KT 350V080 9999 FEW020 BKN025 BKN/// 25/19 Q1015 NOSIG RMK 1CU020 5CU025 A2997 KVDI 240235Z AUTO 00000KT 10SM CLR 26/21 A3001 RMK AO2 KTUS 240153Z 35012KT 10SM CLR 39/11 A2987 RMK AO2 SLP055 T03890106 KVCT 240151Z 16009KT 10SM CLR 29/23 A2989 RMK AO2 SLP118 T02940233 KTVK 240235Z AUTO 00000KT 10SM CLR 27/24 A2988 RMK AO2 KTVL 240153Z AUTO 00000KT 10SM CLR 25/M03 A3020 RMK AO2 SLP181 T02501028 KVCV 240235Z AUTO 27009KT 5SM HZ SCT065 36/01 A2989 RMK AO2 RJAF 240200Z 05004KT 010V160 9999 FEW040 SCT180 28/16 Q1016 KTWF 240153Z 28014G20KT 10SM CLR 26/M03 A3009 RMK AO2 SLP135 T02611028 MDCY 232300Z 04010KT 9999 FEW018 28/25 Q1014 RJAH 240220Z 07011KT 9999 FEW015 SCT025 26/17 Q1015 RMK 1CU015 4CU025 A2997 KTVR 240153Z AUTO 19003KT 10SM CLR 27/23 A2996 RMK AO2 LTG DSNT W SLP150 T02720233 RJBB 240230Z 26007KT 230V300 9999 FEW020 BKN/// 29/21 Q1014 NOSIG KX60 240235Z AUTO 00000KT 10SM CLR 27/23 A3004 RMK AO1 TSNO RJBD 240200Z VRB05KT 9999 FEW020 BKN070 BKN/// 28/21 Q1014 KVEL 240153Z AUTO 24006KT 10SM CLR 32/M01 A3002 RMK AO2 SLP085 T03221011 SABE 240200Z 20003KT CAVOK 12/09 Q1017 RJBE 240200Z 13003KT 9999 FEW020 BKN045 BKN/// 27/23 Q1013 KTWM 240234Z AUTO 05003KT 10SM CLR 20/16 A2982 RMK AO2 KUNO 240153Z AUTO 00000KT 10SM CLR 28/21 A2998 RMK AO2 SLP136 T02830211 SAAR 240200Z 09003KT 6000 NSC 08/08 Q1016 KVER 240235Z AUTO 15004KT 10SM CLR 28/25 A2990 RMK AO2 T02810245 RJCB 240200Z 13005KT 110V170 9999 FEW009 BKN011 BKN013 17/14 Q1019 KVES 240235Z AUTO 00000KT 10SM CLR 23/23 A3002 RMK AO2 RJCC 240230Z 18014KT 9999 FEW010 BKN016 19/15 Q1018 RMK 1ST010 7ST016 A3008 EYKA 240220Z VRB02KT 9000 NSC 16/15 Q1019 KTXK 240246Z 10004KT 5SM BR FEW004 24/23 A2996 RMK AO2 T02390233 KUNU 240235Z AUTO 13008KT 10SM -RA SCT050 SCT070 BKN095 21/20 A2994 RMK AO2 LTG DSNT S P0003 T02100202 RJAW 240200Z 08011KT 050V120 9999 FEW010 BKN230 30/23 Q1010 RMK 1CU010 A2984 KUNV 240235Z AUTO 34005KT 10SM CLR 26/13 A3000 RMK AO2 T02630125 RJCH 240200Z 13014KT 9999 -DZ FEW005 BKN010 BKN015 20/17 Q1018 RJCK 240200Z 16004KT 120V200 9999 FEW005 SCT007 BKN009 15/13 Q1020 RJBT 240200Z 20004KT 150V310 9999 FEW035 BKN/// 30/24 Q1013 RJDC 240200Z 08011KT 9999 FEW020 SCT160 BKN/// 28/24 Q1012 RJCM 240200Z 18008KT 150V210 9999 FEW008 24/17 Q1017 RJCN 240200Z 18005KT 9999 FEW006 BKN007 BKN008 15/14 Q1020 SADF 240200Z 00000KT 5000 MIFG BR NSC 08/08 Q1016 SACO 240200Z 25006KT 9000 NSC 08/05 Q1019 KUOX 240235Z AUTO 14003KT 10SM CLR 25/23 A3001 RMK AO2 KTYQ 240235Z AUTO 00000KT 10SM SCT042 25/24 A3002 RMK AO2 T02480240 FQCH 240200Z VRB02KT CAVOK 15/13 Q1019 KTYR 240153Z 06012KT 10SM SCT060 30/22 A2995 RMK AO2 PK WND 05027/0129 LTG DSNT NE AND E SLP134 T03000217 RJEB 240200Z 07005KT 020V110 9999 FEW040 21/16 Q1017 FQBR 232200Z /////KT CAVOK 19/18 Q1015 KTYS 240153Z 21006KT 10SM CLR 24/22 A3001 RMK AO2 SLP150 T02390217 $ RJEC 240200Z VRB03KT 9999 FEW030 25/17 Q1017 KVGT 240153Z 24012KT 10SM CLR 43/01 A2973 RMK AO2 SLP049 T04280011 RJCW 240200Z 34008KT 9999 FEW025 21/18 Q1016 KVIH 240153Z AUTO 13005KT 10SM CLR 29/25 A2993 RMK AO2 SLP119 T02940250 KTZR 240235Z AUTO 00000KT 10SM CLR 25/23 A3002 RMK AO2 T02500232 RJDT 240200Z 17007KT 130V200 9999 FEW010 SCT035 BKN/// 28/25 Q1012 MDJB 232300Z 00000KT 9999 SCT020 SCT300 30/23 Q1015 LLSD 240150Z VRB02KT 9999 FEW030 25/19 Q1006 RJFF 240230Z 31005KT 260V350 9999 FEW020 BKN/// 33/21 Q1011 RMK 1CU020 A2986 KUSE 240235Z AUTO 00000KT 10SM CLR 26/22 A2999 RMK AO2 RJFG 240200Z 10006KT 040V130 9999 FEW010 SCT015 BKN/// 28/22 Q1013 KVJI 240235Z AUTO 00000KT 10SM CLR 25/21 A3009 RMK AO2 T02530212 RJFK 240200Z 12004KT 030V150 9999 FEW030 BKN050 BKN/// 29/22 Q1013 RMK 1CU030 5SC050 A2993 KUTA 240235Z AUTO 15003KT 10SM CLR 26/23 A2997 RMK AO2 TSNO KVIS 240156Z AUTO 28008KT 10SM CLR 34/16 A2979 RMK AO2 SLP091 T03390156 KY19 240235Z AUTO 31009KT 10SM CLR 22/13 A2987 RMK AO2 RJFM 240232Z 04003KT 330V070 5000 R27/1400VP1800U -SHRA BR FEW010 SCT015 BKN020 27/26 Q1012 RMK 1ST010 3CU015 5CU020 A2990 KWAL 240154Z AUTO 20006KT 10SM CLR 27/25 A2992 RMK AO2 RAB15E46 SLP129 P0000 T02720250 RJFO 240200Z 09004KT 9999 FEW025 BKN/// 27/25 Q1013 KY23 240235Z AUTO 13005KT 10SM SCT005 OVC050 21/21 A2984 RMK AO2 T02060205 RJGG 240230Z 18009KT 9999 FEW020 BKN/// 26/19 Q1014 NOSIG SAEZ 240200Z 18006KT 150V210 CAVOK 10/07 Q1017 RJFR 240200Z 08009KT 050V110 9999 FEW015 BKN/// 29/25 Q1012 RJFS 240200Z 20005KT 9999 FEW020 SCT/// 30/25 Q1011 RJFT 240239Z VRB03KT 9999 FEW035 SCT070 BKN/// 33/24 Q1012 RMK 2CU035 4AC070 A2990 RJFU 240200Z 01004KT 9999 FEW030 BKN/// 31/22 Q1011 EYPA 240251Z AUTO VRB01KT 9999 OVC038/// 17/17 Q1020 KVLD 240153Z AUTO 00000KT 10SM CLR 26/23 A2999 RMK AO2 SLP162 T02610233 RJFY 240233Z 08013KT 9000 SHRA FEW010 BKN020 FEW020TCU 27/24 Q1012 RMK 2CU010 7CU020 1TCU020 A2990 TCU OHD MOV W KUTS 240153Z AUTO 00000KT 10SM CLR 33/23 A2990 RMK AO2 SLP120 T03280228 KUVA 240235Z AUTO 09005KT 10SM CLR 31/18 A2986 RMK AO2 T03090181 KVKS 240240Z AUTO 00000KT 10SM CLR 26/23 A2997 RMK A01 KVLL 240235Z AUTO 12004KT 10SM CLR 28/13 A3002 RMK AO2 T02820133 GGOV 240200Z 00000KT 8000 SCT014 25/24 Q1012 NOSIG KVKY 240235Z AUTO VRB04KT 10SM BKN026 BKN090 29/24 A2999 RMK A01 KWDG 240235Z AUTO 16009KT 10SM CLR 31/17 A2986 RMK AO2 MDLR 240200Z 07010KT 9999 FEW018 26/24 Q1015 KY50 240156Z AUTO 16008KT 10SM OVC110 22/21 A2989 RMK AO2 RAB25E38 SLP132 P0000 T02220211 KY49 240235Z AUTO 15004KT 10SM SCT033 BKN045 OVC060 22/20 A2976 RMK AO2 LTG DSNT N T02200195 LMML 240215Z AUTO 27005KT CAVOK 23/19 Q1015 KUUU 240153Z AUTO 01007KT 10SM CLR 25/14 A2984 RMK AO2 SLP100 T02500144 KY51 240235Z AUTO 14007KT 10SM SCT004 SCT043 21/21 A2987 RMK AO1 T02070207 SBAF 240200Z 09004KT CAVOK 19/17 Q1022 RJKA 240200Z 04010KT 9999 FEW020 SCT/// 32/25 Q1010 KWDR 240235Z AUTO 00000KT 10SM CLR 25/23 A3005 RMK AO1 KVOA 240235Z AUTO 16005KT 10SM BKN023 BKN029 30/24 A2998 RMK A01 EYSA 240220Z 33004KT 7000 OVC046 16/15 Q1020 BLU NOSIG SBAN 240200Z 07007KT CAVOK 20/12 Q1023 SBBE 240200Z 07009KT CAVOK 26/23 Q1014 KY63 240237Z AUTO 10010KT 10SM BKN041 BKN080 24/23 A2972 RMK AO2 LTG DSNT ALQS T02410230 FQIN 231300Z 07013KT CAVOK 25/21 Q1016 SBBH 240200Z 10005KT CAVOK 17/12 Q1025 SBBI 240100Z 32002KT 7000 FEW003 11/10 Q1022 SBAR 240200Z 13012KT 9999 SCT020 26/19 Q1018 SBCA 231730Z 04014KT CAVOK 19/10 Q1019 SBAT 232145Z 00000KT CAVOK ///// Q1011 SBCB 232100Z 08010KT CAVOK 22/19 Q1022 SBCC 232000Z 10012KT CAVOK 34/09 Q1013 KVOK 240158Z AUTO 14008KT 10SM FEW090 22/21 A2985 RMK AO2 SLP106 P0001 T02170209 KY70 240233Z AUTO 16003KT 10SM CLR 25/19 A2996 RMK AO2 T02540192 MDPC 240200Z 06015KT 9999 FEW018 28/24 Q1016 NOSIG KVPC 240153Z AUTO 00000KT 9SM CLR 24/23 A3002 RMK AO2 SLP151 T02390233 KUXL 240235Z AUTO 00000KT 10SM CLR 29/25 A2994 RMK AO2 T02860250 PWINO SBCF 240200Z 12006KT CAVOK 16/12 Q1025 SBCG 240200Z 06007KT CAVOK 17/10 Q1018 KUYF 240235Z AUTO 27003KT 10SM CLR 25/25 A3002 RMK AO2 SBBQ 232300Z 08003KT 6000 SCT008 14/13 Q1027 SBCH 240200Z 00000KT CAVOK 15/10 Q1018 KVNY 240151Z 12007KT 10SM FU BKN110 27/16 A2981 RMK AO2 SLP084 T02720161 SBBR 240200Z 09008KT CAVOK 18/12 Q1023 SBCJ 232130Z 09003KT CAVOK 25/16 Q1015 KUZA 240154Z AUTO 22003KT 10SM CLR 25/22 A3001 RMK AO2 SLP149 T02500217 SBBU 240200Z 08008KT CAVOK 19/15 Q1020 SBCM 231945Z 24007KT 9000 SCT040 21/12 Q1016 FPST 240000Z 23002KT 9999 FEW020 BKN110 25/23 Q1014 NOSIG SBBV 240200Z 00000KT 9999 SCT030 FEW035TCU BKN100 26/23 Q1014 SBBW 240030Z 00000KT CAVOK 22/12 Q1016 FQLC 240200Z 09006KT 9999 BKN080 13/11 Q1021 SAME 240200Z 14003KT CAVOK 11/05 Q1017 SBCO 240200Z 00000KT 8000 NSC 13/11 Q1017 SBCP 240200Z 00000KT 9999 FEW020 BKN080 22/20 Q1024 MDPP 240000Z 12010KT 9999 FEW020 27/24 Q1015 NOSIG SBCR 240200Z 14005KT CAVOK 23/15 Q1014 SBCT 240200Z 02003KT 0300 R15/0300 R33/0300 FG VV001 10/10 Q102 2 KVPS 240155Z 19001KT 10SM FEW025 SCT150 BKN230 29/23 A2998 RMK AO2A SLP158 T02850229 $ KVRB 240153Z 10006KT 10SM SCT075 SCT090 28/23 A3003 RMK AO2 SLP167 T02830228 FQMA 240200Z 19015KT 9999 BKN025 17/15 Q1021 NOSIG SBDN 240200Z 12008KT CAVOK 18/11 Q1019 RJNG 232014Z 08003KT 9999 SCT020 BKN035 BKN050 23/20 Q1014 RMK 3CU020 6CU035 7SC050 A2996 SBEG 240200Z 36002KT 9999 FEW015 SCT100 24/23 Q1013 SBCY 240200Z 23005KT CAVOK ///// Q1013 KWHP 240250Z 13005KT 10SM SCT030 27/16 A2986 RMK LAST SBCZ 240200Z 00000KT CAVOK 24/23 Q1012 KVQQ 240235Z AUTO 00000KT 10SM CLR 26/23 A3003 RMK AO2 PWINO KVPZ 240156Z AUTO 05011G20KT 10SM FEW042 FEW065 FEW080 24/21 A2999 RMK AO2 PK WND 32026/0117 LTG DSNT ALQDS RAB41E52 SLP149 P0000 T02390206 RJOA 240200Z 17004KT 120V250 9999 FEW015 SCT025 BKN/// 27/21 Q1014 RJNK 240200Z 22009KT 9999 FEW020 SCT060 BKN250 31/17 Q1012 RJOB 240200Z 10004KT 050V180 9999 FEW015 SCT025 BKN/// 29/23 Q1014 EYVI 240220Z 34003KT 5000 BR MIFG SCT003 15/15 Q1019 NOSIG RJOC 240200Z 29003KT 240V310 9999 FEW030 SCT180 OVC/// 31/24 Q1012 SAOC 240200Z 23005KT CAVOK 10/07 Q1018 KVQT 240235Z AUTO 00000KT 10SM CLR 30/24 A2997 RMK A01 MDSD 240200Z 00000KT 9999 FEW018 25/23 Q1015 RJOF 232345Z 08008KT 9999 FEW025 BKN180 28/22 Q1012 RMK 2CU025 5AC180 A2991 KVSF 240154Z AUTO 00000KT 10SM CLR 17/16 A2991 RMK AO2 SLP124 T01720156 TSNO $ KWJF 240156Z 27023KT 10SM FEW030 FEW110 36/M01 A2986 RMK AO2 PK WND 27028/0115 SLP084 T03561011 RJOH 240200Z 26005KT 230V310 9999 FEW040 BKN250 31/19 Q1012 SBFI 240200Z 05005KT CAVOK 14/14 Q1016 RJOI 240155Z 18004KT 9999 FEW025 BKN050 OVC120 30/25 A2993 RMK SLP133 T03000250 SBES 232100Z 07014KT 9999 FEW025 21/16 Q1022 RJNS 240200Z 14006KT 120V180 9999 FEW015 SCT020 BKN030 24/19 Q1015 RJOK 240211Z 13004KT 100V160 5000 -SHRA BR FEW005 SCT015 BKN020 24/23 Q1014 RMK 1ST005 3CU015 5CU020 A2996 RJNT 240200Z VRB04KT 9999 FEW030 BKN/// 32/19 Q1012 KVTA 240154Z AUTO 00000KT 10SM CLR 26/24 A2999 RMK AO2 SLP147 T02560239 SANT 240200Z 32008KT 6000 NSC 11/10 Q1014 SBFL 240200Z 34007KT 9999 SCT030 16/14 Q1019 RJOM 240200Z 33007KT 9999 FEW025 SCT070 BKN/// 27/22 Q1012 SBFN 232200Z 14011KT 9999 BKN021 25/23 Q1015 RJNW 240200Z 25011KT 9999 FEW025 BKN/// 29/22 Q1014 LOAN 231900Z VRB02KT 20KM FEW040CU SCT300CI RMK SCT RJOO 240200Z VRB03KT 9999 FEW025 BKN050 29/19 Q1013 RMK 1CU025 6SC050 A2994 RJNY 230520Z 14007KT 9999 FEW025 BKN040 BKN250 26/19 Q1012 RMK 1CU025 5SC040 A2990 FQNP 240100Z /////KT 9999 BKN020 18/18 Q1017 RJOR 240200Z 35003KT 280V040 9999 FEW035 SCT150 BKN/// 31/20 Q1012 SBFS 232100Z /////KT 9999 FEW015 BKN080 ///// Q//// KVTI 240235Z AUTO 13006KT 10SM CLR 24/22 A2984 RMK AO2 RJOT 240200Z 07006KT 030V110 9999 FEW020 SCT035 BKN/// 29/23 Q1014 VYMD 240230Z 16010KT 6000 BKN018 FEW020CB OVC100 28/25 Q1010 SBGL 240200Z 11003KT CAVOK 19/16 Q1021 MDST 240200Z 15006KT 9999 FEW020 26/22 Q1016 SBGM 232000Z 19006KT CAVOK 34/19 Q1011 FQPB 240200Z 24006KT 9999 FEW020 SCT100 19/18 Q1019 LOAV 231800Z 09005KT 25KM SCT120AC BKN300CI 26/17 RMK BKN RJOW 240200Z VRB03KT 9999 FEW030 BKN100 BKN140 29/24 Q1012 KWLD 240154Z AUTO 15012KT 10SM CLR 32/20 A2986 RMK AO2 SLP094 T03220200 $ KVTN 240152Z AUTO 36009KT 10SM CLR 29/11 A2991 RMK AO2 SLP103 T02890106 SBGO 240200Z 06008KT CAVOK 25/10 Q1020 RJOY 240200Z 26003KT 220V330 9999 FEW025 BKN045 29/19 Q1013 SBFZ 240200Z 10008KT CAVOK 27/23 Q1014 KVTP 240231Z AUTO 00000KT 10SM CLR 16/02 A3051 RMK AO2 KXBP 240235Z AUTO 14005KT 10SM CLR 30/21 A2992 RMK AO2 T03000210 SBGR 240200Z 08008KT 8000 NSC 15/14 Q1022 KVUJ 240235Z AUTO 00000KT 10SM CLR 25/23 A3005 RMK AO2 T02450234 SARC 240200Z 09002KT 8000 NSC 15/13 Q1014 KWMC 240156Z AUTO 32006KT 10SM CLR 32/M07 A3005 RMK AO2 SLP126 T03171067 SBGW 232300Z 08002KT CAVOK 18/14 Q1022 SARE 240200Z 11002KT 8000 NSC 14/12 Q1014 SARF 240200Z 05004KT CAVOK 19/15 Q1014 KVUO 240153Z AUTO 32011G16KT 10SM CLR 22/12 A3017 RMK AO2 SLP215 T02220117 SBIH 240015Z 00000KT 9999 FEW018 FEW022TCU 26/23 Q1011 KVVG 240235Z AUTO 10SM 24/22 A2995 RMK A01 SARI 240200Z 05004KT 9000 NSC 14/14 Q1018 SASA 240200Z 27003KT CAVOK 12/06 Q1017 RJSA 240200Z VRB05KT 9999 FEW015 24/16 Q1015 SBHT 240200Z 00000KT CAVOK 22/22 Q1014 RKJB 240200Z 18007KT 9999 SCT025 BKN180 31/26 Q1011 NOSIG SBIL 240100Z 19004KT 7000 -RA FEW015 SCT020 FEW040TCU 22/21 Q1021 RERA RJSC 240200Z VRB04KT 9999 FEW020 SCT035 25/15 Q1015 SARL 240200Z 20002KT 0100 FG NSC 13/12 Q1015 SBJF 232100Z 09004KT 9999 FEW020 15/14 Q1024 RJSF 240200Z 33006KT 290V010 9999 FEW020 SCT040 23/18 Q1016 SBIP 232130Z 28003KT CAVOK 19/17 Q1022 SARP 240200Z 09003KT CAVOK 18/15 Q1016 RJSH 240042Z 09011KT 9999 FEW005 SCT008 BKN010 20/17 Q1017 RMK 1ST005 4ST008 7ST010 A3005 RJSI 240200Z 20006KT 110V270 9999 FEW020 SCT030 BKN040 25/18 Q1016 SASJ 240200Z 32005T CAVOK 11/07 Q1016 SCBA 240200Z AUTO 00000KT CAVOK M05/M07 Q1020 RJSK 240200Z 13009KT 090V170 9999 FEW020 27/16 Q1014 RKJK 240158Z AUTO 20009KT 10SM FEW023 31/25 A2986 RMK AO2 SLP115 T03060249 $ HAAB 232100Z 00000KT 9999 BKN025 15/13 Q1025 RJSN 240200Z VRB03KT 9999 FEW030 SCT050 29/18 Q1013 KVVV 240234Z AUTO 13007KT 10SM -TSRA SCT022 SCT042 SCT080 26/24 A2971 RMK AO2 LTG DSNT W THRU NE RJSO 240007Z 10005KT 060V140 9999 FEW010 SCT012 BKN015 18/16 Q1018 RMK 1ST010 4ST012 7SC015 A3006 RJTF 240200Z 33004KT 280V010 9999 FEW025 SCT030 BKN/// 26/17 Q1015 SBKG 240215Z 15003KT 120V190 CAVOK 20/16 Q1019 SCAP 240200Z AUTO 03003KT 5000 // NSC M02/M02 Q1027 SBJP 240200Z 20008KT 9999 FEW020 BKN070 23/18 Q1017 SBIZ 240145Z 00000KT CAVOK 24/16 Q1013 SBJR 240045Z 06002KT CAVOK 17/17 Q1021 RJTI 240200Z VRB05KT 9999 FEW030 BKN035 26/18 Q1014 RJSR 240200Z 01005KT 310V090 9999 FEW030 27/18 Q1014 SCAR 240200Z 30001KT 9999 OVC019 16/12 Q1017 RJSS 240200Z 07007KT 9999 FEW003 BKN010 BKN020 22/19 Q1017 SBLB 232100Z 12013KT 9999 SCT015 BKN060 22/15 Q1023 W///S2 SCAT 240200Z AUTO 18004KT 130V210 9999 // ///007 12/10 Q1017 SBJU 240100Z 17010KT 9999 FEW020 28/15 Q1019 SBJV 240234Z 00000KT 3000 BR SCT002 11/11 Q1020 KVWU 240234Z AUTO 15004KT 10SM BKN039 23/19 A2973 RMK AO2 LTG DSNT NW SBLE 231400Z 10005KT 9999 BKN040 25/16 Q1023 RJTO 240200Z 04008KT 360V070 9999 FEW015 BKN/// 24/19 Q1015 SCCF 240200Z 10015KT CAVOK 05/M23 Q1027 RJSY 240200Z 09013KT 9999 FEW045 SCT/// 28/15 Q1013 SBKP 240200Z 11007KT CAVOK 17/12 Q1021 SCCH 240200Z AUTO 05009KT 9999 -RA SCT030 OVC055 11/10 Q1014 RERA SCCI 240200Z 25012KT 9999 FEW025 02/M00 Q1016 NOSIG SBMA 240200Z 33003KT CAVOK 25/22 Q1013 SCDA 240200Z 26003KT 9999 BKN022 16/11 Q1016 RJTT 240230Z 10008KT 9999 FEW030 26/20 Q1014 NOSIG RMK 2CU030 A2997 SAVC 240200Z 27009KT CAVOK 03/M03 Q1022 SBME 240200Z 02003KT CAVOK 18/16 Q1023 SBLO 240200Z 20003KT CAVOK 15/12 Q1020 SBMG 240200Z 05010KT CAVOK 18/12 Q1019 RJTY 240158Z AUTO 07006KT 10SM BKN033 24/18 A3003 RMK AO2 SLP167 T02440178 SBLS 240100Z 17005KT CAVOK 17/12 Q1025 SBMK 240200Z 19006KT CAVOK 20/10 Q1023 KVYS 240235Z AUTO 01011G27KT 10SM VCTS SCT010 BKN026 OVC032 26/22 A2998 RMK AO2 LTG DSNT NW THRU NE T02550221 KWRB 240158Z AUTO 14005KT 10SM BKN150 28/22 A2998 RMK AO2 SLP151 T02770222 FQTT 231200Z 24005KT 9000 SCT025 32/07 Q1014 RMK HZ SAWE 240200Z 29015KT CAVOK 01/M02 Q1011 SBMN 240200Z 08002KT 9999 FEW010 SCT100 25/22 Q1013 SBNF 240200Z 25004KT 9999 SCT020 12/12 Q1020 SBMO 240200Z 12007KT 9999 SCT020 BKN070 23/// Q1019 SAWG 240200Z 27016KT CAVOK 01/M02 Q1017 SCCY 240200Z AUTO 36003KT 320V030 CAVOK M02/M04 Q1021 SAWH 240200Z 23030G42KT 9999 FEW025 02/M00 Q1008 SBMQ 240200Z 06008KT 9999 FEW017 28/24 Q1013 LOIH 231600Z VRB02KT 30KM FEW030CU BKN100AC 24/18 Q1018 RMK BKN KXIH 240235Z AUTO 20009KT 10SM FEW022 30/24 A2992 RMK A01 SBMS 240100Z 07004KT CAVOK 27/23 Q1014 KWRI 240158Z AUTO 24005KT 10SM CLR 23/22 A2986 RMK AO2 SLP110 T02340216 SCFA 240200Z 19010KT 9999 SCT011 OVC013 14/11 Q1014 NOSIG SBMT 240200Z 10003KT 4000 BR NSC 14/13 Q1022 SCEL 240200Z 36002KT 4000 HZ BKN140 11/08 Q1015 NOSIG KWRL 240153Z AUTO 03005KT 10SM CLR 28/04 A2996 RMK AO2 SLP096 T02780039 SBOI 232000Z 01005KT 9999 SCT025 29/// Q1010 SBPA 240200Z 04003KT 5000 BR NSC 15/12 Q1016 SBPB 240125Z 07006KT 9999 FEW020 26/23 Q1014 SBNT 240200Z 16010KT CAVOK 24/18 Q1016 SBPC 232030Z 34001KT CAVOK 19/14 Q1024 RKPC 240200Z 03006KT 340V060 9999 FEW030 SCT200 29/23 Q1011 NOSIG SCFM 231900Z 24017KT 9999 SCT030 04/M03 Q1012 SCGE 232200Z 06004KT 0600 RA FG OVC002 11/11 Q1015 SBPF 232200Z 06009KT 9999 FEW040 17/15 Q1018 RKNY 240200Z 32004KT 8000 -RA SCT005 BKN025 OVC080 22/21 Q1011 NOSIG SBPJ 240200Z 00000KT CAVOK 25/14 Q1014 SBPK 231915Z 08006KT CAVOK 19/14 Q1014 LPBJ 240200Z 36004KT CAVOK 24/07 Q1015 RKPK 240200Z 20012KT 9000 SCT030 BKN200 29/25 Q1011 NOSIG SCFT 240200Z AUTO 00000KT 5000 BR SKC M03/M04 Q1021 MGCB 240000Z 00000KT 9999 FEW018 BKN200 21/18 QFE 870.0 KWST 240153Z AUTO 34009KT 10SM CLR 28/14 A2983 RMK AO2 SLP101 T02830139 SBPL 240200Z 11008KT CAVOK 24/14 Q1019 SBPP 232200Z 00000KT CAVOK 21/13 Q1016 SBPR 232036Z 10010KT CAVOK 21/13 Q1023 LPAZ 240230Z 03012KT 360V060 9999 SCT014 BKN040 21/18 Q1027 SBPS 240200Z 03005KT 8000 VCSH BKN020 BKN070 21/19 Q1021 SBRB 240200Z 04004KT CAVOK 23/18 Q1012 SCIC 240200Z AUTO 10003KT 060V130 1900 -RA BR FEW002 11/11 Q1014 RERA SBPV 240200Z 00000KT CAVOK 25/16 Q1012 KXLL 240235Z AUTO 18003KT 10SM CLR 27/18 A2992 RMK AO2 SAZM 240200Z 20010KT 9999 BKN020 BKN080 09/03 Q1018 SCIE 240200Z 12002KT 0800 R02/0900N RMID/0750N RADZ FG BKN003 OVC013 12/12 Q1013 SAZN 240200Z 00000KT 9999 SCT040 BKN080 09/03 Q1020 SBRF 240200Z 19006KT 9999 FEW020 SCT060 24/20 Q1017 SCGZ 232000Z 26016G30KT 9999 SCT033 BKN100 02/M05 Q1007 SAZS 240200Z 14006KT CAVOK M04/M08 Q1018 KWVI 240153Z AUTO 14006KT 10SM CLR 18/12 A2987 RMK AO2 SLP115 T01830122 SBRJ 240200Z 06001KT CAVOK 21/17 Q1021 LPCS 232000Z 01018KT CAVOK 24/13 Q1015 KXNA 240153Z 16006KT 10SM CLR 31/25 A2995 RMK AO2 SLP122 T03060250 SBSC 240200Z 02006KT CAVOK 18/16 Q1021 FSIA 240200Z 13012KT 9999 -SHRA BKN016 25/22 Q1011 NOSIG SBQV 231800Z 14010KT 9999 BKN025 20/15 Q1023 KWVL 240156Z AUTO 00000KT 10SM CLR 20/17 A2977 RMK AO2 SLP111 T02000167 KWWD 240156Z AUTO 18003KT 10SM CLR 26/22 A2992 RMK AO2 SLP132 T02610222 $ RKSG 240158Z VRB04KT 5SM BR BKN030 BKN080 31/25 A2985 RMK AO2A SLP110 T03050251 $ SBSG 240200Z 21007KT 170V250 CAVOK 24/18 Q1016 SCIP 240200Z 31006KT 9999 FEW012 SCT020 19/17 Q1019 NOSIG SBRP 240200Z 12004KT CAVOK 19/15 Q1020 RKSI 240230Z 16006KT 130V190 9999 -RA FEW015 BKN025 OVC100 26/22 Q1011 NOSIG SBTA 240200Z 36001KT 8000 NSC 15/14 Q1022 KXMR 240158Z AUTO 16005KT 10SM CLR 28/23 A3002 RMK AO2 SLP169 T02840232 $ SBSJ 240200Z 12002KT CAVOK 15/13 Q1022 SBTC 232127Z 17008KT 9999 FEW020 BKN070 24/21 Q1020 SBSL 240200Z 06004KT CAVOK 25/22 Q1014 SBSM 240200Z 15003KT CAVOK 13/12 Q1016 SBSN 240200Z 00000KT CAVOK 25/24 Q1012 SBTE 240200Z 15006KT CAVOK 27/10 Q1013 SBTF 232245Z /////KT 9999 FEW015 SCT100 25/24 Q1011 SCJO 232300Z 17005KT 9999 FEW050 SCT200 06/05 Q1017 RKSO 240158Z 21008KT 7SM SCT022 BKN030 30/25 A2983 RMK AO2A SLP104 T03000245 $ SBSP 240201Z 06005KT 030V090 8000 NSC 16/13 Q1022 KXNO 240158Z AUTO 10001KT 10SM FEW120 26/23 A3001 RMK AO2 SLP162 T02580232 $ SBSR 240200Z 12003KT CAVOK 21/09 Q1020 SBUA 232100Z 32003KT 9999 TS VCSH SCT025 FEW030CB SCT100 27/22 Q1010 RKSS 240200Z 21007KT 9000 -RA FEW015 BKN025 OVC100 28/23 Q1011 NOSIG MGES 240000Z 05006KT 6000 TSRA SCT015 FEW025CB OVC090 22/20 QFE 908.2 CB/TS/LTNG NE/ENE SBST 232300Z 01002KT 7000 SCT023 16/15 Q1021 HBBA 231500Z 18020KT 7000 FEW030 29/17 Q1010 NOSIG LPFL 231800Z 33003KT 240V020 9999 FEW020 BKN049 24/21 Q1030 SBSV 240200Z 10010KT 8000 VCSH BKN015 FEW020TCU 24/20 Q1020 RKTN 240200Z 33006KT 9999 FEW030 FEW200 31/23 Q1010 NOSIG SBUF 231945Z 11015KT 9999 FEW018 28/14 Q1017 SBUG 232200Z 36002KT CAVOK 19/15 Q1013 LPFR 240230Z 03005KT CAVOK 23/20 Q1014 SBTT 240000Z 36002KT CAVOK 25/22 Q1012 SBUL 240100Z 07006KT CAVOK 21/11 Q1022 RKTU 240200Z 25008KT 9999 BKN030 BKN200 30/24 Q1011 NOSIG VYYY 240230Z 09004KT 8000 R21/2000N SCT018 FEW020CB SCT110 28/ 25 Q1011 SBVH 240100Z 32003KT CAVOK 21/11 Q1016 SBUR 240200Z 02008KT 8000 NSC 22/12 Q1021 SCMK 231700Z 00000KT 9999 SCT020 08/04 Q1019 KWYS 240230Z AUTO 00000KT 10SM CLR 16/03 A3024 RMK AO2 MGGT 240200Z 04004KT 9999 FEW018 BKN080 26/24 Q1013 A2991 CB/LTNG DIST WNW/NW KXPY 240235Z AUTO 23003KT 10SM FEW025 30/24 A2998 RMK A01 YABA 240222Z AUTO 29009KT 9999 // SCT010 SCT020 BKN035 12/08 Q1026 LPHR 232100Z 01008KT 9999 FEW020 22/16 Q1030 KXSA 240235Z AUTO 19004KT 10SM CLR 29/24 A2994 RMK AO2 T02850240 SBVT 240200Z 29002KT 9999 SCT020 BKN070 20/19 Q1024 MGHT 240000Z 15006KT 9999 SCT030 22/13 QFE 817.7 WSAP 240200Z 04004KT 9999 FEW018TCU BKN300 29/25 Q1010 KYIP 240153Z 08008KT 10SM CLR 29/18 A2999 RMK AO2 SLP145 T02890178 $ MHAM 240000Z 18004KT 9999 FEW034CB BKN080 29/25 RETS CB SE LPLA 240200Z /////KT 9999 FEW025 20/19 Q1030 MHCA 240200Z 00000KT 9999 SCT028TCU BKN070 24/21 TCU N ENE W HZ LQBK 240230Z 18003KT CAVOK 20/19 Q1015 NOSIG KYKM 240153Z 23003KT 10SM FEW080 30/07 A3003 RMK AO2 SLP164 T03000067 KYKN 240235Z AUTO 13005KT 10SM CLR 29/24 A2973 RMK AO1 SCPQ 240200Z AUTO 22006KT CAVOK 01/01 Q1018 MHCH 240000Z 04006KT 9999 SCT030CB SCT250 29/20 CB S TCU N NW SBYS 240200Z 21002KT CAVOK 14/12 Q1021 LPMA 240230Z 02010KT 330V050 9999 SCT016 21/14 Q1017 SCRD 232200Z VRB02KT 9999 2000N VCFG FEW010 BKN073 12/11 Q1015 SCQP 240200Z 16006KT 9999 SCT013 BKN024 07/06 Q1014 KXVG 240236Z AUTO 14005KT 10SM OVC075 22/19 A2976 RMK AO2 FSPP 240200Z 16005KT //// //// 26/22 Q1011 SCRM 240200Z 20015KT 9999 SCT030 M08/M12 Q0986 MGMM 240200Z 00000KT CAVOK 24/23 Q1015 A2997 BKN090 CB/LTNG DIST S SCSE 240200Z 22003KT 9999 SCT012 12/10 Q1017 LOWG 240220Z AUTO VRB02KT 9999 FEW028 20/18 Q1017 KYNG 240151Z 06004KT 10SM SCT250 23/17 A3001 RMK AO2 SLP152 T02280167 LOWI 240220Z AUTO 23003KT 190V270 9999 NCD 16/15 Q1021 SCTB 232200Z 00000KT 5000 HZ OVC120 12/08 Q1016 MGMT 240000Z 00000KT 9000 TS VCSH BKN014 FEW025CB 26/24 QFE1009.9 CB/TS/PCPN SSE/S/SSW LOWK 240220Z AUTO 29004KT 9999 NCD 18/16 Q1018 SEAM 232300Z 11704KT 9999 SCT030 15/12 Q1028 LOWL 240220Z 23006KT 9999 FEW008 BKN016 BKN120 19/18 Q1019 NOSIG SCTE 240200Z 00000KT 9999 BKN020 02/01 Q1018 NOSIG SCSN 240200Z AUTO 33003KT 280V010 9000 -RA BKN003 12/12 Q1016 SECA 232300Z 08009KT 9999 BKN040 27/12 Q1016 LOWS 240220Z AUTO 12003KT 080V150 9999 FEW001 BKN050 17/17 Q1020 MGPB 240200Z 00000KT 9999 FEW020 BKN090 24/23 Q1013 A2991 LPPD 240230Z 03008KT 360V060 9999 FEW018 BKN035 21/18 Q1028 SCTN 240200Z AUTO 14004KT 090V180 CAVOK 02/01 Q1017 LOWW 240220Z 31009KT 9999 FEW030 BKN037 FEW040CB 22/19 Q1017 TEMPO SHRA LOWZ 231700Z 03003KT 30KM BKN070SC BKN140AC 23/18 Q1017 RMK BKN LOXT 231950Z 07003KT 30KM FEW110AC 23/19 Q1015 RMK FEW SCVD 240200Z AUTO 00000KT 9999 OVC032 06/05 Q1017 SECO 232300Z 26002KT CAVOK 28/22 Q1011 LOXZ 232050Z 24004KT 190V290 10KM FEW040CU SCT050CU FEW050TCU BKN110AC 20/17 Q1018 RMK TCU NE OF AD/BKN LPPR 240230Z 01003KT 340V060 CAVOK 17/15 Q1017 LPPS 240230Z 02011KT 9999 FEW015 BKN030 21/17 Q1018 SECU 240200Z 320/4KT CAVOK 12/08 Q1027 LPPT 240230Z 34005KT CAVOK 25/11 Q1015 SCVM 240200Z 33006KT 8000 OVC008 13/12 Q1016 YBAF 240230Z AUTO 03006KT 360V070 9999 // NCD 21/02 Q1015 MGQZ 240000Z 14004KT 9999 FEW012 SCT025CB SCT200 17/14 QFE 772.2 CB N/NE/SW/NW YBAS 240230Z AUTO 19007KT 160V230 9999 // NCD 20/00 Q1021 MGSJ 240200Z 04004KT 9999 FEW018 BKN080 26/24 Q1013 A2991 CB/LTNG DIST WNW/NW MGRT 240000Z 22004KT 9999 FEW018 FEW025CB SCT09 25/24 Q1013 A2991 FEW200 CB NE/E/ESE VOL. STA. MARIA Y SANTIAGUITO EN ACTIVIDAD LRBC 240230Z 05003KT CAVOK 20/16 Q1017 YBBN 240230Z 11005KT CAVOK 20/06 Q1015 NOSIG YBCG 240230Z AUTO 02006KT 9999 // NCD 20/05 Q1015 YBCK 240230Z AUTO 28008KT 250V310 //// // ////// 22/06 Q1017 LRAR 240200Z AUTO VRB01KT 9999 R09////// R27/P2000 FEW058/// 22/20 Q1016 YAMB 240230Z AUTO 32005KT 290V010 9999 // NCD 22/00 Q1014 MHLC 240000Z 20003KT 9999 SCT022TCU BKN070 29/24 Q1011 A2986 NOSIG LRBM 240200Z AUTO 07004KT 030V090 9999 FEW085/// SCT240/// ///// Q1017 YBDG 240230Z AUTO 36013KT 9999 // BKN022 10/05 Q1009 MHLE 240000Z 00000KT 9999 FEW022 FEW024CB SCT070 19/17 CB W LRBO 232000Z 33004KT 9999 FEW100 23/14 Q1014 BLU BLU YBCS 240230Z 13013KT 9999 FEW030 28/18 Q1014 NOSIG SEGS 240000Z 15015KT 9999 SCT020 26/19 Q1013 RMK A2994 LRBS 240230Z 07009KT 020V100 CAVOK 22/13 Q1015 NOSIG LRCK 240230Z 36008KT CAVOK 19/14 Q1014 NOSIG SEGU 240200Z 21014KT CAVOK 25/19 Q1010 NOSIG RMK A2985 YBCV 240230Z AUTO 29009KT 9999 // NCD 19/02 Q1016 MGTU 240000Z 00000KT 9999 FEW018 SCT080 27/20 LRCL 240200Z 28004KT CAVOK 18/16 Q1017 MHLM 240200Z 17002KT 9999 SCT024 BKN080 24/24 Q1012 A2989 NOSIG YANG 240230Z AUTO 08010KT 9999 // NCD 13/07 Q1023 LRCT 232000Z 33004KT 9999 SCT080 19/18 Q1016 BLU BLU YBDV 240230Z AUTO 28007KT //// // ////// 19/M00 Q1019 SEJD 232300Z 00000KT 9999 FEW023 BKN100 29/22 Q1013 RMK A2993 LRCV 240100Z 01004KT CAVOK 20/18 Q1015 LQMO 240230Z VRB02KT CAVOK 21/// Q1013 ROAH 240230Z 34012KT 9999 FEW030 SCT070 BKN/// 31/25 Q1010 RMK 1CU030 3AC070 A2982 BGBW 240150Z AUTO 08005KT 9999NDV NCD 10/03 Q1015 YBGD 240230Z AUTO 08010KT 9999 // OVC057 17/15 Q1021 SFAL 231550Z 25018KT 9999 FEW018 FEW020CB SCT100 ///// Q1006 GMAD 240230Z VRB01KT CAVOK 20/17 Q1011 NOSIG MHNO 240000Z 00000KT 9999 TS BKN040CB 21/19 TS S CB TCU ALL HZ GMAG 231800Z 28010KT CAVOK 26/16 Q1009 NOSIG FTTA 240200Z 00000KT 9999 23/22 Q1014 FTTC 231500Z 18012KT 9999 FEW030 SCT040 FEW050CB 34/19 Q1010 FTTD 231500Z 22004KT CAVOK 25/22 Q1013 HDAM 231500Z 10010KT 9999 FEW023 SCT040 34/28 Q999 YBHI 240203Z AUTO 33016G26KT 9999 // BKN059 13/04 Q1013 KZPH 240255Z AUTO 00000KT 10SM CLR 20/18 A3005 RMK AO2 LTG DSNT NE T01950181 MGZA 240000Z 09012KT 9999 FEW020 FEW025CB OVC200 31/19 QFE 985.0 CB ENE/ESE/SE/NW/NNW SEMC 232300Z 02002KT 9999 FEW030 SCT100 22/18 Q1016 FTTJ 240200Z VRB03KT CAVOK 26/25 Q1010 NOSIG YBHM 240230Z AUTO 33007KT 9999 // NCD 26/18 Q1015 MHPL 240000Z 00000 9999 SCT026TCU SCT090 BKN250 26/24 Q1010 TCU ALL HZ GMAT 231800Z 02016KT 8000 BKN010 22/17 Q1012 NOSIG YARG 240200Z AUTO 11006KT 9999 // NCD 30/06 Q1016 LRIA 240230Z 29007KT CAVOK 17/12 Q1016 BGGH 240150Z AUTO 01008KT 9999NDV NCD 07/05 Q1017 SELT 240200Z 17004KT 9999 FEW026 09/09 Q1030 YARM 240230Z AUTO 31007KT 270V340 9999 // BKN091 OVC115 05/01 Q1014 FVBU 231700Z 10005KT CAVOK 17/M06 Q1020 NOSIG RODN 240158Z AUTO VRB03KT 10SM SCT037 32/26 A2984 RMK AO2 SLP109 T03170258 $ YCBA 240230Z AUTO 35011KT 9999 // NCD 14/05 Q1015 YCBB 240230Z AUTO 02005KT //// // ////// 08/00 Q1015 SEMT 240200Z 22005KT 9999 FEW030 22/20 Q1012 RMK A2991 WSSL 240200Z 03004KT 9999 FEW013 SCT017TCU BKN300 30/25 Q1010 RMK 0130Z Q1010 LQSA 240200Z 00000KT CAVOK 18/17 Q1019 SENL 232300Z 21003KT CAVOK 28/21 Q1012 YBKE 240230Z AUTO 01012KT //// // ////// 16/05 Q1016 MHSC 240158Z AUTO 12006KT 9999 OVC085 26/19 A3000 RMK AO2 SLP119 T02550189 $ MHRO 240200Z 07020G30KT 9999 FEW024 SCT200 29/24 Q1013 A2992 NOSIG YCAR 240230Z AUTO 16016KT 9999 // NCD 17/04 Q1021 YCAS 240230Z AUTO 32004KT //// // ////// 20/02 Q1015 WSSS 240230Z 14003KT 070V150 9999 SCT018 FEW020TCU BKN300 29/24 Q1010 NOSIG FVCZ 231200Z 00000KT CAVOK 31/05 Q1018 FVFA 231200Z 03005KT CAVOK 27/M06 Q1018 NOSIG MHTE 240000Z 00000KT 8000 VCSH SCT024TCU BKN080 28/25 Q1010 8 KMS SW W VCSH D/C UNL TCU ALL YCBP 240230Z AUTO 25021KT //// // NCD 15/01 Q1019 MHTG 240200Z 24004KT 9999 FEW028 SCT080 21/18 Q1019 A3009 NOSIG GMFF 240200Z 16005KT CAVOK 21/05 Q1015 NOSIG YBMA 240230Z AUTO 14005KT 9999 // NCD 28/10 Q1017 YBKT 240230Z AUTO 14012KT //// // ////// 31/14 Q1014 MHSR 240000Z 00000KT 8000 -TSRA FEW028CB OVC250 19/19 TS N SE W NW TCU ALL METAR MHNO 240000Z 00000KT 9999 TS BKN040CB 21/19 TS S CB TCU ALL HZ YBLN 240230Z AUTO 07003KT //// // ////// 11/10 Q1028 GMFK 240000Z 00000KT 9999 FEW030 33/05 Q1019 NOSIG GMFM 240200Z 15004KT CAVOK 24/12 Q1015 NOSIG BGJN 240150Z AUTO 00000KT 9999NDV NCD 09/02 Q1016 GMFO 240200Z 25002KT CAVOK 19/17 Q1017 NOSIG YBNA 240230Z AUTO 20004KT 9999 // NCD 19/06 Q1015 MHTR 240000Z 09013KT 9999 FEW025 BKN250 30/22 HZ YBMK 240230Z AUTO 36007KT 9999 // NCD 28/20 Q1014 SERB 232300Z 09008KT 9999 SCT040 16/09 Q1026 FVHA 232300Z 06004KT CAVOK 09/03 Q1022 NOSIG SEQM 240200Z 35003KT 9999 FEW010 SCT026 13/11 Q1027 NOSIG RMK A3034 YCDO 240230Z AUTO 36011KT //// // ////// 11/08 Q1014 BGKK 240150Z AUTO 26007KT 0500NDV -RA VV001/// 06/04 Q1016 YCCY 240230Z AUTO /////KT //// // ////// 27/09 Q1017 ROIG 240200Z 08008KT 050V110 9999 SCT020 32/26 Q1010 LQTZ 232000Z VRB01KT 9000 NSC 23/23 Q1016 SESA 240200Z 21005KT 9999 BKN010 21/19 Q1012 YCDU 240230Z AUTO 24020KT 9999 // SCT046 SCT053 14/07 Q1017 SESD 232300Z 18003KT 9999 SCT020 BKN100 24/21 Q1011 GLRB 240230Z 00000KT 9999 BKN011 23/22 Q1014 NOSIG SERO 240200Z VRB02KT 9999 FEW090 23/21 Q1012 YBNS 240230Z AUTO 32009KT 9999 // BKN071 11/01 Q1009 YBOK 240230Z AUTO 27006KT 240V320 9999 // NCD 17/01 Q1016 YCFL 240230Z AUTO 14014KT //// // ////// 27/19 Q1014 SESM 232300Z 09004KT 9999 -RA FEW030 SCT100 22/19 Q1016 RMK A3003 YAYE 240230Z AUTO 15010KT 9999 // NCD 15/M01 Q1023 LROD 240230Z AUTO 09006KT 9999 NCD 19/17 Q1016 YCFS 240230Z AUTO 35005KT 9999 // SCT105 OVC125 15/04 Q1015 SGAS 240200Z VRB03KT 9000 NSC 17/14 Q1013 SEST 240000Z 18004KT 9999 VCSH FEW010 OVC016 22/20 Q1011 A2986 HEBA 240200Z 29005KT CAVOK 22/21 Q1008 NOSIG FVKB 231500Z 25003KT CAVOK 26/11 Q1014 YBPN 240230Z AUTO 36004KT 330V040 9999 // NCD 28/20 Q1014 LSGC 240220Z AUTO VRB02KT 9999 SCT006 14/14 Q1022 SETN 232300Z 26009KT 9999 FEW026 26/23 Q1010 A2984 LROP 240230Z 06006KT 020V100 CAVOK 23/15 Q1015 NOSIG LSGG 240220Z VRB01KT 9999 MIFG NSC 16/16 Q1020 NOSIG YCHK 240230Z AUTO 13013KT 9999 // OVC085 17/06 Q1022 HEAR 240200Z 19002KT CAVOK 23/21 Q1007 NOSIG SETU 232300Z 08006KT 9999 SCT023 12/08 Q1030 HECA 240230Z 29007KT CAVOK 25/22 Q1008 NOSIG HEAT 240200Z 01009KT CAVOK 24/14 Q1008 NOSIG HEAX 240200Z 30006KT CAVOK 26/19 Q1008 NOSIG MHYR 240000Z 09006KT 9999 BKN025TCU 26/18 TCU ALL HZ YBRK 240230Z AUTO 26004KT 220V300 9999 // BKN059 27/19 Q1014 YBRL 240230Z AUTO 08006G16KT 040V120 //// // ////// 32/16 Q1014 LSGS 231750Z 24006KT 220V280 9999 FEW040 BKN100 20/15 Q1019 YBRM 240230Z AUTO 14010KT 9999 // NCD 27/11 Q1015 GMMB 240200Z AUTO 18003KT //// R32/P2000N NCD 19/17 Q1013 NOSIG YCIN 240230Z AUTO 11011KT //// // NCD 30/07 Q1014 GMMC 232000Z 04008KT CAVOK 24/22 Q1012 NOSIG FWCL 231600Z 16006KT CAVOK 22/09 Q1018 NOSIG YBSG 240230Z AUTO 12008KT 090V150 //// // SCT047 30/17 Q1012 GMMD 232000Z 26006KT CAVOK 35/11 Q1013 NOSIG GMME 240030Z 21003KT 6000 FEW016 21/19 Q1012 NOSIG GMMH 232100Z 02024KT 6000 NSC 21/18 Q1010 NOSIG GMMI 240200Z AUTO VRB03KT 9999NDV NCD 18/17 Q1011 NOSIG LRSB 240230Z 00000KT 8000 SCT047 18/18 Q1018 LTAC 240220Z 01007KT CAVOK 14/07 Q1017 NOSIG SGEN 232100Z 04010KT CAVOK 22/14 Q1014 KZZV 240153Z AUTO 28003KT 10SM CLR 28/22 A2999 RMK AO2 SLP145 T02830222 GMML 240000Z 03019KT 9999 BKN017 20/16 Q1012 NOSIG YBRY 240230Z AUTO 12012KT 9999 // SCT074 BKN086 OVC115 15/06 Q1023 YBTH 240230Z AUTO 35006KT 9999 // NCD 05/00 Q1014 ROMY 240200Z 03006KT 300V090 9999 FEW021 31/25 Q1010 LTAF 240220Z VRB02KT 9999 SCT035 26/24 Q1004 NOSIG GMMN 240230Z 34003KT 9999 NSC 21/19 Q1012 NOSIG LTAG 240220Z 00000KT 9999 SCT019 26/23 Q1004 NOSIG SGES 240200Z 09005KT CAVOK 17/14 Q1016 LTAI 240220Z 35008KT 310V020 CAVOK 27/09 Q1004 NOSIG YBSU 240230Z AUTO 11009KT 9999 // NCD 22/01 Q1014 LTAJ 240220Z 34008KT CAVOK 27/10 Q1005 NOSIG LTBA 240220Z 04006KT 360V080 CAVOK 24/16 Q1014 NOSIG YBTL 240230Z 35006KT 9999 FEW025 27/19 Q1015 NOSIG RMK USE TAF FOR ARRIVALS AFTER 0430Z YBUD 240230Z AUTO 03004KT 9999 // NCD 24/09 Q1015 YCKN 240230Z AUTO 13012KT 9999 // SCT029 26/19 Q1014 LRTC 240230Z AUTO 36002KT 320V050 9999 BKN075/// 19/13 Q1015 LTAL 230850Z 32004KT 9999 FEW033 22/04 Q1018 LRSM 240230Z AUTO 00000KT 6000 NCD 14/13 Q1017 LTAN 240150Z 35013KT CAVOK 20/08 Q1015 NOSIG LTBF 240150Z VRB01KT CAVOK 15/11 Q1013 NOSIG GMMW 240200Z 26001KT 8000 FEW013 SCT020 18/17 Q1017 NOSIG LTAP 240220Z 00000KT CAVOK 11/07 Q1015 NOSIG GMMX 240230Z 23004KT 9999 FEW100 26/12 Q1012 NOSIG BGSF 240150Z AUTO 07009KT 9999NDV NCD 08/01 Q1017 LTBH 240150Z 08007KT CAVOK 22/11 Q1013 LTAR 240150Z 02004KT 340V060 9999 FEW002 08/07 Q1018 GMMZ 240200Z 30004KT 8000 NSC 29/04 Q1017 NOSIG LTAS 231430Z 33010KT 300V010 CAVOK 27/16 Q1015 RMK RWY18 33010KT LTBJ 240220Z 36018KT CAVOK 28/04 Q1009 NOSIG LTCA 240150Z 24006KT CAVOK 19/07 Q1008 NOSIG LTAT 240220Z 26007KT 210V330 CAVOK 22/06 Q1009 NOSIG LTCB 240150Z 22003KT 9999 SCT035 20/18 Q1013 LTBL 230856Z 35010G22KT 280V010 CAVOK 33/04 Q1012 NOSIG RMK RWY17 03010KT 360V080 LTAU 240220Z 36002KT CAVOK 14/09 Q1016 NOSIG LTCC 240220Z 28010KT CAVOK 26/07 Q1080 NOSIG LRSV 240230Z 31008KT CAVOK 17/14 Q1018 LRTM 240230Z 00000KT 2500 0500W R07/0550D BR BCFG FEW004 BKN005 15/15 Q1017 LTCD 240150Z 28003KT CAVOK 16/10 Q1014 NOSIG LTAW 240221Z VRB02KT CAVOK 10/09 Q1016 RMK RWY22 09003KT YDBY 240230Z AUTO 13010KT //// // ////// 30/07 Q1015 LTCE 240220Z VRB02KT 9999 FEW030 SCT080 11/07 Q1016 NOSIG LTCF 240150Z 00000KT 9999 FEW040 10/07 Q1018 LTCG 240220Z 21008KT 9999 SCT090 22/17 Q1013 NOSIG LTAY 240050Z 23006KT CAVOK 16/07 Q1014 LTBQ 240150Z VRB01KT CAVOK 13/13 Q1014 NOSIG LTAZ 240220Z 01004KT 340V040 CAVOK 19/04 Q1015 LRTR 240230Z 10002KT CAVOK 20/20 Q1015 NOSIG LTBR 240220Z 00000KT CAVOK 12/10 Q1015 NOSIG LTCI 240150Z VRB02KT CAVOK 14/08 Q1012 NOSIG LSMA 240216Z AUTO VRB01KT 9999NDV SCT009 SCT041 OVC053 19/18 Q1020 RMK LTCJ 240220Z 23002KT CAVOK 21/10 Q1001 LTBS 240220Z 36008KT CAVOK 27/09 Q1005 NOSIG LTDA 240150Z 24013KT CAVOK 27/22 Q1003 YCMM 240230Z AUTO 27024KT //// // ////// 11/07 Q1011 BIAR 240200Z 32003KT 7000 BR FEW005 OVC013 10/10 Q1010 LTCK 240150Z 35005KT CAVOK 15/08 Q1010 LTBU 240220Z 36007KT CAVOK 20/11 Q1015 LTCL 240150Z 00000KT CAVOK 20/10 Q1001 LSMD 240150Z AUTO 13003KT 9999NDV BKN018 17/16 Q1021 RMK LTCM 232150Z 24005KT CAVOK 18/14 Q1013 LSME 240150Z AUTO 00000KT 9999NDV SCT032 BKN038 BKN049 18/18 Q1020 RMK BGTL 240158Z AUTO 00000KT 9999 OVC035 07/04 A2999 RMK AO2 CIG 027 RWY26 SLP139 T00730042 $ LTCN 240150Z 29013KT CAVOK 25/15 Q1004 HEGN 240200Z 32008KT CAVOK 28/18 Q1003 NOSIG LTCO 231850Z 05012KT 9999 FEW080 21/09 Q1015 LTCP 231250Z VRB05KT CAVOK 39/05 Q1005 LTBY 240150Z 26007KT 210V280 CAVOK 15/09 Q1016 LRTZ 232000Z 18003KT 9999 SKC 22/20 Q1014 BLU BLU LTBZ 240150Z 30003KT 270V360 CAVOK 11/05 Q1016 YCMT 240230Z AUTO 03002KT //// // ////// 26/14 Q1016 YCNK 240230Z AUTO 29009KT //// // ////// 11/M01 Q1014 LTCR 240150Z 35018G30KT CAVOK 31/08 Q0999 LTCS 240220Z 32009KT CAVOK 24/07 Q1005 YCNM 240230Z AUTO 01008KT //// // ////// 13/08 Q1016 LTCT 240150Z 30014KT 9999 FEW070 22/10 Q1011 YCOE 240230Z AUTO 11012KT //// // ////// 29/17 Q1013 LTCU 240150Z 31008KT 280V360 CAVOK 22/09 Q1009 LTCV 231250Z 31007KT 260V360 CAVOK 40/07 Q1003 LSMM 240150Z AUTO 24003KT 210V290 ////NDV BKN006 BKN011 OVC013 16/16 Q1021 RMK MIS YBWP 240230Z AUTO 09010KT 9999 // SCT049 31/17 Q1012 LSMP 240150Z AUTO VRB02KT 9999NDV FEW047 SCT079 18/18 Q1020 RMK RORS 240200Z 01005KT 9999 FEW023 31/24 Q1010 LSMS 240150Z AUTO 00000KT 9999NDV NCD 16/14 Q1021 RMK BLU YCOM 240230Z AUTO 29011KT 9999 // BKN043 04/M04 Q1010 YBWW 240230Z AUTO 34005KT 9999 // NCD 18/02 Q1015 LTFC 240220Z 33017KT CAVOK 19/06 Q1013 LTFD 232050Z 12006KT CAVOK 25/10 Q1012 YBWX 240230Z AUTO 15010KT //// // ////// 21/17 Q1017 YCNY 240230Z AUTO 12008KT //// // ////// 30/09 Q1015 LTFE 240220Z 13002KT CAVOK 18/14 Q1007 NOSIG LTFG 240150Z 08004KT 9999 FEW030 20/18 Q1003 LTFH 240150Z 09003KT 9999 FEW036 14/12 Q1013 NOSIG BIEG 240200Z 17004KT 9999 FEW034 SCT200 11/08 Q1010 RPLB 240200Z VRB02KT 9999 FEW020 SCT080 BKN300 29/23 Q1008 NOSIG RMK A2977 LTFJ 240220Z 03006KT CAVOK 19/16 Q1014 NOSIG RPLC 240200Z 05003KT 9999 FEW020 BKN100 29/24 Q1009 NOSIG RMK A2982 GMTA 240200Z 00000KT CAVOK 22/20 Q1016 NOSIG ROTM 240158Z VRB05KT 9999 FEW050 SCT200 32/25 A2986 RMK SLP094 T03170250 RPLI 240200Z 18004KT 9999 FEW018CB SCT019 BKN100 28/24 Q1008 NOSIG RMK A2977 CB NE/SE FWKI 240000Z 09005KT CAVOK 15/10 Q1019 NOSIG RPLL 240200Z 26003KT 200V320 8000 SCT023 BKN300 30/26 Q1008 NOSIG RMK A2977 RPMD 240200Z 13001KT 9999 FEW016 SCT290 31/24 Q1009 RMK A2980 GMTN 240200Z 06008KT 4500 BR BKN010 SCT020 23/20 Q1016 NOSIG HEMA 240200Z 31020KT CAVOK 28/14 Q1002 NOSIG GMTT 240230Z 09020KT 9999 FEW016 24/16 Q1013 NOSIG HEMM 240200Z 28006KT CAVOK 23/20 Q1010 NOSIG BIHN 231300Z 17003KT 9999 BR VCSH FEW004 SCT012 BKN020 13/// Q1009 HELX 240200Z 00000KT CAVOK 26/14 Q1004 NOSIG RPMZ 240200Z 20002KT 9999 FEW017 BKN100 29/25 Q1011 RMK A2985 NCAI 240200Z AUTO 08005KT //// ///// 25/23 Q1015 FVWN 231200Z 06002KT CAVOK 27/M05 Q1018 MKJP 240200Z 14012KT 9999 FEW022CB 30/26 Q1014 MKJS 240200Z 11006KT 9999 FEW022 29/25 Q1014 YCUN 240230Z AUTO 08001KT //// // ////// 10/04 Q1029 BIIS 231900Z 03008KT 9999 FEW010 FEW020 OVC030 10/// Q1008 LUBL 240230Z AUTO 29009KT 9999 ///075 18/13 Q1016 YDLQ 240230Z AUTO 35013KT //// // ////// 11/06 Q1010 YCWA 240230Z AUTO 09010KT 9999 // NCD 14/07 Q1023 GOGG 240100Z 21004KT 9999 FEW020TCU BKN130 25/24 Q1013 BIKF 240232Z 32003KT 9999 FEW005 SCT013 BKN038 11/11 Q1009 GOGK 240000Z VRB02KT 6000 RA SCT016 OVC130 25/25 Q1013 RETS GOGS 240030Z 28006KT 8000 RA BKN013 BKN130 27/26 Q1013 HEPS 240100Z 25007KT CAVOK 26/22 Q1007 NOSIG YCWR 240230Z AUTO 35008KT //// // ////// 09/03 Q1014 HESC 240200Z 00000KT CAVOK 18/09 Q1015 NOSIG HESG 240200Z 31006KT CAVOK 26/10 Q1005 NOSIG HESH 240200Z 35016KT CAVOK 29/18 Q1001 NOSIG YDPO 240230Z AUTO 35002KT 9999 // OVC040 11/04 Q1005 HESN 240200Z 36007KT CAVOK 29/08 Q1004 NOSIG LSZA 240220Z AUTO VRB02KT CAVOK 16/16 Q1018 LSZB 240220Z AUTO 12004KT 9999 NCD 15/15 Q1020 RPVD 240200Z 14006KT 9999 FEW015 SCT220 32/25 Q1008 RMK A2977 LSZC 240220Z AUTO VRB05KT 9999 FEW012 BKN040 BKN045 18/18 Q1020 LSZG 240220Z AUTO 07002KT 9999 FEW029 OVC034 18/17 Q1020 LSZH 240220Z VRB01KT 9999 FEW017 BKN023 17/16 Q1020 NOSIG HETR 240200Z 30022KT CAVOK 27/22 Q1003 LSZL 240150Z AUTO VRB01KT 9999NDV NCD 16/15 Q1019 RMK RPVM 240200Z 15003KT 080V240 9999 BKN020 30/25 Q1009 RMK A2980 RPVP 240200Z 07004KT 9999 FEW019 BKN240 32/24 Q1009 RMK A2980 LSZR 240220Z AUTO VRB01KT CAVOK 17/16 Q1020 LSZS 240220Z AUTO VRB01KT CAVOK 04/04 Q1025 MMAA 240145Z 26004KT 8SM SKC 28/24 A2985 RMK DSNT TCU E FXMM 231300Z 27004KT CAVOK 12/M07 Q1022 NOSIG YELD 240230Z AUTO 10009KT //// // ////// 29/21 Q1013 CAHR 240200Z AUTO 23002KT 19/17 RMK AO1 3010 SLP058 T01890170 50003 BIRK 240200Z 00000KT 9999 SCT006 BKN020 BKN140 11/10 Q1009 MMAN 240140Z 09009KT 15SM SKC 33/12 A2988 RMK ISOL SC GOOD 240000Z 28002KT 8000 BKN013 28/25 Q1013 YFBS 240230Z AUTO 36010KT //// // ////// 10/06 Q1015 GOOG 240000Z 22006KT 8000 TS SCT013 FEW030CB BKN100 29/25 Q//// MMAS 240140Z 08002KT 10SM SCT040CB SCT090 BKN200 20/13 A3019 RMK 8/363 DSNT PCPN 1 2 QUAD MMCB 232350Z 22002KT 10SM SCT025TCU SCT200 26/15 A3007 RMK 8/202 CB N/W LUKK 240230Z 34004KT CAVOK 17/14 Q1015 R08/CLRD// NOSIG GOOK 240000Z 22006KT 8000 FEW013 FEW026CB BKN230 28/24 Q1013 FYGB 240200Z AUTO 19001KT //// // ////// 03/M02 Q1022 YFDF 240230Z AUTO 13012KT 9999 // SCT032 OVC080 16/07 Q1022 MMCE 240048Z 05015KT 7SM FEW015CB SCT090 BKN300 29/24 A2990 RMK 8/373 CBBC 240244Z AUTO 19003KT 140V210 2 1/4SM -RA BR SCT006 BKN011 OVC015 15/14 A3019 RMK SLP226 YEML 240230Z AUTO 01005KT 9999 // NCD 25/13 Q1016 MMBT 240140Z 00000KT 7SM SCT100 27/20 A2993 RMK 8/060 HZY MMCL 240140Z 22006KT 10SM BKN100 OVC230 30/23 A2985 RMK 8/077 DIST TCI 1QDNT PCPN E ISOL SC MMCM 240142Z 00000KT 7SM BKN020 BKN100 29/25 A2997 RMK 8/520 MMCN 240141Z 18009KT 10SM FEW030 SCT100 BKN200 31/22 A2980 RMK 8/463 HZY MMCP 240143Z 09005KT 7SM -RA SCT080 BKN150 24/23 A2995 8/070 METAR MMCZ 240143Z 10003KT 7SM SCT250 26/24 A3000 RMK 8/008 SC GOOY 240230Z 29008KT 9999 SCT008 27/24 Q1012 NOSIG MMCS 240148Z 00000KT 10SM FEW070 FEW200 37/07 A2987 RMK 8/062 MMCT 231940Z 10010KT 8SM BKN100 29/24 A2998 RMK 8/020 MSGTX MMMD MMCU 240145Z 05004KT 10SM SCT030 34/09 A2999 RMK 8/100 CB VC MMCV 232340Z 19005KT 10SM FEW020TCU 35/15 A2985 RMK SLP096 57020 990 8/200 CI DSNT CB W MMDO 240143Z 00000KT 12SM SCT030CB BKN070 BKN200 23/11 A3018 RMK 8/363 MMCZ 240143Z 10003KT 7SM SCT250 26/24 A3000 RMK 8/008 SC FZAA 240100Z 00000KT 6000 NSC 20/18 Q1014 BIVM 231800Z 33003KT 9999 FEW008 FEW020 13/11 Q1008 MMEP 240041Z 18004KT 10SM BKN030 BKN250 22/21 A3005 RMK 8/508 GOSM 240000Z 16002KT CAVOK 26/24 Q1013 GOSP 240000Z 28004KT CAVOK 28/22 Q1012 GOSS 240000Z 28004KT 230V350 CAVOK 27/24 Q1012 GOTK 231800Z 00000KT 9999 SCT008 BKN130 25/23 Q1011 MMGL 240153Z 00000KT 10SM SCT025CB BKN300 20/15 A3015 RMK 8/303 DSNT PCPN N MMGM 240152Z 00000KT 10SM FEW150 32/27 A2974 RMK 8/080 HZY MMIA 232340Z 00000KT 3SM RA OVC020 22/21 A3004 RMK SLP000 50000 900 8/9// LTGCCG-S YERN 240230Z AUTO 23012KT //// // ////// 12/M01 Q1023 GOTT 240200Z 20006KT 190V260 9999 TS FEW016 FEW030CB BKN120 24/23 Q1011 MMHO 240140Z 19010KT 10SM FEW200 35/23 A2980 RMK 8/008 ISOL CU HZY NCRG 240200Z 08005KT 9999 SCT016 BKN100 23/20 Q1016 FYML 240200Z AUTO 14005KT //// // ////// 08/M01 Q1023 YESP 240230Z AUTO 29011KT 9999 // SCT018 OVC031 10/08 Q1025 MMIO 240040Z 36016KT 10SM SKC 25/18 A3015 RMK CI YGBI 240230Z AUTO 08011KT //// // ////// 29/20 Q1013 FYLZ 240200Z AUTO 14016KT //// // ////// 12/03 Q1020 YFLI 240230Z AUTO 29008KT 9999 // SCT015 SCT019 BKN023 09/07 Q1007 MNBL 232300Z 08004KT 8000 VCRA SCT018 SCT080 28/24 Q1011 RA SW W NW YGDH 240230Z AUTO 00000KT //// // ////// 10/04 Q1016 FYOO 240200Z AUTO 32003KT //// // ////// 06/M16 Q1017 MNCH 232300Z 18004KT 9999 -TS FEW024CB SCT300 29/26 Q1010 CB NE E SE MMMA 240142Z 14009KT 8SM FEW015 30/24 A2988 RMK 8/100 MMLM 240141Z 21013KT 10SM OVC200 30/22 A2984 RMK 8/007 BINOVC ISOL CU-AC MMMD 240144Z 00000KT 7SM BKN030CB BKN300 24/23 A2999 RMK 8/903 LGTS 1ST 2ND QUAD FYOW 240200Z AUTO 10001KT //// // ////// 06/M10 Q1018 MMLO 240143Z 07004KT 8SM -RA BKN030CB OVC100 18/15 A3029 RMK 60045 8/96/ MMLP 240141Z 00000KT 10SM SCT030 BKN200 32/19 A2985 RMK 8/309 YGEL 240230Z AUTO 09011KT 9999 // NCD 12/09 Q1026 MMLT 240053Z 16008KT 8SM BKN150 BKN240 29/26 A2978 RMK 8/031 MMML 240140Z 14014KT 5SM VCBLDU SCT200 38/14 A2966 RMK 8/002 FZIC 230700Z 36004KT 5000 -RA FEW003 OVC080 22/21 Q1016 NOSIG MMMM 240145Z 00000KT 7SM SCT030 SCT080 BKN230 17/16 A3023 RMK 8/468 MMMT 232340Z 36010KT 7SM SCT130 29/20 A2982 RMK SLP173 57026 976 8/020 MMNL 240040Z 15012KT 12SM FEW040 38/18 A2980 RMK 8/100 YGFN 240230Z AUTO 22004KT 160V260 9999 // NCD 17/02 Q1015 MMMV 232240Z 04010KT 10SM SCT050 37/16 A2989 RMK 8/100 HZY SKBG 240200Z 17003KT 9999 FEW010 SCT070 19/18 A3002 REDZ MMMX 240141Z 03008KT 10SM FEW020 SCT080 18/10 A3031 NOSIG RMK 8/530 HZY DSNT PCPN E MMMY 240140Z 11005KT 8SM FEW040 34/13 A2984 RMK 8/500 HZY SKAR 240200Z 00000KT 9999 SCT020 SCT090 20/19 A3009 MMMZ 240142Z 29005KT 12SM SCT090 BKN230 29/24 A2988 RMK 8/063 CB NW NE TCU 1QUAD MMPA 240040Z 12008KT 7SM FEW020 SCT250 30/25 A2994 RMK 8/108 HZY DSNT TCU S MMPB 240148Z 30002KT 9SM SCT020CB BKN080 BKN220 14/11 A3034 RMK 8/963 PCPN NE SKCC 240200Z 26005KT 9999 SCT017 BKN080 26/23 A2993 RMK LTNG/SW FYRU 240200Z AUTO 04001KT //// // ////// 07/M03 Q1019 MMPE 231859Z RTD 14014KT 10SM FEW040 SCT140 BKN200 36/19 A2985 RMK 8/199 HZY SKBO 240200Z VRB02KT 9999 SCT017 13/11 A3036 SKCG 240200Z 03006KT 9999 FEW015 SCT200 28/25 A2986 MMPG 232340Z 12008KT 10SM FEW030 39/18 A2983 RMK 8/100 SKBQ 240200Z 34015KT 9999 FEW015 28/24 A2986 SKCL 240200Z 33009KT 9999 FEW040 BKN120 23/18 A3000 MMPN 240154Z 00000KT 8SM SCT120 BKN150 OVC250 19/17 A3017 RMK 8/077 BR HZ SC CU BINOVC MMOX 240143Z 28005KT 8SM FEW020 BKN080 18/16 A3021 RMK 8/460 CI/CB WS MMPQ 232150Z 00000KT 6SM SCT030 34/24 A2984 RMK 8/100 MSGTX MMMD MMPR 240143Z 04002KT 12SM FEW025CB BKN080 OVC120 28/25 A2987 RMK 8/97/ PCPN/N BINOVC MMPS 232346Z 00000KT 6SM FEW010 SCT070 BKN200 29/24 A2994 RMK 8/163 CB N HZY YHBA 240230Z AUTO 08006KT 9999 // ////// 23/08 Q1015 SKEJ 232300Z 06005KT 9999 SCT015TCU BKN100 27/22 A2977 RMK TCU/N YFRT 240230Z AUTO 23015KT //// // ////// 12/05 Q1023 MMQT 240245Z 07006KT 7SM BKN020 BKN100 15/14 A3034 RMK 60045 8/460 -RAE38 OCNL DROPS BKPR 240230Z 00000KT CAVOK 18/15 Q1018 NOSIG FYWB 240200Z AUTO 06007KT //// // ////// 07/06 Q1018 MMSD 240144Z 15004KT 10SM SCT140 BKN250 29/21 A2988 RMK 8/038 ISOL CU AS MNJG 232300Z 36004KT 9999 BKN020 21/18 Q1012 YGLA 240230Z AUTO 07007KT 9999 // NCD 23/11 Q1015 YGLB 240100Z AUTO /////KT //// // SCT024 ///// Q//// FYWH 232200Z 26003KT CAVOK 04/M07 Q1023 TAPA 240200Z 08009KT 9999 SCT018 27/23 Q1016 NOSIG MMSL 240142Z 06011KT 10SM SCT120 SCT140 BKN240 27/24 A2994 RMK 8/078 ISOL CU MMTC 240146Z 36006KT 15SM FEW030 SCT100 SCT230 35/11 A2994 RMK 8/463 CB DSTN SW W YHAY 240230Z AUTO 36015KT //// // ////// 12/09 Q1011 MMRX 240042Z 13008KT 10SM FEW050 SCT260 32/20 A2985 RMK 8/502 FU BLDU YGLI 240230Z AUTO 00000KT 9999 // OVC100 07/M01 Q1016 MMSP 240143Z 09013KT 10SM SCT200 21/13 A3021 RMK 8/003 DSTN ISOL CB SC GQNO 240230Z 27011KT 6000 BKN010 25/23 Q1010 NOSIG MMTG 240144Z 00000KT 8SM SCT080 SCT300 24/21 A2994 RMK 8/063 CB DSTNTS MMTJ 240150Z 36006KT 6SM FEW010 27/15 A2984 RMK 8/500 HZY MNJU 232300Z 09004KT 9999 SCT020 SCT300 31/24 Q1012 MMTM 240210Z RTD 12010KT 7SM SKC 28/24 A2992 YFTZ 240230Z AUTO 13009KT //// // ////// 30/07 Q1016 FYWW 231700Z 23005KT CAVOK 18/M17 Q1021 MMTO 240142Z 19007KT 5SM BKN015 BKN070 BKN200 17/11 A3039 RMK 8/248 MMTP 240140Z 00000KT 10SM SCT150 27/23 A2983 RMK 8/050 YGLS 240230Z 17014KT CAVOK 14/M03 Q1024 SKIB 240000Z 32006KT 9999 FEW030 SCT100 BKN200 26/19 A3000 MMVA 240144Z 02007KT 7SM SCT016CB 28/25 A2993 RMK 8/300 FZQA 230900Z 09012KT CAVOK 22/06 Q1028 NOSIG MMUN 240144Z 07003KT 7SM SCT020 28/26 A3001 RMK 8/100 K04V 240236Z AUTO 33012G16KT 10SM CLR 24/03 A3029 RMK AO2 K06D 240235Z AUTO 28009KT 10SM 20/14 A2976 RMK AO2 K04W 240233Z AUTO 08003KT 10SM OVC019 22/21 A2980 RMK AO2 MNMG 240200Z 06004KT 9999 FEW022 28/22 Q1012 A2989 GQPP 240200Z 19005KT 6000 NSC 21/19 Q1010 NOSIG K05U 240235Z AUTO 10SM CLR 27/M08 A3015 RMK A01 SKIP 232300Z 11004KT 9999 SCT018 11/07 A3039 MMVR 240143Z 08003KT 7SM FEW012 27/24 A2993 RMK 8/100 HZY DSNT CB-TCU 3RD QUAD SLAL 232300Z 35007KT 9999 NSC 14/M07 Q1026 K08D 240235Z AUTO 30009G15KT 10SM CLR 19/15 A2990 RMK AO2 LWOH 232130Z 32002KT CAVOK 21/14 Q1018 SLCA 232300Z 00000KT 9999 NSC 22/12 Q1011 SLCB 240200Z 14004KT 9999 NSC 16/M06 Q1023 SKLC 240000Z 19008KT 9999 SCT015 BKN090 26/23 A2988 LXGB 240150Z AUTO 08019KT 9000 // SCT012/// BKN019/// 23/22 Q1017 MNPC 232300Z 05004KT 6000 VCRA FEW014CB SCT016 29/27 Q1012 CBRA E SE NFFN 240200Z 26011KT 9999 FEW030 28/19 Q1013 NOSIG YHID 240230Z AUTO 12014KT 9999 // NCD 29/19 Q1011 SKMD 232300Z 03009KT 9999 VCSH SCT030 SCT035CB 24/14 A3009 RETS RMK CB VCSH/SW/NW/N MMZC 240151Z 29007KT 10SM SCT070 SCT250 20/08 A3024 RMK 8/063 SLCO 232200Z 01003KT 9999 FEW033 31/20 Q1011 SLCP 232200Z 35008KT 9999 NSC 28/16 Q1015 MMZH 240142Z 27003KT 7SM SCT100 SCT250 27/23 A2987 RMK 8/032 HZY SKLT 240200Z 00000KT 9999 FEW010 24/24 A2991 MMZO 240144Z 09006KT 12SM BKN015 OVC250 29/24 A2987 RMK 8/709 BINOVC SKMR 240100Z 00000KT 9999 SCT020 28/25 A2981 K11R 240235Z AUTO 16006KT 10SM CLR 32/23 A2991 RMK AO2 T03210227 FZWA 231400Z 17006KT 5000 HZ SKC 32/11 Q1011 NOSIG YGTE 240230Z AUTO 16008KT 9999 // SCT029 BKN039 BKN047 28/21 Q1014 YGTH 240230Z AUTO 35012KT //// // ////// 11/07 Q//// K12N 240154Z AUTO 00000KT 27/14 A2991 RMK AO1 SLP116 T02670139 SKMZ 232100Z 00000KT 9999 SCT030TCU BKN070 17/14 A3026 REDZ RMK TCU/N YHLC 240230Z AUTO 12007KT //// // ////// 28/06 Q1017 MNRS 232300Z 08006KT 9999 SCT012CB SCT070 29/23 Q1011 CB 4/C SLET 232300Z 33015KT 9999 NSC 25/18 Q1010 TBPB 240200Z 10016KT 9999 SCT020 27/23 Q1015 NOSIG SKPC 232300Z 00000KT 9999 FEW017 SCT070 26/24 A2977 LWSK 240200Z 00000KT CAVOK 20/16 Q1016 NOSIG YGTN 240230Z AUTO 11006KT 9999 // NCD 29/13 Q1015 SKNV 240200Z 16004KT 9999 FEW040 SCT100 29/16 A2987 SKPE 240200Z 13005KT 9000 SCT015 SCT070 20/17 A3008 RMK HZ LYBE 240230Z 00000KT CAVOK 20/19 Q1015 NOSIG MPBO 240100Z 00000KT 9999 SCT018 BKN090 Q1014 SKPS 232300Z 03005KT 9999 SCT028 19/16 A3012 MPDA 240200Z 00000KT(E) 8000 TSVCSH FEW005 SCT0018CB BKN070 // // Q1012 RWY WATER WET LYBT 240230Z 32002KT CAVOK 19/19 Q1015 NOSIG SKPV 240000Z 07008KT 9999 FEW017 OVC200 28/26 A//// SKRG 240200Z 03003KT 9999 SCT020 SCT080 16/13 A3031 SKRH 232300Z 06015KT 9999 FEW020 30/23 A2983 K14Y 240236Z AUTO 10004KT 10SM OVC010 22/21 A2977 RMK AO2 SKSA 231200Z 00000KT 8000 FEW050 22/22 A2996 RMK HZ NFNA 240200Z 10009KT 9999 BKN020 27/22 Q1014 K0A9 240235Z AUTO 00000KT 10SM SCT065 24/21 A3007 RMK AO2 SLJE 232200Z 34004KT 9999 NSC 30/15 Q1013 YIFL 240230Z AUTO 14007KT 9999 // SCT038 26/19 Q1014 K18A 240235Z AUTO 00000KT 7SM CLR 25/25 A3004 RMK AO2 T02450245 SKSM 240200Z 17010KT 9999 FEW020 28/23 A2982 YHOO 240230Z AUTO 07006KT 030V120 //// // ////// 28/06 Q1017 SLJO 232200Z 00000KT 8000 NSC 30/17 Q1014 SKSP 240200Z 08012KT 9999 FEW014 SCT200 28/26 A2989 SKUC 240200Z 00000KT 9999 FEW020 SCT200 24/24 A2991 TDCF 240000Z 14004KT 9999 FEW018 25/22 Q1014 SKUI 240000Z 00000KT 6000 BKN015 OVC070 24/23 A2984 REDZ NGFU 240100Z 12013KT 9999 VCSH SCT019CB OVC110 29/25 Q1009 K0E0 240235Z AUTO 18010KT 10SM CLR 28/04 A3013 RMK AO2 LTG DSNT W T02780035 K21D 240233Z AUTO 10004KT 10SM CLR 22/21 A2981 RMK AO2 SLMG 232200Z 00000KT 9999 NSC 31/20 Q1013 SLLP 240200Z 07006KT 9999 NSC 00/M09 Q1037 YJAB 240230Z AUTO 13007KT 090V150 //// // ////// 33/15 Q1012 K20U 240235Z AUTO 33009KT 10SM CLR 20/10 A3001 RMK AO2 K20V 240236Z AUTO 00000KT 10SM CLR 18/10 A3029 RMK AO2 K0F2 240235Z AUTO 13003KT 10SM CLR 30/22 A2992 RMK AO2 T02970216 SKVP 240100Z 02003KT 9999 FEW020 30/22 A2987 K0CO 240239Z AUTO 35013KT 10SM CLR 09/01 A3071 RMK AO2 YHSM 240230Z AUTO 35019KT 9999 // BKN049 BKN058 OVC070 11/06 Q1006 SKVV 232300Z 09004KT 9999 FEW020 SCT090 28/19 A2989 K22N 240235Z AUTO 00000KT 10SM CLR 20/17 A2993 RMK AO2 HKEL 240200Z 00000KT 9999 FEW015 SCT230 10/10 YHUG 240230Z AUTO 17004KT //// // ////// 26/13 Q1016 NFTF 240200Z 00000KT 9999 SCT018 27/22 Q1016 SLOR 232100Z 18005KT 9999 NSC 16/M03 Q1034 K24J 240235Z AUTO 00000KT 27/25 A3003 RMK AO1 LTG DSNT SE NFTL 240000Z 11008KT 9999 FEW010 SCT018 26/23 Q1016 SLPO 231700Z 24005KT 9999 NSC 15/M04 Q1038 SLPS 232300Z 09004KT 9000 NSC 24/16 Q1012 SLRB 232300Z 00000KT 9999 NSC 26/22 Q1015 NFTV 240200Z 11010KT 9999 FEW009 BKN017 26/23 Q1015 LYKV 240230Z VRB01KT CAVOK 18/18 Q1016 NOSIG MPMG 240200Z 31003KT 9999 FEW018 SCT090 26/25 Q1013 NOSIG K0J4 240158Z AUTO 00000KT 10SM CLR 26/23 A3000 RMK AO2 SLP156 T02560228 $ SLRI 232300Z 00000KT 5000 NSC 30/22 Q1012 K1A5 240240Z AUTO 00000KT 5SM BR BKN005 21/20 A3011 RMK AO2 T02080199 SLSA 232300Z 32005KT 9999 NSC 27/16 Q1011 K1A6 240235Z AUTO 00000KT 10SM CLR 23/23 A3005 RMK AO2 T02280225 K1A9 240235Z AUTO 00000KT 10SM SCT050 27/24 A2998 RMK AO2 T02710243 SLRQ 232200Z 00000KT 9999 FEW017 28/24 Q1011 SLSI 232300Z 00000KT 9999 NSC 28/19 Q1013 LYNI 240230Z 12003KT CAVOK 19/18 Q1016 K1B7 232051Z 21005KT 10SM SCT060 28/25 A2998 RMK LAST SLRY 232200Z 35004KT 9999 FEW020 29/21 Q1012 SMJP 240200Z VRB01KT 9999 BKN030 25/24 Q1014 NOSIG SLTJ 240200Z 00000KT 9999 NSC 14/06 Q1019 MPPA 240200Z 36006KT 9999 FEW020 23/21 Q1013 K28J 240235Z AUTO 19004KT 10SM CLR 27/24 A3005 RMK AO2 TSNO HKJK 240230Z 02002KT CAVOK 12/10 Q1022 NOSIG K1AM 240158Z AUTO 25007KT 10SM CLR 23/03 A3006 RMK AO2 LTG DSNT S SLP107 T02310034 $ K1AN 240156Z AUTO 30008KT 10SM CLR 21/15 A2976 RMK AO2 SLP094 T02060154 $ LYPG 240230Z 01003KT CAVOK 24/18 Q1013 NOSIG SLTR 232300Z 00000KT 7000 NSC 28/17 Q1011 HKKI 232200Z 00000KT CAVOK 17/15 Q1017 K1BM 240158Z AUTO 29010KT 10SM SCT220 24/04 A3005 RMK AO2 LTG DSNT S SLP149 T02360044 $ K1BN 240156Z AUTO 30010KT 10SM CLR 22/14 A2982 RMK AO2 SLP095 T02160136 $ K1AW 240158Z AUTO 04007KT 10SM BKN130 23/12 A3007 RMK AO2 SLP113 T02250115 $ ZBAA 240230Z VRB01MPS CAVOK 31/25 Q1004 NOSIG LZIB 240230Z 02004KT CAVOK 21/18 Q1016 SLVM 231900Z 00000KT 9999 NSC 30/14 Q1007 K1F0 240235Z AUTO 00000KT 10SM CLR 30/21 A2990 RMK AO2 K1CM 240158Z AUTO 35005KT 10SM SCT085 21/05 A3008 RMK AO2 LTG DSNT S SLP160 T02120054 $ K1CN 240156Z AUTO 31009KT 10SM CLR 22/14 A2984 RMK AO2 SLP102 T02150142 $ K1BW 240158Z AUTO 19004KT 10SM FEW120 SCT140 23/10 A3010 RMK AO2 SLP123 T02320102 $ SLVR 240200Z 35008KT 9999 NSC 21/17 Q1012 HKML 231800Z 21008KT 9999 SCT022 25/21 Q1014 K1DM 240158Z AUTO M 10SM CLR 23/07 A3000 RMK AO2 LTG DSNT S SLP146 T02340072 $ K1DN 240156Z AUTO 32012G22KT 10SM CLR 21/13 A2984 RMK AO2 SLP104 T02140133 PWINO $ K1CW 240158Z AUTO 16009KT 10SM CLR 25/11 A3006 RMK AO2 SLP117 T02510106 $ HKMO 240000Z 21005KT 9999 SCT018 23/21 Q1014 NOSIG GUCY 240100Z 30006KT 9999 BKN013 BKN110 24/24 Q1014 NOSIG SLYA 232300Z 00000KT 9999 NSC 17/10 Q1011 YJLC 240230Z AUTO 12005KT //// // ////// 27/12 Q1016 NGTA 240200Z 11012KT 9999 FEW020 SCT300 32/25 Q1007 TDPD 240100Z 11006KT 9999 SCT018 27/24 Q1016 MPSM 240200Z 29004KT 9999 FEW016 BKN080 24/24 Q1012 K1H2 240235Z AUTO 00000KT 5SM BR CLR 27/26 A2998 RMK AO2 T02650261 K1EM 240158Z AUTO 30003KT 10SM CLR 23/06 A3003 RMK AO2 LTG DSNT S SLPNO T02290064 $ CERM 240200Z AUTO 30002KT 16/14 RMK AO1 SLP082 T01590142 51019 K1EN 240156Z AUTO 32015G22KT 10SM CLR 22/13 A2983 RMK AO2 SLP105 T02180132 $ K1DW 240158Z AUTO 10008KT 10SM BKN220 23/12 A3010 RMK AO2 SLP127 T02340122 $ K0R0 240235Z AUTO 21004KT 10SM SCT049 27/25 A3002 RMK AO2 K33V 240235Z AUTO 29005KT 10SM CLR 18/03 A3034 RMK AO2 HKNW 240200Z 00000KT 9999 FEW015 15/11 Q1021 MPTO 240200Z 00000KT 9999 SCT018CB SCT080 26/24 Q1012 NOSIG K1FN 240156Z AUTO 31014KT 10SM CLR 20/14 A2976 RMK AO2 SLP110 T01980136 $ K1EW 240158Z AUTO 32008KT 10SM BKN120 BKN200 22/14 A3006 RMK AO2 SHRAB07E25 SLP119 P0001 T02200142 $ K0R4 240235Z AUTO 04003KT 10SM CLR 27/24 A2999 RMK AO2 T02740242 NGTT 240200Z 10017KT 9999 FEW020 SCT300 31/25 Q1007 K2A0 240235Z AUTO 00000KT 10SM 24/24 A3002 RMK A01 K1J0 240158Z AUTO 00000KT 10SM CLR 28/22 A3000 RMK AO2 SLP117 T02830222 $ YIVO 240230Z AUTO 34012KT //// // ////// 14/08 Q1012 LYTV 240230Z VRB02KT CAVOK 19/18 Q1013 K1GM 240158Z AUTO 29010KT 10SM FEW095 23/03 A3006 RMK AO2 LTG DSNT SE SLP144 T02250026 $ K1GN 240156Z AUTO 31013KT 10SM CLR 20/13 A2984 RMK AO2 SLP111 T02010131 $ LZKZ 240230Z 01006KT CAVOK 19/15 Q1018 K0S9 240235Z AUTO 33006KT 10SM CLR 18/12 A3022 RMK AO2 K1K1 240235Z AUTO 16007KT 10SM CLR 31/20 A2987 RMK AO2 T03080198 K1HM 240158Z AUTO 31012KT 10SM FEW100 25/01 A3004 RMK AO2 SLP137 T02460006 $ K1HN 240156Z AUTO 31009KT 10SM CLR 22/13 A2986 RMK AO2 SLP112 T02190127 $ K1GW 240158Z AUTO 08004KT 10SM CLR 22/14 A3001 RMK AO2 SLP114 T02240142 $ LYUZ 240230Z AUTO 24001KT //// // ////// 18/18 Q1020 LYVR 240230Z 29003KT CAVOK 20/20 Q1015 NOSIG K1L0 240235Z AUTO 00000KT 10SM CLR 25/24 A2998 RMK AO2 T02510240 GVAC 240200Z 28002KT 8000 SCT014 25/21 Q1013 NOSIG K36U 240235Z AUTO 36005KT 10SM CLR 25/01 A3009 RMK AO2 K1IM 240158Z AUTO 24008G21KT 10SM FEW100 24/03 A3003 RMK AO2 LTG DSNT SE SLP151 T02390033 $ K1IN 240156Z AUTO 30014G22KT 10SM CLR 21/13 A2986 RMK AO2 SLP110 T02060127 $ K1HW 240158Z AUTO 19008G14KT 10SM BKN210 25/13 A3000 RMK AO2 SLP115 T02500125 $ SOCA 240230Z AUTO VRB01KT 9999 BKN026 BKN034 BKN050 25/24 Q1014 NOSIG GVBA 231900Z 32005KT 9000 FEW014 27/22 Q1012 NOSIG K2C8 240235Z AUTO 22005KT 10SM BKN070 21/20 A2969 RMK AO2 K40B 240216Z AUTO 00000KT 16/14 A2982 RMK AO1 SLP085 T01570142 51022 K1JM 240158Z AUTO 34007KT 10SM BKN095 24/02 A3004 RMK AO2 SLP151 T02400020 $ ZBHH 240200Z 05003MPS 9999 FEW040 25/14 Q1011 NOSIG K1JN 240156Z AUTO M 10SM CLR 20/12 A2984 RMK AO2 SLP104 T02040124 $ K1IW 240158Z AUTO 09006KT 10SM FEW140 SCT180 24/13 A2999 RMK AO2 SHRAE06 SLP110 T02360125 $ K1M4 240156Z AUTO VRB03KT 10SM CLR 24/19 A3003 RMK AO2 SLP174 T02440194 TSNO K0V4 240235Z AUTO 00000KT 10SM CLR 26/25 A2998 RMK AO1 T02550247 K2D5 240235Z AUTO RMK AO2 PWINO PNO TSNO K1M5 240235Z AUTO 21005KT 10SM FEW041 FEW050 26/24 A3001 RMK A01 K40J 240235Z AUTO 00000KT 10SM CLR 26/25 A3002 RMK AO2 LTG DSNT E T02610245 GULB 230600Z 00000KT 8000 OVC010 20/19 Q1014 NOSIG K1KN 240156Z AUTO 30012G18KT 10SM CLR 19/13 A2985 RMK AO2 SLP106 T01900134 $ K1JW 240158Z AUTO 13007KT 10SM BKN110 BKN170 BKN200 25/12 A3001 RMK AO2 SLP110 T02450123 $ YKII 240230Z AUTO 33020KT 9999 // SCT022 OVC051 OVC100 10/07 Q1004 LZPP 240230Z AUTO 02006KT 9999 NCD 19/15 Q1017 K1LM 240158Z AUTO 36011KT 10SM CLR 19/08 A3009 RMK AO2 LTG DSNT S SLP165 T01910079 $ K1LN 240156Z AUTO 30013G19KT 10SM FEW085 20/14 A2984 RMK AO2 SLP102 T02020138 $ K1KW 240158Z AUTO 13008KT 10SM SCT140 23/14 A3000 RMK AO2 SLP106 T02330137 $ AYGN 240100Z 13008KT 9999 SCT020 BKN040 28/23 Q1012 HZ K0VG 240230Z AUTO 00000KT 10SM SCT095 SCT120 25/20 A3009 RMK AO2 YLBD 240230Z AUTO 12011KT 9999 // NCD 27/10 Q1014 K42J 240235Z AUTO 00000KT 10SM CLR 27/22 A3005 RMK AO1 TSNO MSAC 232250Z 26013KT 9999 3000NE TSSH BKN030 FEW037CB 30/26 Q1010 A2983 RMK CB WITH TSSH TO NE SH TO N K1P1 240235Z AUTO 00000KT 10SM CLR 17/15 A2989 RMK AO2 T01650151 K1MM 240158Z AUTO 03004KT 10SM FEW080 21/07 A3007 RMK AO2 LTG DSNT S SLP159 T02140073 $ TFFF 240230Z AUTO 06007KT 9999 ///TCU 26/23 Q1015 K1MN 240156Z AUTO 29012G17KT 10SM CLR 20/14 A2982 RMK AO2 SLP098 T02040137 $ K1LW 240158Z AUTO M 10SM -SHRA FEW044 BKN110 23/13 A3009 RMK AO2 SHRAB47 SLP126 P0001 T02300127 $ K2G4 240230Z AUTO 00000KT 10SM SCT024 SCT034 SCT090 22/20 A3012 RMK AO1 K2G9 240235Z AUTO 25003KT 10SM CLR 21/19 A3007 RMK AO2 LZSL 240230Z 00000KT CAVOK 16/15 Q1018 K1NM 240158Z AUTO 31006KT 10SM CLR 23/07 A3002 RMK AO2 LTG DSNT S SLP148 T02270069 $ K1NN 240156Z AUTO 30013G17KT 10SM SCT085 21/14 A2981 RMK AO2 SLP091 T02070141 $ K1MW 240158Z AUTO 09010KT 10SM BKN130 25/11 A3000 RMK AO2 SLP113 T02520108 $ TFFR 240230Z AUTO 09006KT 9999 FEW049/// OVC160/// ///CB 26/21 Q1016 MRLB 240200Z 18003KT 9999 FEW005 SCT120 24/24 A2990 NOSIG K2I0 240235Z AUTO 24007KT 7SM CLR 28/25 A2999 RMK AO2 T02800253 K1OM 240158Z AUTO M 10SM FEW220 22/09 A3002 RMK AO2 LTG DSNT S SLP143 T02190093 $ K1ON 240156Z AUTO 29013G19KT 10SM FEW090 21/14 A2978 RMK AO2 SLP087 T02070144 PWINO $ K1NW 240158Z AUTO 12002KT 10SM -SHRA BKN120 26/11 A3005 RMK AO2 LTG DSNT S SHRAB57 SLP120 T02570106 TSNO $ YLEC 240230Z AUTO 26015KT //// // ////// 13/01 Q1017 K1R7 240055Z AUTO 33006KT 10SM VCTS CLR A2997 RMK AO2 LTG DSNT W AND NW LZTT 240230Z 24002KT 9999 SCT036 11/10 Q1021 YKMP 240230Z AUTO 35009KT //// // ////// 14/02 Q1015 SMZO 240000Z 03002KT 9999 FEW015 FEW020CB 27/24 Q1011 NOSIG K46D 240235Z AUTO 24005KT 10SM CLR 21/15 A2981 RMK AO2 K1OW 240158Z AUTO M 10SM BKN075 27/07 A3006 RMK AO2 SHRAE00SHRAB16E47 SLP111 T02690071 $ K1S5 240235Z AUTO 12003KT 10SM CLR 26/12 A3002 RMK AO2 T02580116 K2J9 240235Z AUTO 00000KT 24/24 A3002 RMK AO1 YLEO 240230Z AUTO 11010KT 9999 // NCD 10/02 Q1027 YKNT 240230Z AUTO 16013KT //// // ////// 19/03 Q1021 MROC 240300Z 05005KT 9999 SCT030 BKN100 20/18 A3004 NOSIG K46U 240220Z AUTO 29005KT 9SM CLR 23/M03 A3017 RMK A01 AYMO 240200Z 14018KT 9999 BKN018 30/25 Q1008 K49A 240235Z AUTO 00000KT 7SM CLR A3009 RMK AO2 YKOW 240230Z AUTO 10008KT 080V140 //// // SCT040 30/19 Q1013 K3D2 240235Z AUTO 15007KT 10SM SCT055 SCT065 OVC120 22/17 A2991 RMK AO2 T02190166 YLHI 240230Z AUTO 24011KT 9999 // SCT036 18/11 Q1013 K1V4 240154Z AUTO 17/16 A2988 RMK AO1 SLP110 T01720156 K1V6 240230Z AUTO 20005KT 10SM CLR 25/12 A3011 RMK AO2 SPCL 240200Z 00000KT 9000 NSC 26/22 Q1012 RMK HZ PP000 K3AU 240235Z AUTO 15010KT 10SM SCT055 31/20 A2987 RMK AO2 YLHR 240230Z AUTO 12013KT //// // NCD 28/20 Q1013 LZZI 240230Z 10003KT 040V160 CAVOK 16/13 Q1018 AYNZ 240200Z 09015KT 9999 SCT016 SCT080 OVC120 28/23 Q1011 MRPV 240000Z 08001KT 5000 RA FEW005 BKN030 19/18 A3005 NOSIG YMBA 240230Z AUTO 18005KT //// // ////// 27/15 Q1016 ZBSJ 240200Z 05002MPS 1200 R15/1200V1700U BR NSC 31/28 Q1004 BECMG TL0330 1600 YLIS 240230Z AUTO 04004KT 360V110 9999 // NCD 20/04 Q1014 OAHR 240155Z VRB02KT CAVOK 25/09 Q1007 RMK BLU YKRY 240230Z AUTO 29009KT 9999 // NCD 21/05 Q1015 ZBTJ 240230Z VRB01MPS 2700 BR FEW033 33/27 Q1004 BECMG TL0330 3000 HZ AYPY 240200Z 14007KT 9999 SCT020 SCT300 31/22 Q1008 RMKS OAKB 240250Z VRB02KT 9999 FEW040 27/18 Q1016 NOSIG RMK BLU BLU YMAV 240230Z AUTO 34020KT 9999 // NCD 11/05 Q1007 YLLE 240230Z AUTO 29011KT 9999 // ////// 18/03 Q1018 YMAY 240230Z AUTO 03005KT 9999 // BKN056 OVC065 09/04 Q1013 GVNP 240200Z 03006KT 9999 SCT015 26/22 Q1013 NOSIG OBBI 240200Z 33010KT 3000 DU SKC 35/22 Q0996 TEMPO 1500 K54J 240235Z AUTO 00000KT 10SM CLR 26/24 A3001 RMK AO2 T02600236 SPGM 232100Z /////KT 9999 FEW040 29/19 Q1013 RMK TX////BIRD HAZARD RWY19 PP000 YMCO 240230Z AUTO 30006KT //// // ////// 13/00 Q1010 NIUE 231900Z AUTO 10008KT //// // ///////// 24/23 Q1016 YMDG 240230Z AUTO 32005KT 280V340 //// // NCD 08/M01 Q1015 MTCH 232100Z 05010KT 9000 FEW025CB 30/23 Q1014 A2996 RMKCB/SSE/SSW SPHI 240200Z 18008KT CAVOK 20/16 Q1014 RMK BIRD HAZARD RWY 19/01 PP000 SPHO 232300Z 04007KT CAVOK 21/04 Q1024 RMK PP000 MSLP 240150Z VRB04KT 9999 TS SCT021 FEW040CB SCT058 BKN068 24/23 Q1012 A2990 YMEK 240230Z AUTO 10016KT 9999 // NCD 13/01 Q1025 K4A6 240235Z AUTO 00000KT 10SM CLR 23/23 A3000 RMK AO2 K4A7 240235Z AUTO 00000KT 10SM CLR 26/25 A3003 RMK AO2 T02560247 K3J7 240235Z AUTO 13003KT 10SM CLR 25/24 A3000 RMK AO2 SPJC 240200Z 16008KT 9999 SCT010 OVC013 17/14 Q1016 NOSIG RMK PP000 MSLU 232250Z 14010KT 9999 -TSDZ SCT027 FEW040CB 29/23 Q1008 A2977 YMEN 240200Z AUTO 36018G28KT 9999 // NCD 10/05 Q1008 K1YT 240158Z AUTO 03012G14KT 10SM M 28/05 A3003 RMK AO2 SLPNO T02830053 $ K4A9 240235Z AUTO 00000KT 7SM CLR 22/21 A3001 RMK AO2 P0001 K57C 240235Z AUTO 14005KT 10SM -RA 22/21 A2995 RMK AO2 LTG DSNT SE AND S P0006 T02150207 SPHY 231900Z 35010KT CAVOK 18/07 Q1036 RMK BIRD HAZARD RWY03/21 PP000 K3K3 240235Z AUTO 08006KT 10SM CLR 23/20 A2989 RMK AO2 YMER 240230Z AUTO 34006KT 9999 // NCD 14/M01 Q1011 YMES 240230Z AUTO 33019KT 9999 // NCD 12/03 Q1008 SPJI 232100Z 00000KT 9999 SCT040 34/23 Q1017 RMK TX35.2 PP000 YMGB 240230Z AUTO 12010KT //// // ////// 30/21 Q1013 OAMS 240150Z 35005KT 9999 SKC 30/05 Q1003 BLU+ BLU+ YMGD 240230Z AUTO 08011KT 9999 // NCD 30/19 Q1013 SPJL 240200Z 24004KT CAVOK 06/M02 Q1037 RMK PP000 SPJR 232300Z 16007KT CAVOK 20/06 Q1025 RMK PP000 YMHB 240230Z 32013KT 9999 FEW035 BKN230 09/01 Q1004 ZBYN 240230Z 15002MPS CAVOK 30/22 Q1008 NOSIG K2V5 240155Z AUTO 35007KT 10SM CLR 30/15 A2997 RMK AO2 YMIA 240230Z AUTO 34016G26KT 9999 // BKN080 14/04 Q1010 YLRE 240230Z AUTO 24008KT 9999 // NCD 21/08 Q1017 SPME 240200Z 26004KT 9999 FEW030 23/21 Q1012 RMK BIRD HAZARD RWY 32/14 PP000 SPLO 232100Z 16006KT CAVOK 18/11 Q1010 RMK TX 19.8 PP000 GVSV 240200Z 06008KT 7000 FEW017 25/22 Q1013 NOSIG K4BM 240236Z AUTO 08004KT 10SM SCT050 BKN070 BKN085 13/02 A3065 RMK AO2 LTG DSNT S K3LF 240235Z AUTO 13005KT 10SM CLR 27/23 A2995 RMK AO2 T02660233 K2W6 240234Z AUTO 00000KT 10SM CLR 28/22 A2994 RMK AO1 YMHU 240230Z AUTO 08006KT 360V100 9999 // NCD 33/13 Q1014 K3N8 240235Z AUTO 22003KT 10SM SCT010 BKN025 BKN055 22/21 A2973 RMK AO2 LTG DSNT E AND SE P0006 T02230211 SPMS 232300Z 00000KT 9999 FEW015 31/23 Q1013 RMK BIRD HAZARD RWY 09/27 PP000 MSSA 240050Z 34004KT 9999 SCT033 FEW037CB 23/20 Q1017 A3004 YNAR 240230Z AUTO 36014KT //// // ////// 12/07 Q1013 YLST 240230Z AUTO 11008KT 9999 // NCD 10/04 Q1026 YLTN 240230Z AUTO 14010KT //// // ////// 10/03 Q1027 MSSM 240050Z 12002KT 9999 DZ SCT023 FEW033CB 23/23 Q1011 A2987 DAAD 231800Z 06008KT 9999 SCT040 35/09 Q1015 YNBR 240230Z AUTO 00000KT 9999 // OVC125 12/04 Q1017 DAAE 240200Z 10004KT 9999 SCT016TCU 24/22 Q1018 YMMB 240230Z AUTO 35020KT 9999 // NCD 10/03 Q1007 DAAG 240230Z 10001KT 9999 FEW010 20/19 Q1017 MSSS 240150Z 00000KT 9999 TSRA BKN017 SCT033CB 22/21 Q1016 A3002 YLTV 240230Z AUTO 32014KT 310V010 9999 // OVC074 11/02 Q1008 DAAJ 240200Z 32004KT 8000 FEW046 28/17 Q1017 MUCC 240155Z 09006KT 9000 FEW020 BKN070 28/24 Q1016 DABB 240230Z 19003KT 7000 FEW023 SCT040 21/20 Q1016 DABC 240230Z 00000KT 9999 FEW033CB SCT040 17/16 Q1020 MUCF 240158Z AUTO 02004KT 25/22 Q1017 K2WX 240156Z AUTO 33015KT 27/04 A2990 RMK AO1 PK WND 32027/0101 SLP098 T02720044 PNO $ DAAP 240200Z 15005KT CAVOK 27/02 Q1014 YMLT 240230Z AUTO 35010KT 9999 // NCD 08/02 Q1005 YMML 240230Z 01020KT 9999 FEW022 09/04 Q1008 FM0230 MOD TURB BLW 5000FT FM0300 MOD/SEV TURB BLW 5000FT K4I7 240235Z AUTO 00000KT 10SM CLR 25/25 A3000 RMK AO2 K3R7 240235Z AUTO 22004KT 10SM CLR 29/24 A2995 RMK AO2 YMND 240230Z AUTO 30013KT //// // ////// 11/00 Q1015 YMNE 240230Z AUTO 11012KT 9999 // SCT023 11/05 Q1026 MUCL 240155Z 02004KT 9000 SCT020CB SCT070 29/24 Q1016 DAAS 240200Z 04008KT CAVOK 18/13 Q1021 DAAT 240230Z 06003KT 9999 SCT050 SCT100 22/16 Q1021 MUCM 240150Z 36005KT 9000 SCT020 27/21 Q1017 YMNG 240230Z AUTO 03009KT 9999 // SCT011 BKN033 BKN040 07/06 Q1010 DAAV 240200Z 00000KT 9999 FEW020 22/20 Q1016 TGPY 240200Z 09019KT 9999 FEW020 28/24 Q1014 NOSIG DAAY 232300Z 36018KT 8000 NSC 24/13 Q1023 K5A6 240235Z AUTO 00000KT 10SM SCT100 25/25 A2998 RMK AO2 T02490246 SPQT 240200Z 25003KT 9999 SCT013 SCT100 24/22 Q1013 NOSIG RMK PP000 K65S 240235Z AUTO 23005KT 10SM 22/09 A3009 RMK AO2 SPQU 240200Z 07004KT 030V100 CAVOK 12/M16 Q1027 RMK PP000 YNEN 240230Z AUTO 16001KT 9999 // NCD 28/21 Q1013 DABS 240230Z 06008KT 9999 FEW040 21/16 Q1021 MUCU 240152Z 36004KT 9000 FEW020 BKN070 27/19 Q1015 DABT 240200Z 08006KT CAVOK 20/13 Q1020 YMOG 240230Z AUTO 08011KT //// // ////// 12/06 Q1026 K3T5 240230Z AUTO 17007KT 10SM 31/23 A2988 RMK AO2 T03140230 K66R 240235Z AUTO 16007KT 10SM CLR 29/24 A2990 RMK AO2 T02910239 SPRU 240200Z 10007KT CAVOK 19/16 Q1014 RMK PP000 K5C1 240235Z AUTO 11003KT 10SM CLR 30/18 A2992 RMK AO1 SPSO 240200Z 22008KT 9999 OVC017 17/14 Q1015 RMK PP000 YMOR 240230Z AUTO 35002KT 9999 // NCD 12/05 Q1017 DAEF 231800Z 01014KT CAVOK 38/// Q1013 SPST 240200Z 00000KT 9999 FEW030 26/22 Q1012 RMK BIRD HAZARD RWY 17/35 PP000 SPTN 240200Z 33003KT 8000 SCT007 OVC023 12/11 Q1017 RMK PP000 DAEN 231800Z 36010KT CAVOK 39/01 Q1011 YMRB 240230Z AUTO 01003KT 9999 // NCD 28/16 Q1015 YNGU 240230Z AUTO 11010KT //// // ////// 32/16 Q1014 DAFH 231800Z 24014KT 9999 SCT030 38/M00 Q1015 MUHA 240155Z 09003KT 040V130 8000 FEW020CB BKN180 23/20 Q1017 SPTU 232300Z 00000KT 9999 FEW012 27/22 Q1011 RMK BIRD HAZARD RWY 01/19 PP000 K4M9 240235Z AUTO 15003KT 10SM 28/24 A2995 RMK AO2 LTG DSNT SE PWINO PNO MUGM 240156Z 01008KT 9999 FEW032 BKN280 30/21 A2998 RMK SLP152 T03000211 MTPP 240000Z VRB02KT 8000 FEW020 30/26 Q1012 A2990 MUHG 240151Z 08010KT 9000 FEW020 BKN300 28/21 Q1015 K4O4 240235Z AUTO 00000KT 10SM CLR 23/21 A2994 RMK AO2 P0001 YMRY 240230Z AUTO 29007KT 230V310 9999 // NCD 15/M03 Q1011 YMTG 240230Z AUTO 01015KT 9999 // OVC013 OVC018 08/07 Q1002 YMTI 240230Z AUTO 13014KT //// // ////// 26/17 Q1015 K4MR 240158Z AUTO 15010KT 10SM CLR 33/03 A3000 RMK AO2 SLP083 T03250030 $ K5H4 240235Z AUTO 29010KT 10SM CLR 20/15 A2982 RMK AO2 P0033 PWINO PNO SPYL 232100Z 24010KT CAVOK 24/17 Q1011 RMK TX 27.3 BIRD HAZARD RWY 17/35 PP000 DBBB 240200Z 24006KT 210V270 7000 -RA SCT010 24/23 Q1012 TEMPO 4000 SHRA BKN010 K74V 240235Z AUTO 30015G20KT 10SM CLR 31/M03 A3005 RMK AO2 LTG DSNT S K6A2 240235Z AUTO 00000KT 10SM CLR 28/24 A3003 RMK AO2 SPZO 240200Z 26004KT 9999 NSC 08/M03 Q1031 RMK PP000 UAAA 240230Z VRB01MPS 9999 SCT200 22/12 Q1010 R88/CLRD65 NOSIG K6B0 240235Z AUTO 00000KT 10SM SCT060 16/16 A2992 RMK AO2 T01600160 UAAH 240230Z 30004MPS CAVOK 21/18 Q1007 R23/0///60 NOSIG RMK QFE717/0956 YMYB 240230Z AUTO 17005KT 9999 // NCD 24/08 Q1015 K6B9 240235Z AUTO 00000KT 10SM CLR 23/15 A2996 RMK AO2 UACC 240230Z 25003MPS 6000 NSC 18/16 Q1005 R22/0/0070 NOSIG RMK QFE723/0964 K4V0 240235Z AUTO 19007KT 10SM CLR 28/06 A3004 RMK AO2 T02810055 DAOB 240200Z 00000KT CAVOK 18/10 Q1020 TJBQ 232350Z 08018KT 10SM BKN023 26/23 A3001 DAOF 240200Z 10004KT CAVOK 33/01 Q1010 UACK 240230Z 28004MPS 2300 BR BKN039 OVC230 18/18 Q1005 TEMPO 1000 BR BKN003 RMK QFE730/0973 DAOI 240200Z 00000KT CAVOK 24/18 Q1016 K79J 240156Z AUTO 00000KT 10SM CLR 27/24 A2999 RMK AO2 SLP149 T02720239 K5LA 240235Z AUTO 00000KT 10SM FEW024 28/25 A2998 RMK AO2 UADD 240230Z VRB01MPS 9999 NSC 25/12 Q1009 NOSIG RMK QFE700/0934 K5M9 240235Z AUTO 00000KT 10SM CLR 27/26 A3000 RMK AO2 T02720257 DAOL 240100Z 16004KT 9999 FEW026 22/22 Q1017 UACP 240230Z 06004MPS 4700 FU SCT040 SCT200 19/16 Q1005 NOSIG RMK QFE741/0988 DAON 240230Z 00000KT CAVOK 20/19 Q1017 DAOO 240230Z 31004KT 270V350 9999 BKN013 23/21 Q1016 DAOR 240200Z 30006KT CAVOK 29/04 Q1017 YPAD 240230Z 31019KT 9999 VCSH FEW008 BKN054 11/05 Q1008 INTER 0230/0530 27025G40KT 5000 SHRA BKN030 K82C 240235Z AUTO 14008KT 10SM SCT090 BKN120 22/21 A2986 RMK AO2 T02210213 DAOV 240200Z 00000KT CAVOK 18/12 Q1017 DAOY 240200Z 03002KT CAVOK 22/06 Q1023 YNSM 240230Z AUTO 21009KT //// // ////// 10/05 Q1026 OEAB 240200Z 28002KT CAVOK 20/16 Q1018 NOSIG MUSC 240150Z VRB02KT 8000 BKN020 23/20 Q1018 OEAH 240200Z 36006KT 2500 DU SCT050 BKN100 34/08 Q0997 NOSIG OEBA 240200Z 00000KT CAVOK 28/10 Q1013 NOSIG YPCC 240230Z AUTO 14013KT 3600 RA SCT010 BKN032 OVC100 25/24 Q1011 YOLD 240230Z AUTO 26016KT 9999 // BKN047 OVC061 15/03 Q1017 YNTN 240230Z AUTO 08008KT 9999 // NCD 30/17 Q1014 YPBO 240230Z AUTO 08010KT 9999 -SHRA SCT034 SCT039 BKN045 15/11 Q1022 K82V 240235Z AUTO 24003KT 10SM SCT120 21/15 A3008 RMK AO2 LTG DSNT SE AND SW OEAO 232100Z 26004KT CAVOK 36/05 Q1006 OEBH 240200Z 00000KT 9999 FEW030 30/09 Q1008 NOSIG OEAR 240200Z 00000KT 9000 NSC 34/22 Q1001 MWCB 240000Z 05004KT 9999 FEW018CB 30/25 Q1014 K6I2 240225Z AUTO 00000KT 10SM CLR 27/24 A3001 RMK AO2 YPEA 240200Z AUTO 19001KT 9999 // NCD 09/05 Q1029 K5R8 240235Z AUTO 00000KT 10SM CLR 28/24 A2994 RMK AO2 T02780241 YOLW 240230Z AUTO 14010KT //// // ////// 19/16 Q1019 DAUA 240200Z 00000KT CAVOK 33/M01 Q1011 YPDN 240230Z 11007KT 9999 FEW040 31/19 Q1012 NOSIG DAUB 240200Z 10008KT CAVOK 32/14 Q1013 TJIG 232255Z 09008KT 10SM SCT040 28/24 A3001 DATM 231200Z 14012KT CAVOK 37/17 Q1013 OEDF 240200Z 31004KT 2000 DU NSC 32/16 Q0996 NOSIG DAUE 240200Z 00000KT CAVOK 27/11 Q1014 UAII 240230Z 09002MPS 060V120 CAVOK 27/06 Q1007 R10/0///70 NOSIG RMK QFE720/0960 DAUG 240200Z 22006KT CAVOK 31/01 Q1013 MWCR 240200Z 10003KT 9999 FEW016 29/26 Q1014 NOSIG DAUH 240230Z 16006KT CAVOK 29/07 Q1011 YOOD 240230Z AUTO 23015KT //// // ////// 16/00 Q1021 DAUI 240200Z 24006KT 8000 NSC 29/08 Q1011 YNWN 240230Z AUTO 10010KT 9999 // OVC067 14/07 Q1023 OEDM 231800Z 04008KT 8000 SKC 36/M01 Q1007 DAUK 240200Z 10010KT CAVOK 31/16 Q1011 DAUL 240200Z 00000KT CAVOK 26/09 Q1016 DAUO 240200Z 12012KT CAVOK 29/10 Q1012 MUVR 240153Z 08004KT 040V200 8000 FEW018CB SCT020 BKN100 23/21 Q1017 OEDR 240200Z 35006KT 1500 DU NSC 35/12 Q0995 NOSIG UBBB 240230Z 33009KT CAVOK 25/21 Q1008 R88/CLRD// NOSIG YOOM 240230Z AUTO 30014KT 9999 // NCD 18/04 Q1018 K5T9 240235Z AUTO 10005KT 10SM CLR 33/15 A2981 RMK A01 DAUT 240200Z 07008KT 7000 NSC 30/06 Q1012 DAUU 240200Z 18008KT CAVOK 30/01 Q1011 ZGGG 240230Z 11002MPS 040V160 CAVOK 34/24 Q1008 NOSIG UBBG 240230Z 27014KT 9999 BKN083 22/15 Q1010 R12/CLRD// NOSIG K6L4 240235Z AUTO 00000KT 10SM CLR 27/22 A3005 RMK AO2 ZGHA 240200Z 18004MPS 150V210 CAVOK 34/23 Q1007 NOSIG TIST 232053Z 06015G23KT 10SM FEW037 SCT060 31/23 A2996 RMK AO2 SLP147 T03060233 56008 $ DAUZ 240200Z 04008KT CAVOK 26/M00 Q1014 UAKK 240230Z 25003MPS 220V290 7000 SCT006 BKN220 19/17 Q1007 R23/0///70 NOSIG RMK QBB180 QFE709/0945 UBBL 240200Z 00000KT 9999 NSC 23/18 Q1009 R33/CLRD// RMK MT OP UBBN 240230Z 03006KT 9999 FEW100 20/14 Q1009 R14R/CLRD// NOSIG RMK MT OP QFE682 TISX 240153Z AUTO 06008KT 10SM SCT120 27/24 A3002 RMK AO2 SLP165 T02720239 TSNO K5SM 240232Z AUTO 00000KT 10SM CLR 17/01 A3059 RMK AO2 TSNO UBBQ 240200Z 04002KT 9999 OVC036 22/20 Q1010 R16/CLRD// NOSIG RMK MT OBSC YPGV 240230Z AUTO 12011KT 9999 // SCT024 SCT063 29/22 Q1013 YORG 240230Z AUTO 31010KT 9999 // SCT029 BKN034 04/M01 Q1014 OEGN 240200Z 15003KT CAVOK 33/26 Q1001 NOSIG K7BM 240235Z AUTO 14010KT 10SM SCT090 20/00 A3048 RMK AO2 UBBY 240200Z 07006KT 9999 SCT080 21/17 Q1013 R33/////// NOSIG RMK MT OP OEGS 240200Z 00000KT CAVOK 28/09 Q1004 OEGT 240200Z 27014KT CAVOK 21/16 Q1006 NOSIG OEHL 232200Z 36006KT CAVOK 32/05 Q1009 UBEE 231500Z 20004KT CAVOK 30/19 Q1008 R30/CLRD// NOSIG YPKA 240230Z AUTO 09012KT 9999 // SCT021 SCT031 BKN043 21/16 Q1018 YPKG 240230Z AUTO 17007KT 9999 // NCD 09/02 Q1027 TJNR 240153Z AUTO 06006KT 10SM CLR 27/24 A3005 RMK AO2 SLP175 T02670244 YPJT 240230Z AUTO 07004KT 9999 // NCD 12/05 Q1029 ZHCC 240200Z 16002MPS 100V250 CAVOK 32/25 Q1004 NOSIG ZGKL 240200Z 17006MPS CAVOK 32/22 Q1009 NOSIG UAOO 240230Z 27004MPS 250V310 9999 SCT033CB BKN130 27/13 Q1006 R23/CLRD70 NOSIG RMK QFE743/0990 OEJN 240200Z 22006KT CAVOK 32/26 Q0998 NOSIG YPKS 240230Z AUTO 34009KT 9999 // OVC062 09/04 Q1015 YPKT 240230Z AUTO 35008KT //// // ////// 31/18 Q//// OEKJ 240200Z 30003KT 1500 DU SKC 35/07 Q1004 YPKU 240230Z AUTO 12009KT 9999 // NCD 33/11 Q1014 OEKK 232000Z 32005KT CAVOK 35/14 Q1002 NOSIG YPLM 240230Z AUTO 18006KT 9999 -RA SCT033 BKN040 OVC049 17/16 Q1020 RERA OEKM 240200Z 32004KT 9999 FEW022 20/17 Q1017 NOSIG K6R6 240153Z AUTO 10011G17KT 34/14 A2986 RMK AO1 SLP069 T03440144 TJPS 231850Z 10010G18KT 10SM FEW030 34/24 A2994 OEMA 240200Z 05004KT CAVOK 37/M02 Q1006 NOSIG K8A0 240235Z AUTO 00000KT 7SM CLR 22/22 A3002 RMK AO2 K96D 240235Z AUTO 24005KT 10SM CLR 22/19 A2969 RMK AO2 YPMQ 240230Z AUTO 02007KT 340V080 9999 // NCD 15/03 Q1014 SUAA 232200Z 00000KT CAVOK 12/09 Q1014 OEMK 232100Z 00000KT CAVOK 35/27 Q0999 ZGNN 240200Z VRB01MPS 9999 SCT020 32/24 Q1009 NOSIG SUAG 231400Z 06006KT 999 FEW010 BKN200 15/10 Q1016 OENG 240200Z 24006KT 9999 FEW030 SCT090 27/11 Q1008 NOSIG UARR 240230Z 34002MPS 5000 -SHRA BR BKN033CB OVC083 18/17 Q1008 R22/220360 TEMPO 2000 -SHRA BR BKN007 RMK QFE752/1003 TJSJ 240156Z 09010KT 10SM FEW022 SCT070 27/24 A3002 RMK AO2 RAE0057 SLP166 T02720244 $ UASK 240230Z 14004MPS 9999 SCT030CB BKN046 21/16 Q1005 R12/190060 NOSIG RMK QFE729/0972 YPPD 240230Z AUTO 13015KT 9999 // BKN110 24/06 Q1018 UATE 240230Z 32003MPS CAVOK 21/18 Q1009 R12/0///70 NOSIG RMK QFE755/1006 K7L2 240235Z AUTO 24004KT 10SM CLR 19/18 A2987 RMK AO2 UATG 240230Z 24002MPS CAVOK 21/13 Q1006 R32/CLRD70 NOSIG RMK QFE756/1009 UASP 240230Z 24004MPS 4500 BR OVC002CB 20/19 Q1002 R21/0///70 NOSIG RMK QBB060 OBST PT OBSC QFE740/0987 YPPH 240230Z 15005KT 9999 FEW032 12/04 Q1029 NOSIG UASS 240230Z 22002MPS 180V270 CAVOK 23/16 Q1004 R08/0///60 NOSIG RMK QFE732/0976 OEPA 240200Z 27004KT CAVOK 29/12 Q1000 NOSIG ZGOW 240200Z 00000MPS 6000 NSC 33/26 Q1009 NOSIG ZHHH 240200Z 22006MPS CAVOK 35/26 Q1006 NOSIG K8D3 240156Z AUTO 18006KT 27/25 A2971 RMK AO1 SLP040 T02670250 UATT 240230Z 35005MPS 3200 BR SCT045CB OVC071 17/15 Q1004 R31/29//50 NOSIG RMK QFE733/0977 K7N0 240156Z AUTO 18003KT 10SM CLR 31/25 A2996 RMK AO2 SLPNO T03110250 CMGB 240230Z AUTO 21002KT 18/18 RMK AO1 SLP119 T01800175 53016 CMFM 240200Z AUTO 36005KT 13/10 RMK AO1 SLP122 T01250095 52023 UAUU 240230Z 03003MPS 4200 BR OVC200 20/18 Q1007 R33/CLRD70 TEMPO 2000 BR FU RMK QFE740/0986 OERF 240200Z 28005KT CAVOK 27/01 Q1002 SUDU 232100Z 00000KT CAVOK 16/10 Q1013 OERK 240200Z 31004KT CAVOK 30/00 Q1003 NOSIG OESH 240200Z 19008KT 5000 DU SCT040 31/11 Q1003 NOSIG OERR 240200Z 29008KT CAVOK 27/14 Q1003 NOSIG OETB 240200Z 26004KT CAVOK 26/10 Q1007 NOSIG OESK 240200Z 27013KT CAVOK 26/07 Q1006 NOSIG UCFL 240200Z 25001MPS 9999 NSC 20/12 Q1014 RMK G/O TX22 TN14 UCFM 240230Z 14003MPS 360V170 7000 NSC 23/12 Q1010 R08/CLRD70 NOSIG YPTN 240230Z AUTO 08009KT 070V150 9999 // SCT048 SCT054 31/17 Q1014 UCFO 240230Z 17003MPS 9000 NSC 26/11 Q1010 R12/CLRD70 NOSIG OETF 240200Z 20005KT 8000 NSC 27/13 Q1011 NOSIG ZGSZ 240200Z VRB01MPS CAVOK 31/25 Q1009 NOSIG TKPK 240200Z 07012KT 9999 BKN019 27/24 Q1017 TKPN 240000Z 11010KT 9999 SCT018 28/23 Q1015 K7R3 231930Z 29003KT 10SM SCT120 30/24 A3000 RMK DA017 OETR 240200Z 28004KT CAVOK 21/13 Q1007 K9A5 240235Z AUTO 00000KT 10SM SCT095 SCT120 25/23 A3004 RMK AO2 T02500231 SVAC 240100Z 00000KT CAVOK 24/21 Q1013 YREN 240230Z AUTO 31018KT //// // ////// 14/03 Q1009 OEWD 240200Z 30002KT CAVOK 32/19 Q1002 NOSIG YPWR 240230Z AUTO 27020KT 9999 // SCT061 14/01 Q1016 OEWJ 240200Z 32010KT CAVOK 29/26 Q1000 NOSIG SVBC 240200Z /////KT 9999 FEW010 28/25 Q1013 YPXM 240246Z AUTO 03007KT 9999 // SCT008 SCT012 28/24 Q1013 SVBI 240200Z /////KT 9999 FEW020 24/// Q1014 SVBM 240200Z 09008KT 9999 SCT016 23/20 Q1017 MYGF 240000Z 08004KT 9999 VCSH FEW015CB BKN250 28/25 A3000 RMK CB E/SW/W/DSNT NW VCSH W SVBS 240200Z 29002KT 9999 BKN013 23/22 Q1016 K9D7 240215Z AUTO 27009KT 10SM CLR 19/17 A2977 RMK AO2 OEYN 240200Z 25010KT 9999 FEW040 34/19 Q0996 NOSIG K7W4 240235Z AUTO 00000KT 10SM CLR 26/25 A2995 RMK AO1 T02550248 SVCR 240200Z /////KT 9999 FEW016 28/// Q1013 K7W6 240240Z AUTO 21003KT 10SM CLR 26/24 A3000 RMK AO2 T02560236 SULS 240200Z 30003KT 8000 NSC 09/07 Q1016 SVCU 240200Z /////KT CAVOK 28/20 Q1014 HTDA 232300Z 00000KT 9999 SCT021 21/20 Q1015 NOSIG K9F2 230955Z 08004KT 7SM DZ BKN020 27/22 A2999 SUMU 240200Z 33003KT 5000 1600W BC FG BR NSC 08/06 Q1016 TEMPO 800 FG YSBK 240230Z AUTO 31006KT 9999 // NCD 12/01 Q1014 YSCB 240230Z 31013KT 9999 BKN034 SCT045 06/M00 Q1013 NOSIG TLPC 240000Z 09006KT 9999 -SHRA BKN022 27/24 Q1015 NOSIG SVGD 240200Z 00000KT 9999 SCT017 26/23 Q//// HSOB 232200Z 22004KT 9999 FEW050 BOKN140 23/21 Q1011 HSNN 240100Z 25004KT CAVOK 24/21 Q1012 YRMD 240230Z AUTO 12007KT //// // ////// 26/14 Q1016 TLPL 240200Z 11013KT 9999 FEW018CB SCT020 28/24 Q1015 TEMPO SHRA YSCN 240230Z AUTO 27007KT 9999 // NCD 13/01 Q1013 YSCO 240230Z AUTO 30008KT //// // ////// 11/M02 Q1015 YSCR 240230Z AUTO 18005KT //// // ////// 09/03 Q1027 SVGU 232300Z /////KT 9999 FEW010 28/23 Q1012 HSPN 230700Z 17011KT 8000M 42/14 Q1003 MZBZ 240000Z 07009KT 9999 FEW020 30/26 A2993 Q1013 NOSIG HRYR 232200Z 29003KT 220V330 9999 FEW025 22/13 Q1019 NOSIG YSDU 240230Z AUTO 35006KT 9999 // NCD 10/03 Q1016 SVJC 232100Z 09015KT 9999 FEW030 XX/XX Q1010 YROM 240230Z AUTO 35007KT 9999 // NCD 19/04 Q1016 YSGE 240230Z AUTO 36006KT //// // ////// 16/04 Q1016 SVJM 240200Z /////KT 9999 BKN020 26/19 Q1015 SUSO 240000Z 14005KT CAVOK 15/09 Q1014 K9L2 240156Z AUTO 27017KT 10SM CLR 38/M01 A2982 RMK AO2 SLP073 T03781011 $ MYNN 240200Z 00000KT 9999 VCTS FEW015CB 28/23 A3005 RMK CB/LTG W THRU N TNCA 240200Z 10013KT 9999 FEW018 29/24 Q1012 NOSIG TNCB 240155Z AUTO 09010KT 9999 FEW017/// 28/24 Q1013 TNCC 240200Z 10010KT 9999 FEW017 28/23 Q1014 NOSIG TNCE 240155Z AUTO 05012KT 020V080 //// // ///////// 26/23 Q1017 RE// SVLF 232100Z 09010KT 3000 +RA OVC010 XX/XX Q1010 DFFD 240200Z 19004KT 9999 FEW020 25/25 Q1014 NOSIG YSHK 240230Z AUTO 11018KT //// // ////// 16/05 Q1023 ZJHK 240200Z 23002MPS 160V290 9999 FEW018 31/26 Q1009 NOSIG SVMC 240200Z 05011KT 9999 FEW010CB 29/24 Q1012 HTKJ 232200Z 12005KT 9999 FEW024 19/14 Q1017 NOSIG HSSS 240230Z 24013KT 0500M BLSA 29/20 Q1007 NOSIG SVMD 240200Z 23004KT 1000 DZBR OVC003 18/18 Q1021 RERA TNCM 240200Z 09005KT 9999 -SHRA BKN016TCU 27/24 Q1017 A3004 RERA K8W2 240235Z AUTO 00000KT 10SM CLR A2997 RMK AO1 SVMG 240200Z /////KT 9999 FEW010 26/24 Q1013 NOSIG SVMI 240200Z 05002KT 9999 BKN016 27/19 Q1011 NOSIG YSHT 240230Z AUTO 04011KT 9999 // ////// 07/06 Q1011 YSHW 240230Z AUTO 29007KT 9999 // NCD 12/01 Q1013 SVMN 240200Z 05002KT 9999 SCT013 BKN100 25/// Q1011 UEEE 240230Z 02006MPS CAVOK 19/10 Q1009 R23L/09//60 NOSIG RMK QFE748 SVMT 232300Z 07007KT CAVOK 28/19 Q1011 OIAA 240200Z 24006KT CAVOK 29/09 Q0994 K9MN 240235Z AUTO 12004KT 10SM OVC018 23/22 A2983 RMK AO1 T02300222 YTAR 240230Z AUTO 26017KT //// // ////// 13/05 Q1019 YRTI 240230Z AUTO 11008KT //// // ////// 12/04 Q1028 OIAG 240200Z 20002KT 9999 FEW040 29/09 Q0994 OIAH 240200Z 00000KT CAVOK 32/00 Q1001 SVPA 240200Z /////KT 9999 FEW013 25/25 Q1013 OIAI 240200Z 11002KT 4000 DU NSC 32/04 Q0993 OIBA 231500Z 02004KT 4000 HZ NSC 34/29 Q0993 OIBB 240200Z 33016KT CAVOK 35/19 Q0993 A2935 DGAA 240200Z 25009KT 9999 FEW012 BKN022 24/23 Q1013 NOSIG OIAM 240200Z 30006KT CAVOK 29/13 Q0994 HUEN 240200Z 36006KT 7000 FEW018 FEW020CB 19/17 Q1016 HTMW 232100Z 00000KT 9999 FEW021 SCT240 20/19 Q1016 NOSIG OIBJ 231500Z 22012KT CAVOK 36/20 Q0999 OIBK 240200Z 11014KT 3500 BR NSC 33/29 Q0995 OICC 240230Z 16004KT CAVOK 16/M01 Q1006 A2972 OIBL 240200Z 07016KT 3000 BR NSC 33/30 Q0996 OIAW 240200Z 27004KT CAVOK 30/10 Q0993 YSMH 240230Z AUTO 01007KT 320V040 9999 // SCT020 26/20 Q1014 YSMI 240230Z AUTO 33013KT //// // ////// 11/07 Q1004 OIBP 240200Z 15004KT 3000 BR FEW040 31/27 Q0994 A2937 OIBQ 240200Z 32010KT 9999 FEW040 BKN100 33/27 Q0994 OICI 240200Z 12006KT CAVOK 25/01 Q1005 A2970 OICJ 240150Z 34006KT CAVOK 23/02 Q1010 OIBS 231500Z 32008KT 6000 NSC 36/29 Q0993 OICK 240150Z 15004KT CAVOK 23/02 Q1005 YTEE 240230Z AUTO 15006KT 9999 // NCD 22/05 Q1018 OIBV 240200Z 13010KT 4000 BR NSC 33/31 Q0994 YSNF 240230Z AUTO 23014KT 220V280 3200 RA BKN004 BKN007 OVC013 18/17 Q1013 YTEF 240230Z AUTO 13020KT 9999 // BKN100 19/05 Q1021 SVSA 240200Z 00000KT 9 SCT020 27/21 Q1014 OICS 240200Z 34008KT CAVOK 26/10 Q1008 YTEM 240230Z AUTO 36011KT //// // ////// 10/06 Q1014 CPBT 240100Z AUTO 27022KT 23/07 RMK AO1 PK WND 28033/0032 T02320072 UDSG 240230Z 35004MPS 9999 NSC 15/08 Q1015 R02/CLRD70 NOSIG YSOL 231300Z AUTO 05003KT 9999 // OVC074 17/14 Q1019 YSNW 240230Z AUTO 29015KT 9999 // NCD 13/M01 Q1012 SVSR 232200Z /////KT 9999 -TS FEW013 BKN016 29/XX Q1011 CPEH 240100Z AUTO 07003KT 26/08 RMK AO1 T02610082 YTGM 240230Z AUTO 31010KT //// // ////// 17/01 Q1017 OIFK 240200Z 00000KT CAVOK 26/09 Q1006 OIFM 240230Z 00000KT CAVOK 21/M04 Q1011 A2987 OIGG 240230Z 00000KT 8000 SCT025 OVC090 23/22 Q1008 YTIB 240230Z AUTO 29017KT //// // ////// 17/// Q1016 SVVA 240200Z 14003KT 9999 SCT016 23/22 Q1015 OIFS 240200Z 34004KT 9999 FEW040 15/M01 Q1017 CPFI 240200Z AUTO 28013KT 24/10 RMK AO1 PK WND 28019/0152 T02430097 OIGK 240150Z 12006KT 9999 FEW020 15/12 Q1016 K9V9 240235Z AUTO 35007KT 10SM CLR 29/16 A2986 RMK AO2 T02850161 SVVG 240200Z 27003KT 8000 DZ OVC013CB 24/23 Q1011 YSRI 240230Z AUTO 01006KT 9999 // NCD 12/01 Q1014 DFOO 240200Z 18004KT CAVOK 24/23 Q1014 OIHH 240150Z AUTO 36002KT //// // ////// 17/02 Q1012 SVVL 232100Z 34005KT 6000 SCT013 BKN100 23/22 Q1015 YSRN 240230Z AUTO 01008KT 9999 // SCT040 09/05 Q1003 OIHM 240100Z 10006KT CAVOK 20/03 Q1011 OIIE 240200Z 34012KT CAVOK 22/14 Q1008 OIII 240230Z 03004KT CAVOK 27/09 Q1009 A2981 NOSIG OIHR 230630Z 08008KT 8000 NSC 33/06 Q1014 OIIK 240200Z 07004KT CAVOK 18/15 Q1010 PAAD 240235Z AUTO 07022G26KT 5SM BR OVC003 02/01 A2990 RMK AO2 YSTH 240230Z AUTO 01006KT 9999 // NCD 11/02 Q1005 OIIP 231800Z 27014KT CAVOK 31/04 Q1008 OJAI 240200Z 28010KT 7000 NSC 18/14 Q1009 NOSIG OIIS 240200Z 36002KT CAVOK 28/08 Q1009 PABA 240248Z AUTO 08017KT 1SM UP BR OVC002 02/01 A2993 RMK AO2 RAB22E34 P0000 FZRANO OIKB 240230Z 15012KT 3500 HZ FEW030 SCT090 33/28 Q0998 A2948 PAAK 240236Z AUTO 22007KT 10SM OVC022 15/11 A3021 RMK AO1 OJAM 240100Z 00000KT 6000 NSC 19/15 Q1010 NOSIG ZJSY 240200Z 17002MPS 110V220 9999 SCT020 31/26 Q1009 NOSIG YSSY 240230Z 30016KT CAVOK 12/M03 Q1013 NOSIG PABE 240228Z 23014KT 3SM BR BKN007 OVC011 12/12 A2966 RMK AO2 RAB00E13 CIG 004V009 P0000 T01220122 $ OJAQ 240000Z 01006KT CAVOK 28/10 Q1007 NOSIG PAAQ 240153Z 12010KT 10SM BKN034 BKN044 OVC055 17/13 A2956 RMK AO2 SLP012 T01720128 PABI 240153Z 01003KT 10SM -RA FEW010 BKN065 OVC075 14/11 A2963 RMK AO2 SLP040 P0005 T01440106 $ CPIR 240100Z AUTO 25013KT 24/09 RMK AO1 PK WND 25020/0047 T02420090 OIKK 240200Z 00000KT CAVOK 18/M08 Q1013 A2994 PABL 240236Z AUTO 31010KT 10SM CLR 18/11 A2965 RMK AO1 YSTW 240230Z AUTO 02001KT 9999 // NCD 09/00 Q1016 PACD 240209Z AUTO 26017KT 3SM -RA BR BKN009 BKN013 OVC020 11/10 A3010 RMK AO2 RAB06 CIG 005V013 P0000 T01060100 TSNO OIKO 231350Z 21004KT 5000 HZ NSC 39/22 Q0995 OIKQ 240200Z 07006KT 4000 BR NSC 32/29 Q0996 PABR 240153Z 07013KT 10SM OVC007 03/M01 A2998 RMK AO2 SLP152 T00281006 HTZA 232300Z 13004KT 9999 FEW018 24/22 Q1014 NOSIG OIMB 240200Z 07006KT CAVOK 21/M06 Q1010 PABT 240153Z 06010G16KT 10SM FEW045 SCT075 BKN100 18/08 A2966 RMK AO2 RAE0054 SLP050 SHRA VC S-NW P0004 T01780078 $ OIMC 240200Z 30006KT CAVOK 24/06 Q1005 YTMO 240230Z AUTO 10006KT //// // ////// 22/04 Q1019 OIMD 240200Z 24006KT CAVOK 21/M02 Q1005 PACM 240156Z AUTO 29017KT 10SM OVC012 11/09 A2970 RMK AO2 SLP055 T01110089 PABV 240156Z AUTO 26005KT 10SM BKN050 OVC100 18/11 A2957 RMK AO2 SLP021 T01830106 $ YTNG 240230Z AUTO 30006KT 9999 // NCD 25/12 Q1015 PADE 240153Z AUTO 31006KT 10SM CLR 17/09 A2967 RMK AO2 SLP047 T01670094 TSNO YSWG 240230Z AUTO 06006KT 9999 // OVC079 09/04 Q1013 YSWH 240230Z AUTO 35016KT 9999 // OVC070 13/05 Q1009 PADG 240048Z 02003KT 15SM FEW050 19/02 A2971 UDYZ 240230Z 00000KT 9999 NSC 19/11 Q1010 R09/000070 NOSIG YTNK 240230Z AUTO 07007KT 9999 // ////// 26/04 Q1017 OINB 240200Z 18004KT 8000 SCT023 FEW030CB OVC090 24/24 Q1007 RESHRA PADK 240236Z AUTO 26014G23KT 3SM FEW028 BKN039 OVC048 13/08 A3024 RMK AO1 PAEC 240054Z 00000KT 15SM SCT030 BKN070 20/08 A2953 RMK NOSPECI PADL 240156Z 21008G18KT 10SM SCT012 OVC033 13/12 A2979 RMK AO2 RAE01 SLP094 P0000 T01330117 PADM 232355Z 20006KT 10SM BKN008 OVC032 13/12 A2966 RMK CIG 005V012 VIA PHONE OIMM 240230Z 20006KT CAVOK 24/02 Q1010 A2985 PACV 240226Z 21004KT 10SM BKN023 BKN031 OVC040 17/12 A2958 RMK AO2 T01670122 PAED 240158Z AUTO 23012KT 10SM OVC065 21/09 A2956 RMK AO2 SLP005 T02120091 OINE 240200Z 18006KT 9999 FEW030CB SCT035 25/23 Q1007 OIMN 240200Z 35002KT 7000 FEW010 SCT040 22/19 Q1013 UERP 240200Z 00000MPS CAVOK 21/13 Q1009 NOSIG RMK QFE713 OING 240200Z 21010KT 9999 SCT030 BKN090 26/23 Q1008 PAEG 240153Z AUTO 06008KT 10SM OVC060 17/07 A2956 RMK AO2 SLP012 T01720067 TSNO $ UERR 240200Z 25002MPS 9999 FEW033 23/06 Q1012 R25/CLRD60 NOSIG RMK QFE728 OIMQ 240200Z 00000KT CAVOK 25/M01 Q1009 PADQ 240153Z AUTO 30011G19KT 10SM SCT050 20/09 A2972 RMK AO2 SLP064 T02000094 TSNO $ PACZ 240213Z AUTO 36021KT 300V070 10SM OVC006 10/08 A2968 RMK AO2 PK WND 36027/0204 SLP052 PAEH 240216Z AUTO 28027G31KT 6SM -RA OVC004 12/12 A2984 RMK AO2 PK WND 28031/0214 SLP106 PAEI 240228Z 36004KT 6SM -RA FEW018 BKN038CB BKN065 BKN110 14/12 A2961 RMK AO2A CB 4SW MOV SW OIMS 231400Z 04020KT CAVOK 38/04 Q1007 NSFA 240200Z 12003KT 9999 SCT025 SCT042 BKN140 28/25 Q1010 PAFA 240153Z 03008KT 10SM FEW035 SCT090 BKN150 18/12 A2960 RMK AO2 SLP027 PRSNT WX VCSH E T01780122 $ OINK 240200Z 18004KT 9999 SCT035 BKN090 26/23 Q1006 PAFB 240158Z AUTO 11004KT 9SM FEW047 OVC070 18/11 A2960 RMK AO2 RAB22E42 SLP026 P0000 T01760106 PAEL 240054Z 24010KT 7SM -SHRA OVC010 13/12 A2966 RMK SPB E24012KT SEA 0 SWELL 2 SW NOSPECI PADU 240147Z 20021KT 10SM SCT024 SCT037 13/09 3018 RMK AO2 PK WND 21027/0116 SLP220 EM T01330089 PAEM 240237Z AUTO 02008KT 10SM BKN010 BKN026 OVC055 A2965 RMK AO2 RAB11E34 CIG 009V013 P0000 FZRANO $ OINN 240200Z 00000KT 9999 FEW022CB BKN025 OVC080 23/22 Q1007 PAEN 240153Z 20015KT 10SM BKN075 18/12 A2959 RMK AO2 SLP022 T01780117 PAFE 240236Z AUTO 13013G18KT 10SM BKN025 BKN060 14/10 A2984 RMK AO1 OINR 240200Z VRB02KT 9999 FEW020CB BKN025 OVC080 24/22 Q1007 PAGA 232058Z AUTO 25005KT 10SM OVC024 15/11 A2969 RMK AO2 RAB11E29 SLP061 P0000 60000 T01500106 56006 OINZ 240200Z 20008KT 7000 SCT015 SCT030 OVC070 24/23 Q1008 PAGH 240157Z AUTO 21003KT 8SM RA FEW038 OVC050 15/12 A2965 RMK AO2 WSHFT 0103 RAB07 SLP070 P0005 T01500122 SYCJ 240200Z 32004KT 9999 FEW015 SCT300 24/23 Q1014 NOSIG PAFR 240234Z AUTO 20006KT 10SM BKN055 OVC065 19/09 A2958 RMK AO1 PAFS 240201Z AUTO VRB03KT 10SM FEW018 SCT028 OVC033 14/09 A2968 RMK AO2 SLP072 T01440094 PAGK 240153Z AUTO VRB05KT 9SM -RA BKN060 OVC075 17/09 A2953 RMK RAB36 SLP998 P0000 T01720094 TSNO $ VIA AUTODIAL PAGL 240236Z AUTO 00000KT 10SM BKN004 OVC011 13/09 A2969 RMK AO1 PAHC 240156Z AUTO 18004KT 8SM -RA BKN010 BKN019 OVC042 12/11 A2965 RMK AO2 SLP044 T01220111 PNO $ YTRE 240230Z AUTO 29003KT 9999 // NCD 13/01 Q1015 PAGM 232355Z 10SM CLR 12/08 A2983 RMK VIA PHONE PAGN 240156Z AUTO VRB04KT 10SM FEW029 BKN070 16/12 A2976 RMK AO2 SLP068 T01610117 PAGS 240156Z AUTO 15009KT 10SM -RA FEW041 BKN065 BKN085 15/12 A2970 RMK AO2 RAE16B54 SLP059 P0001 T01500117 SYEC 232100Z 01008KT 9999 FEW014CB SCT016 BKN080 26/24 Q1012 CB ALQDS PAHL 240236Z AUTO 08004KT 10SM BKN024 OVC029 17/11 A2962 RMK AO1 PAHN 240154Z AUTO 10011G18KT 070V130 7SM -RA FEW007 BKN012 OVC070 14/13 A2964 RMK AO2 PK WND 11030/0101 SLP040 P0001 T01390133 TSNO PAHO 240153Z AUTO 23011KT 10SM CLR 16/10 A2965 RMK AO2 SLP041 T01560100 TSNO $ PAGY 240153Z AUTO 20018G25KT 10SM -RA SCT070 OVC090 16/12 A2961 RMK AO2 PK WND 20028/0100 RAE10B46 SLP027 P0002 T01610117 TSNO PAHP 240156Z AUTO 33019G23KT 10SM OVC010 12/09 A2970 RMK AO2 SLP094 T01170089 PAIG 240156Z AUTO 20014G19KT 10SM FEW033 BKN041 OVC050 16/10 A2977 RMK AO2 SLP092 T01560100 $ PAII 240244Z AUTO 26014G21KT 2 1/2SM -RA BR BKN009 OVC015 12/12 A2985 RMK AO2 VIS 1 3/4V4 CIG 007V011 P0005 OISA 240155Z 33004KT CAVOK 19/M05 Q1016 NTAA 240230Z 30003KT 270V050 9999 FEW023 BKN300 28/19 Q1014 WS R04 NOSIG PAIK 240201Z AUTO 29006KT 10SM CLR 22/02 A2966 RMK AO2 SLP082 T02220022 PAIL 240153Z 25007KT 10SM OVC048 16/08 A2977 RMK AO2 SLP080 T01610083 PAIM 240155Z AUTO 00000KT 10SM SCT060 BKN100 16/12 A2964 RMK AO2 RAB0106E0120SHRAB0120E0132 SLP033 P0001 T01590120 PAIN 240236Z AUTO 01005KT 10SM OVC060 14/09 A2963 RMK AO1 OISF 240200Z 32006KT 7000 NSC 26/07 Q1005 PAHX 240238Z AUTO 00000KT 10SM BKN010 BKN028 OVC060 12/11 A2965 RMK AO2 YTTI 240230Z AUTO 18004KT //// // ////// 30/21 Q1013 PAHY 240237Z AUTO 18007KT 10SM FEW012 BKN034 OVC041 14/12 A2994 RMK AO2 RAE27 P0000 YTST 240230Z AUTO 12009KT 9999 // NCD 34/13 Q1012 OISL 240200Z 09010KT CAVOK 31/19 Q1002 PAJN 240153Z 08006KT 10SM FEW042 SCT050 OVC065 14/12 A2972 RMK AO2 RAE01 SLP065 P0000 T01390122 $ PAIW 240158Z AUTO 35014KT 9SM OVC006 10/08 A2979 RMK AO2 SLP089 T01000083 DIAD 231700Z 24002KT 8000 FEW013 28/21 Q1012 NOSIG PAKF 240201Z AUTO 29011G16KT 10SM CLR 16/09 A3008 RMK AO2 SLPNO T01610089 $ CPRO 240200Z AUTO 08007KT 23/14 RMK AO1 T02260136 PAKI 240209Z AUTO 29019KT 10SM OVC011 13/11 A2971 RMK AO2 ZLLL 240200Z VRB02MPS 9999 FEW023 BKN046 19/13 Q1016 NOSIG OISS 240230Z 30004KT 9999 FEW045 BKN100 26/05 Q1010 A2983 OITK 231000Z 35008KT 9999 FEW035TCU 31/16 Q1010 OKBK 240200Z 27008KT CAVOK 29/03 Q0996 NOSIG PAKK 240236Z AUTO 29004KT 10SM 16/05 A2962 RMK AO1 P0001 OITL 240152Z 15006KT 9999 FEW010 14/11 Q1014 OITM 240200Z 08014KT CAVOK 22/13 Q1010 PAKN 240154Z 26011KT 10SM FEW015 BKN023 OVC029 14/12 A2979 RMK AO2 RAE39 SLP087 P0000 T01440117 OISY 240200Z 00000KT CAVOK 19/04 Q1014 OITP 240200Z 36008KT CAVOK 24/16 Q1006 PAKP 240236Z AUTO 05014G18KT 10SM CLR 13/M01 A2971 RMK AO1 PALG 240027Z VRB03KT 1 3/4SM BKN005 OVC010 12/11 A2968 RMK AO2 SLP297 P1000 PWINO FZRANO TSNO RVRNO PALH 240153Z 26010KT 10SM BKN070 22/08 A2957 RMK AO2 SLP014 T02170083 PAJZ 240156Z AUTO 22008KT 7SM -RA FEW039 OVC060 14/10 A2980 RMK AO2 RAB46 SLP099 P0000 T01390100 $ YTWB 240230Z AUTO 29009KT 260V320 9999 // NCD 16/M01 Q1017 CPRY 240200Z AUTO 26015KT 22/07 RMK AO1 PK WND 25024/0109 T02230068 OITR 240230Z 36006KT 9999 SCT040 21/14 Q1010 DIAP 240230Z 25003KT 8000 FEW012 23/22 Q1014 NOSIG PALJ 240050Z 22010KT 20SM BKN040 OVC060 18/16 A2974 RMK 401780122 EST PASS CLSD NOSPECI OITT 240230Z 10012KT CAVOK 21/13 Q1012 A2991 PAKT 240153Z 13014KT 10SM SCT006 OVC024 14/13 A2995 RMK AO2 SLP142 HARBOR WIND 12013KT T01440133 PAMB 240232Z AUTO 23009KT 10SM -RA FEW010 OVC016 12/12 A2978 RMK AO2 P0001 $ PAKU 240245Z 05017G20KT 10SM R06/P6000FT BKN005 03/02 A2993 OITU 240150Z 00000KT 9999 SCT040 19/14 Q1013 PAMC 240153Z 22006KT 10SM OVC037 13/10 A2969 RMK AO2 RAE50 SLP056 P0000 T01330100 DIBK 240000Z 18006KT 9999 BKN011 24/22 Q1018 NOSIG CPST 240200Z AUTO 12007KT 20/12 RMK AO1 T01980115 PAKV 240241Z AUTO 10SM BKN027 BKN032 OVC100 15/12 A2968 RMK AO2 T01500117 TSNO $ PAMD 240236Z AUTO 14005KT 10SM CLR 17/13 A2958 RMK AO1 PAKW 240244Z AUTO 19009KT 10SM FEW015 BKN029 OVC044 14/11 A2991 RMK AO2 T01440111 TSNO $ CPSV 240200Z AUTO 06005KT 22/14 RMK AO1 T02230135 PALP 240145Z 05018KT 10SM OVC005 03/01 A2993 RMK LAST OITZ 231500Z 08019KT 9999 FEW035 28/11 Q1009 PAMH 240236Z AUTO 23006KT 10SM FEW036 FEW047 OVC055 15/09 A2964 RMK AO1 PANA 240156Z AUTO 24010G16KT 9SM BKN006 OVC010 12/12 A2966 RMK AO2 RAE51 CIG 004V008 SLP045 P0001 T01220117 PAMK 240156Z AUTO 04007KT 10SM FEW012 BKN040 OVC065 12/09 A2966 RMK AO2 TSNO T01220094 OVC V BKN SLP044 $ PANC 240231Z 23011G18KT 10SM FEW005 SCT055 BKN070 BKN140 OVC250 21/09 A2956 RMK AO2 CB DSNT N $ PALU 240232Z AUTO 06014KT 10SM OVC009 08/06 A2987 RMK AO2 SLP114 PAMM 230936Z AUTO 16007G16KT 10SM FEW017 SCT027 OVC035 13/12 A3006 RMK AO1 DIBU 231400Z 00000KT 9999 BKN013 26/22 Q1015 NOSIG PAMO 240218Z AUTO 30010KT 10SM SCT004 BKN008 OVC036 12/11 A2962 RMK AO2 CIG 007V010 PAMR 240153Z 26010KT 10SM BKN065 22/08 A2956 RMK AO2 SLP010 T02220083 PANI 240236Z AUTO 12006KT 2 1/2SM FEW006 OVC015 12/11 A2965 RMK AO1 P0005 UHBB 240230Z 17005MPS 9999 BKN019CB 26/23 Q0998 R18/090060 NOSIG RMK QFE733/0978 DIDK 231700Z ///// 9999 SCT013 30/25 Q1013 NOSIG DIDL 231700Z ///// 9999 BKN015TCU 30/22 Q1013 NOSIG PANN 240153Z AUTO 32004KT 10SM CLR 19/12 A2960 RMK AO2 SLP027 T01940117 TSNO PAMY 240156Z AUTO 30014KT 8SM OVC005 12/11 A2975 RMK AO2 CIG 003V008 SLP076 T01170111 PAOH 240156Z AUTO 00000KT 10SM -RA OVC031 14/12 A2971 RMK AO2 RAB05E14B39 SLP063 P0000 T01440117 PANT 240220Z AUTO 15006KT 10SM SCT005 SCT021 OVC055 14/13 A2997 RMK AO2 T01440128 TSNO PAPB 240153Z AUTO 26010KT 9SM OVC006 13/11 A3006 RMK AO2 SLP166 T01280111 TSNO PAOM 240153Z AUTO 04004KT 10SM -RA FEW016 OVC033 13/11 A2967 RMK AO2 RAE11B20 SLP048 P0000 T01330106 TSNO PANV 240236Z AUTO 5SM FEW006 BKN033 OVC055 11/08 A2962 RMK AO1 PANW 240156Z AUTO 23012KT 10SM -RA BKN008 BKN040 OVC055 13/11 A2978 RMK AO2 RAB15 CIG 007V011 SLP101 P0000 T01280111 UGKO 240230Z VRB02KT 9999 SCT028 BKN044 20/19 Q1012 R07/09//70 NOSIG PAOO 240246Z AUTO 28019G25KT 10SM FEW007 BKN012 OVC020 13/11 A2971 RMK AO2 PK WND 28027/0232 PAPG 240236Z 21007KT 10SM BKN025 BKN031 OVC041 15/09 A2984 RMK AO1 RAE42 PAPH 240245Z AUTO 26017G24KT 3SM -RA BR OVC011 12/11 A2995 RMK AO2 RAE0157B23 CIG 007V014 P0001 PAOR 240153Z 00000KT 10SM -RA SCT035 BKN060 BKN090 BKN140 14/12 A2953 RMK AO2 RAB0059 SLP003 P0002 T01390117 $ OIZB 240200Z 34016KT CAVOK 30/03 Q1000 PAOT 240153Z 29013KT 10SM CLR 18/10 A2966 RMK AO2 SLP044 T01830100 DIGA 231700Z 22004KT 9999 SCT015TCU 30/212 Q1014 NOSIG PAOU 240248Z AUTO 24019G24KT 6SM BR FEW005 BKN016 OVC021 12/11 A3003 RMK AO2 PK WND 24026/0225 RAB15E37 P0000 PAPM 240156Z AUTO 23020G24KT 7SM 13/12 A2980 RMK AO2 PK WND 24026/0146 SLP093 T01330122 $ CPXL 240200Z AUTO 18002KT 25/10 RMK AO1 T02540102 PAPN 240156Z AUTO 27019G24KT 10SM FEW006 BKN012 OVC025 13/12 A2989 RMK AO2 PK WND 28028/0134 RAB04E18B35E46 SLP123 P0000 T01330117 OIZH 240200Z 16006KT CAVOK 21/M02 Q1010 A2984 PAQH 240221Z AUTO 23016KT 3SM -RA BR BKN007 OVC012 13/12 A2973 RMK AO2 CIG 004V010 P0000 OIZI 240200Z 14004KT 6000 NSC 33/21 Q1002 OIZJ 240200Z 10025KT 3000 BR NSC 30/27 Q0998 PAPT 231857Z 27011G16KT 25SM BKN045 16/11 A2963 RMK NO SPECI PARC 240236Z AUTO 01004KT 10SM BKN049 OVC060 10/05 A2974 RMK AO1 OIYY 240230Z 13004KT CAVOK 27/M01 Q1009 PASA 240236Z AUTO 29006KT 10SM SCT008 10/08 A2983 RMK AO1 PAQT 240153Z AUTO 05015G22KT 10SM FEW016 07/02 A2993 RMK AO2 SLP136 T00670017 TSNO $ PASC 240153Z 06017KT 10SM BKN007 04/02 A2990 RMK AO2 SLP126 T00440022 PASD 240236Z 31015G22KT 10SM FEW028 SCT045 16/11 A3002 RMK AO1 WEA MTB 240230Z AUTO 26015KT 9999 // NCD 02/M02 Q//// YWCA 240230Z AUTO 33016KT //// // ////// 16/03 Q1013 PASH 240236Z AUTO 34009KT 9SM CLR 13/08 A2977 RMK AO1 PNO PASI 240246Z 17012G22KT 3/4SM RA BR BKN013 OVC029 13/12 A2978 RMK AO2 RAB09 P0002 T01330117 YWBL 240230Z AUTO 36016KT 9999 // SCT065 OVC105 10/07 Q1004 OLBA 240200Z 18005KT 8000 BKN026 26/22 Q1007 PATA 240152Z 22003KT 10SM SCT026 BKN032 BKN090 17/12 A2963 RMK AO2 SLP034 T01670122 PARS 240245Z AUTO 25007KT 2 1/2SM -RA BR BKN009 BKN016 OVC026 13/12 A2960 RMK AO2 RAB17 CIG 004V012 P0000 $ PASK 240236Z AUTO 27011G14KT 10SM CLR 19/11 A2965 RMK AO1 PASL 240236Z AUTO 17003KT 10SM BKN040 BKN050 OVC060 12/10 A2975 RMK AO1 PATC 240155Z AUTO 02023KT 10SM CLR 10/08 A2973 RMK AO2 PK WND 02027/0150 SLP068 T01040084 PASM 240207Z AUTO 23006KT 3SM -RA BR SCT004 BKN007 OVC014 12/11 A2963 RMK AO2 P0000 PATE 240158Z AUTO 33008KT 10SM SCT042 BKN070 OVC080 16/10 A2972 RMK AO2 SLP075 T01610100 PASN 240153Z AUTO 27021G29KT 10SM BKN008 14/11 A2999 RMK AO2 PK WND 26029/0153 SLP157 T01390111 TSNO PASO 240153Z AUTO VRB06KT 10SM CLR 18/08 A2967 RMK AO2 SLP046 T01780083 TSNO YWBR 240230Z AUTO 15012KT //// // ////// 14/01 Q1025 PARY 240206Z AUTO 25006KT 10SM FEW019 SCT026 OVC055 14/11 A2965 RMK AO2 PATG 240215Z AUTO 24015G22KT 6SM BR BKN011 OVC017 13/12 A2978 RMK AO2 MSV 240230Z AUTO 24017KT 9999 // NCD 06/M01 Q1012 PATK 240153Z AUTO 30006KT 10SM CLR 23/07 A2952 RMK AO2 SLP998 T02330067 TSNO PATL 240234Z AUTO 25001KT 10SM BKN035 BKN085 12/09 A2971 RMK AO2 SLP060 $ PASV 240216Z AUTO 01003KT 10SM -SHRA OVC016 10/08 A2974 RMK AO2 SLP073 MUI 240230Z AUTO 32008KT 9999 // NCD 05/01 Q1015 PASW 240054Z 34005KT 30SM BKN030 BKN050 22/11 A2955 RMK NOSPECI PATO 240153Z AUTO VRB03KT 10SM CLR 21/12 A2956 RMK AO2 SLP009 T02060122 TSNO PASX 240236Z AUTO 25011KT 10SM OVC080 A2957 RMK AO1 UHHH 240230Z 19002MPS 120V240 9999 -SHRA BKN037CB 20/17 Q1010 R23L/290045 NOSIG RMK QFE751/1001 PASY 240247Z AUTO 1 1/4SM BR OVC001 10/ A3022 RMK AO2 VIS 1/2V5 TSNO $ PATQ 240156Z AUTO 06013KT 10SM OVC020 07/03 A2992 RMK AO2 TSNO T00660027 SLP137 $ PAVA 240223Z AUTO 33016KT 10SM OVC015 12/09 A2969 RMK AO2 NSTU 240153Z 11015KT 12SM FEW016TCU SCT040 BKN100 29/26 A2985 RMK TCU NW SLP110 T02860264 PAVC 240209Z AUTO 28028G35KT 9SM SCT009 BKN016 OVC024 12/08 A3007 RMK AO2 PK WND 28035/0207 PAVD 240236Z 25009KT 10SM FEW060 BKN120 BKN250 21/09 A2952 RMK AO1 0147Z WEA PAUN 240236Z AUTO 32007KT 10SM FEW065 OVC085 13/M17 A2965 RMK AO1 DIKO 240000Z 22002KT 7000 TSRA BKN013 SCT013CB 24/23 Q1016 NOSIG UIAA 240230Z 23004MPS 9999 NSC 21/08 Q1006 R29/CLRD70 NOSIG RMK QFE697 UGSB 240230Z 14009KT 9999 -RA BKN025 19/18 Q1014 R13/29//55 NOSIG PAUT 240235Z AUTO 32014KT 10SM BKN030 11/09 A3014 RMK AO2 T01090088 PAVL 240153Z AUTO 26012KT 10SM CLR 17/09 A2968 RMK AO2 SLP051 T01670089 TSNO PAWD 240153Z AUTO 36009KT 10SM OVC065 20/09 A2956 RMK AO2 SLP009 T02000089 TSNO PAWG 240236Z 00000KT 8SM FEW008 BKN029 OVC038 14/12 A2989 RMK AO1 WEA PAWI 240153Z AUTO 04014G20KT 10SM OVC017 07/02 A2992 RMK AO2 SLP133 T00670017 TSNO UIBB 240230Z 11002MPS 070V170 4900 FU NSC 21/10 Q1011 R30/CLRD60 NOSIG RMK QFE715/0954 UGTB 240230Z 32015KT CAVOK 20/14 Q1014 R31L/CLRD70 NOSIG PAWM 240158Z AUTO 07004KT 8SM SCT010 OVC024 14/12 A2967 RMK AO2 SLP060 T01390117 PAWN 240236Z AUTO 03008KT 10SM CLR 21/01 A2967 RMK AO1 DIMN 232300Z 00000KT 9999 SCT013 22/21 Q1017 NOSIG YWHA 240230Z AUTO 29017KT 9999 // BKN038 OVC047 14/06 Q1013 PAYA 240246Z AUTO 13008KT 9SM SCT009 BKN039 OVC070 16/13 A2958 RMK AO2 RAE29 P0001 T01560133 TSNO PAWS 240236Z AUTO 00000KT 10SM OVC080 15/13 A2956 RMK AO1 P0002 ZLXY 240200Z 05004MPS 5000 HZ NSC 32/25 Q1004 NOSIG DIOD 231700Z 26004KT 9999 BKN015TCU 28/22 Q1013 NOSIG UHMA 230700Z 00000MPS 9999 SCT042 BKN080 19/16 Q1007 NOSIG RMK QFE751/1002 YWGT 240230Z AUTO 01009KT 9999 -RA SCT014 BKN040 BKN046 07/05 Q1012 YVRD 240230Z AUTO 09005KT //// // ////// 31/10 Q1014 PAZK 240236Z AUTO 22004KT 10SM FEW065 BKN080 13/08 A2959 RMK AO1 UHMM 240230Z 22004MPS 9999 OVC020 15/12 Q1014 R10/CLRD70 NOSIG RMK MT OBSC QFE746 YWIS 240230Z AUTO 29005KT 210V340 //// // ////// 26/18 Q1014 OMAA 240200Z 05007KT 7000 NSC 34/26 Q0995 BECMG 15010KT OMAD 240200Z 01006KT 7000 NSC 34/28 Q0995 BECMG 07006KT ZMUB 240230Z VRB01MPS 2800SE 4000NW FU NSC 15/09 Q1016 NOSIG RMK QFE654.6 67 SE NW MO OMAL 240200Z 13012KT 8000 NSC 37/16 Q0998 NOSIG YWLG 240230Z AUTO 02007KT 9999 // SCT120 13/06 Q1016 TQPF 232100Z 08012KT 9999 VCSH SCT020 29/23 Q1015 YWLM 240230Z AUTO 29015KT 9999 // NCD 12/M03 Q1015 DITB 231700Z ///// 9999 FEW013 28/24 Q//// NOSIG UHPP 240200Z 19002MPS 9999 NSC 24/13 Q1016 R34L/CLRD70 NOSIG RMK QFE759/1012 EBBE 240055Z AUTO 28004KT 3100 BR SCT024/// BKN028/// 16/16 Q1021 YLO DISP 232300Z 24006KT 9999 FEW013 24/22 Q1015 NOSIG OMDB 240200Z 11014KT 5000 DU NSC 35/25 Q0997 DISS 231700Z ///// 9999 FEW015 27/21 Q1013 NOSIG EBBL 240025Z AUTO 29003KT 4400 BR FEW049/// BKN120/// BKN140/// 18/17 Q1020 GRN EBAW 240220Z AUTO 27004KT 7000 // NCD 18/14 Q1020 UIII 240230Z VRB01MPS 3000 FU NSC 20/14 Q1009 R12/CLRD60 NOSIG RMK QFE715/0953 EBCI 240220Z 26003KT 240V300 3000 BR FEW025 15/14 Q1021 NOSIG EBBR 240220Z 27003KT 4800 BR FEW032 16/15 Q1020 NOSIG CTCK 240200Z AUTO 31002KT 20/16 RMK AO1 SLP122 T02030163 53018 VAAH 240230Z 28004KT 4000 HZ FEW020 BKN080 29/24 Q1004 NOSIG YWOL 240230Z AUTO 28010KT 9999 // NCD 14/01 Q1013 VABB 240230Z 11005KT 3000 HZ FEW018 SCT025 BKN100 26/25 Q1005 NOSIG KA08 240235Z AUTO 00000KT 10SM CLR 27/25 A2998 RMK AO2 T02720252 OMDW 240200Z 09011KT 5000 DU NSC 32/25 Q0997 BECMG 10015G25KT 3000 BLDU EBCV 240055Z AUTO 25003KT 3100 BR FEW100/// 15/14 Q1021 YLO UHSS 240230Z 20005MPS 9999 FEW040 22/16 Q1017 R19/CLRD65 NOSIG RMK QFE761/1015 OMFJ 240200Z 09013KT 4000 HZ BKN018 32/29 Q1000 A2953 VAAU 240200Z 25004KT 6000 SCT020 SCT025 BKN100 23/21 Q1007 EBDT 240055Z AUTO 32007KT 2900 -RA FEW008/// OVC050/// 17/16 Q1020 YLO VABO 240200Z 27003KT 4000 HZ FEW020 BKN080 27/23 Q1003 VABP 240000Z 27004KT 3000 HZ SCT008 SCT020 BKN100 25/24 Q1005 NO SIG VABV 231400Z 16012KT 6000 FEW025 SCT080 30/24 Q1001 EBFN 240055Z VRB02KT 9999 FEW240 13/12 Q1021 BLU EBFS 240055Z 31004KT 2500 BR SCT004 BKN025 16/16 Q1021 YLO KA39 240230Z AUTO 27008KT 10SM CLR 39/15 A2978 RMK AO2 DIYO 240000Z 26004KT CAVOK 24/22 Q1015 NOSIG YWUD 240230Z AUTO 27021KT //// // ////// 13/07 Q1014 YWTN 240230Z AUTO 21003KT //// // ////// 23/08 Q1017 UHWW 240230Z 18007MPS 9999 FEW016 OVC046 23/15 Q1012 R25L/0///70 NOSIG RMK QFE757 VAID 240200Z 27005KT 1500 -RA/BR SCT006 SCT018 BKN080 24/23 Q1006 NOSIG EBLB 240055Z AUTO VRB02KT 1200 BR OVC002/// 17/17 Q1021 AMB EBLG 240220Z 30004KT 260V330 2400 BR FEW003 BKN004 17/16 Q1020 NOSIG YWWL 240230Z AUTO 34010KT //// // ////// 11/// Q1014 VAJB 240100Z 00000KT 5000 HZ SCT100 BKN200 25/24 Q1005 VAJJ 230530Z 31011KT 280V340 3000 HZ FEW012 SCT018 FEW025TCU BKN090 27/25 Q1005 TEMPO 1500 SHRA UKBB 240230Z 34004MPS CAVOK 14/13 Q1014 R88/CLRD// NOSIG YWYM 240230Z AUTO 11012KT //// // ////// 34/09 Q1013 CTNK 240200Z AUTO 00000KT 18/15 RMK AO1 SLP155 T01760148 51009 UKDD 240230Z 34006MPS 320V020 9999 SCT008 17/15 Q1009 R26/090070 NOSIG UKDE 240200Z 31005MPS 9999 FEW020 17/16 Q1009 R20/CLRD70 TEMPO 29010G15MPS YWYY 240230Z AUTO 05003KT 9999 // SCT032 BKN039 OVC047 08/05 Q1005 TTCP 240200Z 10009KT 9999 FEW016 28/22 Q1014 NOSIG UIUU 240230Z VRB01MPS 2400 FU NSC 22/11 Q1009 R26/010095 NOSIG RMK QFE712/0950 EBOS 240220Z 22002KT 2500 MIFG FEW030 12/11 Q1021 TEMPO 1200 MIFG UKDR 240230Z 32004MPS CAVOK 16/14 Q1011 R36/09//70 NOSIG OMRK 240230Z 12025G34KT 3000 BLDU NSC 34/25 Q0997 A2946 CTRA 240200Z AUTO 15004KT 21/17 RMK AO1 SLP043 T02140166 56021 VANP 240230Z 00000KT 3000 HZ FEW010 SCT015 BKN100 28/26 Q1005 NOSIG OMSJ 240200Z 09016KT 7000 NSC 34/27 Q0997 NVSL 230600Z 13006KT 9999 SCT020 26/24 Q1012 RMK RESH NVSS 230600Z 00000KT 9999 SCT020 25/22 Q1011 RMK RESH EDAH 231750Z 04004KT 9999 SCT027 21/16 Q1020 EDBC 231550Z 01007KT 330V040 CAVOK 27/09 Q1018 UKHH 240230Z 33003MPS 290V360 CAVOK 16/13 Q1008 R07/0///67 NOSIG PFCL 240156Z AUTO 24013G20KT BKN009 OVC014 13/12 A2981 RMK AO2 CIG 008V011 SLP096 P0001 T01280117 PWINO YYNG 240230Z AUTO 01007KT //// // ////// 09/03 Q1013 ULAA 240230Z 08002MPS 050V110 CAVOK 15/12 Q1021 R08/CLRD70 NOSIG RMK QFE764/1019 VARK 231200Z 29012KT 6000 SCT020 SCT080 33/24 Q1000 EDDB 240220Z 08004KT CAVOK 17/15 Q1019 NOSIG EDDC 240220Z 11003KT 2700 RA BR FEW002 BKN027 18/17 Q1019 EDDE 240220Z 24005KT CAVOK 17/17 Q1019 EDDF 240220Z 34004KT 9999 FEW011 SCT026TCU BKN034 20/18 Q1018 TEMPO 4000 SHRA BKN025CB EDDG 240220Z 00000KT 9999 MIFG NSC 15/15 Q1019 NOSIG EDDH 240220Z VRB01KT CAVOK 18/16 Q1019 NOSIG KC07 240236Z AUTO 22004KT 10SM CLR 15/01 A3053 RMK AO2 KAAA 240235Z AUTO 16003KT 10SM CLR 27/26 A2993 RMK AO2 T02700260 KC09 240235Z AUTO 09005KT 10SM VCTS SCT027 SCT048 25/22 A2993 RMK AO2 LTG DSNT W THRU NE T02490220 PFEL 240221Z AUTO 02006KT 10SM BKN012 OVC017 14/12 A2967 RMK AO2 NVVV 232000Z 09003KT 9999 SCT020 BKN040 23/22 Q1015 RMK RESH EDDK 240220Z VRB02KT 8000 MIFG NSC 18/18 Q1019 NOSIG EDDL 240220Z 07002KT 9999 MIFG NSC 16/16 Q1019 NOSIG EDDM 240220Z 28001KT CAVOK 17/17 Q1020 NOSIG KAAF 240153Z AUTO 20004KT 10SM CLR 29/24 A2999 RMK AO2 SLP154 T02890244 EDDN 240220Z 00000KT 1900 MIFG BR SCT003 SCT160 18/18 Q1018 VCBI 240210Z 23007KT 9999 FEW018 SCT030 27/22 Q1009 NOSIG EDDP 240220Z 07005KT CAVOK 20/16 Q1018 NOSIG UKKK 240230Z 31003MPS 290V350 5000 BR BKN003 17/17 Q1015 R26/190060 TEMPO 0300 FG VV002 VASU 231330Z KT 6000 FEW010 SCT020 BKN080 28/25 Q1001 EDDR 240220Z 27002KT 1500 R27/0800VP2000D BR BKN003 18/17 Q1019 VAUD 240200Z VRB03KT 1800 DZ SCT010 BKN020 BKN080 25/24 Q1006 TEMPO 1500 RA EDDS 240220Z 30003KT 9999 BCFG FEW003 SCT110 17/17 Q1019 EDDT 240220Z 08004KT 050V110 CAVOK 18/14 Q1019 ZPPP 240200Z 22006MPS 9999 BKN016 BKN036 19/15 Q1021 NOSIG EDDV 240220Z 29003KT CAVOK 18/15 Q1019 KABE 240151Z 00000KT 10SM CLR 26/15 A2989 RMK AO2 SLP119 T02610150 $ EDFE 231850Z VRB02KT 8000 -RA FEW015 BKN030 20/19 Q1017 RERA EDDW 240220Z 29004KT CAVOK 18/16 Q1019 KAAO 240154Z AUTO 16013G20KT 10SM CLR 33/21 A2984 RMK AO2 SLP087 T03280206 UKLI 240230Z 00000MPS 9999 SCT033 BKN100 15/13 Q1018 R28/090070 NOSIG KABH 240221Z AUTO 11016G25KT FEW060 BKN110 A3014 RMK AO2 PK WND 14029/0209 TSE15 $ EDFH 240220Z 32002KT 2000 R21/0600VP2000U BR BKN001 17/17 Q1020 KABI 240152Z 13009KT 10SM CLR 33/16 A2990 RMK AO2 SLP094 T03330161 UKLL 240230Z 00000MPS 6000 NSC 13/12 Q1019 R31/CLRD80 NOSIG KAAT 240155Z AUTO 33007KT 10SM CLR 31/M04 A3009 RMK AO2 SLP145 T03061044 KACB 240233Z AUTO 00000KT 10SM CLR 21/19 A2994 RMK AO2 T02100192 KC29 240235Z AUTO 14007KT 10SM SCT004 OVC080 23/23 A2990 RMK AO1 T02260226 UKLN 240230Z 29002MPS CAVOK 16/15 Q1017 NOSIG EDFM 240220Z VRB02KT 9000 FEW006 BKN012 OVC110 21/21 Q1018 UKLR 240230Z 28002MPS 3700 BR FEW026 15/14 Q1017 NOSIG KC35 240235Z AUTO 12003KT 10SM OVC100 22/22 A2987 RMK AO2 T02170217 KABQ 240152Z 24009KT 10SM FEW090 SCT170 BKN250 35/06 A3002 RMK AO2 SLP063 CB DSNT SE AND SW-W SHRA DSNT SE AND SW-W T03500056 KABR 240153Z AUTO 32014KT 10SM CLR 27/20 A2979 RMK AO2 SLP078 T02670200 UKLU 240200Z 00000MPS 9999 SKC 15/13 Q1018 NOSIG KACJ 240235Z AUTO 00000KT 10SM CLR 25/21 A3003 RMK AO2 KACK 240153Z 34015G23KT 10SM SCT085 BKN110 24/18 A2985 RMK AO2 PK WND 33029/0137 WSHFT 0116 SLP106 T02390178 KADC 240235Z AUTO 14007KT 10SM OVC015 23/21 A2974 RMK AO2 KADG 240153Z AUTO 00000KT 10SM CLR 27/22 A2998 RMK AO2 SLP147 T02670222 KABY 240153Z AUTO 22006KT 10SM FEW050 FEW060 29/23 A3001 RMK AO2 SLP159 T02890233 KACP 240235Z AUTO 00000KT 7SM CLR 27/27 A2995 RMK AO2 T02740270 KACQ 240235Z AUTO 12005KT 10SM CLR 22/21 A2981 RMK AO2 KADH 240235Z AUTO 16005KT 10SM CLR 30/21 A2992 RMK AO2 EDGS 231850Z 04005KT 010V070 9999 -RA FEW026 SCT075 BKN110 18/16 Q1020 KACT 240151Z 13008KT 10SM CLR 34/19 A2988 RMK AO2 SLP108 T03390194 $ EDHK 231750Z 05005KT 020V080 CAVOK 23/14 Q1019 EDHL 231750Z 03005KT CAVOK 22/15 Q1019 KACV 240153Z AUTO 31007KT 10SM CLR 16/12 A3005 RMK AO2 SLP180 T01610117 KADM 240235Z AUTO 14003KT 10SM CLR 30/23 A2989 RMK AO2 T02980232 UKOH 231500Z 27007G12MPS 220V350 9999 SCT040CB 26/14 Q1012 R21/CLRD95 NOSIG KACY 240154Z 20003KT 10SM CLR 24/21 A2990 RMK AO2 SLP123 T02390206 KAEG 240247Z 24022G28KT 10SM BKN100 28/07 A3009 RMK TS DSNT SW-W KAEJ 240235Z AUTO 00000KT 10SM CLR 20/06 A3032 RMK AO2 T02040059 KADS 240247Z AUTO 14010KT 13SM SKC 33/21 A2991 DNAA 240200Z 23005KT 9999 -RA BKN008 23/20 Q1015 NOSIG EDJA 232120Z VRB03KT 9999 -RA NSC 16/15 Q1021 UKON 231700Z 32005MPS 280V350 CAVOK 25/14 Q1012 NOSIG KAEL 240231Z AUTO 12003KT 7SM OVC012 24/23 A2981 RMK AO2 UKOO 240230Z 01002MPS CAVOK 17/14 Q1013 R34/090060 NOSIG KADW 240158Z AUTO 09004KT 10SM FEW065 30/23 A2992 RMK AO2 SLP135 T02990227 CWAE 240100Z 18005KT 15SM FEW048 OVC063 19/11 A3021 RMK SC2SC6 LAST OBS/NEXT 241300UTC WND ESTD SLP226 DENSITY ALT 2700FT KAFF 240242Z AUTO 04007KT 10SM -RA BKN110 OVC140 23/09 A3022 RMK AO2 RAB42 CWAF 240200Z AUTO 30022KT 13/09 RMK AO1 PK WND 30025/0101 T01270092 KAFJ 240235Z AUTO 00000KT 10SM FEW060 23/21 A3002 RMK AO1 CWBA 240200Z AUTO 34004KT 20/16 RMK AO1 T02030161 KAFK 240235Z AUTO 17006KT 10SM CLR 27/25 A2981 RMK AO2 T02650245 KAGC 240153Z 16003KT 10SM CLR 24/21 A2999 RMK AO2 SLP150 T02390206 TTPP 240200Z 00000KT 9999 FEW018 26/24 Q1013 NOSIG KAFN 240152Z AUTO 00000KT 10SM CLR 17/16 A2990 RMK AO2 SLP125 T01720156 CWBE 240200Z AUTO 18001KT 22/15 RMK AO1 T02170154 KAEX 240153Z 13003KT 10SM CLR 29/24 A2991 RMK AO2 SLP129 T02890244 $ KAFO 240235Z AUTO 00000KT 10SM CLR 19/02 A3019 RMK AO2 TSNO KAFP 240240Z AUTO 00000KT 10SM CLR 25/22 A3000 RMK AO2 T02510224 KC75 240235Z AUTO 00000KT 10SM SCT095 28/25 A2993 RMK AO2 LTG DSNT N AND NW T02800249 CWAQ 240200Z AUTO 30007KT 19/12 RMK AO1 SLP129 T01940115 51016 CWAR 240200Z AUTO 21021G26KT 17/17 RMK AO1 3002 PK WND 21028/0121 SLP100 T01710169 50038 PFKT 240158Z AUTO 35013KT 10SM SCT075 OVC090 18/08 A2972 RMK AO2 WSHFT 0110 SLP066 P0001 T01780083 CWCA 240245Z 30007KT 15SM FEW009 OVC025 09/08 A2959 RMK ST1SC7 SLP022 CWBK 240200Z AUTO 23003KT 20/16 RMK AO1 SLP052 T02020164 51013 PFKW 240156Z AUTO 24012KT 10SM -RA BKN008 OVC012 13/12 A2966 RMK AO2 SLP043 P0001 T01280117 CWAV 240200Z AUTO 03007KT 18/12 RMK AO1 SLP152 T01760118 53005 KAFW 240153Z 15006KT 10SM FEW250 33/19 A2988 RMK AO2 SLP101 T03280194 CWCF 240200Z AUTO 12007KT 17/16 RMK AO1 5PAST HR 6028 SLP033 P0002 T01710156 50008 CWBO 240200Z AUTO 06002KT 24/12 RMK AO1 SLP129 T02440120 56003 CWCI 240200Z AUTO 11009KT 17/16 RMK AO1 SLP132 T01650159 57008 KAIA 240153Z AUTO 08008KT 10SM CLR 26/14 A2998 RMK AO2 SLP104 T02610144 KAGS 240153Z 00000KT 10SM CLR 26/22 A2998 RMK AO2 TSE0057 SLP150 T02610217 CWDA 240200Z AUTO 35002KT 15/15 RMK AO1 SLP015 T01540154 50002 CWCJ 240200Z AUTO 03004KT 19/16 RMK AO1 SLP129 T01890156 56021 CWBS 240200Z AUTO 32011KT 22/16 RMK AO1 T02240158 EDMA 231850Z 34002KT CAVOK 21/17 Q1018 KAIB 240235Z AUTO 10003KT 10SM CLR 28/00 A3015 RMK AO2 CWBT 240200Z AUTO 34001KT 14/14 RMK AO1 SLP035 T01440142 53015 KAID 231947Z VRB03KT 10SM SCT043 32/22 A3002 RMK LAST CWBU 240200Z AUTO 30005KT 18/16 RMK AO1 3011 SLP070 T01790157 50006 CWDC 240200Z AUTO 31004KT 19/07 RMK AO1 SLP090 T01860066 58002 CWBV 240200Z AUTO 21005KT 13/ RMK AO1 SLP067 T0129 51004 KAHN 240151Z AUTO 00000KT 10SM CLR 24/23 A3001 RMK AO2 SLP155 T02440233 EDLN 231750Z 31003KT 9999 VCSH FEW036TCU BKN110 23/20 Q1018 CWCO 240200Z AUTO 21003KT 22/16 RMK AO1 SLP143 T02170159 53007 KAIG 240235Z AUTO 00000KT 7SM -RA OVC060 21/21 A2992 RMK AO2 P0001 T02140213 CWBY 240200Z AUTO 25006KT 15/15 RMK AO1 SLP037 T01530146 52014 EDLP 240220Z VRB02KT CAVOK 18/15 Q1019 KAHQ 240235Z AUTO 18005KT 10SM CLR 28/24 A2979 RMK AO2 T02810242 CWBZ 240200Z AUTO 25005KT 20/18 RMK AO1 SLP127 T02010183 53020 UMBB 240200Z 30002MPS 4500 BR NSC 16/15 Q1019 NOSIG KD07 240156Z AUTO 34009KT 28/03 A2992 RMK AO1 SLP113 T02780028 OOMS 240150Z 05005KT 5000 SCT040 30/28 Q0998 NOSIG CWDJ 240200Z AUTO 30011KT 20/13 RMK AO1 PK WND 31018/0105 SLP105 T01970128 53017 KAIK 240235Z AUTO 25003KT 10SM CLR 26/22 A3005 RMK AO2 KBAB 240158Z AUTO 31005KT 10SM CLR 37/03 A2976 RMK AO2 SLP080 T03740029 $ CWDK 240200Z AUTO 31007KT 23/07 RMK AO1 SLP141 T02310068 56003 CWEB 240200Z AUTO 31006KT 17/14 RMK AO1 SLP249 T01690137 57012 CWCT 240200Z AUTO 34007KT 20/09 RMK AO1 SLP145 T02030090 58001 KBAC 240235Z AUTO 28010KT 10SM 22/22 A2979 RMK AO2 KBAD 240158Z AUTO 31009KT 10SM CLR 27/22 A2997 RMK AO2 RAB34E46 SLP150 P0000 T02670216 CWDM 240200Z AUTO 31003KT 14/14 RMK AO1 3PAST HR 3013 SLP025 P0001 T01420141 50003 EDLV 232150Z 00000KT CAVOK 20/18 Q1019 PFNO 240158Z AUTO 01008KT 10SM CLR 22/04 A2965 RMK AO2 SLP041 T02220039 CWEE 240100Z AUTO 15/12 RMK AO1 SLP135 T01460115 53019 EDLW 231950Z 07004KT CAVOK 20/11 Q1019 KBAF 240153Z AUTO 36005KT 10SM CLR 23/15 A2988 RMK AO2 SLP114 T02280150 TSNO KAIO 240235Z AUTO 19008KT 10SM CLR 28/25 A2980 RMK AO2 EDMO 231520Z 27003KT 9999 -SHRA SCT046 23/18 Q1018 CWEF 240200Z AUTO 26002KT 19/17 RMK AO1 SLP047 T01880168 50002 CWDO 240200Z AUTO 21012G19KT 18/15 RMK AO1 PK WND 18021/0100 SLP050 T01750153 50003 KAJG 240235Z AUTO 00000KT 5SM BR CLR 26/25 A2997 RMK AO2 T02610250 CWDQ 240200Z AUTO 33008KT 16/08 RMK AO1 SLP145 T01570075 51037 CWEH 240200Z AUTO 32007KT 20/10 RMK AO1 SLP153 T01970098 53002 EEEI 231450Z 30007KT 280V350 9999 FEW025 21/16 Q1019 NOSIG KBAK 240145Z 09003KT 10SM SKC 27/26 A2998 KAIT 240233Z AUTO 00000KT 10SM SCT024 22/18 A2977 RMK AO2 KBBB 240234Z AUTO 15006G14KT 10SM SCT070 25/22 A2972 RMK AO2 LTG DSNT N CWDT 240100Z AUTO 30008KT 17/11 RMK AO1 SLP111 T01670114 53018 CWEK 240200Z AUTO 19023KT 14/13 RMK AO1 0PAST HR 5006 PK WND 18028/0134 SLP152 P0004 T01380127 50010 CWEL 240200Z AUTO 14009KT 20/14 RMK AO1 SLP222 T02040143 57015 NWWW 240230Z AUTO 23006KT 190V260 9999 FEW062 BKN078 28/18 Q1015 NOSIG CWDV 240200Z AUTO 12004KT 19/14 RMK AO1 SLP114 T01910143 56021 KBAN 240152Z AUTO 27005KT 10SM 27/M08 A3020 RMK AO2 SLP139 T02721078 $ KAJO 240156Z AUTO 29011KT 10SM CLR 29/18 A2978 RMK AO2 SLP089 T02940178 $ KBBF 240235Z AUTO 17015KT 10SM CLR 30/24 A2990 RMK A01 ULLI 240230Z 26001MPS 0250 0150NW R28L/0300D R28R/P2000U FG FEW006 17/16 Q1019 R88/090060 NOSIG RMK OBST OBSC CWFF 240200Z AUTO 33003KT 19/14 RMK AO1 SLP083 T01910144 53008 KBBG 240235Z AUTO 00000KT 10SM CLR 29/24 A2996 RMK AO2 KD25 240235Z AUTO 17004KT 10SM RA SCT011 BKN039 OVC070 22/22 A2989 RMK AO2 T02150215 CWEP 240200Z AUTO 19007KT 19/17 RMK AO1 SLP054 T01890171 51010 KAKH 240154Z AUTO 22003KT 10SM CLR 26/21 A3001 RMK AO2 SLP153 T02560211 TSNO KAIZ 240156Z AUTO 00000KT 10SM CLR 29/26 A2991 RMK AO2 SLP132 T02890256 CWDZ 240200Z AUTO 13001KT 21/12 RMK AO1 T02110116 CWEQ 240200Z AUTO 23006KT 17/16 RMK AO1 SLP051 T01700155 53016 KAJR 240235Z AUTO 00000KT 7SM CLR 24/24 A3006 RMK AO2 T02370237 CWER 240200Z AUTO 34007KT RMK AO1 CWFJ 240200Z AUTO 27010G19KT 21/06 RMK AO1 PK WND 26019/0144 T02080062 KALB 240151Z 36004KT 10SM FEW070 FEW240 20/18 A2991 RMK AO2 SLP127 T02000178 KBCB 240235Z AUTO 00000KT 10SM CLR 26/21 A3011 RMK AO2 T02600207 TSNO CWGB 240200Z AUTO 12009KT 20/14 RMK AO1 SLP219 T02040139 56014 CWEU 240200Z 29003KT 15SM FEW040 BKN220 15/01 A2997 RMK SC1CI6 SC TR SLP152 CWGD 240200Z AUTO 12001KT 21/18 RMK AO1 SLP153 T02060178 53011 KBCE 240153Z AUTO 23011KT 10SM CLR 28/00 A3025 RMK AO2 SLP105 T02780000 CWEW 240200Z AUTO 28003KT 20/18 RMK AO1 SLP126 T01990181 53024 KAKO 240237Z AUTO 10SM VCTS SCT060 SCT070 BKN110 25/11 A3010 RMK AO2 LTG DSNT ALQDS PRESRR T02500111 KBAX 240235Z AUTO 00000KT 10SM CLR 22/15 A3001 RMK AO2 T02150150 KBBP 240235Z AUTO 13003KT 10SM CLR 27/25 A2999 RMK AO2 EDOP 231650Z 05009KT CAVOK 26/15 Q1018 KBAZ 240151Z AUTO 15010KT 10SM CLR 33/21 A2985 RMK AO2 SLP098 T03280206 KAJZ 240235Z AUTO 01004KT 7SM CLR 30/06 A3004 RMK AO2 T03030063 KAKQ 240154Z AUTO 19003KT 8SM CLR 28/24 A2995 RMK AO2 SLP139 T02780244 TSNO EDNY 240220Z AUTO 07002KT 9999 15/15 Q1020 CWFQ 240200Z AUTO 17003KT 17/17 RMK AO1 SLP127 T01680167 53018 CWEZ 240200Z AUTO 24005KT 18/10 RMK AO1 SLP226 T01810095 56014 KALI 240153Z AUTO 14012KT 10SM CLR 29/23 A2986 RMK AO2 SLP109 T02940228 KAKR 240154Z AUTO 00000KT 10SM CLR 28/17 A3000 RMK AO2 SLP148 T02780167 KAMA 240153Z 18012KT 10SM CLR 32/11 A2997 RMK AO2 SLP085 T03170106 ULMM 240230Z 17001MPS 9999 SCT033 16/09 Q1020 R13/090070 NOSIG RMK QFE758 KD39 240233Z AUTO 13006KT 10SM SCT012 23/22 A2976 RMK AO2 T02290218 KALK 240156Z AUTO 30014KT 10SM CLR 32/09 A3006 RMK AO2 SLP074 T03220094 KBCK 240235Z AUTO 00000KT 10SM SCT049 21/21 A2984 RMK AO2 T02050205 CWGL 240200Z AUTO 35004KT 23/17 RMK AO1 SLP147 T02330171 53014 KALM 240235Z AUTO 16006KT 10SM CLR 32/03 A2994 RMK AO2 CWGM 240200Z AUTO 24010G16KT 20/06 RMK AO1 PK WND 27019/0117 T01950055 KBDE 240153Z AUTO 17004KT 10SM SCT035 OVC050 24/21 A2971 RMK AO2 SLP057 T02390206 TSNO KBBW 240153Z AUTO 01004KT 10SM CLR 27/22 A2987 RMK AO2 SLP089 T02670222 KALN 240245Z 13003KT 10SM SCT250 27/24 A2995 KALO 240154Z AUTO 14008KT 10SM CLR 24/22 A2979 RMK AO2 SLP082 T02390217 KAMG 240153Z AUTO 25003KT 10SM CLR 27/22 A3000 RMK AO2 SLP157 T02670217 KBDG 240235Z AUTO 02007KT 10SM CLR 28/07 A3018 RMK AO1 T02820065 KBDH 240235Z AUTO 12005KT 10SM SCT023 SCT030 25/23 A2976 RMK AO2 NZAA 240230Z AUTO 26030G41KT 7000 -SHRA FEW031/// BKN039/// OVC075/// 13/09 Q1000 TEMPO 6000 SHRA OOSA 240150Z 18007KT 2000 DZ SCT003 BKN009 OVC018 24/24 Q1003 NOSIG CWHI 240100Z AUTO 10003KT 21/15 RMK AO1 T02090151 CWGR 240200Z AUTO 21004KT 17/16 RMK AO1 SLP049 T01740160 51011 ZSAM 240200Z 06003MPS 9000 FEW033 SCT050 32/26 Q1009 NOSIG KALS 240152Z AUTO 36007KT 10SM CLR 23/06 A3026 RMK AO2 SLP141 T02280061 KBEA 240235Z AUTO 14008G14KT 10SM CLR 29/24 A2988 RMK AO2 T02910240 KBCT 240247Z 09012KT 10SM TS BKN028 BKN032 26/22 A3004 RMK LTG SW-NW TS SW-NW LAST KANB 240153Z AUTO 07003KT 10SM -RA FEW070 BKN100 24/23 A3002 RMK AO2 SLP155 P0000 T02440233 KD50 240235Z AUTO 29011KT 10SM CLR 18/16 A2991 RMK AO2 DNIB 231400Z 12006KT 6000 SCT011 FEW020CB 25/23 Q1013 CWGT 240200Z AUTO 14012KT 20/14 RMK AO1 SLP220 T01970141 56013 KBDL 240151Z 01006KT 10SM FEW080 BKN250 25/15 A2986 RMK AO2 SLP111 T02500150 $ CWHL 240200Z AUTO 15030KT 14/12 RMK AO1 PK WND 15034/0157 SLP158 T01430115 58013 KAND 240156Z AUTO 00000KT 10SM CLR 26/22 A3001 RMK AO2 SLP151 T02610217 KBED 240156Z 28004KT 10SM CLR 19/15 A2983 RMK AO2 SLP112 T01890150 CWID 240200Z AUTO 16004KT 15/09 RMK AO1 SLP078 T01510092 58010 CWHM 240200Z AUTO 29005KT 19/17 RMK AO1 T01900173 KALW 240153Z AUTO 30004KT 10SM CLR 28/03 A3005 RMK AO2 SLP170 T02780033 KANE 240234Z AUTO 11003KT 10SM CLR 23/22 A2978 RMK AO2 P0003 KAMN 240233Z AUTO 14003KT 10SM CLR 25/20 A2996 RMK AO2 T02520198 KBDN 240235Z AUTO 02007KT 10SM CLR 26/03 A3012 RMK AO2 CWGW 240200Z AUTO 22005KT 20/08 RMK AO1 SLP184 T01960075 53001 KALX 240235Z AUTO 00000KT 10SM CLR 27/26 A3001 RMK AO2 T02670263 CWHN 240200Z AUTO 29004KT 210V340 9SM BKN056 18/12 A2985 RMK SLP114 CWHO 240200Z AUTO 00035KT RMK AO1 3PAST HR 0001 P0001 50005 CWGX 240200Z AUTO 21007KT 19/15 RMK AO1 SLP079 T01860148 58002 KD55 240255Z AUTO 22006KT 10SM CLR 20/20 A2973 RMK AO2 PFSH 240158Z AUTO 24003KT 10SM OVC045 14/12 A2970 RMK AO2 SLP073 T01440117 CWIG 240200Z AUTO 36009KT RMK AO1 CWGY 240200Z AUTO 29007KT 22/10 RMK AO1 SLP137 T02160099 55001 KBEH 240236Z AUTO 09009KT 5SM RA BR FEW041 BKN100 24/23 A2994 RMK AO2 RAB0154 TSB0156E33 PRESFR P0007 T02440228 CWGZ 232000Z 09011G22KT 060V150 15SM FEW040 SCT080 BKN240 13/03 A2994 RMK SC1AC3CS2 12.7/4.8/0/0 LAST STFD OB/NEXT 261200 SLP144 ULPB 240200Z AUTO 00000MPS 0350 0250NE FG NCD 17/16 Q1019 RMK QFE760/1014 CWHQ 240200Z AUTO 34009G17KT 18/13 RMK AO1 PK WND 34018/0123 T01840129 KBDR 240152Z 33009KT 10SM CLR 30/14 A2984 RMK AO2 SLP104 T03000139 KD57 240235Z AUTO 31006KT 10SM CLR 21/11 A2989 RMK AO2 CWII 240200Z AUTO 14005KT 22/19 RMK AO1 T02180190 KANJ 240155Z AUTO 00000KT 10SM CLR 22/17 A2995 RMK AO2 SLP135 T02220172 CWIJ 240200Z AUTO 32011KT 07/M01 RMK AO1 PK WND 32019/0104 SLP093 T00731010 51008 KD60 240215Z AUTO 29008KT 10SM CLR 20/15 A2994 RMK AO2 KANK 240235Z AUTO 24007KT 10SM SCT110 23/05 A3035 RMK AO1 T02340049 OPKC 240225Z 25008KT 4000 DZ OVC020 28/24 Q1003 NOSIG CWHT 240200Z AUTO 34002KT 12/10 RMK AO1 SLP012 T01230103 56006 CWIK 240200Z AUTO 32011G17KT 18/13 RMK AO1 PK WND 33019/0137 SLP087 T01770134 53019 CWJB 240200Z AUTO 34005KT 20/13 RMK AO1 T02010127 UKWW 231700Z 32005MPS 9999 FEW036 22/14 Q1014 NOSIG EDSB 240220Z 21004KT 9000 SCT013 BKN023 19/19 Q1019 KBDU 240235Z AUTO 20004KT 10SM CLR 27/05 A3007 RMK AO2 CWJC 240200Z AUTO 28008KT 15/05 RMK AO1 T01520053 52006 ULOO 240200Z AUTO 34001MPS 0750 0500NE // ///001/// 18/18 Q1019 RMK QBB050 QFE760 CWIL 240200Z AUTO 20007KT 06/ A2938 RMK SLP955 KBFD 240153Z AUTO 00000KT 10SM CLR 19/14 A3004 RMK AO2 SLP156 T01940139 DNIM 230800Z 23004KT 9999 BKN010 25/24 Q1014 NOSIG CWHV 240100Z AUTO 00000KT 19/17 RMK AO1 SLP096 T01940169 53016 CWJD 240200Z AUTO 08003KT 18/17 RMK AO1 0PAST HR 6013 SLP027 P0020 T01830171 50057 UMGG 240230Z 30002MPS 0100 R28/0125 FG VV001 15/15 Q1015 R28/290050 NOSIG RMK QBB050 KAMW 240153Z AUTO 19007KT 10SM CLR 28/26 A2980 RMK AO2 SLP078 T02780256 NZAP 240200Z 28028G42KT 50KM BKN033 10/06 Q0995 RMK ALT VATSIM USE ONLY KBFF 240153Z AUTO 05005KT 10SM FEW120 27/12 A2998 RMK AO2 SLP099 T02720122 $ CXAF 240200Z AUTO 31006KT 19/08 RMK AO1 T01930082 TUPJ 240100Z 08007KT 9999 FEW021 SCT060 27/24 Q1016 RMK A3002 CXAG 240200Z AUTO 31007KT 19/11 RMK AO1 PK WND 30017/0103 T01890112 CWIP 240200Z AUTO 28004KT 19/ RMK AO1 T0193 KAOH 240153Z AUTO 20003KT 10SM CLR 27/23 A3000 RMK AO2 SLP148 T02670233 KANQ 240335Z AUTO 00000KT 10SM 25/22 A3000 RMK OPLA 240225Z 00000KT 5000 FU SCT040 SCT100 27/24 Q1005 CWJH 240200Z AUTO 07002KT 19/15 RMK AO1 SLP072 T01850149 53004 KBFI 240153Z 31006KT 10SM FEW050 22/11 A3020 RMK AO2 SLP226 T02170111 CWJI 240200Z AUTO 30010KT 20/12 RMK AO1 PK WND 30019/0100 SLP134 T02010118 53012 KAPA 240153Z 36015G21KT 10SM BKN110 BKN140 27/06 A3019 RMK AO2 SLP136 VIRGA DSNT W T02670061 PHBK 240225Z AUTO 36018G26KT FEW002 FEW046 32/21 A2990 RMK AO2 PK WND 36026/0223 T03170206 CXBA 240200Z AUTO 31009KT 20/09 RMK AO1 PK WND 30020/0113 T02040093 CXAJ 240200Z AUTO 29005KT 18/11 RMK AO1 T01840111 CWIS 240200Z AUTO 32006KT 13/09 RMK AO1 SLP109 T01250090 51012 EEKA 230750Z 36005KT 9000 SCT005 OVC030 19/17 Q1019 CXAK 240200Z AUTO 31002KT 22/12 RMK AO1 T02210116 KAPC 240154Z AUTO 18012KT 10SM CLR 26/13 A2981 RMK AO2 SLP087 T02610128 TSNO KBFL 240154Z 34004KT 10SM CLR 37/04 A2980 RMK AO2 SLP085 T03670039 $ KBFM 240153Z AUTO 20003KT 10SM CLR 28/24 A2998 RMK AO2 SLP151 T02830239 KBGD 240151Z AUTO 18010KT 10SM CLR 35/11 A2992 RMK AO2 SLP077 T03500111 CWKD 240100Z AUTO 29006KT 16/11 RMK AO1 SLP117 T01560108 53018 KANW 240235Z AUTO 35008KT 10SM CLR 23/15 A2992 RMK AO2 T02320148 KBGE 240235Z AUTO 00000KT 10SM CLR 26/22 A3000 RMK AO2 CWIW 240200Z AUTO 29007KT 20/14 RMK AO1 SLP097 T02040144 53013 KAPF 240153Z 11008KT 10SM CLR 27/23 A3001 RMK AO2 SLP161 T02670228 KAOO 240153Z AUTO 28005KT 10SM CLR 25/20 A3001 RMK AO2 SLP147 T02500200 EEKE 240150Z AUTO 05002KT 9999NDV OVC034 17/16 Q1021 KBGF 240235Z AUTO 00000KT 10SM CLR 24/22 A3003 RMK CWIX 240200Z AUTO 29009KT 16/12 RMK AO1 SLP122 T01600122 53019 CWJO 240200Z AUTO 26008KT 16/12 RMK AO1 SLP129 T01590121 53020 NZCH 240230Z AUTO 29022G35KT 260V330 9999 NCD 11/02 Q0976 NOSIG NZCI 240218Z 26022G32KT 50KM FEW050 17/03 Q0990 RMK NZNR VATSIM USE ONLY CWKG 240200Z AUTO 25002KT 19/16 RMK AO1 SLP069 T01890162 50008 CWIZ 240200Z AUTO 25003KT 19/18 RMK AO1 T01920183 CWKH 240200Z AUTO 19/08 RMK AO1 SLP220 T01880083 57013 CXBI 240200Z AUTO 32001KT 20/15 RMK AO1 SLP151 T01950147 52013 CWJR 240200Z AUTO 29004KT 22/13 RMK AO1 SLP187 T02150134 58008 CXCA 240200Z AUTO 17001KT 19/15 RMK AO1 SLP116 T01920148 56017 KBHB 240156Z AUTO 27003KT 10SM CLR 21/18 A2975 RMK AO2 SLP078 T02110183 NZCM 232355Z 00000KT 8000 BR SKC M37/M46 A2945 RMK SLPNO CXAT 240200Z AUTO 32004KT 04/03 RMK AO1 SLP090 T00440028 CWKK 240200Z AUTO 20002KT 20/17 RMK AO1 SLP124 T01970168 56014 CXBK 240200Z AUTO 29011KT 19/14 RMK AO1 SLP103 T01940142 53019 CWJT 240200Z AUTO 07001KT 17/16 RMK AO1 SLP131 T01660162 53022 CWLB 240200Z AUTO 30004KT 19/10 RMK AO1 SLP119 T01860099 52001 KBHC 240235Z AUTO 00000KT 10SM CLR 25/25 A3002 RMK AO2 PNO EDTL 231120Z VRB03KT 9999 FEW032 25/15 Q1017 CWLC 240200Z AUTO 17023KT 15/14 RMK AO1 PK WND 15032/0123 T01460135 CWJU 240200Z AUTO 21010G17KT 13/13 RMK AO1 2PAST HR 1004 PK WND 22021/0102 SLP153 P0001 T01280126 50003 KBGM 240153Z 28004KT CLR 24/12 A2998 RMK AO2 SLP138 T02390122 $ CXCD 240200Z AUTO 23011KT 18/09 RMK AO1 PK WND 24023/0123 T01830087 CWJV 240200Z AUTO 26001KT 22/12 RMK AO1 SLP183 T02220119 57005 CWKM 240200Z AUTO 07017KT A2991 KAPN 240154Z AUTO 00000KT 10SM CLR 22/16 A2998 RMK AO2 SLP148 T02220156 KBFW 240234Z AUTO 04005KT 10SM CLR 19/15 A2982 RMK AO2 DNKN 240000Z 13004KT CAVOK 25/23 Q1014 NOSIG CWLE 240200Z AUTO 29008KT 19/13 RMK AO1 PK WND 30018/0100 SLP127 T01920130 53011 CWJW 240200Z AUTO 25002KT 20/04 RMK AO1 SLP170 T01960039 51004 VCRI 240210Z 24010KT 9999 FEW017 SCT080 27/20 Q1008 NOSIG CXBO 240200Z AUTO 32007KT RMK AO1 CWJX 240200Z AUTO 21004KT 18/14 RMK AO1 SLP138 T01820138 58004 CWKO 240200Z AUTO 31009KT 19/12 RMK AO1 PK WND 34019/0106 SLP147 T01930116 52011 UMII 231600Z 02005G08MPS 6000 -TSRA OVC017CB 23/19 Q1013 R23/CLRD// TEMPO 2100 BKN005 UNAA 240230Z VRB01MPS CAVOK 25/19 Q1003 R02/190060 NOSIG RMK QFE730 CWKP 240200Z AUTO 30012KT 04/ A2975 RMK SLP100 CXCH 240200Z AUTO 20/18 RMK AO1 T02010175 KBGR 240153Z 27008KT 10SM FEW160 FEW200 23/18 A2976 RMK AO2 SLP073 T02280178 CXBR 240200Z AUTO 26013KT 21/06 RMK AO1 PK WND 24020/0118 T02140058 CWLI 240200Z AUTO 02014KT 08/ A2988 RMK SLP131 KARA 240153Z 20004KT 10SM CLR 28/26 A2994 RMK AO2 SLP139 T02830256 KARB 240153Z AUTO 06004KT 10SM FEW065 28/17 A2997 RMK AO2 SLP141 T02780172 KBHK 240151Z AUTO 32013KT 10SM CLR 25/08 A2998 RMK AO2 SLP129 T02500078 DNKT 231400Z VRB02KT 9999 SCT015 31/21 Q1014 CXDB 240200Z AUTO 29009KT 19/06 RMK AO1 T01910063 CXCK 240200Z AUTO 35002KT 13/09 RMK AO1 3PAST HR 6006 SLP008 P0001 T01260094 50006 NZDN 240228Z 19015KT 10KM -RADZ FEW008 SCT012 OVC018 02/01 Q0977 RMK VATSIM USE KBHM 240153Z 09003KT 10SM BKN250 26/24 A3002 RMK AO2 SLP157 T02610239 KBID 240156Z AUTO 28006KT 10SM CLR 24/18 A2983 RMK AO2 SLPNO T02440178 CWLM 240200Z AUTO 24008KT 16/10 RMK AO1 SLP230 T01550104 58013 KBIE 240235Z AUTO 18009KT 10SM CLR 31/21 A2980 RMK AO2 T03050213 EDVE 231450Z VRB03KT CAVOK 27/10 Q1018 CXBW 240100Z AUTO 25010KT 25/09 RMK AO1 PK WND 24019/0034 T02490091 CWME 240200Z AUTO 25006KT 14/13 RMK AO1 SLP221 T01440132 58012 CXDE 240200Z AUTO 11009KT 13/02 RMK AO1 SLP090 T01290015 58004 CWKW 240200Z AUTO ///// A2983 KAQO 240235Z AUTO 15005KT 10SM CLR 32/18 A2993 RMK AO2 KBIF 240158Z AUTO 18004KT 10SM CLR 37/02 A2990 RMK AO2 SLP045 T03730017 KAQP 240234Z AUTO 13007KT 10SM SCT070 26/23 A2971 RMK AO2 LTG DSNT NW KD95 240233Z AUTO 18004KT 10SM CLR 23/17 A3001 RMK AO2 T02250165 KARG 240235Z AUTO 16003KT 10SM CLR 27/23 A2994 RMK AO1 KAPY 240235Z AUTO 12009G16KT 10SM CLR 34/18 A2983 RMK AO2 T03450187 OPNH 240155Z 13508KT 4000 HZ FEW035 29/22 Q0998 EDTY 231750Z 16003KT 9999 FEW036 SCT070 23/17 Q1017 CXCP 240200Z AUTO 29007KT 23/10 RMK AO1 T02300100 CWLP 240200Z AUTO 36008KT 12/10 RMK AO1 SLP231 T01240104 58009 KBIH 240156Z AUTO 30009KT 10SM CLR 39/M12 A2990 RMK AO2 SLP059 T03891117 UNBB 240230Z 18003MPS 9999 SCT040CB 21/17 Q1004 R24/190059 NOSIG RMK QFE731 KAQR 240235Z AUTO 15004KT 10SM CLR 29/20 A2994 RMK AO2 CXDI 240200Z AUTO 30002KT 22/14 RMK AO1 SLP148 T02190144 53018 OPMT 240155Z 00000KT 4000 FU NSC 32/25 Q1001 NOSIG KBIJ 240235Z AUTO 00000KT 10SM CLR 27/23 A3001 RMK AO2 CXCS 240200Z AUTO 32005KT 20/12 RMK AO1 T01960115 CXEA 240200Z AUTO 11007KT 20/18 RMK AO1 2PAST HR 6031 SLP064 P0001 T02030180 50004 CWLS 240200Z AUTO 36001KT 21/14 RMK AO1 SLP162 T02060142 53018 CWMJ 240200Z AUTO 35003KT 20/12 RMK AO1 SLP144 T01970124 50016 CWNB 240200Z AUTO RMK AO1 53013 EDVK 231920Z 27004KT 9999 FEW004 BKN080 18/18 Q1019 KBJC 240247Z 18007KT 50SM BKN100 BKN150 24/10 A3013 CXDK 240200Z AUTO 35001KT 13/11 RMK AO1 4PAST HR 6018 SLP054 P0002 T01260112 50004 KBIL 240153Z 04010KT 10SM FEW090 SCT140 BKN220 26/05 A3003 RMK AO2 SLP135 VIRGA SW-W SHRA DSNT SW-W ACC OHD T02610050 KE11 240235Z AUTO 15004KT 10SM CLR 31/12 A2996 RMK AO2 T03120124 CWNC 240200Z AUTO 02003KT 25/12 RMK AO1 SLP130 T02540124 53018 CXEC 240200Z AUTO 32007KT 21/08 RMK AO1 SLP127 T02050075 55001 KASD 240153Z AUTO 00000KT 10SM FEW065 28/26 A2995 RMK AO2 SLP142 T02780256 KCAD 240235Z AUTO 00000KT 10SM CLR 21/17 A2998 RMK AO2 T02090180 KAQV 240156Z AUTO 00000KT 10SM SCT050 29/25 A2993 RMK AO2 TSE01 SLP129 T02890250 KARM 240235Z AUTO 14004KT 10SM CLR 28/23 A2992 RMK AO2 T02780233 CWMM 240200Z AUTO 23002KT 22/12 RMK AO1 SLP225 T02190123 58013 DNMM 240200Z 00000KT 8000 -DZ SCT008 FEW018CB 24/24 Q1014 NOSIG KASE 240153Z 21003KT 10SM CLR 22/09 A3028 RMK AO2 SLP124 T02220089 KAQW 240152Z AUTO 00000KT 10SM CLR 18/16 A2992 RMK AO2 SLP128 T01780156 KCAE 240156Z 11003KT 10SM CLR 28/22 A2999 RMK AO2 SLP151 T02780217 DNMN 231400Z 31005KT 9999 SCT011 29/23 Q1010 CWNE 240200Z AUTO 25005KT 17/15 RMK AO1 SLP051 T01670149 51012 KAQX 240235Z AUTO 17003KT 10SM CLR 28/23 A3000 RMK AO2 KASG 240148Z 14004KT 10SM SKC 31/24 A2997 VEBI 230700Z 11004KT 5000 BR FEW010 SCT020 BKN090 25/23 Q1010 NOSIG CWLX 240200Z AUTO 20010KT 07/ A2982 RMK SLP109 KCAG 240153Z AUTO 21011KT 10SM CLR 27/04 A3013 RMK AO2 SLP123 T02670039 CXDP 240200Z AUTO 33004KT 20/13 RMK AO1 T01960130 CXEG 240200Z AUTO 21/14 RMK AO1 T02050135 CWLY 240200Z AUTO 20014G27KT 180V250 9SM CLR 23/10 A3005 RMK SLP177 DENSITY ALT 1700FT KASH 240156Z AUTO 30007KT 10SM CLR 19/17 A2986 RMK AO2 SLP118 T01940167 KE16 240235Z AUTO 31007G14KT 10SM CLR 31/09 A2985 RMK AO2 VEAT 240230Z 19005KT 5000 BR SCT018 BKN100 28/25 Q1007 NOSIG UMKK 240230Z 29001MPS 8000 BKN027 18/17 Q1020 R24/CLRD70 NOSIG RMK QFE764/1019 CWMQ 240200Z AUTO 04008KT 19/12 RMK AO1 PK WND 02026/0104 SLP153 T01930124 53004 CWNH 240200Z AUTO 30003KT 17/11 RMK AO1 SLP094 T01680109 53019 ZSHC 240230Z 28003MPS 230V310 CAVOK 37/25 Q1008 NOSIG KARR 240237Z AUTO 34026G37KT 1/2SM +TSRA FG BKN011 BKN017 OVC028 22/21 A3000 RMK AO2 PK WND 34037/0234 WSHFT 0222 LTG DSNT ALQDS RAB21 TSB23 P0035 T02220206 $ KBJI 240225Z AUTO 16008KT 10SM BKN027 BKN033 OVC075 23/21 A2973 RMK AO2 KASJ 240240Z AUTO 00000KT 10SM CLR 26/25 A2998 RMK AO2 T02610247 KBIS 240152Z AUTO 30005KT 10SM CLR 26/13 A2983 RMK AO2 SLP092 T02610133 KBJJ 240156Z AUTO 01004KT 10SM CLR 23/19 A3001 RMK AO2 SLP152 T02330194 VECC 240230Z 11007KT 3200 HZ FEW020 BKN100 29/27 Q1006 NOSIG KCAK 240151Z 06005KT 10SM SCT250 26/17 A3001 RMK AO2 SLP150 T02610167 KART 240156Z AUTO 10004KT 10SM CLR 22/17 A2992 RMK AO2 SLP127 T02170172 KBKB 240154Z AUTO 00000KT 10SM CLR 29/26 A2991 RMK AO2 SLP151 T02890256 PNO $ VEBN 240230Z 11003KT 4000 HZ SCT020 SCT100 29/27 Q1004 CWMT 240200Z AUTO 29003KT 16/M00 RMK AO1 SLP078 T01631001 56006 CWNK 240200Z AUTO 17004KT 21/19 RMK AO1 T02120191 KASL 240235Z AUTO 18005KT 10SM SCT070 SCT090 SCT110 24/22 A2996 RMK AO1 P0001 T02400221 CWNL 240200Z AUTO 09003KT 22/14 RMK AO1 SLP141 T02170144 51001 CWOC 240200Z AUTO 06004KT 18/16 RMK AO1 SLP051 T01810161 50016 KBIV 240153Z AUTO 22006KT 10SM SCT110 26/22 A2997 RMK AO2 PRESRR SLP144 T02610217 $ KARV 240235Z AUTO 21005KT 10SM RA BKN048 OVC070 22/21 A2991 RMK AO2 T02220210 KBKD 240235Z AUTO 13007KT 10SM CLR 32/15 A2990 RMK AO2 T03150151 CWNM 240200Z AUTO 24001KT 22/13 RMK AO1 SLP181 T02200128 58005 CWOD 240200Z AUTO 30009KT 16/12 RMK AO1 SLP116 T01550123 53018 ZSFZ 240200Z 18002MPS 130V260 7000 FEW008 BKN012 30/26 Q1010 BECMG TL0300 BKN015 KBKE 240153Z AUTO 34013KT 10SM CLR 25/03 A3011 RMK AO2 SLP180 T02500033 TSNO KCBE 240235Z AUTO 00000KT 10SM BKN060 28/21 A3001 RMK AO1 KARW 240215Z AUTO 21005KT 7SM CLR 29/24 A3001 RMK AO2 KASN 240235Z AUTO 12003KT 10SM -RA CLR 24/24 A3002 RMK AO2 P0001 T02430237 CXDW 240200Z AUTO 21006KT 22/20 RMK AO1 SLP050 T02180201 56007 CWOE 240200Z AUTO 31007KT 23/07 RMK AO1 SLP142 T02300067 56004 KCAO 240155Z AUTO 12005KT 10SM CLR 26/14 A3003 RMK AO2 SLP088 T02610139 KCBF 240235Z AUTO 16007KT 10SM 27/25 A2980 RMK AO2 KBIX 240158Z AUTO 21005KT 10SM FEW026 30/25 A2996 RMK AO2 SLP148 T02970254 KBKF 240158Z 30007KT 10SM FEW080 BKN120 BKN200 25/09 A3019 RMK AO2A RAB17E58 SLP139 P0000 T02530091 KCBG 240236Z AUTO 12003KT 10SM OVC015 23/19 A2978 RMK AO2 P0001 VEBS 240230Z 10002KT 5000 HZ SCT018 SCT100 28/27 Q1005 NOSIG CWNP 240200Z AUTO 33002KT 20/14 RMK AO1 SLP188 T02040143 56002 CWMZ 240200Z AUTO 31009KT 22/18 RMK AO1 SLP147 T02170178 53007 CWNQ 240200Z AUTO 34005KT 21/15 RMK AO1 SLP112 T02120150 53025 KCAR 240154Z AUTO 34008KT 10SM CLR 20/14 A2975 RMK AO2 SLP075 T02000144 KCCA 240235Z AUTO 00000KT 10SM CLR 27/23 A2994 RMK AO2 KAST 240155Z AUTO 32013KT 10SM CLR 19/13 A3022 RMK AO2 SLP234 T01890133 KCBK 240235Z AUTO 05009KT 10SM CLR 27/18 A2992 RMK AO2 CXET 240200Z AUTO 32004KT 21/15 RMK AO1 SLP151 T02070154 53012 KBKL 240153Z 05006KT 10SM CLR 27/22 A2998 RMK AO2 SLP145 T02670217 KATL 240152Z 31003KT 10SM FEW120 BKN170 OVC250 28/22 A3001 RMK AO2 SLP151 T02780217 EFET 240220Z AUTO 00000KT CAVOK 11/08 Q1019 CWPC 240200Z AUTO 35004KT 26/18 RMK AO1 SLP144 T02580181 53012 KCBM 240158Z AUTO 30002KT 10SM CLR 27/26 A2998 RMK AO2 SLP153 T02720264 $ CXFM 240200Z AUTO 24006KT 24/09 RMK AO1 T02360091 CWPD 240200Z AUTO 01007KT 11/09 RMK AO1 SLP099 T01100092 51019 UMMG 231500Z 34004G07MPS 9999 SCT030 BKN066 24/16 Q1016 NOSIG KASW 240235Z AUTO 00000KT 10SM BKN041 BKN048 25/21 A3000 RMK AO2 CWPE 240200Z AUTO 34002KT 14/14 RMK AO1 SLP063 T01420137 53007 KASX 240153Z AUTO 00000KT 10SM FEW028 SCT037 BKN090 21/19 A2984 RMK AO2 SLP101 T02110189 KBLF 240152Z AUTO 00000KT 10SM CLR 24/19 A3013 RMK AO2 SLP160 T02440189 KAUG 240153Z AUTO 28004KT 10SM SCT110 20/16 A2980 RMK AO2 SLP089 T02000161 CWPF 240245Z AUTO 20008KT 17/10 RMK AO1 T01700104 KATP 240235Z AUTO 13007KT 10SM CLR 30/24 A2998 RMK A01 KBLH 240152Z AUTO 19014G22KT 10SM FEW055 43/13 A2967 RMK AO2 SLP038 T04280133 KAUH 240235Z AUTO 00000KT 10SM CLR 29/27 A2982 RMK AO2 T02940271 PHHI 240243Z AUTO 35007KT 9SM -DZ OVC015 24/23 A2991 RMK AO2 $ NZGS 240156Z 29025G35KT 30KM FEW055 17/07 Q0992 RMK VATSIM USE ONLY CXGH 240200Z AUTO 19008KT 22/19 RMK AO1 T02210187 CWNZ 240200Z AUTO 00000KT 17/15 RMK AO1 SLP153 T01650148 55002 KBLI 240153Z 17007KT 10SM CLR 20/10 A3020 RMK AO2 SLP234 T02000100 OPPS 240200Z 31014KT 4000 HZ FEW030TCU SCT040 BKN100 28/21 Q1006 NZHK 240200Z 27026G39KT 50KM BKN049 09/04 Q0983 RMK ALT VATSIM USE ONLY CXFR 240200Z AUTO 26013KT 19/08 RMK AO1 PK WND 26022/0125 T01940081 ULWC 240230Z 00000MPS 4400 BR NSC 16/15 Q1017 TEMPO 2000 BR RMK QFE752/1003 KATS 240235Z AUTO 14006KT 10SM CLR 32/05 A2992 RMK AO2 KCDA 240235Z AUTO 00000KT 10SM SCT050 16/15 A2994 RMK AO2 T01600148 KE38 240235Z AUTO 15005KT 10SM CLR 31/10 A3007 RMK AO2 T03050101 KBKS 240235Z AUTO 12007KT 10SM CLR 30/23 A2987 RMK AO1 T02970231 CXHA 240200Z AUTO 13002KT 26/16 RMK AO1 SLP138 T02570163 53013 UMMM 231400Z 30005MPS 9999 BKN033 BKN100 25/16 Q1015 NOSIG RMK QFE742 EFHA 240220Z AUTO 14003KT 5000 BKN027 BKN047 17/17 Q1020 KATT 240151Z AUTO VRB04KT 10SM CLR 33/20 A2988 RMK AO2 SLP103 T03330200 PFYU 240236Z 06007KT 10SM FEW070 FEW120 19/01 A2965 RMK AO1 KBKT 240235Z AUTO 19003KT 10SM CLR 25/25 A2997 RMK AO1 T02540250 UNEE 240230Z 16002MPS CAVOK 20/19 Q1003 R23/CLRD60 NOSIG RMK QFE730 CWPK 240200Z AUTO 31002KT 12/10 RMK AO1 SLP171 T01160101 53023 KCDC 240153Z AUTO 24009KT 10SM CLR 32/M02 A3006 RMK AO2 SLP081 T03221017 KAVC 240236Z AUTO 00000KT 10SM CLR 25/24 A3003 RMK AO2 T02470240 KBMC 240235Z AUTO 14003KT 10SM 29/M03 A3003 RMK AO1 T02901032 NZHN 240152Z 26015G32KT 20KM SHRA FEW022 SCT050 13/09 Q0997 RMK VATSIM USE ONLY KCDD 240221Z AUTO 12001KT 10SM CLR 20/18 A2980 RMK AO2 KBKV 240153Z 00000KT 10SM CLR 27/24 A3002 RMK AO2 SLP165 T02670244 KAUM 240235Z AUTO 14004KT 10SM OVC012 23/21 A2982 RMK AO2 KBLM 240156Z AUTO 23007KT 10SM CLR 26/20 A2988 RMK AO2 SLP120 T02610200 CXHD 240200Z AUTO 32005KT 20/11 RMK AO1 T01960113 KBKW 240151Z AUTO 03003KT 10SM CLR 26/20 A3010 RMK AO2 SLP149 T02560200 $ KAUN 240235Z AUTO 28004KT 10SM CLR 34/M03 A2989 RMK AO1 KATW 240245Z VRB05KT 10SM BKN075 23/21 A2990 EDXW 232020Z 06005KT CAVOK 20/18 Q1019 KAUO 240156Z AUTO 20003KT 10SM CLR 29/22 A3002 RMK AO2 SLP171 T02940217 KBKX 240156Z AUTO 18004KT 10SM CLR 29/26 A2975 RMK AO2 SLP073 P0005 T02890256 KCCO 240235Z AUTO 00000KT 10SM SCT060 27/24 A3004 RMK AO2 T02700243 DNPO 232300Z 00000KT 7000 BKN007 24/23 Q1014 NOSIG CXHF 240200Z AUTO 21/14 RMK AO1 T02110142 CWPO 240100Z AUTO 22008KT 23/20 RMK AO1 SLP063 T02260199 58005 KATY 240213Z AUTO 32010KT 10SM FEW050 28/23 A2977 RMK AO2 WSHFT 0153 T02830228 KBMG 240153Z AUTO 00000KT 7SM CLR 26/24 A2999 RMK AO2 SLP146 T02610239 EFHF 240220Z AUTO 00000KT 0350 BCFG SCT003 BKN054 15/15 Q1020 CWOY 240100Z AUTO 33003KT 20/16 RMK AO1 SLP082 T02040155 51017 UMMS 240230Z 01004G07MPS 8000 OVC006 18/17 Q1017 R31/CLRD// NOSIG RMK QBB180 KCDH 240235Z AUTO 05003KT 10SM CLR 25/20 A2994 RMK AO2 NZHS 240218Z 26022G32KT 50KM FEW050 17/03 Q0990 RMK NZNR VATSIM USE ONLY CWQH 240200Z AUTO 20002KT 18/17 RMK AO1 T01760174 KCCR 240153Z 28009KT 10SM CLR 34/06 A2981 RMK AO2 SLP080 T03390056 KBMI 240156Z 16007KT 10SM CLR 27/26 A2995 RMK AO2 SLP149 T02720256 NZHT 240200Z 25019KT 40KM BKN014 09/05 Q0980 RMK ALT VATSIM USE ONLY CWPR 240200Z AUTO 27006KT 20/06 RMK AO1 PK WND 27020/0119 SLP208 T02020057 58001 KAUS 240153Z 12005KT 10SM FEW090 FEW250 33/21 A2986 RMK AO2 SLP099 T03280206 KBNA 240153Z 19008KT 10SM FEW050 SCT140 BKN250 28/22 A2999 RMK AO2 SLP147 CB DSNT NE T02780217 KCDJ 240152Z AUTO 16003KT 30/26 A2986 RMK AO1 SLP093 T03000261 $ ZSJN 230744Z 36006MPS 320V020 9999 SCT033 36/27 Q1001 NOSIG CWPS 240200Z AUTO 26/18 RMK AO1 SLP141 T02600175 53012 CWRA 240200Z AUTO 21015KT 15/14 RMK AO1 PK WND 21019/0150 SLP126 T01460139 51001 KAVK 240235Z AUTO 17007KT 10SM CLR 33/15 A2986 RMK AO2 CXIB 240200Z AUTO 24004KT 21/17 RMK AO1 SLP055 T02090171 50003 CWQK 240200Z AUTO 26021KT 14/11 RMK AO1 PK WND 27024/0132 SLP228 T01360111 58013 KBML 240152Z AUTO 00000KT 10SM CLR 16/14 A2988 RMK AO2 SLP117 T01610139 KBLU 240152Z AUTO 25004KT 10SM CLR 26/M01 A3017 RMK AO2 SLP104 T02611006 TSNO EFHK 240220Z VRB01KT 9999 MIFG NSC 17/17 Q1020 NOSIG KAVL 240154Z 00000KT 10SM FEW043 24/20 A3009 RMK AO2 RAB0057E09 SLP160 P0000 T02440200 KCCU 240236Z AUTO 30007KT 10SM CLR 15/00 A3068 RMK AO2 KCEC 240156Z AUTO 35014G27KT 7SM CLR 15/11 A3000 RMK AO2 PK WND 34027/0151 SLP158 T01500111 OPRN 240000Z 13012KT 7000 VCTS FEW030TCU SCT040 BKN100 26/22 Q1007.1/29.74 EEPU 231250Z 36004KT 330V030 9999 OVC024 21/17 Q1019 KBLV 240158Z AUTO 00000KT 10SM CLR 28/26 A2992 RMK AO2 SLP130 T02820263 $ CXHM 240200Z AUTO 32001KT 24/14 RMK AO1 SLP137 T02420140 53022 PGRO 240150Z 09007KT 7SM SCT013 BKN120 29/25 A2983 KAUW 240154Z AUTO 12004KT 10SM OVC075 22/19 A2987 RMK AO2 SLP112 T02170189 KCEF 240158Z AUTO 36003KT 10SM CLR 21/15 A2987 RMK AO2 SLP119 T02090150 PHJH 240145Z 03015G26KT 10SM SCT020 BKN060 27/22 A2983 CWQO 240200Z AUTO 22012KT 12/08 RMK AO1 T01170080 CWPX 240200Z AUTO 33035KT 04/ A2941 RMK SLP976 CWRF 240200Z AUTO ///// 10/ A2958 RMK SLP039 KAWG 240235Z AUTO 17006KT 10SM CLR 28/27 A2988 RMK AO2 KCCY 240235Z AUTO 13006KT 10SM CLR 23/23 A2982 RMK AO2 KAVP 240154Z AUTO 01005KT 10SM CLR 27/13 A2994 RMK AO2 SLP128 T02720128 CXHP 240200Z AUTO 26009KT 20/09 RMK AO1 PK WND 25018/0103 T01950086 CWQP 240200Z AUTO 01009KT 24/14 RMK AO1 SLP134 T02380143 53015 KBMQ 240153Z AUTO 12005KT 10SM CLR 32/18 A2992 RMK AO2 SLP111 T03220183 KAVQ 240235Z AUTO 32004KT 10SM CLR 38/08 A2981 RMK AO2 T03810079 CWPZ 240200Z AUTO 20004KT 18/09 RMK AO1 SLP164 T01810091 58011 CWRH 240200Z AUTO ///// 02/ A2983 RMK SLP132 KCDR 240153Z AUTO 06010KT 10SM CLR 28/08 A2996 RMK AO2 SLP115 T02830078 CXHR 240200Z AUTO 06004KT 17/15 RMK AO1 T01700148 CWQR 240200Z AUTO 28006KT 14/ RMK AO1 T0143 OPSK 240200Z 00000KT 4000 HZ FEW200 30/25 Q1000 KCDS 240153Z AUTO 15008KT 10SM CLR 33/16 A2988 RMK AO2 SLP084 T03280161 KAXA 240235Z AUTO 00000KT 10SM CLR 27/25 A2979 RMK AO2 CWQS 240200Z AUTO 19008KT 14/14 RMK AO1 2PAST HR 0000 SLP167 P0001 T01350135 50012 CWRJ 240200Z AUTO 28005KT 20/14 RMK AO1 SLP121 T02000143 53009 CWSA 240200Z AUTO 21016G21KT 5SM BR FEW023 SCT034 BKN046 17/16 A2979 RMK SLP090 DENSITY ALT 400FT EGAA 240220Z 00000KT 9999 BKN034 OVC040 14/12 Q1017 KBMT 240235Z AUTO 15003KT 10SM CLR 28/24 A2994 RMK AO2 T02800238 CYAB 232100Z 23003KT 210V270 20SM FEW030 BKN040 BKN070 07/04 A2982 RMK SC2SC4AC1 SLP101 CWRK 240200Z AUTO 32002KT 19/15 RMK AO1 SLP154 T01880147 51010 ORBD 240230Z 29007KT 4000 DUFU FEW000 FEW015 29/07 A2938 RMK DUFU FEW000 FU FEW015 WND DATA/ALSTG ESTMD EGAC 231950Z 21004KT 9999 -DZ FEW015 SCT028 18/15 Q1017 UMOO 231300Z 32006G09MPS 9999 FEW030 BKN/// 25/18 Q1012 NOSIG KAWM 240153Z AUTO 14004KT 10SM CLR 27/24 A2994 RMK AO2 SLP132 T02720244 PGSN 240154Z 10008KT 10SM SCT027 31/24 A2981 RMK AO2 SLP117 T03060244 $ KCFD 240235Z AUTO 10004KT 10SM CLR 29/22 A2992 RMK AO2 T02930215 CWRM 240200Z AUTO 13003KT 20/13 RMK AO1 SLP138 T01990128 54000 CWSD 240200Z AUTO 22006KT 18/17 RMK AO1 3010 SLP057 T01790171 50002 CWQV 240200Z AUTO 28019KT RMK AO1 PK WND 28023/0150 KCDW 240153Z AUTO 00000KT 10SM CLR 29/13 A2988 RMK AO2 SLP120 T02890133 TSNO $ KCFE 240235Z AUTO 00000KT 10SM SCT018 BKN045 23/21 A2978 RMK AO2 T02300210 EGAE 231550Z 24011KT 200V260 9000 VCSH FEW012 SCT017 20/16 Q1016 CWRN 240200Z AUTO 18009KT 16/16 RMK AO1 SLP067 T01630158 50008 KBNO 240153Z AUTO 21007KT 10SM CLR 28/M03 A3011 RMK AO2 SLP164 T02781028 TSNO KAVX 240151Z AUTO 01003KT 8SM CLR 23/16 A2985 RMK AO2 SLP078 T02330161 TSNO KAWO 240235Z AUTO 31007KT 10SM CLR 19/09 A3022 RMK AO1 CWRO 240200Z AUTO 34001KT 15/ RMK AO1 0PAST HR 1005 PK WND 18018/0104 SLP154 P0004 T0149 50022 CWSF 240200Z AUTO 26003KT 18/15 RMK AO1 SLP047 T01800147 50012 NZKI 240200Z 30022G33KT 90KM BKN047 14/01 Q0976 RMK ALT VATSIM USE ONLY CWSG 240200Z AUTO 23003KT 15/14 RMK AO1 SLP058 T01510140 53014 PHJR 240153Z AUTO 05010G18KT 10SM FEW026 BKN035 BKN041 29/22 A2989 RMK AO2 SLP126 T02940222 TSNO ORBI 240230Z 31013KT CAVOK 31/14 Q0995 KAXH 240235Z AUTO 14003KT 10SM CLR 27/24 A2993 RMK AO2 T02730237 CYAH 240200Z AUTO 29006KT 9SM BKN045 14/10 A2992 RMK SLP140 DENSITY ALT 1100FT KBOI 240153Z 34010KT 10SM CLR 28/00 A3003 RMK AO2 SLP144 T02830000 PGUA 240158Z AUTO 09008KT 10SM BKN017 BKN023 30/25 A2984 RMK AO2 SLP095 T02990254 $ NZKK 240229Z 26023KT 20KM VCSH FEW025 SCT035 14/10 Q1000 RMK NZAA VATSIM USE ONL KCFJ 240235Z AUTO 00000KT 10SM CLR 24/24 A3000 RMK AO2 T02400240 OPST 240200Z 05004KT 4000 FU SCT040 SCT100 28/23 Q1006 NOSIG RH77 CXKA 240200Z AUTO 10002KT 19/15 RMK AO1 SLP141 T01860151 55000 KBOK 240156Z AUTO 14006KT 10SM CLR 22/14 A2998 RMK AO2 SLP163 T02170139 CYBB 240000Z 13014G20KT 20SM -RA FEW030 OVC070 13/09 A2961 RMK CU2AS6 16.7/7.6/2.3/SNW CVR/NIL/LAST OBS/NXT 241700Z SLP028 DENSITY ALT 100FT CWSK 240200Z AUTO 18006KT 22/12 RMK AO1 SLP211 T02150120 58013 CWRT 240200Z AUTO 29006KT 18/08 RMK AO1 PK WND 32018/0129 T01750077 EGBB 240220Z 30003KT CAVOK 17/13 Q1019 KCEU 240154Z AUTO 00000KT 10SM CLR 27/23 A3002 RMK AO2 SLP153 T02720228 KCGC 240235Z AUTO 00000KT 10SM SCT024 SCT055 26/24 A3002 RMK AO2 CWRU 240200Z AUTO 15014KT 14/14 RMK AO1 PK WND 10020/0135 SLP238 T01440144 58009 CWSL 240200Z AUTO 27002KT 24/14 RMK AO1 SLP185 T02360137 58008 CYBC 240200Z AUTO 31004KT 9SM CLR 19/17 A2971 RMK SLP063 DENSITY ALT 700FT CYBD 240100Z 28009G19KT 15SM BKN075 17/13 A3017 RMK AC7 OCNL -SHRA CVCTV CLD EMBD LAST OBS/NEXT 241300UTC SLP218 CYAM 240200Z 19002KT 15SM FEW090 SCT180 BKN260 BKN280 19/16 A2994 RMK AC2AC2CC2CI1 SLP141 DENSITY ALT 1100FT VDPP 240230Z VRB01KT 9999 SCT017 31/25 Q1009 KAXN 240245Z AUTO 13007KT 10SM OVC009 24/22 A2976 RMK AO2 LTG DSNT W CIG 007V012 T02390222 KCGE 240232Z AUTO 00000KT 10SM CLR 28/24 A2991 RMK AO1 EFIV 240220Z AUTO 23001KT CAVOK 15/12 Q1019 KCEW 240153Z AUTO 18004KT 10SM CLR 27/23 A2999 RMK AO2 SLP153 T02720228 PHKO 240153Z 21011KT 10SM BKN100 30/24 A2970 RMK AO2 SLP058 T03000239 KBNW 240235Z AUTO 19006KT 10SM CLR 27/25 A2980 RMK AO2 KAXO 232200Z 21003KT 7SM BKN040 30/26 A2994 RMK LAST KCGF 240145Z 09004KT 10SM SCT080 26/17 A3000 EGBE 231750Z 26008KT 9999 FEW048 25/13 Q1019 CXKE 240200Z AUTO 34002KT 22/16 RMK AO1 SLP133 T02220155 51015 EFKE 240220Z AUTO 09002KT 2600 BCBR SKC 16/15 Q1019 CWRX 240200Z AUTO 16006KT 08/ A2978 EFJO 240220Z AUTO 25003KT 9999 OVC026 18/17 Q1020 KCEY 240235Z AUTO 00000KT 10SM BKN043 27/25 A2998 RMK AO1 KBPG 240235Z AUTO 13004KT 10SM CLR 32/15 A2995 RMK AO2 T03180151 CWRY 240200Z AUTO 29009KT 24/07 RMK AO1 PK WND 26020/0118 SLP146 T02350069 55001 CWTG 240200Z AUTO 26006KT 11/11 RMK AO1 SLP058 T01110107 51019 CWSP 240200Z AUTO 29021KT 14/14 RMK AO1 PK WND 29024/0158 SLP233 T01430138 57014 CYBG 240200Z 26009KT 25SM FEW040 16/12 A2989 RMK SC2 SLP122 ZSNB 240200Z 16002MPS 110V210 8000 NSC 34/27 Q1008 NOSIG KCEZ 240153Z AUTO 09006KT 10SM CLR 29/06 A3010 RMK AO2 SLP104 T02940056 $ PHLI 240153Z 02015KT 10SM FEW022 OVC044 28/21 A2996 RMK AO2 SLP143 T02830211 $ CWRZ 240200Z AUTO 26005KT 16/16 RMK AO1 SLP047 T01590159 51010 VEGT 240230Z 00000KT 4000 -RA FEW020 SCT008 FEW025CB OVC090 28/26 Q1007 NOSIG KBPI 240153Z AUTO 32012KT 10SM CLR 23/M03 A3023 RMK AO2 SLP142 T02281033 KCGI 240153Z AUTO 14004KT 10SM CLR 27/24 A2993 RMK AO2 SLP132 T02720244 CXKI 240200Z AUTO 18/16 RMK AO1 SLP167 T01780156 55001 CWSR 240200Z AUTO 29006KT 19/11 RMK AO1 SLP093 T01910112 53009 EFKI 240220Z AUTO 24003KT 9999 OVC007 17/16 Q1020 KCHA 240153Z 07003KT 10SM FEW040 SCT110 BKN160 BKN250 28/21 A3001 RMK AO2 PRESRR SLP153 T02780211 $ KBOS 240154Z 30007KT 10SM FEW060 BKN160 BKN240 23/14 A2983 RMK AO2 SLP102 FRQ LTGIC DSNT SE-S T02280139 KAXS 240235Z AUTO 14008KT 7SM CLR 31/18 A2988 RMK AO2 T03140182 KCFS 240235Z AUTO 11003KT 10SM CLR 22/16 A2998 RMK AO2 T02220160 NZMC 240200Z 25019KT 40KM BKN014 09/05 Q0980 RMK ALT NZHT VATSIM USE ONLY EGBJ 231750Z 26008KT 210V280 9999 FEW040 23/14 Q1019 CWSS 240200Z AUTO 00000KT 19/18 RMK AO1 SLP066 T01930181 53013 KBPK 240153Z AUTO 15004KT 10SM CLR 28/22 A2995 RMK AO2 SLP129 T02780222 KE80 240235Z AUTO 27018G27KT 10SM CLR 30/05 A3005 RMK AO2 T03030054 CWST 240200Z AUTO 02002KT 17/11 RMK AO1 SLP095 T01700111 53021 CYCB 240241Z 01010KT 15SM VCSH SCT007 BKN015 06/04 A2933 RMK CF4SC3 SLP936 CYBK 240200Z 28011KT 25SM FEW010 SCT043 14/04 A2963 RMK CU1SC3 CU TR SLP037 DENSITY ALT 200FT EFKK 240220Z AUTO 00000KT CAVOK 16/15 Q1019 CYAT 240200Z AUTO 12006KT 9SM OVC010 13/11 A3001 RMK SLP164 PGUM 240154Z 11008KT 10SM FEW025 SCT031 32/25 A2982 RMK AO2 SLP089 T03170250 KAZC 240235Z AUTO 28006KT 10SM CLR 34/00 A3005 RMK AO2 CYBL 240200Z 11006KT 070V130 30SM FEW040 22/12 A3018 RMK SC2 SLP220 DENSITY ALT 1000FT KCHD 240147Z 29008KT 20SM SKC 42/10 A2972 CXLC 240200Z AUTO 35005KT 14/03 RMK AO1 SLP085 T01400033 51001 KCFV 240152Z AUTO 15006KT 10SM CLR 32/22 A2987 RMK AO2 SLP106 T03170217 KAXV 240234Z AUTO 00000KT 10SM CLR 26/25 A3001 RMK AO2 EGCC 240220Z 00000KT 9999 OVC045 14/13 Q1019 NOSIG NZMF 240212Z 20020KT 40KM SCT040 SCT110 07/01 Q0977 RMK NZQN VATSIM USE ONLY CYCD 240200Z 10004KT 080V160 30SM FEW045 22/13 A3019 RMK CU1 SLP223 DENSITY ALT 600FT VEGY 231030Z 00000KT 5000 HZ FEW010 SCT016 FEW030CB BKN100 33/26 Q1001 NOSIG CXKM 240200Z AUTO 31003KT 20/12 RMK AO1 T01950115 KBOW 240235Z AUTO 00000KT 10SM SCT038 25/25 A3005 RMK AO2 KAZE 240235Z AUTO 00000KT 10SM BKN110 26/24 A3000 RMK AO2 T02630243 CWSW 240100Z 18011G17KT 140V300 20SM SCT060 SCT080 20/08 A3007 RMK SC3AC1 LAST STFD OBS/NEXT 241300Z SLP183 DENSITY ALT 5000FT CWTN 240200Z AUTO 27002KT 19/12 RMK AO1 SLP094 T01920120 53025 CYBN 240200Z AUTO 28003KT 9SM CLR 20/15 A2999 RMK SLP154 EETN 240220Z 00000KT 4100 BR SCT002 15/15 Q1020 KAXX 240235Z AUTO 20012G19KT 10SM SCT110 20/08 A3037 RMK AO2 T02010075 ZSNJ 240200Z 25003MPS 200V290 9999 FEW020 36/26 Q1007 NOSIG CYCG 240200Z 12002KT 15SM FEW065 BKN110 23/13 A3006 RMK CU1AC4 SLP179 DENSITY ALT 2800FT CYAY 240222Z AUTO 23009KT 2SM BR OVC004 16/15 A2958 RMK SLP017 DENSITY ALT 600FT EFJY 240220Z AUTO 13004KT 9000 OVC005 17/16 Q1020 CYAZ 240100Z 28009G15KT 15SM SCT019 BKN230 19/13 A3025 RMK SC4CC1 LAST STFD OBS/NEXT 241300UTC SLP246 DENSITY ALT 100FT CYBQ 240200Z AUTO 03006KT 9SM CLR 19/10 A2972 RMK SLP074 DENSITY ALT 1800FT CYBR 240200Z 28013G20KT 15SM FEW030 FEW080 SCT220 20/14 A2969 RMK CU1AC1CI2 CU TR SLP056 DENSITY ALT 2500FT KCGS 240233Z AUTO 00000KT 10SM CLR 28/22 A2992 RMK AO1 PHMK 240154Z 05010G18KT 360V070 10SM -RA SCT009 SCT014 BKN020 26/23 A2988 RMK AO2 PK WND 06027/0114 RAB08E35B47 SLP118 P0000 T02610228 $ KAYS 240235Z AUTO 00000KT 10SM CLR 28/24 A3002 RMK AO2 T02840238 CYDA 240225Z VRB02KT 20SM -SHRA BKN040CB BKN100 OVC230 16/12 A2951 RMK CB5AC2CI1 SLP006 DENSITY ALT 2000FT VEIM 240230Z 14002KT 4000 BR FEW008 SCT018 BKN090 24/22 Q1012 NOSIG KBPT 240153Z AUTO 20003KT 10SM CLR 27/23 A2991 RMK AO2 RAB19E45 SLP128 P0000 T02720233 EFKS 240220Z AUTO 00000KT 0400 FG SCT003 BKN010 OVC038 16/16 Q1020 EFMA 240220Z AUTO 14003KT 9999 OVC021 17/16 Q1020 KCHK 240235Z AUTO 15007KT 10SM CLR 32/20 A2990 RMK AO2 KBQK 240235Z AUTO 19006KT 10SM CLR 29/26 A3003 RMK AO2 CXKT 240200Z AUTO 23002KT 19/16 RMK AO1 SLP067 T01920160 50009 CWTT 240200Z AUTO 30004KT 18/17 RMK AO1 T01830170 CYCK 240200Z AUTO 05005KT 9SM CLR 23/16 A2999 RMK SLP154 DENSITY ALT 1600FT CYDB 240200Z AUTO 24004KT 9SM -RA FEW045 OVC055 11/09 A2953 RMK SLP024 DENSITY ALT 3200FT ZSOF 240200Z 22002MPS 170V260 CAVOK 34/27 Q1007 NOSIG KCIC 240235Z AUTO 00000KT 10SM CLR 38/06 A2978 RMK AO1 EFKT 240220Z AUTO 00000KT CAVOK 12/10 Q1020 CYDC 240100Z 28008G16KT 240V330 25SM FEW060 SCT150 21/08 A3017 RMK CU2AC1 LAST STFD OBS/NEXT 241300 UTC SLP211 DENSITY ALT 3200FT CXLL 240200Z AUTO 07001KT 15/12 RMK AO1 SLP055 T01540118 56021 CWTU 240200Z AUTO ///// 04/ A2952 RMK SLP014 CYBU 240200Z AUTO 27007KT 9SM SCT100 BKN120 18/16 A2973 RMK SLP073 DENSITY ALT 2000FT KBRD 240153Z AUTO 14004KT 10SM OVC019 22/21 A2977 RMK AO2 SLP077 T02220206 EETU 240150Z AUTO 35002KT 4700 BR OVC003/// 17/16 Q1020 KCID 240152Z 14006KT 10SM CLR 24/23 A2983 RMK AO2 SLP096 T02390233 EFKU 240220Z AUTO 29003KT 9999 OVC017 17/16 Q1020 CXMD 240200Z AUTO 23005KT 22/20 RMK AO1 SLP047 T02220195 56010 CWVD 240200Z AUTO 20003KT 09/ A2988 RMK SLP148 CYBW 240200Z AUTO 27016G25KT 9SM CLR 21/05 A2998 RMK SLP145 DENSITY ALT 5400FT KAZO 240153Z 19003KT 10SM CLR 27/20 A2998 RMK AO2 SLP144 T02670200 EGCN 240220Z 34002KT CAVOK 16/13 Q1019 KCHO 240153Z 33003KT 10SM CLR 29/22 A2994 RMK AO2 SLP130 T02890222 PHNG 240238Z AUTO 04013KT 10SM FEW015 SCT031 BKN038 26/23 A2987 RMK AO2 T02610233 $ CYDF 240208Z 23013G19KT 12SM -SHRA OVC018 19/17 A2963 RMK SC8 SLP037 DENSITY ALT 800FT CYBX 240200Z 26003KT 0SM -DZ FG VV000 12/12 A2958 RMK FG8 SLP018 DENSITY ALT 200FT CYCO 240200Z 34005KT 15SM FEW040TCU SCT060 SCT100 SCT160 10/00 A2974 RMK TCU2SC1AC1AC1 AC TR AC TR SLP073 CWVF 240245Z AUTO 18007KT 21/ RMK AO1 T0206 KF05 240235Z AUTO 14005KT 10SM CLR 31/15 A2988 RMK AO1 T03110153 KBQP 240235Z AUTO 24004KT 5SM BR CLR 24/23 A2997 RMK AO2 LTG DSNT S T02370233 CYCP 240100Z 14003KT 090V180 15SM SCT070TCU BKN120 BKN160 21/11 A3009 RMK TCU4AC1AC1 LAST OB/NEXT 241300 UTC SLP191 DENSITY ALT 3300FT CXMG 240200Z AUTO 22010KT 22/12 RMK AO1 T02160115 CWTY 240200Z AUTO 33009G17KT 21/14 RMK AO1 PK WND 32017/0152 SLP109 T02140143 53028 CWUP 240200Z AUTO 03007KT 08/ A2988 RMK SLP138 EFLP 240220Z AUTO 00000KT 0200 R06/M0150V0475N R24/0200VP1500U BCFG FEW001 15/15 Q1020 KCGZ 240235Z AUTO 27010KT 10SM CLR 40/13 A2978 RMK AO1 CYCQ 240100Z 23012G17KT 35SM BKN045 OVC055 OVC080 OVC200 19/08 A2990 RMK SC5SC3AS1CI1 AS TR CI TR VIRGA ALQDS LAST STFD OBS/NEXT 241300Z SLP135 DENSITY ALT 2800FT CWVH 240200Z AUTO 04011KT A2989 CWVI 240200Z AUTO 31005KT 20/12 RMK AO1 SLP118 T02020116 55002 CXMI 240200Z AUTO 15001KT 17/16 RMK AO1 SLP061 T01680157 50005 ZSPD 240230Z 16003MPS 110V220 CAVOK 34/27 Q1008 NOSIG EFMI 240220Z AUTO 00000KT 9999 OVC036 17/17 Q1020 KCHS 240156Z 20005KT 10SM FEW250 28/24 A3000 RMK AO2 SLP158 T02780239 $ KDAA 240158Z AUTO 33001KT 10SM CLR 28/24 A2991 RMK AO2 RAB01E10 SLP131 P0000 T02840238 CYCS 232000Z 18020G26KT 15SM FEW025 BKN120 17/05 A2974 RMK CU2AC3 17.2/11.6/0/NIL LAST STFD OBS/NEXT 24 1745Z SLP073 DENSITY ALT 400FT CWWA 240200Z AUTO 17001KT 20/10 RMK AO1 SLP228 T02020099 58013 CWUS 240200Z AUTO 34005KT 25/07 RMK AO1 SLP177 T02450068 56005 KDAB 240153Z 18004KT 10SM FEW045 FEW130 28/23 A3003 RMK AO2 SLP168 OCNL LTGIC DSNT SW CB DSNT SW T02780233 PHNL 240153Z 04009KT 10SM -RA SCT023 BKN029 BKN035 28/22 A2987 RMK AO2 SLP115 P0000 T02780217 CWWB 240200Z AUTO 34003KT 22/15 RMK AO1 SLP144 T02150151 53024 KBRL 240153Z AUTO 17006KT 10SM CLR 29/28 A2987 RMK AO2 SLP108 T02890278 CYDL 240241Z AUTO 21005KT 9SM FEW035 BKN048 BKN065 OVC083 12/11 A2974 RMK SLP076 DENSITY ALT 3000FT CXMM 240200Z AUTO 29004KT 16/14 RMK AO1 1009 SLP097 T01620142 50009 EGDM 240150Z AUTO 23003KT 9999 SCT041/// 14/13 Q1020 CYED 240200Z AUTO 30003KT 9SM CLR 20/10 A2991 RMK SLP132 KCIN 240235Z AUTO 19005KT 10SM CLR 26/25 A2981 RMK AO2 NZNP 240112Z 26025G35KT 20KM VCSH HZ FEW020 BKN032 BKN090 14/07 Q0995 RMK VATSIM CWVN 240200Z AUTO 33007KT 21/11 RMK AO1 SLP143 T02060112 52006 CWWE 240200Z AUTO 25002KT 15/14 RMK AO1 SLP070 T01450144 51004 CYDN 240208Z AUTO 33007KT 9SM BKN130 17/15 A2963 RMK LTNG DIST NE SLP037 DENSITY ALT 1700FT KBRO 240153Z 13009KT 10SM CLR 29/23 A2989 RMK AO2 SLP120 T02890233 PHOG 240226Z 04021KT 10SM SCT015 BKN020 BKN030 27/23 A2984 RMK AO2 PK WND 04026/0209 $ KBQX 240235Z AUTO 16011KT 10SM CLR 30/25 A2993 RMK A01 NZOH 240221Z 28025G35KT 20KM SHRA SCT020CB BKN035 11/08 Q0989 RMK NZPM VATSIM US CXMO 240200Z AUTO 23003KT 20/13 RMK AO1 T02000129 CWWF 240200Z AUTO 31010KT 20/15 RMK AO1 PK WND 31020/0125 SLP109 T01990150 53018 CWUX 240200Z AUTO 25007KT 14/12 RMK AO1 SLP119 T01430116 51021 CYCX 240200Z 36005KT 15SM FEW035 20/17 A2972 RMK SC1 DA1243FT DIST LTNG N QUAD SLP065 VDSR 240230Z VRB01KT 9999 SCT017 SCT050 29/26 Q1009 KDAG 240202Z AUTO 24012KT 10SM CLR 42/M01 A2975 RMK AO2 WSHFT 0145 T04221011 NZNR 240218Z 26022G32KT 50KM FEW050 17/03 Q0990 RMK VATSIM USE ONLY CYDP 232300Z 01007KT 7SM OVC005 07/06 A2982 RMK ST8 LAST STAFFED OB/ NEXT 240800 SLP099 VEJS 240200Z 00000KT 3500 HZ SCT015 SCT025 BKN100 27/25 Q1005 CWVP 240200Z AUTO 35003KT 19/08 RMK AO1 SLP157 T01860082 50000 CYEG 240200Z 01004KT 15SM FEW040TCU FEW090 FEW130 20/12 A2992 RMK TCU1ACC1AC1 TCU TR ACC TR AC TR SLP136 DENSITY ALT 3500FT ORER 240200Z 31004KT 9000 NSC 26/03 Q0998 NOSIG CYCY 240201Z AUTO 06004KT 9SM BKN025 OVC070 04/03 A2992 RMK SLP134 NZNS 240155Z 28013KT 15KM SHRA BKN035 BKN050 10/05 Q0987 RMK VATSIM USE ONLY CWVQ 240200Z AUTO 25006KT 21/20 RMK AO1 SLP128 T02060195 53023 CYDQ 240200Z AUTO 23011G19KT 9SM FEW170 SCT240 19/09 A2990 RMK SLP133 DENSITY ALT 3000FT KF17 240235Z AUTO 36006KT 10SM CLR 29/23 A2997 RMK AO2 T02890234 KCIR 240235Z AUTO 00000KT 10SM CLR 27/26 A2996 RMK AO2 LTG DSNT SW T02720257 UNKL 240230Z 09002MPS 2100 BR FU SCT017 22/16 Q1004 R11/CLRD65 NOSIG RMK QFE728 EGDR 240150Z AUTO 25004KT 9999 // BKN016/// 15/14 Q1021 ZSQD 240200Z 23003MPS 180V260 CAVOK 35/26 Q1006 NOSIG PGWT 240150Z 10007KT 7SM FEW016 SCT060 SCT150 30/24 A2981 KBTA 240235Z AUTO 16006KT 10SM CLR 29/24 A2979 RMK AO2 T02860243 TVSV 240200Z 11009KT 9999 SCT015 SCT034 26/24 Q1016 CWXA 240200Z AUTO 25009G21KT 19/02 RMK AO1 PK WND 24021/0157 SLP149 T01940015 50003 KCKB 240153Z 16004KT 10SM CLR 26/22 A3000 RMK AO2 SLP142 T02610217 NZNV 240208Z 30012KT 30KM FEW010 BKN080 05/03 Q0977 RMK VATSIM USE ONLY CWVT 240200Z AUTO 30001KT 16/15 RMK AO1 1011 SLP109 T01630149 50018 CWWK 240200Z AUTO 22003KT 20/13 RMK AO1 SLP229 T02020127 57014 CYEK 240200Z AUTO VRB02KT 9SM CLR 08/07 A2970 RMK SLP060 KDAL 240153Z 13011KT 10SM FEW300 34/21 A2989 RMK AO2 SLP112 T03440206 $ CYFB 240200Z 14013KT 8SM -DZ OVC006 04/03 A2990 RMK ST8 SLP129 KCIU 240156Z AUTO 02003KT 10SM CLR 23/18 A2996 RMK AO2 SLP158 T02330178 KCKC 240234Z AUTO 07009KT 10SM SCT038 SCT050 BKN080 19/12 A2989 RMK AO2 VEKO 231200Z 02003KT 6000 SCT020 BKN100 28/25 Q1000 CWXC 240200Z AUTO 15003KT 12/11 RMK AO1 SLP112 T01220113 53019 CWWL 240200Z AUTO 15024G32KT 14/13 RMK AO1 PK WND 15033/0112 SLP165 T01390128 58003 CWVU 240200Z AUTO 17008KT 16/15 RMK AO1 SLP086 T01580148 53004 CYFC 240200Z AUTO 02007KT 9SM FEW033 20/18 A2972 RMK PRESRR SLP065 DENSITY ALT 800FT CXNM 240200Z AUTO 29006KT 18/18 RMK AO1 T01840179 KDAN 240153Z AUTO 00000KT 10SM CLR 26/23 A2998 RMK AO2 SLP139 T02560233 CYEN 240200Z 30011KT 15SM SCT045TCU SCT140 19/15 A2985 RMK TCU4AC1 AC TR SLP109 DENSITY ALT 2800FT PHNY 240156Z AUTO 04025G30KT 10SM OVC008 24/22 A2985 RMK AO2 PK WND 05032/0141 CIG 005V012 SLP087 T02440217 KCKF 240235Z AUTO 24004KT 10SM CLR 30/23 A3002 RMK AO2 T02960230 EGEO 231520Z 18011KT 9999 VCSH FEW018 SCT026 OVC046 17/13 Q1017 EGDX 240150Z AUTO 29005KT 9999 BKN003/// 16/16 Q1020 RERA EGFF 240220Z AUTO 29005KT 9999 OVC002 16/16 Q1020 EGDY 240150Z AUTO 14001KT 9999 BKN036/// 15/13 Q1020 CXMY 240200Z AUTO 17/16 RMK AO1 T01740164 CXNP 240200Z AUTO 20006KT 17/17 RMK AO1 SLP063 T01730167 50005 KCKI 240235Z AUTO 00000KT 10SM CLR 26/23 A2999 RMK AO2 KCJR 240235Z AUTO 25003KT 10SM SCT110 29/22 A2994 RMK AO2 T02850219 CWXI 240200Z AUTO 21012KT 14/13 RMK AO1 SLP013 T01360131 50006 CYER 240200Z AUTO 12011KT 8SM BKN140 BKN160 13/07 A2989 RMK SLP124 KDCA 240152Z 25006KT 10SM SCT060 BKN100 BKN200 33/22 A2991 RMK AO2 SLP126 MDT CU OVHD T03280222 CWWS 240200Z AUTO 12008G17KT 18/16 RMK AO1 PK WND 12017/0158 SLP016 T01810163 56025 CXPA 240200Z AUTO 23007KT 19/10 RMK AO1 PK WND 26018/0131 T01890100 NZPM 240221Z 28025G35KT 20KM SHRA SCT020CB BKN035 11/08 Q0989 RMK VATSIM USE ONL CYET 240200Z AUTO 29009KT 9SM BKN095 22/05 A2995 RMK SLP140 DENSITY ALT 4400FT KBTL 240153Z 17003KT 10SM CLR 27/18 A2998 RMK AO2 SLP144 T02670183 $ CWWU 231745Z 24020G30KT 15SM BKN034 RMK SC5 LAST OBS/NXT 240700Z CXOL 240200Z AUTO 13005KT 18/14 RMK AO1 T01760136 CWXL 231100Z AUTO 27010G16KT 13/10 RMK AO1 PK WND 25017/1024 T01310098 CXPC 240200Z AUTO 22/16 RMK AO1 SLP138 T02210163 53009 KBTM 240153Z AUTO 33009KT 10SM CLR 22/02 A3016 RMK AO2 SLP165 T02170022 $ KCKM 240235Z AUTO 00000KT 10SM CLR 27/27 A2997 RMK A01 VELP 240200Z 16004KT 5000 BR SCT016 BKN100 25/22 Q1008 NOSIG CYEV 240200Z 04011KT 15SM BKN037 BKN080 BKN250 12/04 A2985 RMK SC5AC1CI1 SLP115 EGGD 240220Z AUTO 20004KT 9999 SCT010 OVC025 16/14 Q1020 KCLE 240151Z 36003KT 10SM SCT250 28/18 A3001 RMK AO2 SLP153 T02830178 $ KDAW 240151Z AUTO 29008KT 10SM CLR 18/16 A2982 RMK AO2 SLP093 T01830156 TSNO KCKN 240234Z AUTO 00000KT 10SM SCT041 SCT047 BKN065 22/22 A2972 RMK AO2 LTG DSNT NE KDBN 240235Z AUTO 00000KT 10SM CLR 25/22 A3003 RMK AO2 NZPP 240200Z 30029G44KT 70KM BKN045 13/07 Q0986 RMK ALT VATSIM USE ONLY CYGE 240000Z 32007KT 300V010 20SM SCT050 BKN070 BKN090 21/10 A3009 RMK CU4AC2AC1 LAST STFD OBS/NEXT 241200Z SLP188 DENSITY ALT 3700FT KBUF 240154Z 00000KT 10SM CLR 25/19 A2996 RMK AO2 SLP141 T02500189 VELR 230900Z 23015KT 3000 BR SCT010 BKN016 FEW025 OVC080 27/26 Q1004 NOSIG CYFO 232300Z 03003KT 360V110 15SM -SHRA SCT025 BKN070 OVC120 19/17 A2968 RMK CU3AC4AS1 LAST OBS/NEXT 241100UTC SLP055 DENSITY ALT 1900FT CWWX 240200Z AUTO 24004KT 22/16 RMK AO1 SLP146 T02190158 53010 KBTP 240235Z AUTO 01004KT 10SM CLR 24/16 A3005 RMK AO1 KCKP 240235Z AUTO 19004KT 10SM CLR 27/26 A2977 RMK AO2 T02710257 KDAY 240156Z 26004KT 10SM FEW060 FEW150 SCT250 27/23 A3002 RMK AO2 SLP154 T02670228 $ KDBQ 240153Z AUTO 13009KT 10SM CLR 22/21 A2988 RMK AO2 SLP109 T02220211 $ CYGH 232300Z 34005KT 250V070 20SM FEW054 FEW100 BKN300 14/M00 A2978 RMK CU1AC1CI5 CU TR AC TR 14.6/3.3/0.0 LAST STFD OBS/NXT 241300UTC SLP091 DENSITY ALT 300FT CWWZ 240200Z AUTO 02004KT 24/20 RMK AO1 SLP139 T02430197 53017 KBTR 240153Z 00000KT 10SM CLR 26/23 A2995 RMK AO2 SLP141 T02610233 KCLI 240235Z AUTO 17004KT 10SM OVC100 23/21 A2988 RMK AO2 CWXR 240200Z AUTO 30007KT 05/ A2976 RMK SLP088 KCMA 240155Z 24008KT 8SM CLR 24/17 A2978 RMK AO2 SLP091 T02440167 NZRC 240208Z 30012KT 30KM FEW010 BKN080 05/03 Q0977 RMK NZNV VATSIM USE ONLY CYHA 232100Z 02010KT 15SM -DZ VCFG BKN004 OVC017 05/03 A2980 RMK ST7SC1 VIS NE 2 CIG RGD LAST STFD OBS/NEXT 241200UTC SLP095 CWZA 240200Z AUTO 21003KT 22/12 RMK AO1 SLP223 T02150122 58009 CWYJ 240200Z AUTO 22004KT 21/10 RMK AO1 SLP227 T02090098 57012 CYFS 240200Z VRB02KT 15SM FEW040 BKN065 BKN090 16/10 A2971 RMK SC2SC3AC2 SLP068 DENSITY ALT 1000FT KCLK 240235Z AUTO 15008KT 31/15 A2989 RMK AO2 PWINO CYGK 240200Z 35004KT 15SM FEW250 24/16 A2993 RMK CI1 SLP135 DENSITY ALT 1300FT CYFT 232000Z 34009KT 1SM -DZRA OVC003 07/07 A2961 RMK NS8 LAST OBS/NEXT240900 UTC SLP032 VEMN 230930Z 14004KT 2500 -RA SCT007 SCT017 FEW025CB OVC090 28/26 Q1004 TEMPO 1500 RA CWYK 240200Z AUTO 05017KT 04/ A2978 RMK SLP116 KDDC 240152Z AUTO 16011KT 10SM CLR 32/14 A2985 RMK AO2 SLP071 T03170139 KCLL 240153Z AUTO 13006KT 10SM CLR 33/21 A2988 RMK AO2 SLP112 T03280211 NZQN 240212Z 20020KT 40KM SCT040 SCT110 07/01 Q0977 RMK VATSIM USE ONLY CXPL 240200Z AUTO 24003KT 23/13 RMK AO1 T02260134 CWYL 240200Z AUTO 23011KT 12/09 RMK AO1 2PAST HR SOG 00 0001 PK WND 25018/0144 SLP198 P0001 T01220087 50002 KCKV 240152Z AUTO 00000KT 10SM SCT039 26/24 A2997 RMK AO2 LTG DSNT N AND NW TSE06 SLP144 T02610239 CYGL 240243Z 30005KT 6SM -DZ BR OVC001 05/04 A3001 RMK SF8 SLP175 EFOU 240220Z AUTO 13005KT 5000 BR FEW004/// 15/15 Q1019 KCLM 240153Z AUTO VRB06KT 10SM CLR 18/11 A3024 RMK AO2 SLP239 T01780106 KBTV 240154Z 15003KT 10SM SCT075 SCT200 18/16 A2991 RMK AO2 SLP128 T01830161 $ KDCM 240235Z AUTO 20003KT 10SM CLR 24/23 A3002 RMK AO2 KCMD 240235Z AUTO 00000KT 10SM CLR 25/21 A3004 RMK AO2 T02480208 PWINO CWYM 240200Z AUTO 12017KT 03/ A2995 RMK SLP179 CYHD 240200Z AUTO 14014G20KT 9SM FEW034 OVC150 23/16 A2974 RMK SLP073 DENSITY ALT 2700FT KBVE 240151Z AUTO 00000KT 10SM CLR 28/24 A2996 RMK AO2 SLP146 T02780244 EGHE 231720Z 26009KT 9999 SCT009 BKN018 18/16 Q1022 CYHE 240200Z AUTO 30009G15KT 270V010 9SM OVC075 21/13 A3017 RMK SLP220 DENSITY ALT 500FT KF44 240235Z AUTO 00000KT 10SM CLR 30/23 A2991 RMK AO2 LTG DSNT E VEMR 230700Z 00000KT 4000 HZ SCT018 BKN100 31/25 Q1005 NOSIG CXOX 240200Z AUTO 32001KT 17/15 RMK AO1 0PAST HR 3008 SLP078 P0008 T01710152 50020 EFPO 240220Z AUTO 13002KT 9999 -RA BKN038/// OVC045/// 17/16 Q1020 CXOY 240200Z AUTO 26004KT 20/14 RMK AO1 T02040138 CWZG 240200Z AUTO 25005KT 17/05 RMK AO1 SLP177 T01700047 52003 CYGP 240200Z 32003KT 2 1/2SM BR SCT003 BKN040 16/16 A2967 RMK FG2ST2SC2 SLP048 DENSITY ALT 500FT EGGP 240220Z 22002KT CAVOK 17/14 Q1018 KCMH 240151Z 00000KT 10SM FEW050 SCT250 28/22 A2999 RMK AO2 SLP145 T02830217 KDDH 240227Z AUTO 00000KT 3SM BR CLR 16/14 A2993 RMK AO2 T01560144 TSNO KF46 240235Z AUTO 13006KT M1/4SM HZ VV000 32/22 A2990 RMK AO2 T03170222 KCKZ 240235Z AUTO 00000KT 10SM FEW100 22/20 A2993 RMK AO2 KBVI 232047Z 01005KT 10SM SCT065 33/17 A2997 RMK LAST CYGQ 240200Z 09006KT 15SM FEW040 SCT120 OVC240 21/14 A2993 RMK SC1AC3CI4 SLP138 DENSITY ALT 2000FT KBUR 240153Z 17005KT 10SM FU SCT120 27/17 A2981 RMK AO2 SLP081 T02670172 EGHH 232250Z 27003KT 9999 FEW045 15/13 Q1021 KCMI 240153Z 10003KT 8SM CLR 27/24 A2997 RMK AO2 SLP140 T02670244 CYHI 240000Z 34012KT 15SM FEW020 SCT090 BKN210 11/01 A2972 RMK CU2AC1CI3 11.7/10.1/R0.0LAST OBS TAKEN/NEXT241400Z SLP068 CYGR 240200Z 24004KT 190V260 15SM FEW050 FEW120 SCT180 18/17 A2968 RMK SC1AC1AC2 LAST STFD OBS/NEXT 240900 UTC SLP053 DENSITY ALT 600FT KCLS 240235Z AUTO 33004KT 10SM CLR 22/14 A3019 RMK AO2 EGHI 232050Z VRB03KT 9999 FEW030 16/13 Q1020 KCLT 240152Z 19004KT 10SM SCT250 27/22 A3000 RMK AO2 SLP150 T02670217 KCNB 240234Z AUTO 10004KT 10SM CLR 28/26 A2973 RMK AO2 T02790262 CYGT 231900Z 13008KT 15SM BKN007 OVC012 08/06 A2980 RMK ST5SC3 10.0/5.7/0.0/NIL/LAST STFD OBS/NEXT 241600Z SLP096 CXRB 240200Z AUTO 09022G29KT 06/04 RMK AO1 PK WND 09030/0123 SLP084 T00640038 KDCU 240223Z AUTO 13004KT 10SM -RA FEW090 FEW110 25/23 A2999 RMK AO2 TSB02E17 P0000 T02500233 KCNC 240235Z AUTO RMK AO2 PNO PWINO KDEC 240154Z 17005KT 10SM CLR 28/25 A2994 RMK AO2 SLP133 T02830250 KBUU 240235Z AUTO 00000KT 10SM -RA SCT030 SCT038 22/21 A2995 RMK AO2 P0001 T02170211 CYHK 240200Z AUTO 16007KT 9SM BKN036 BKN055 BKN073 OVC130 05/05 A2945 RMK SLP977 CWZL 240200Z AUTO 18019KT 16/14 RMK AO1 PK WND 19023/0151 SLP164 T01610136 55004 KBWD 240235Z AUTO 11008KT 10SM CLR 32/17 A2991 RMK AO2 NZRO 240225Z 26020G30KT 20KM VCSH SCT038 SCT050 11/08 Q0996 RMK VATSIM USE ONLY CYHM 240200Z CCA 02010KT 15SM BKN240 25/15 A2998 RMK CI6 SLP150 DENSITY ALT 2000FT CYGV 240200Z AUTO VRB02KT 9SM BKN065 OVC083 15/15 A2963 RMK SLP035 DENSITY ALT 500FT PHSF 240156Z AUTO 13016G31KT 10SM FEW045 BKN120 23/13 A3013 RMK AO2 PK WND 12026/50 LTG DSNT S SHRAB12E27 SLP071 T02340128 $ KBVN 240235Z AUTO 16003KT 10SM CLR 28/23 A2982 RMK AO2 T02770233 KCLW 240235Z AUTO 00000KT 10SM CLR 27/23 A3002 RMK AO2 CWZN 240200Z AUTO 20023KT 15/15 RMK AO1 PK WND 21027/0149 SLP081 T01540151 50001 CYGW 240214Z AUTO 24006KT 1 1/2SM -RA BR OVC005 04/04 A3002 RMK SLP167 EGGW 240220Z AUTO 24003KT 9999 NCD 14/12 Q1019 KBVO 240153Z AUTO 20003KT 10SM CLR 28/22 A2988 RMK AO2 SLP104 T02830222 CWZO 240200Z AUTO 16010KT RMK AO1 CYGX 240200Z 21008KT 15SM SCT016 SCT066 OVC071 18/15 A2976 RMK SC3AC1AC5 AC TR SLP082 DENSITY ALT 1100FT ZSSS 240230Z 13003MPS 080V190 CAVOK 36/26 Q1008 NOSIG KBWG 240153Z AUTO 00000KT 10SM CLR 29/23 A2997 RMK AO2 SLP143 T02940233 KBUY 240154Z AUTO 00000KT 10SM CLR 28/20 A2999 RMK AO2 SLP146 T02780200 KDCY 240235Z AUTO 4SM BR CLR 26/26 A2997 RMK AO2 T02550255 CWYY 240200Z AUTO 31003KT 27/10 RMK AO1 SLP167 T02720098 56009 KDEH 240235Z AUTO VRB05KT 10SM FEW008 OVC032 21/21 A2984 RMK AO2 EGHQ 231950Z 26010KT 0200 R30/0550 -DZ FG VV/// 17/16 Q1021 UNNT 240230Z 18003MPS 9999 SCT048CB 22/20 Q1002 R25/090070 R16/190065 NOSIG RMK QFE742/0989 CXRH 240200Z AUTO 28001KT 13/ RMK AO1 T0134 50003 CWZQ 240240Z AUTO 21002KT 20/18 RMK AO1 T01990180 KBWI 240154Z 18003KT 10SM FEW060 SCT090 BKN140 25/22 A2991 RMK AO2 SLP126 T02500222 $ KCMR 240235Z AUTO 16014G27KT 9SM FEW110 24/08 A3032 RMK AO2 KCNI 240235Z AUTO 00000KT 5SM BR CLR 24/22 A3006 RMK AO2 KBXA 240235Z AUTO 00000KT 10SM CLR 27/25 A2999 RMK AO2 T02710245 PWINO KBVS 240235Z AUTO 22005KT 10SM CLR 19/11 A3022 RMK A01 EGJA 231820Z 23009KT CAVOK 17/14 Q1022 CWZS 240200Z AUTO 35003KT 19/17 RMK AO1 SLP065 T01870168 51014 EFSA 240220Z AUTO 00000KT 7000 OVC032 15/15 Q1020 KCNK 240155Z AUTO 16014KT 10SM CLR 32/20 A2979 RMK AO2 SLP067 T03170200 EGJB 232150Z 25007KT CAVOK 15/14 Q1022 KBVU 240235Z AUTO 21008KT 10SM CLR 41/01 A2976 RMK AO2 CXSC 240200Z AUTO 10002KT 19/14 RMK AO1 T01940139 UNOO 240230Z 33003MPS 280V060 3400 BR BKN007 BKN033CB 16/15 Q1000 R25/290545 NOSIG RMK QFE742 CXRL 240200Z AUTO 30007KT 18/09 RMK AO1 T01810092 CYHU 240200Z AUTO 26007KT 9SM FEW060 20/20 A2988 RMK SLP119 DENSITY ALT 700FT KCNM 240153Z AUTO 12008KT 10SM BKN110 36/06 A2988 RMK AO2 SLP052 T03560056 KCOD 240235Z AUTO 35010KT 10SM CLR 24/00 A3010 RMK AO1 CWZV 240200Z AUTO 23014KT 14/ RMK AO1 PK WND 24018/0111 SLP192 T0137 58006 KDEN 240203Z 18016G24KT 10SM -RA SCT080 BKN110 BKN140 BKN200 23/12 A3014 RMK AO2 WSHFT 0143 P0000 T02280117 KCOE 240235Z AUTO 02004KT 10SM CLR 23/08 A3008 RMK AO1 NZTG 240144Z 26022G30KT 20KM VCSH BKN035 14/08 Q0997 RMK VATSIM USE ONLY NZSP 232350Z 09009KT 9999 IC SKC M69/ A2806 RMK CLN AIR 09010KT ALL WNDS GRID SDG/HDF CXSE 240200Z AUTO 05012KT 01/M00 RMK AO1 SLP069 T00131001 58002 CWZW 240200Z AUTO 19009KT 14/09 RMK AO1 PK WND 15018/0118 SLP037 T01430087 56012 CYIN 240200Z AUTO 07003KT 9SM OVC085 20/08 A3013 RMK SLP195 DENSITY ALT 4800FT KCNO 240153Z 27013KT 10SM FEW150 31/17 A2980 RMK AO2 SLP085 T03060167 KBVX 240235Z AUTO 15003KT 10SM CLR 26/22 A2995 RMK AO1 KCMX 240153Z AUTO 08008KT 10SM CLR 19/14 A2988 RMK AO2 SLP114 T01940139 KCOF 240158Z AUTO 13002KT 10SM FEW027 28/23 A3002 RMK AO2 SLP170 T02820232 $ CYIO 240200Z AUTO 05011KT 9SM OVC110 11/03 A2981 RMK SLP099 EFRO 240220Z AUTO 18002KT CAVOK 16/15 Q1020 KBVY 240153Z AUTO 27005KT 10SM CLR 19/18 A2982 RMK AO2 SLP093 T01890178 KBWP 240235Z AUTO 09006KT 10SM SCT003 SCT025 OVC055 22/17 A2972 RMK AO1 P0063 KCMY 240235Z AUTO 08003KT 10SM SCT100 22/20 A2985 RMK AO2 T02150201 CYHY 240200Z VRB02KT 15SM SCT038 BKN045 BKN062 14/09 A2975 RMK SC3SC3SC1 CVCTV CLD EMBD S SLP082 DENSITY ALT 600FT ZUCK 240200Z 13004MPS 090V180 CAVOK 33/21 Q1004 NOSIG KDEQ 240153Z AUTO 13004KT 8SM SCT100 BKN110 26/24 A2994 RMK AO2 RAB09E49 TSE06 SLP131 P0000 T02560244 CXSH 240200Z AUTO 36009G16KT 19/12 RMK AO1 SLP119 T01890123 53032 CYHZ 240200Z 25006KT 15SM FEW110 19/16 A2972 RMK AC2 SLP066 DENSITY ALT 1200FT KDFI 240153Z AUTO 00000KT 10SM CLR 27/22 A2997 RMK AO2 SLP141 T02670217 CWZZ 240243Z AUTO 22010KT 05/ A2987 EFSI 240220Z AUTO 00000KT 0450 FG FEW070 BKN090 15/15 Q1020 EGKA 231850Z 24011KT CAVOK 18/13 Q1020 CYKA 240200Z VRB07KT 40SM FEW080 FEW110 28/09 A3002 RMK CU1AC2 CU TR SLP164 DENSITY ALT 2700FT KDET 240153Z 09004KT 10SM CLR 27/17 A2999 RMK AO2 SLP151 T02670167 EGJJ 232220Z 21005KT 9999 FEW040 15/14 Q1023 NOSIG KBXK 240235Z AUTO 23009KT 10SM CLR 40/13 A2973 RMK AO1 KF70 240235Z AUTO 22007KT 10SM CLR 27/11 A2986 RMK AO1 EGKB 231820Z 19012KT CAVOK 22/14 Q1020 KCPC 240240Z AUTO 00000KT 10SM CLR 24/22 A3001 RMK AO2 T02350221 KCNU 240152Z AUTO 14007KT 10SM CLR 30/22 A2988 RMK AO2 SLP102 T03000222 EHAK 240225Z AUTO 19004KT 130V280 9999 NSC 17/15 Q1020 CXSL 230900Z AUTO 27002KT 12/09 RMK AO1 T01240089 KCOM 240235Z AUTO 12006KT 10SM CLR 31/14 A2991 RMK AO2 T03100135 CYKD 232300Z 06004KT 040V140 15SM SCT020 09/03 A2990 RMK SC4 TR/CI TR/LAST STFD OBS/NXT 241400Z SLP126 KCNW 240153Z 00000KT 10SM SKC 32/19 A2989 CYIV 240200Z 00000KT 15SM FEW040 OVC075 19/15 A2971 RMK SC2AC6 SLP067 DENSITY ALT 1600FT CXTD 240200Z AUTO 20010KT 18/17 RMK AO1 SLP075 T01820168 51005 KDEW 240153Z AUTO 28004KT 10SM CLR 24/04 A3011 RMK AO2 SLP187 T02440044 KCON 240151Z AUTO 31005KT 10SM CLR 21/14 A2986 RMK AO2 SLP109 T02060144 PHTO 240241Z 14015G21KT 5SM BR BKN010 OVC019 25/24 A2982 RMK AO2 RAE28 P0009 T02500239 EHAM 240225Z 31004KT 9000 FEW009 BKN013 18/17 Q1019 BECMG BKN009 CYKF 240200Z AUTO 30004KT 280V360 9SM CLR 21/15 A3001 RMK PRESRR SLP157 DENSITY ALT 1800FT CZBF 240200Z VRB03KT 15SM BKN050 22/18 A2969 RMK SC6 SLP055 DENSITY ALT 1200FT KCNY 240211Z AUTO 17010KT 10SM CLR 34/04 A2996 RMK AO2 WSHFT 0151 LTG DSNT SE T03390039 KBYG 240153Z AUTO 35010KT 10SM CLR 25/02 A3010 RMK AO2 SLP130 T02500017 CXSP 240200Z AUTO 29007KT 19/10 RMK AO1 T01860101 KCOQ 240235Z AUTO 10004KT 10SM SCT016 OVC027 17/14 A2983 RMK AO2 CXTH 240200Z AUTO 29011KT 19/10 RMK AO1 T01870098 VEPT 240230Z 14006KT 2500 HZ SCT018 BKN100 28/26 Q1004 NOSIG KBYI 240153Z AUTO 27009KT 10SM CLR 24/03 A3006 RMK AO2 SLP140 T02440033 CXSR 240200Z AUTO 21009G18KT 16/08 RMK AO1 PK WND 24022/0114 SLP137 T01560078 58002 VERC 240100Z 15006KT 3000 HZ SCT010 SCT015 BKN100 24/23 Q1008 NOSIG KCOS 240154Z 17004KT 10SM FEW060 FEW090 SCT180 BKN230 23/10 A3019 RMK AO2 SLP121 OCNL LTGICCG DSNT E CB DSNT E MOV E T02330100 NZTU 240200Z 12004KT 50KM BKN090 09/05 Q0972 RMK ALT VATSIM USE ONLY CYKJ 240200Z AUTO 02006KT 9SM CLR 20/08 A2977 RMK SLP087 DENSITY ALT 2700FT KCOT 240153Z AUTO 14011KT 10SM CLR 37/18 A2981 RMK AO2 SLP087 T03670178 KCQB 240235Z AUTO 00000KT 7SM 27/22 A2990 RMK AO2 KCPK 240235Z AUTO 19003KT 10SM CLR 26/25 A2997 RMK AO2 T02600246 KBYL 240235Z AUTO 00000KT 10SM CLR 25/23 A3005 RMK AO1 CYJT 240200Z 28004KT 15SM FEW006 BKN011 OVC020 17/17 A2968 RMK SF2SC4SC2 SLP052 DENSITY ALT 600FT KCQC 240153Z AUTO 18013KT 10SM CLR 25/07 A3020 RMK AO2 PK WND 16027/0117 SLP107 T02500067 EGKK 240220Z 00000KT CAVOK 13/13 Q1020 KCOU 240154Z AUTO 16005KT 10SM CLR 30/26 A2991 RMK AO2 SLP118 T03000261 EHBK 240225Z AUTO 27004KT 230V310 3900 BR BKN005 OVC006 18/17 Q1020 CYKL 240200Z AUTO 03003KT 9SM 15/14 A2976 RMK CLD MISG SLP086 DENSITY ALT 2300FT EGLC 240220Z AUTO 23006KT 9999 NCD 18/14 Q1019 CYLD 240100Z 00000KT 15SM FEW130 FEW160 19/16 A2999 RMK AC1AC1 LAST OBS/NEXT 24 1000Z SLP162 DENSITY ALT 2200FT KDFW 240153Z 15008KT 10SM FEW250 34/20 A2988 RMK AO2 SLP108 T03390200 KCQF 240235Z AUTO 00000KT 10SM CLR 25/25 A2998 RMK AO2 EGLF 231820Z 21009KT CAVOK 22/14 Q1020 CXTO 240200Z AUTO 27/13 RMK AO1 SLP141 T02700134 53015 CXTP 240200Z AUTO 23008G16KT 18/17 RMK AO1 PK WND 21018/0110 SLP073 T01800169 50006 CYKP 240200Z AUTO 10004KT 080V140 9SM FEW220 20/13 A2992 RMK SLP131 DENSITY ALT 1300FT EFTP 240220Z AUTO VRB00KT 9000 FEW031 BKN080 17/16 Q1020 OSDI 240200Z 22018KT CAVOK 21/17 Q1007 CYLH 240200Z AUTO 13004KT 9SM BKN180 21/14 A2987 RMK SLP121 DENSITY ALT 1800FT KCPR 240153Z 05008KT 10SM CLR 28/M02 A3004 RMK AO2 SLP096 T02831022 NZWB 240230Z 27020G30KT 25KM VCSH FEW020 SCT035 11/04 Q0983 RMK VATSIM USE ONLY KCPS 240153Z 20003KT 10SM CLR 29/24 A2993 RMK AO2 SLP128 T02940244 KBYS 240155Z AUTO 21005G14KT 10SM CLR 40/M02 A2982 RMK AO2 SLP031 T03971017 PWINO $ CYLJ 240000Z 30010G16KT 15SM FEW037 BKN050 BKN120 21/13 A2980 RMK CU2SC3AC1 LAST STFD OB/NXT 24 1200UTC SLP097 DENSITY ALT 2800FT CYMA 240200Z 02005KT 15SM -SHRA FEW014TCU BKN028TCU OVC080 15/12 A2951 RMK TCU2TCU4AS2 SLP007 DENSITY ALT 2400FT EFVA 240220Z AUTO 19003KT 7000 // FEW004/// SCT089/// 16/16 Q1020 KCPT 240235Z AUTO 13006KT 10SM CLR 31/20 A2993 RMK AO2 CYLK 232000Z 29003KT 250V320 25SM FEW030 FEW090 SCT220 15/05 A2974 RMK CU1AC1CI2 15.0/13.0/0/LAST STFD OBS/NXT 241400Z SLP079 DENSITY ALT 900FT CZDB 240200Z AUTO 34001KT 18/16 RMK AO1 7PAST HR 0008 SLP068 P0011 T01780162 50027 ORMM 240200Z 25010KT CAVOK 29/04 Q0995 NOSIG CYLL 240200Z 30008KT 15SM FEW036 FEW250 19/11 A2989 RMK CF1CI1 SLP129 DENSITY ALT 3100FT EGLL 240220Z AUTO 23004KT 9999 NCD 16/13 Q1019 NOSIG EFTU 240220Z AUTO 29002KT 7000 BKN026/// BKN064/// 16/15 Q1020 EGMC 240150Z 21006KT CAVOK 17/13 Q1020 KCQM 240235Z AUTO 12003KT 10SM CLR 21/18 A2979 RMK AO2 VERP 240200Z 15002KT 6000 SCT018 27/25 Q1005 NOSIG CXTV 240200Z AUTO 05010KT 10/05 RMK AO1 SLP120 T00970052 55003 KDHN 240153Z AUTO 19004KT 10SM CLR 27/24 A3003 RMK AO2 RAE03 SLP161 P0000 T02670244 KDGW 240153Z AUTO A3004 RMK AO2 SLPNO PWINO $ EGMD 240220Z AUTO 27005KT 9999 BKN011/// 15/14 Q1020 KCRE 240153Z AUTO 00000KT 10SM CLR 26/23 A3000 RMK AO1 SLP160 T02610233 KCPW 240240Z AUTO 02006KT 10SM BKN100 12/01 A3069 RMK AO2 KBZN 240156Z 31007KT 10SM CLR 23/06 A3007 RMK AO2 SLP151 T02280061 KCRG 240153Z AUTO 17004KT 10SM CLR 27/22 A3001 RMK AO2 SLP162 T02720222 PNO $ KBYY 240235Z AUTO 15004KT 10SM CLR 28/24 A2992 RMK AO2 T02830244 CYKY 240200Z 31004KT 15SM FEW030 FEW090 21/14 A2992 RMK CU1AC1 SLP133 DENSITY ALT 3400FT ORNI 240200Z 29010KT 8000 NSC 33/07 Q0995 NOSIG CYKZ 240200Z 34006KT 15SM SCT210 24/15 A2997 RMK CI3 SLP146 DENSITY ALT 1700FT CYMH 240235Z AUTO 04012KT 9SM OVC006 11/11 A2956 RMK SLP013 NZWK 240225Z 26020G30KT 20KM VCSH SCT038 SCT050 11/08 Q0996 RMK NZRO VATSIM USE CZCR 240200Z AUTO 24004KT 20/17 RMK AO1 SLP058 T02040170 51018 KDIJ 240156Z AUTO 26007KT 10SM CLR 23/M02 A3020 RMK AO2 SLP164 T02331017 CYNA 240200Z AUTO VRB02KT 9SM FEW033 BKN040 BKN060 OVC077 17/17 A2963 RMK SLP035 DENSITY ALT 600FT KDHT 240153Z AUTO 33008KT 10SM CLR 32/11 A2999 RMK AO2 SLP082 T03220106 KCQT 240247Z AUTO VRB04KT 10SM CLR 25/17 A2981 RMK AO2 SLP090 T02500172 53005 KDIK 240156Z AUTO 32012KT 10SM CLR 23/09 A2991 RMK AO2 SLP114 T02280094 CXWB 240200Z AUTO 15008KT 10/07 RMK AO1 SLP044 T00980071 55001 EFUT 240220Z AUTO 36002KT 1400 BCBR ////// 16/15 Q1020 NZWN 240230Z AUTO 31016KT 250V350 9999 NCD 14/03 Q0983 NOSIG BECMG 33020G30KT TXKF 240155Z 19005KT 9999 SCT018 SCT300 27/23 Q1019 EHDL 240225Z AUTO 01001KT 0900 FG VV001 18/17 Q1019 AMB CYND 240100Z 31005KT 15SM FEW045 FEW150 23/16 A2992 RMK CU1AC1 CU TR LAST STAFFED OBS/NEXT 241100 UTC SLP131 DENSITY ALT 1200FT CXVM 240200Z AUTO 29004KT 20/11 RMK AO1 T01970114 CYMM 240218Z AUTO 22004KT 9SM -RA BKN095 BKN120 16/15 A2981 RMK SLP102 DENSITY ALT 1700FT KCQW 240235Z AUTO 00000KT 10SM CLR 25/23 A2999 RMK AO2 NZWP 240229Z 26023KT 20KM VCSH FEW025 SCT035 14/10 Q1000 RMK NZAA VATSIM USE ONL CXVN 240200Z AUTO 01004KT 25/18 RMK AO1 SLP130 T02460182 53019 CYLW 240200Z AUTO 35012KT 9SM OVC100 24/10 A3007 RMK SLP179 DENSITY ALT 2500FT CYNE 240244Z AUTO 13009KT 9SM SCT012 SCT016 OVC040 18/16 A2964 RMK SLP044 DENSITY ALT 1500FT KCQX 240152Z AUTO VRB04KT 10SM FEW110 22/17 A2982 RMK AO2 PK WND 34026/0056 LTG DSNT S AND SW RAB06E28 SLP100 P0001 T02170172 $ CYMO 240200Z AUTO 10009KT 9SM CLR 14/11 A3000 RMK SLP160 KCRP 240151Z 15010KT 10SM FEW021 FEW240 29/26 A2987 RMK AO2 SLP115 T02940256 $ KCSG 240151Z AUTO 16004KT 10SM CLR 30/21 A2998 RMK AO2 SLP148 T03000211 $ NZWR 240229Z 26023KT 20KM VCSH FEW025 SCT035 14/10 Q1000 RMK NZAA VATSIM USE ONL KCRQ 240153Z AUTO 22007KT 9SM CLR 23/19 A2981 RMK AO2 SLP091 T02330194 TSNO NZWS 240200Z 27036G54KT 60KM BKN022 10/05 Q0987 RMK ALT VATSIM USE ONLY EGNH 231950Z 27007KT 9999 FEW025 18/13 Q1020 EHEH 240225Z AUTO VRB02KT 4000 BR BKN005 OVC007 18/17 Q1019 YLO KCRS 240153Z AUTO 11005KT 10SM CLR 32/23 A2991 RMK AO2 SLP120 T03220228 TSNO KEBA 240235Z AUTO 00000KT 7SM CLR 27/27 A3004 RMK AO2 T02700266 PWINO NZWU 240221Z 28025G35KT 20KM SHRA SCT020CB BKN035 11/08 Q0989 RMK NZPM VATSIM US CZFA 240100Z VRB02KT 10SM -RA FEW012 SCT025 SCT040 OVC070 12/11 A2954 RMK SF2SC1SC1AS4 CLIMAT 15.1/10.3/1.8MM LAST STFD OBS/NXT 241300Z SLP021 DENSITY ALT 3000FT CYOA 232300Z 33014KT 15SM SCT046 11/M00 A2971 EGNJ 240220Z AUTO 26002KT 7000 FEW004/// 16/15 Q1018 KCTB 240156Z AUTO 25015G20KT 10SM CLR 23/05 A3004 RMK AO2 SLP145 T02280050 $ KDKB 240235Z AUTO 22006KT 5SM TSRA SCT018 BKN055 OVC090 21/21 A2996 RMK AO2 LTG DSNT ALQS P0047 T02130205 CYOC 240100Z 03011G18KT 020V090 35SM FEW030 FEW042 FEW110 SCT210 16/04 A2973 RMK CU2SC1AC1CI2 SC TR AC TR CLIMAT 15.6/3.4/0.0MM/LAST STFD OBS/NXT 241300Z SLP080 DENSITY ALT 1200FT CYMU 232100Z 27007KT 3/4SM FG VV002 06/06 A2993 RMK FG8 LAST STFD OBS/NEXT 24 1200 UTC SLP141 CZEL 240200Z AUTO 01004KT 22/14 RMK AO1 SLP160 T02220137 53017 KCSM 240153Z AUTO 16009KT 10SM CLR 33/17 A2990 RMK AO2 SLP094 T03280167 CXWM 240200Z AUTO 27013KT 22/08 RMK AO1 PK WND 26021/0150 T02190077 CYNM 240200Z AUTO 34006KT 9SM CLR 15/11 A3002 RMK SLP172 CYOD 240200Z 29010G15KT 15SM SCT080 20/10 A2987 RMK AC3 SLP120 EGNM 240220Z 27004KT 9999 FEW035 14/13 Q1018 KCRW 240154Z 00000KT 10SM FEW300 27/23 A3000 RMK AO2 SLP146 VLY FG T02720228 KEAN 240235Z AUTO 10007KT 10SM CLR 28/04 A3003 RMK AO2 T02780037 EHDV 240225Z AUTO 15006KT 9999 NSC 17/15 Q1020 EHFD 240225Z AUTO 05004KT 9999 NSC 17/15 Q1020 EGMW 231450Z 10006KT CAVOK 21/16 Q1020 CXVW 240200Z AUTO 26010KT 20/07 RMK AO1 PK WND 25019/0135 T02020068 CXWN 240200Z AUTO 26003KT 21/19 RMK AO1 8PAST HR 6009 SLP044 P0007 T02140194 50018 KCRX 240235Z AUTO 19004KT 10SM CLR 27/24 A2997 RMK AO2 CYMX 240200Z 28003KT 25SM FEW040 FEW095 20/17 A2991 RMK SC1AC1 SC TR AC TR SLP131 DENSITY ALT 900FT KEBG 240235Z AUTO 14010KT 10SM CLR 31/22 A2988 RMK AO2 T03100218 KCSQ 240235Z AUTO 19010KT 10SM CLR 27/23 A2986 RMK AO2 UNTT 240230Z 25002MPS 210V310 CAVOK 23/21 Q1002 R21/090060 NOSIG RMK QFE737 KEAR 240235Z AUTO 34005KT 10SM CLR 28/23 A2986 RMK AO1 EGNR 231450Z 32010KT 9999 SCT038 21/15 Q1020 KCTJ 240235Z AUTO 00000KT 10SM CLR 24/24 A3008 RMK AO2 T02370237 CYPA 240200Z 35003KT 15SM FEW040TCU BKN110 BKN250 18/15 A2977 RMK TCU1AC4CI1 ACC EMBD SLP086 DENSITY ALT 2200FT CYOJ 240200Z VRB02KT 15SM FEW065 SCT095 BKN260 22/12 A2972 RMK CU1AC2CI3 SLP072 DENSITY ALT 2300FT KDKK 240153Z AUTO 19007KT 10SM CLR 24/16 A2997 RMK AO2 SLP142 T02440161 $ EGPA 240220Z AUTO VRB02KT 9999 BKN045/// 14/12 Q1015 KCUB 240153Z AUTO 00000KT 10SM CLR 27/25 RMK AO2 SLPNO T02720250 KEAT 240216Z AUTO 31014KT 10SM CLR 27/08 A3003 RMK AO2 WSHFT 0156 T02720083 EGNS 240150Z 19002KT 9999 BKN002 BKN030 14/14 Q1017 EGPB 240220Z AUTO 05001KT 0250 FG OVC001/// 11/11 Q1016 EGNT 240220Z 23001KT 9999 BKN046 16/13 Q1018 KEAU 240156Z AUTO 10007KT 10SM CLR 22/21 A2982 RMK AO2 SLP092 T02170206 $ CYPC 232300Z 36007KT 15SM OVC030 07/05 A2981 RMK SC8 7.6/5.1/0/LAST OBS/NXT 241300Z SLP098 ZUGY 240200Z 19006MPS 150V220 9999 BKN026 27/21 Q1013 NOSIG EGPC 240220Z AUTO 19004KT 9999 BKN043/// 15/13 Q1015 KCSV 240153Z AUTO 22003KT 10SM CLR 22/20 A3007 RMK AO2 SLP159 T02220200 CZFM 232300Z 01006KT 290V030 35SM SCT020 10/03 A2987 RMK CU3 10.2/4.2/0.0 LAST OBS/NEXT 241400Z SLP117 CZEV 240200Z AUTO 04007KT 11/04 RMK AO1 SLP118 T01130036 55006 EGOM 240150Z AUTO 28004KT 9999 BKN014/// BKN050/// 13/13 Q1018 CYPD 240200Z AUTO 22004KT 8SM FEW036 17/ A2972 RMK LTNG DIST N W NW TD MISG SLP065 DENSITY ALT 900FT EGPD 240220Z 16005KT 9999 FEW037 15/13 Q1016 EGNV 232050Z 31005KT 9999 FEW048 19/13 Q1019 CYPE 240200Z 25011G22KT 15SM FEW044 FEW090 SCT240 21/10 A2985 RMK CU1AC1CI2 CB TOPS DIST N SLP115 DENSITY ALT 3000FT EGPE 240220Z AUTO 21004KT 9999 SCT038/// SCT048/// 14/12 Q1016 KDLF 240158Z AUTO 12009KT 10SM CLR 36/15 A2982 RMK AO2 SLP081 T03580149 CYOO 240200Z AUTO 34004KT 9SM CLR 24/15 A2995 RMK SLP143 DENSITY ALT 1500FT EGPF 240220Z AUTO 27003KT 6000 -RA SCT004 BKN020 14/14 Q1017 REDZ EGNX 240220Z 27005KT 9999 FEW035 16/14 Q1019 KECG 240154Z 19008KT 10SM CLR 28/24 A2997 RMK AO2 SLP147 T02830244 EGOP 240150Z AUTO 22012KT 9999 // FEW008/// BKN013/// 16/14 Q1019 KDLH 240155Z 11009KT 10SM OVC033 18/16 A2984 RMK AO2 SLP099 T01830156 EHGG 240225Z AUTO VRB01KT 0900 R05/P2000N FG VV000 18/17 Q1019 KCUH 240235Z AUTO 00000KT 10SM CLR 28/23 A2989 RMK AO2 T02790227 CXYH 240200Z AUTO 14/11 RMK AO1 SLP048 T01360113 56019 CYPH 240245Z AUTO 25003KT 2SM BR OVC002 07/07 A2994 RMK VIS VRB 1 1/4-3 SLP141 EGPH 240220Z AUTO 35002KT 9999 FEW022 BKN033 16/14 Q1017 KDKR 240230Z AUTO 14005KT 10SM CLR 31/22 A2995 RMK AO2 LTG DSNT NE EGPI 240220Z AUTO VRB03KT 9999 FEW015/// BKN036/// 13/13 Q1017 KDMA 240158Z AUTO 32011KT 10SM CLR 38/11 A2986 RMK AO2 SLP058 T03790109 $ CZFS 240200Z AUTO 10002KT 16/10 RMK AO1 SLP069 T01560101 58015 EGOS 240150Z AUTO 21004KT 9999 BKN048/// 16/14 Q1019 CYQA 240200Z AUTO 00000KT 9SM CLR 19/16 A2998 RMK SLP151 DENSITY ALT 1500FT KCVB 240235Z AUTO 14012G17KT 10SM CLR 33/19 A2987 RMK AO2 T03260193 EHFS 240225Z AUTO 23008KT 2500 BR NCD 16/16 Q1020 CYQB 240200Z 34010G17KT 15SM FEW050 SCT220 20/13 A2984 RMK SC2CI1 SLP107 DENSITY ALT 900FT EGPK 240220Z 00000KT 9999 SCT022 14/13 Q1018 KCUL 240235Z AUTO 00000KT 5SM BR CLR 27/26 A2997 RMK AO2 T02670261 KCVC 240235Z AUTO 00000KT 10SM CLR 25/23 A3002 RMK AO2 KDLL 240230Z AUTO 13004KT 10SM OVC095 22/20 A2988 RMK AO2 T02170203 KEDC 240235Z AUTO 12004KT 10SM 30/21 A2989 RMK AO2 CYPL 240200Z 14003KT 110V170 15SM FEW030 OVC090 20/12 A2985 RMK SC2AS6 LAST STFD OBS/NEXT 241100Z SLP112 DENSITY ALT 2200FT CXZC 240200Z AUTO 10005KT 15/11 RMK AO1 SLP159 T01470110 55003 EGPL 240220Z AUTO 19010KT 9999 BKN008/// OVC035/// 13/12 Q1016 EGOV 240150Z AUTO 19009KT 5000 BR OVC001/// 15/15 Q1018 CYQD 240200Z 33006KT 15SM FEW015TCU BKN040 BKN070 BKN090 OVC200 18/16 A2965 RMK TCU1SC5AS2AC1CS1 TCU TR AC TR TCU SW OF STN SLP046 DENSITY ALT 1700FT KEDE 240240Z AUTO 21008KT 10SM CLR 29/22 A2999 RMK AO2 T02900222 VGEG 240200Z 16010KT 5000 SCT018 BKN120 28/25 Q1007 NOSIG KDLN 240153Z AUTO 06009KT 10SM CLR 21/03 A3009 RMK AO2 LTG DSNT SE SLP144 T02060028 $ EGOW 231550Z 30008KT 9999 FEW035 21/13 Q1020 BLU EGPN 231420Z 20006KT 9999 SCT030 BKN045 18/14 Q1018 CYOW 240200Z 35011KT 15SM FEW070 24/14 A2993 RMK AC1 AC TR SLP135 DENSITY ALT 1400FT KDKX 240235Z AUTO 00000KT 10SM CLR 24/22 A3003 RMK A01 CYPO 240200Z AUTO 05005KT 9SM CLR 12/10 A2995 RMK SLP144 CYQF 240224Z VRB12G23KT 15SM VCSH SCT040CB BKN110 20/14 A2998 RMK CB4AC3 WSHFT CB MOVG E OCNL LTGCG S PRESRR SLP155 DENSITY ALT 4100FT KECP 240153Z 00000KT 10SM SCT030 28/26 A2998 RMK AO2 SLP162 T02780256 KCTY 240153Z AUTO 23003KT 28/23 A2999 RMK AO1 SLP154 T02780233 EGPO 240220Z AUTO 20007KT 9999 BKN034/// 13/12 Q1015 KCVG 240152Z 34004KT 10SM SCT250 29/23 A3000 RMK AO2 SLP145 T02940228 KCTZ 240240Z AUTO 00000KT 10SM CLR 25/23 A3000 RMK AO2 T02450227 CYOY 240200Z AUTO 35005KT 300V010 9SM FEW079 18/12 A2986 RMK SLP112 CYQG 240200Z 04006KT 15SM BKN280 25/19 A2998 RMK CI5 SLP151 DENSITY ALT 1800FT KCVH 240230Z AUTO 22009KT 10SM CLR 27/12 A2984 RMK AO1 KDMH 240154Z AUTO 28/22 A2991 RMK AO1 SLP128 T02830217 CYPQ 240200Z AUTO 36005KT 9SM CLR 24/14 A2996 RMK SLP145 DENSITY ALT 1700FT CYQH 240200Z 13006KT 100V160 30SM FEW012 OVC060 12/10 A2967 RMK SF2SC6 SLP059 DENSITY ALT 2700FT EHFZ 240225Z AUTO VRB02KT 9999 FEW009 ///// Q1020 CYPR 240248Z AUTO 16012G20KT 130V200 2 1/2SM RA BR BKN027 OVC034 14/13 A3001 RMK SLP163 CYQI 240200Z 30005KT 12SM SKC 17/16 A2974 RMK SLP072 DENSITY ALT 500FT KDLS 240153Z AUTO 31013KT 10SM CLR 27/10 A3004 RMK AO2 SLP170 T02670100 KECS 240235Z AUTO 36006KT 7SM CLR 26/01 A3003 RMK AO2 KEDJ 240230Z AUTO 15003KT 10SM CLR 25/23 A3003 RMK AO1 EHGR 240247Z AUTO 26004KT 3900 BR BKN007 BKN008 OVC010 18/17 Q1019 GRN KCWA 240245Z 12005KT 10SM -RA SCT070 BKN080 OVC090 21/20 A2989 CYRA 232000Z 02005KT 330V060 15SM SCT020 SCT210 14/04 A2979 RMK SC3CI1 13.6/8.7/0/0 LAST STFD OBS/NEXT 241400 UTC SLP098 DENSITY ALT 800FT KCUT 240153Z AUTO 07010KT 10SM CLR 23/04 A3013 RMK AO2 SLP124 T02280039 $ EGQK 240150Z AUTO 23007KT 9999 BKN031/// 15/12 Q1016 CYRB 240200Z 09027KT 15SM FEW160 OVC250 06/04 A2978 RMK AC1CS8 AC TR SLP090 CYQK 240200Z 17006KT 15SM BKN031 OVC120 22/19 A2971 RMK SC6AC2 SLP061 DENSITY ALT 2600FT KCWC 240235Z AUTO 14010G14KT 10SM CLR 33/20 A2989 RMK AO2 T03250200 KECU 240230Z AUTO 14005KT 10SM BKN001 31/14 A2997 RMK AO2 EGPU 240220Z AUTO 20004KT 9999 FEW023/// BKN029/// 12/11 Q1016 CYQL 240200Z 25013G21KT 40SM FEW080 23/08 A2998 RMK AC1 SLP142 DENSITY ALT 4500FT KEED 240156Z AUTO 20015KT 10SM BKN110 44/12 A2968 RMK AO2 SLP006 T04440117 $ EGQL 240150Z 24004KT 9999 SCT020 BKN025 16/13 Q1017 WHT CYQM 240200Z 21004KT 15SM FEW050 BKN120 19/18 A2969 RMK SC2AC3 CB TOPS DIST LTG W SLP054 DENSITY ALT 1000FT KDMN 240153Z AUTO 33013G18KT 10SM CLR 34/07 A2995 RMK AO2 SLP047 T03440072 TSNO KCVN 240235Z AUTO 15008KT 6SM CLR 28/09 A3001 RMK AO1 KEDN 240235Z AUTO 00000KT 10SM CLR 25/23 A3000 RMK AO2 EGQM 240150Z AUTO 21003KT 9999 OVC042/// 15/14 Q1018 CYPW 240200Z 27006KT 180V310 50SM FEW045 FEW140 FEW300 22/14 A3019 RMK CU1AC1CI1 CU TR AC TR CI TR LAST STFD OBS/NEXT241300UTC SLP226 DENSITY ALT 1000FT KDMO 240153Z AUTO 17005KT 10SM CLR 29/25 A2991 RMK AO2 SLP116 T02890250 KCVO 240235Z 03010G16KT 10SM 26/11 A3013 RMK AO1 KCWF 240145Z 19006KT 10SM SCK 29/24 A2992 CYPX 240200Z AUTO 31012KT 9SM CLR 11/06 A2987 RMK SLP118 CYPY 240200Z AUTO 15002KT 9SM FEW080 SCT110 OVC170 18/11 A2974 RMK SLP079 DENSITY ALT 1500FT KDLZ 240237Z AUTO 00000KT 1/2SM FG VV005 23/22 A3002 RMK AO2 CYQQ 240200Z 18003KT 20SM FEW030 FEW046 SCT075 22/13 A3019 RMK CU1SC1AC2 SLP223 KCWI 240241Z AUTO 12008KT 10SM CLR 22/22 A2992 RMK AO2 LTG DSNT E-S TSE19B21E24B26E30 PNO $ CYQR 240200Z 29012KT 15SM FEW025TCU FEW250 20/14 A2985 RMK TCU1CI1 CI TR SLP111 DENSITY ALT 2900FT KCVS 240158Z AUTO 15008KT 10SM CLR 31/09 A3001 RMK AO2 SLP092 T03070087 $ CYRJ 240200Z 30013KT 25SM BKN030 17/11 A2991 RMK SC7 SLP133 DENSITY ALT 900FT EGQS 240150Z 24006KT 9999 BKN032 SCT140 15/12 Q1016 BLU EHJA 240225Z AUTO 15006KT 080V180 9999 FEW006/// 17/15 Q1020 CYSB 240200Z 07005KT 20SM BKN220 22/14 A3000 RMK CI5 SLP158 DENSITY ALT 2000FT CYQT 240200Z 12004KT 20SM BKN190 19/16 A2988 RMK AC6 SLP119 DENSITY ALT 1300FT KDNL 240153Z AUTO 00000KT 10SM CLR 29/20 A3001 RMK AO2 SLP155 T02940200 KEDU 240235Z AUTO 20005KT 10SM CLR 33/12 A2979 RMK AO1 OTBD 240200Z 34005KT CAVOK 34/24 Q0996 NOSIG CYRL 240200Z 11007KT 15SM VCSH BKN013 OVC020 18/16 A2971 RMK SF5SC3 LAST STFD OBS/NEXT 240900UTC SLP064 DENSITY ALT 2100FT EGSC 231850Z 14009KT 9999 SCT048 23/16 Q1018 UOOO 240200Z 36005G08MPS 9999 BKN029CB 11/06 Q1015 R01/0///60 NOSIG RMK QFE746 CYSC 240200Z AUTO 26008KT 9SM BKN012 OVC060 18/17 A2988 RMK SLP120 DENSITY ALT 1300FT CYQU 240200Z 26016G26KT 25SM FEW063 SCT100 BKN210 19/07 A2993 RMK SC2AC2CI3 SLP142 DENSITY ALT 3100FT KEFD 240150Z 16008KT 10SM SCT250 31/23 A2992 CXZV 240200Z AUTO 34003KT 18/17 RMK AO1 SLP044 T01830173 53011 CYQV 240200Z AUTO 29005KT 9SM SCT100 SCT120 16/14 A2976 RMK SLP083 DENSITY ALT 2300FT KDMW 240235Z AUTO 00000KT 10SM CLR 26/24 A2995 RMK AO2 KEEN 240235Z 00000KT 10SM CLR 17/17 A2992 RMK AO2 SLP300 PWINO PNO FZRANO RVRNO KCWN 240158Z AUTO 33005KT 10SM SCT180 23/07 A3019 RMK AO2 LTG DSNT E SLP025 T02300071 $ KCVW 240235Z AUTO 20007KT 10SM CLR 30/25 A2993 RMK A01 KCXE 240235Z AUTO 00000KT 10SM CLR 26/25 A2998 RMK AO1 T02550245 KEDW 240158Z AUTO 24024G29KT 10SM CLR 38/M01 A2981 RMK AO2 PK WND 24029/19 DZB25E40 SLP064 P0000 T03801013 KDNN 240235Z AUTO 00000KT 10SM CLR 25/23 A3003 RMK AO2 CYQW 240200Z AUTO 30011G19KT 9SM CLR 20/10 A2988 RMK SLP121 DENSITY ALT 2800FT KEEO 240225Z AUTO 15018G24KT 10SM FEW070 SCT110 27/03 A3015 RMK AO2 LTG DSNT SW PRESFR T02670028 KCVX 240234Z AUTO 09004KT 10SM CLR 24/18 A2997 RMK AO2 T02420176 EHHW 240225Z AUTO 02004KT 350V050 8000 FEW002/// OVC003/// 17/16 Q1019 CYSF 240200Z AUTO 27004KT 230V290 9SM CLR 21/07 A2974 RMK SLP077 DENSITY ALT 1900FT CYQX 240230Z 22014KT 12SM -SHRA BKN008 OVC017 19/17 A2971 RMK SF7SC1 SLP063 DENSITY ALT 1200FT OTBH 240158Z AUTO 08006KT 9999 CLR 32/24 A2941 RMK AO2 SLP960 T03150241 $ CZHY 240200Z AUTO 05007KT 14/10 RMK AO1 SLP078 T01380096 51004 CYQY 240243Z 22004KT 170V250 15SM FEW050 SCT240 18/17 A2971 RMK SC2CS2 SLP061 DENSITY ALT 700FT CYRQ 240200Z AUTO 35010G15KT 9SM CLR 21/14 A2987 RMK PRESRR SLP117 DENSITY ALT 900FT CYQZ 240200Z AUTO 35005KT 9SM OVC080 21/15 A3004 RMK SLP178 DENSITY ALT 2800FT EGSH 240220Z AUTO 16004KT 9999 NCD 17/16 Q1019 KDPA 240244Z 35014G29KT 1 1/2SM +TSRA BR FEW009 SCT016 OVC031 22/20 A3004 RMK AO2 PK WND 31029/0241 LTG DSNT ALQDS RAB23 TSB22 P0026 T02220200 KDNS 240235Z AUTO 17009G15KT 10SM CLR 28/25 A2978 RMK AO2 CYSJ 240200Z VRB02KT 15SM FEW210 15/15 A2972 RMK CI2 LGTIC CB DSNT N SLP066 DENSITY ALT 700FT KEET 240153Z AUTO 00000KT 9SM CLR 28/25 A3000 RMK AO2 SLP150 T02830250 OSKL 240000Z 32008KT CAVOK 30/03 Q0998 ORSU 240200Z 17006KT CAVOK 33/07 Q1002 KEFK 240235Z AUTO 00000KT 10SM SCT045 SCT055 15/15 A2992 RMK AO2 T01540148 CYRT 240200Z 19015KT 15SM FEW005 BKN040 OVC075 09/07 A2972 RMK SF1SC7AS1 SF TR INTMT -RA SLP069 EGTC 231550Z 22008KT 170V250 9999 SCT046 26/16 Q1018 KCWV 240235Z AUTO 00000KT 7SM CLR 26/24 A3001 RMK AO2 T02550241 KDNV 240235Z AUTO 00000KT 10SM CLR 25/24 A2996 RMK AO2 T02460243 CZKD 240200Z AUTO 12002KT 17/16 RMK AO1 7PAST HR 8004 SLP066 P0007 T01670159 50020 CYRV 240200Z AUTO 30003KT 280V360 9SM FEW090 BKN110 20/15 A3009 RMK SLP191 DENSITY ALT 2200FT CYSM 240229Z VRB02KT 15SM -RA BKN040 OVC090 18/13 A2973 RMK SC5AC3 SLP074 DENSITY ALT 1300FT EHKD 240225Z AUTO 31003KT 9999 OVC011 18/16 Q1020 GRN KEGE 240235Z AUTO 00000KT 10SM CLR 26/04 A3020 RMK AO1 CYSN 240100Z 35005KT 15SM BKN260 26/15 A2991 RMK CI6 LAST STFD OBS/NEXT 241100 UTC SLP130 DENSITY ALT 1600FT CYTE 240244Z AUTO 22007KT 9SM SCT003 08/08 A2979 RMK SLP093 EGTE 240150Z 20004KT 170V230 9999 BKN018 17/16 Q1020 KCXO 240153Z 13004KT 10SM CLR 31/23 A2990 RMK AO2 SLP122 T03110233 KCXP 240235Z AUTO 27005KT 10SM CLR 30/M07 A3007 RMK AO2 CYSP 232100Z 25002KT 15SM FEW030 SCT200 SCT230 BKN260 26/12 A2998 RMK SC2CI1CI1CI1 SC N-E LAST STFD OBS/NEXT 241200UTC PRESFR SLP155 DENSITY ALT 2400FT CYTH 240200Z 00000KT 15SM -RA FEW005 BKN030 OVC066 17/17 A2972 RMK SC2SC3AS3 SLP072 DENSITY ALT 1300FT KEGI 240158Z AUTO 16003KT 10SM CLR 27/23 A2998 RMK AO2 SLP153 T02670231 $ EHJR 240225Z AUTO 13005G05KT //// ///////// 16/15 Q1020 W///H4 KEHA 240228Z AUTO 32/M03 RMK AO1 PK WND 26 000 T03171027 OSLK 240200Z 12004KT 9999 FEW026 SCT030 24/20 Q1005 EGSS 240220Z AUTO 20004KT 9999 NCD 15/13 Q1019 KEFT 240235Z AUTO 12007KT 10SM -RA SCT048 BKN070 OVC120 21/20 A2993 RMK AO2 LTG DSNT SE AND S P0003 KCXU 240235Z AUTO 00000KT 10SM CLR 24/21 A3001 RMK AO2 T02430207 EGTK 232120Z 25006KT CAVOK 18/13 Q1020 EGUB 240150Z AUTO 20003KT 9999 // NCD 12/11 Q1019 CYUB 240222Z 01009KT 15SM BKN008 BKN080 06/05 A2990 RMK SC6AC1 CIG RAG SLP127 KDPL 240010Z AUTO 00000KT 10SM SCT039 SCT065 29/23 A2997 RMK AO2 T02880225 KEHC 240235Z AUTO VRB06KT 10SM FEW027 FEW034 32/24 A2996 RMK A01 CYTL 240200Z AUTO 12008KT 9SM OVC130 21/13 A2980 RMK SLP096 DENSITY ALT 1600FT KDOV 240158Z AUTO 15002KT 10SM CLR 25/25 A2989 RMK AO2 RAB04E09RAB11E13DZB13E18RAB18E24DZB24E26RAB26E27 SLP125 P0000 T02520252 VISNO RWY19 CHINO RWY19 $ KCXY 240156Z AUTO 00000KT 10SM CLR 27/16 A2990 RMK AO2 SLP123 T02670156 CYSY 231800Z 01022KT 15SM FEW008 FEW009 SCT080 SCT250 08/05 A2978 RMK SC2SF1AC1CC1 SF TR CI ASOCT LAST OBS/NEXT 251300Z SLP093 VGHS 240230Z 17010KT 4000 HZ SCT015 BKN100 30/26 Q1006 NOSIG KDQH 240235Z AUTO 08003KT 10SM CLR 25/22 A3002 RMK AO2 CYTR 240200Z 03005KT 15SM FEW250 25/14 A2994 RMK CI1 SLP137 KCYS 240246Z 19012G30KT 150V220 10SM -RA FEW055 SCT070 BKN110 27/01 A3016 RMK AO2 PK WND 27043/0231 LTG DSNT E-SW RAB33 TSB25E40 P0000 T02720011 KDRA 240153Z AUTO 23016KT 10SM CLR 39/M01 A2985 RMK AO2 PK WND 23026/0122 SLP048 T03891006 CYTS 240200Z 07004KT 15SM SCT240 17/15 A3000 RMK CI4 SLP162 DENSITY ALT 1300FT EHMA 240225Z AUTO 01005KT 7000 BKN010 18/16 Q1019 EGVA 240223Z AUTO 26004KT M M CLR 13/13 A3011 RMK AO2 DZE23 PNO $ KCZL 240235Z AUTO 00000KT 7SM CLR 25/22 A3002 RMK AO2 T02450223 EICK 240230Z 16004KT 8000 -RA SCT005 BKN015 BKN030 14/13 Q1018 NOSIG CYUL 240200Z 25008KT 15SM FEW045 FEW070 BKN120 21/19 A2990 RMK CF1AC2AC3 CF TR PRESRR SLP126 DENSITY ALT 800FT CYVC 240200Z 00000KT 15SM -SHRA BKN065 18/16 A2975 RMK SC7 CVCTV CLD EMBD SLP080 DENSITY ALT 2000FT KEGV 240235Z AUTO 16004KT 10SM SCT070 BKN090 22/19 A2990 RMK AO2 T02180189 EGUL 240158Z AUTO 23003KT 9999 FEW120 SCT150 17/14 A3007 RMK AO2 SLP186 T01740139 CZMD 240200Z AUTO 18003KT 9SM FEW055 OVC068 21/15 A2977 RMK SLP088 DENSITY ALT 1900FT EHKV 240225Z AUTO 10004KT //// // FEW011 SCT014 17/15 Q1020 RE// KEHO 240240Z AUTO 00000KT 10SM CLR 26/21 A3002 RMK AO2 T02610213 EGUN 240158Z AUTO 21001KT 9999 FEW120 17/15 A3007 RMK AO2 SLP186 T01690152 $ EHMG 240225Z AUTO 01003KT 310V060 9999 OVC004 17/16 Q1020 CYTZ 240200Z AUTO 34006KT 310V020 9SM CLR 28/15 A2994 RMK SLP139 DENSITY ALT 1700FT KEHR 240235Z AUTO 00000KT 10SM CLR 27/24 A2997 RMK AO1 KDRI 240235Z AUTO 00000KT 10SM CLR 30/25 A2996 RMK AO2 T02950253 CZMJ 240200Z AUTO 30009KT 20/13 RMK AO1 PK WND 30020/0101 SLP123 T01990129 53015 CYWA 240200Z AUTO 34006KT 1/8SM CLR 22/16 A2997 RMK SLP151 CYUS 240246Z AUTO 21015KT -RA FEW007 SCT023 OVC031 09/ A2950 KEIK 240235Z AUTO 17007KT 10SM CLR 28/05 A3008 RMK AO2 T02760051 KCZT 240235Z AUTO 13004KT 10SM CLR 34/17 A2980 RMK AO2 EIDL 231830Z 25010KT 9999 FEW014 OVC036 15/12 Q1019 CYVL 240235Z AUTO 02009KT 9SM OVC024 09/04 A2979 RMK SLP103 KDRM 240234Z AUTO 00000KT 10SM CLR 19/18 A2995 RMK AO2 T01910176 CYVM 240200Z AUTO 01004KT 1/8SM FG VV003 02/02 A2993 RMK SLP136 EGUW 240150Z AUTO 20004KT 9999 FEW110/// 17/15 Q1019 CYWE 240200Z AUTO 28009KT 9SM BKN042 OVC055 11/03 A2976 RMK SLP096 KDRO 240153Z AUTO 03004KT 10SM FEW055 SCT075 25/07 A3019 RMK AO2 WSHFT 0100 RAE0056B28E38 SLP128 P0000 T02500067 EHLW 240225Z AUTO VRB01KT 7000 BR BKN009 OVC010 17/17 Q1019 GRN 06007KT 9999 FEW012 SCT025 OVC240 EGVN 240150Z 25003KT CAVOK 14/12 Q1020 NOSIG KFAF 240158Z AUTO 17003KT 10SM CLR 29/26 A2993 RMK AO2 DZB12E22 SLP138 P0000 T02940257 CYVO 240200Z 33005KT 15SM FEW230 17/13 A3002 RMK CI1 CI TR LAST STFD OBS/NEXT 241000 UTC SLP173 DENSITY ALT 1500FT CYUX 240245Z AUTO 18006KT 3SM BR OVC003 04/04 A2979 RMK SLP089 KEHY 240235Z AUTO 10SM CLR 23/M16 A3021 RMK AO2 EGVO 240150Z 21006KT CAVOK 15/12 Q1020 BLU EGVP 240150Z AUTO 25003KT 9999 // FEW039/// 13/12 Q1020 CYUY 240200Z 00000KT 15SM FEW050 SCT240 16/13 A3001 RMK SC2CI2 SLP169 DENSITY ALT 1100FT CYWG 240221Z 20007KT 15SM FEW036 BKN085 21/20 A2966 RMK SC2AC5 SLP044 DENSITY ALT 1900FT KCZZ 240152Z AUTO 21012KT 32/09 A2989 RMK AO1 SLP082 T03170094 CYVP 240200Z 04004KT 15SM BKN075 BKN100 11/09 A2982 RMK AC5AC2 SLP102 CYWH 240200Z 21009KT 15SM FEW035 17/11 A3020 RMK CU1 CU TR SLP227 CYVQ 240200Z 15003KT 30SM SCT078 BKN200 BKN310 17/04 A2970 RMK AC3CC4CI1 CI TR SLP062 DENSITY ALT 800FT KEIR 240235Z AUTO 20006KT 10SM FEW034 30/24 A2999 RMK A01 CYVR 240200Z 21006KT 30SM FEW040 21/12 A3019 RMK SC1 TCU EMBD TR AC SLP225 DENSITY ALT 300FT KDTA 240235Z AUTO 36005KT 10SM CLR 31/M05 A2999 RMK AO1 CYWJ 232300Z 10009KT 40SM FEW047 FEW140 13/03 A2976 RMK CU1AC1 AC TR 14.2/3.5/0/0 LAST STFD OB/NXT 241700UTC SLP091 DENSITY ALT 800FT KDRT 240153Z AUTO 11008KT 10SM CLR 36/15 A2980 RMK AO2 SLP073 T03610150 CZMT 240000Z 20006KT 150V240 15SM -SHRA FEW006 OVC012 18/13 A2997 RMK CF1CU7 VIS SE-S 11/2 BR LAST OBS/NEXT 241300 UTC SLP151 DENSITY ALT 300FT CYVT 240200Z 29003KT 280V040 15SM FEW010 SCT015 BKN120 17/16 A2979 RMK ST2SC2AC3 SLP097 DENSITY ALT 2100FT CYWK 240200Z AUTO 28003KT 9SM CLR 16/15 A2975 RMK SLP080 DENSITY ALT 2400FT CZMU 240200Z AUTO 31005KT 20/12 RMK AO1 T01950116 CYXC 240200Z VRB07KT 25SM FEW060 SCT100 23/07 A3005 RMK CU2AC2 SLP167 DENSITY ALT 4600FT CYWL 240200Z 13005KT 15SM SCT065 BKN090 20/08 A3009 RMK SC4AC2 SLP193 DENSITY ALT 4200FT KDSM 240154Z 18006KT 10SM FEW150 FEW250 29/25 A2980 RMK AO2 SLP081 T02890250 KFAM 240156Z AUTO 00000KT 10SM CLR 28/24 A2996 RMK AO2 SLP163 T02830239 EGXC 240150Z 26002KT CAVOK 16/15 Q1018 BLU CYVV 240200Z 22002KT 15SM BKN250 21/17 A3000 RMK CI6 SLP159 DENSITY ALT 1400FT EGXE 240150Z AUTO 34001KT 9999 FEW042/// SCT240/// 15/12 Q1018 CYXE 240200Z 30013G20KT 15SM FEW040 21/11 A2985 RMK CU1 SLP112 DENSITY ALT 2800FT EIDW 240230Z 24003KT 9999 FEW018 SCT045 BKN220 14/11 Q1018 NOSIG KFBG 240158Z AUTO 21003KT 10SM CLR 27/23 A2997 RMK AO2 SLP149 T02700228 $ CYXH 240200Z 06004KT 010V090 30SM FEW070 24/10 A2994 RMK AC1 SLP133 DENSITY ALT 3900FT KFAR 240153Z 29006KT 10SM SCT026 OVC033 24/23 A2970 RMK AO2 RAE10B33E46 SLP052 P0015 T02440228 KDUA 240235Z AUTO 14006KT 10SM CLR 29/21 A2992 RMK AO2 KELA 240235Z AUTO 16007KT 10SM CLR 29/24 A2991 RMK AO2 T02870242 CYXJ 240200Z 22012G22KT 15SM FEW050 SCT100 BKN150 17/09 A2987 RMK SC1AC3AC3 SLP123 DENSITY ALT 3100FT KFAT 240153Z 31012KT 10SM CLR 36/08 A2979 RMK AO2 SLP083 MTNS OBSC HZ FU DSNT E-S T03610078 KDUB 240235Z AUTO 29009KT 10SM CLR 20/M06 A3021 RMK AO2 CYYB 240200Z 05005KT 15SM FEW260 20/14 A3000 RMK CI2 LAST STFD OBS/NEXT 241100 UTC SLP159 DENSITY ALT 1900FT KFBL 240234Z AUTO 12007KT 10SM OVC018 24/22 A2980 RMK AO2 KDTL 240234Z AUTO 16006KT 10SM OVC017 25/21 A2974 RMK AO2 LTG DSNT SW THRU NW KDUC 240235Z AUTO 15006KT CLR 30/20 A2990 RMK AO2 PWINO TSNO KEKM 232150Z 11003KT 10SM SCT045 SCT075 32/25 A2996 RMK AO2 LAST CZOL 240200Z AUTO 34004KT 20/11 RMK AO1 T01950113 EGWU 240150Z AUTO 24003KT 9999 // NCD 16/13 Q1019 CYXL 240200Z 16009G16KT 15SM FEW049 BKN150 22/17 A2977 RMK SC1AC6 SLP085 DENSITY ALT 2500FT CZPC 240200Z AUTO 25016G21KT 9SM CLR 20/07 A3004 RMK SLP159 DENSITY ALT 5100FT CYYC 240200Z 29008KT 150V310 40SM FEW060TCU FEW110 22/07 A2998 RMK TCU1AC1 DIST SH N / TCU NNE+SE SLP146 DENSITY ALT 5200FT KELD 240153Z AUTO 00000KT 10SM CLR 25/22 A2996 RMK AO2 SLP140 T02500222 KDSV 240154Z AUTO 00000KT 10SM CLR 23/15 A2998 RMK AO2 SLP154 T02330150 EGYD 240150Z AUTO 28005KT 9999 // BKN130/// 16/15 Q1018 CYYD 240200Z 32004KT 260V340 25SM BKN060 18/13 A2995 RMK SC7 SLP148 DENSITY ALT 2300FT KDTN 240153Z AUTO 34005KT 10SM -RA CLR 26/23 A2997 RMK AO2 RAB12 TSB00E15 SLP144 P0001 T02560228 KEKN 240151Z AUTO 00000KT 9SM CLR 23/21 A3008 RMK AO2 SLP170 T02330206 TSNO CYXN 232000Z 17018G23KT 15SM BKN110 10/07 A2971 RMK AC7 13.0/9.0/0.0MM/LAST OBS/NEXT 241400Z SLP064 CYYE 240200Z 27006KT 20SM VCSH BKN080 BKN130 BKN250 19/13 A2966 RMK AC5AC1CI1 SLP051 DENSITY ALT 2300FT KDTO 240153Z 13007KT 10SM CLR 33/21 A2989 RMK AO2 SLP110 T03280211 KEKO 240156Z AUTO 27011KT 10SM CLR 31/M13 A3008 RMK AO2 SLP131 T03111133 CYYF 240200Z 36008KT 15SM SCT100 26/11 A3005 RMK AC4 SLP175 DENSITY ALT 2400FT KFAY 240153Z AUTO 23004KT 10SM CLR 26/23 A2998 RMK AO2 TSB0055E10 SLP144 T02610228 KDUG 240156Z AUTO 34006KT 10SM CLR 33/14 A2997 RMK AO2 LTG DSNT E SLP067 T03280139 OTHH 240200Z 01007KT CAVOK 33/26 Q0995 NOSIG CYXP 231900Z 15006KT 100V270 15SM FEW100 SCT150 12/06 A2990 RMK AC1AC2 LAST STFD OBS NEXT 241600 SLP127 EGXP 240150Z AUTO 33006KT 9999 // NCD 15/14 Q1018 CYYG 240200Z VRB02KT 15SM SCT047 BKN120 BKN170 20/17 A2971 RMK SC3AC2AC2 CB OCNL LTGIC DIST NW + NE-SE SLP061 DENSITY ALT 900FT KDUH 240234Z AUTO 00000KT 10SM CLR 25/20 A2998 RMK AO2 T02520204 KEKQ 240156Z AUTO 33007KT 250V050 10SM CLR A3003 RMK AO2 SLPNO $ KFCH 240235Z AUTO 10SM CLR 35/11 A2979 RMK A01 EHPG 240225Z AUTO 08002KT //// // NSC 16/16 Q1020 RE// CYXQ 232200Z 29008KT 10SM -RA BKN035 OVC050 12/11 A2954 RMK SC7SC1 CLIMAT 13.5/10.0/0.6 MM/LAST STFD OBS/NXT 241600Z SLP021 DENSITY ALT 2700FT CYYH 240200Z 12009KT 12SM -RA BKN040 OVC080 09/08 A2949 RMK SC6AC2 SLP990 KFCI 240155Z AUTO 20003KT 10SM CLR 28/19 A2995 RMK AO1 KFBR 240235Z AUTO 29009KT 10SM CLR 24/M11 A3027 RMK AO2 T02371113 CYXR 240200Z AUTO 03006KT 9SM CLR 17/14 A3001 RMK SLP166 DENSITY ALT 1100FT KDUJ 240153Z AUTO 00000KT 10SM CLR 22/14 A3003 RMK AO2 SLP154 T02170144 KDTS 240153Z AUTO 00000KT 10SM CLR 31/24 A2998 RMK AO2 SLP150 T03060244 TSNO KEKS 240235Z AUTO 33008G13KT 10SM OVC100 23/00 A3018 RMK A01 EGXS 240150Z AUTO 14005KT 9999 // SCT120/// 17/16 Q1018 CYXS 240200Z AUTO 23008KT 9SM OVC060 19/10 A3005 RMK SLP183 DENSITY ALT 3100FT CYYJ 240200Z 12009KT 30SM FEW030 FEW070 21/10 A3019 RMK CU1AC1 CU TR AC TR SLP224 DENSITY ALT 400FT KELK 240235Z AUTO 16007KT 10SM CLR 31/17 A2989 RMK AO2 T03070172 EGXT 240150Z AUTO 27006KT 9999 SCT130/// 16/14 Q1018 CYXT 240244Z 17023G35KT 20SM -SHRA FEW015 FEW028TCU BKN053 BKN100 16/12 A3001 RMK CF1TCU2SC3AC2 CF TR PRESFR SLP166 DENSITY ALT 900FT EGXU 240150Z AUTO 30003KT 9999 // NCD 16/13 Q1018 CYXU 240200Z 31003KT 15SM SCT240 20/17 A3000 RMK CI4 SLP157 DENSITY ALT 1500FT CYYL 240200Z AUTO /////KT 9SM SCT055 SCT090 BKN110 OVC130 18/15 A2971 RMK WND MISG SLP068 DENSITY ALT 2000FT KELM 240153Z AUTO 01005KT 10SM CLR 22/12 A2996 RMK AO2 SLP136 T02220122 KFCM 240153Z 11003KT 10SM CLR 25/22 A2977 RMK AO2 SLP074 T02500222 EGYM 240150Z AUTO 18004KT 9999 NCD 16/14 Q1018 KDTW 240153Z 07007KT 10SM FEW100 SCT250 29/16 A2999 RMK AO2 SLP149 T02890161 KELN 240153Z AUTO 31022G27KT 10SM CLR 23/09 A3008 RMK AO2 PK WND 32030/0120 SLP177 T02330089 EGXV 240150Z AUTO 30003KT 7000 BR BKN120/// 15/14 Q1018 CYZE 240200Z AUTO VRB02KT 9SM CLR 22/18 A2996 RMK SLP146 DENSITY ALT 1400FT CYYN 240200Z AUTO 29005KT 9SM SCT100 16/14 A2996 RMK SLP148 DENSITY ALT 3400FT KELO 240233Z AUTO 13008KT 10SM CLR 19/15 A2983 RMK AO2 EGXW 240150Z 31005KT CAVOK 16/15 Q1018 BLU EHQE 240225Z AUTO 31002KT 9999 SCT008 BKN009 17/15 Q1020 CYZF 240200Z 26005KT 15SM FEW050 FEW140 BKN240 15/02 A2974 RMK SC1AC1CI6 SC TR SLP080 DENSITY ALT 1000FT CYXX 240200Z 26003KT 180V280 30SM FEW046 BKN075 22/12 A3019 RMK CU1AC4 SLP224 DENSITY ALT 700FT KELP 240151Z 00000KT 10SM FEW140 FEW250 38/03 A2991 RMK AO2 SLP037 T03780028 KEKY 240156Z AUTO 05003KT 10SM CLR 28/24 A3002 RMK AO2 SLP169 T02780244 CYXY 240215Z 23005KT 40SM VCSH SCT057TCU OVC080 13/09 A2955 RMK TCU3AC5 SLP025 DENSITY ALT 3000FT EGYP 240150Z 27013KT 9999 FEW025 M02/M03 Q1007 BLU CYXZ 240000Z 18003KT 15SM BKN250 OVC300 22/16 A2997 RMK CS7CC1 LAST OBS/NEXT 241100UTC SLP153 DENSITY ALT 1900FT EGXZ 240150Z AUTO 33003KT 9999 FEW090/// 16/13 Q1018 CYYQ 240200Z 36005KT 270V020 15SM FEW030 SCT075 BKN220 17/15 A2970 RMK SC2AC2CI2 SLP060 DENSITY ALT 600FT CYZH 240200Z AUTO 27013KT 9SM CLR 21/10 A2987 RMK SLP120 DENSITY ALT 3000FT CYYR 240219Z 30005KT 15SM BKN017 OVC032 12/08 A2971 RMK SC6SC2 SLP063 KFCS 240158Z AUTO 02006KT 10SM SCT180 SCT210 25/12 A3014 RMK AO2 LTG DSNT E SLP138 T02450120 $ CZPS 240200Z AUTO 21001KT 21/11 RMK AO1 T02120110 KFDK 240230Z AUTO 00000KT 10SM CLR 26/24 A2995 RMK AO2 KDVK 240235Z AUTO 00000KT 10SM CLR 25/23 A3003 RMK AO2 KEMK 240235Z AUTO 16009KT 10SM CLR 30/24 A2993 RMK A01 CYYT 240200Z 23015G27KT 15SM BKN009 20/19 A2986 RMK SF7 SLP111 DENSITY ALT 1200FT KDVL 240156Z AUTO 28009KT 10SM SCT065 24/17 A2975 RMK AO2 SLP081 T02390167 CYYU 240200Z 10004KT 15SM FEW140 BKN260 18/15 A2998 RMK AC1CI4 SLP158 DENSITY ALT 1200FT KEND 240158Z AUTO 16009KT 10SM CLR 32/19 A2985 RMK AO2 DZB44E45DZB46E53RAB53E57 SLP092 P0000 T03240186 $ KEMM 240235Z AUTO 30008KT 10SM A3026 RMK AO2 KDVN 240224Z AUTO 17005KT 10SM FEW022 FEW035 FEW060 24/22 A2989 RMK AO2 LTG DSNT NE-SE RAB0155E03 P0000 T02390222 EHRD 240225Z AUTO VRB02KT 9000 OVC007 18/17 Q1020 NOSIG CYYW 240200Z AUTO 21004KT 9SM BKN150 OVC170 21/15 A2990 RMK ICG MISG SLP114 DENSITY ALT 1900FT KDUX 240235Z AUTO 17009KT 10SM CLR 30/09 A2996 RMK AO2 T03010085 KDVO 240235Z AUTO 16005KT 10SM CLR 25/10 A2984 RMK AO2 KDVP 240234Z AUTO 15005KT 10SM CLR 26/25 A2979 RMK AO2 T02600246 KELY 240153Z AUTO 19005KT 10SM CLR 32/M09 A3010 RMK AO2 SLP089 T03171094 KEMP 240153Z AUTO 15011KT 10SM CLR 31/21 A2986 RMK AO2 SLP097 T03060211 CYYY 240200Z 22009KT 15SM BKN050 19/14 A2973 RMK SC5 SLP069 DENSITY ALT 800FT CYZP 240239Z AUTO 26011KT 9SM -RA OVC026 16/14 A3001 RMK SLP164 KDWH 240153Z 17007KT 10SM CLR 32/23 A2989 RMK AO2 SLP120 T03170233 KELZ 240156Z AUTO 33006KT 10SM CLR 24/13 A3005 RMK AO2 SLP160 T02390128 CYYZ 240200Z 35012KT 15SM SCT270 26/14 A2996 RMK CI4 SLP145 DENSITY ALT 1900FT KFDR 240153Z AUTO 14009KT 10SM CLR 33/19 A2983 RMK AO2 SLP081 T03280194 TSNO $ KFFA 240240Z AUTO 21005KT 10SM CLR 28/24 A2998 RMK AO2 T02810239 CYZR 240215Z AUTO 00000KT 9SM CLR 22/19 A2999 RMK SLP155 DENSITY ALT 1400FT KEMT 240245Z 20008KT 10SM CLR 27/17 A2983 CYZS 240200Z 19004KT 170V260 15SM FEW030 FEW080 11/08 A2980 RMK SC2AC1 AC TR SLP097 EHSA 240225Z AUTO 17004G05KT 9999 ///////// 17/15 Q1020 W17/H3 KDVT 240153Z AUTO 26013KT 10SM CLR 42/11 A2972 RMK AO2 SLP033 T04220111 CYZT 240247Z 00000KT 20SM BKN044 BKN073 18/14 A3021 RMK CU5AC2 VIRGA SLP231 DENSITY ALT 100FT KFFC 240153Z AUTO 00000KT 10SM CLR 25/23 A3002 RMK AO2 SLP156 T02500233 KENL 240235Z AUTO 14003KT 10SM CLR 27/25 A2995 RMK AO2 T02700253 CYZU 240200Z 32006KT 15SM FEW065 FEW240 21/09 A2993 RMK CF1CI1 CF TR CI TR SLP138 DENSITY ALT 3700FT EHSC 240225Z AUTO VRB01G02KT 9999 ///////// 17/15 Q1020 W19/H4 KEMV 240235Z AUTO 00000KT 10SM CLR 26/24 A2998 RMK AO2 CYZV 240200Z 32004KT 15SM BKN110 BKN160 19/17 A2966 RMK AC6AC1 SLP046 DENSITY ALT 900FT KFDW 240235Z AUTO 13003KT 10SM CLR 26/22 A3002 RMK AO1 KEOE 240235Z AUTO 00000KT 10SM CLR 25/23 A3005 RMK AO2 CYZW 240100Z 15011KT 20SM -SHRA FEW012 OVC044 14/09 A2960 RMK SF2SC6 CLIMAT 14.6/11.1/4.1 MM/LAST STFD OBS/NXT 241300 Z SLP037 DENSITY ALT 3100FT CYZX 240200Z 00000KT 15SM FEW100 21/17 A2973 RMK AC1 WNDY HILL 25006KT SLP068 KFDY 240153Z AUTO 00000KT 10SM CLR 28/21 A2998 RMK AO2 SLP139 T02780206 KFEP 240235Z AUTO 08005KT 10SM -RA BKN110 21/21 A2994 RMK AO2 LTG DSNT E THRU SW P0003 T02140208 CZRP 240200Z AUTO 05008KT 02/01 RMK AO1 SLP113 T00230013 53010 CYZY 240200Z AUTO 21007KT 9SM OVC042 17/09 A2999 RMK SLP165 DENSITY ALT 2900FT KDYA 240255Z AUTO 00000KT 10SM 27/27 A2998 RMK AO2 T02670267 CZSJ 240247Z AUTO 07005KT 9SM OVC055 17/16 A2973 RMK SLP072 DENSITY ALT 1500FT KDYB 240215Z AUTO 17003KT 10SM CLR 27/25 A3001 RMK AO1 KEOK 240235Z AUTO 16007KT 10SM CLR 30/27 A2987 RMK AO2 KFET 240235Z AUTO 16003KT 10SM CLR 29/24 A2978 RMK AO2 T02860241 CZTB 240200Z AUTO 12005KT 18/16 RMK AO1 SLP118 T01840161 56017 KFFL 240235Z AUTO 17005KT 10SM CLR 28/25 A2986 RMK AO2 PWINO KDWU 240235Z AUTO 00000KT 5SM CLR 25/24 A2999 RMK AO1 KFFM 240235Z AUTO 19006KT 10SM -DZ SCT036 SCT042 BKN050 25/22 A2974 RMK AO2 LTG DSNT ALQDS KENV 240235Z AUTO 00000KT 10SM CLR 31/M03 A3002 RMK AO1 CZSM 240200Z AUTO 09001KT 18/10 RMK AO1 SLP068 T01810102 56006 KENW 240201Z AUTO 22003KT 3SM VCTS RA BR FEW016 BKN070 OVC110 22/21 A2999 RMK AO2 LTG DSNT S-W P0004 T02220206 KFEW 240246Z AUTO 17013G21KT 10SM FEW032 BKN080 BKN100 25/03 A3018 RMK AO2 LTG DSNT SE-S RAB24E25SHRAB25E46 $ KFFO 240158Z AUTO 03001KT 10SM CLR 27/24 A2999 RMK AO2 SLP151 T02740237 CHINO RWY05L KDWX 240235Z AUTO 06006KT 10SM CLR 25/07 A3018 RMK AO2 T02530073 VHHH 240230Z 27004KT 9999 FEW020 32/24 Q1009 NOSIG PLCH 240200Z 14010KT 9999 FEW020 30/23 Q1007 CZSP 240200Z AUTO 05002KT 18/17 RMK AO1 SLP065 T01830169 53015 KEPH 240153Z AUTO 19006KT 10SM CLR 28/07 A3004 RMK AO2 SLP165 T02780067 ZUUU 240200Z VRB01MPS 4500 BR FEW033TCU SCT033 28/25 Q1004 NOSIG KDXR 240153Z AUTO 00000KT 10SM CLR 27/13 A2989 RMK AO2 SLP116 T02720133 KEQA 240235Z AUTO 16010KT 10SM CLR 31/20 A2987 RMK AO2 KFFT 240153Z AUTO 00000KT 10SM CLR 27/22 A2998 RMK AO2 SLP142 T02720222 KDZB 240235Z AUTO 00000KT 10SM CLR 31/18 A2991 RMK AO2 T03100182 KFHB 240235Z AUTO 16003KT 10SM CLR 29/24 A3002 RMK AO1 CZST 240100Z VRB02KT 3SM RA BR SCT010 OVC030 14/13 A2992 RMK SC3SC5 LAST STFD OBS/ NEXT 241300Z SLP132 KDYL 240154Z AUTO 25003KT 10SM CLR 26/18 A2990 RMK AO2 SLP117 T02610183 FABL 240200Z AUTO 23004KT 9999 ///////// M01/M07 Q1022 KFGN 240234Z AUTO 00000KT 10SM TS SCT020 BKN050 OVC060 22/21 A2969 RMK AO2 LTG DSNT SW THRU NW EIKN 231830Z 27010KT 9999 SCT017 BKN030 15/11 Q1019 NOSIG KDXX 240234Z AUTO 12006KT 10SM CLR 27/25 A2972 RMK AO2 LTG DSNT N KFFX 240235Z AUTO 16003KT 10SM CLR 25/25 A2995 RMK AO2 T02480245 KFFZ 240149Z 24008KT 40SM FEW150 FEW250 A2970 PKMJ 231955Z 09010KT 15SM FEW015 SCT050 BKN300 28/24 A2977 KDYR 240235Z AUTO 10SM CLR 26/24 A2998 RMK AO1 LTG DSNT SE KDZJ 240235Z AUTO 5SM HZ A3010 RMK AO2 KDYS 240158Z AUTO 12007KT 10SM CLR 34/17 A2988 RMK AO2 SLP062 T03380166 $ KDYT 240234Z AUTO 06008KT 10SM SCT027 BKN033 OVC050 18/16 A2983 RMK AO2 VIAG 240230Z 05003KT 6000 SCT025 BKN080 28/28 Q1005 NOSIG CZUM 240200Z AUTO 06005KT 9SM CLR 14/12 A2974 RMK SLP078 DENSITY ALT 1800FT EIME 240200Z 24004KT 9999 FEW034 SCT130 BKN220 12/10 Q1018 KFGX 240235Z AUTO 00000KT 10SM CLR 27/23 A3003 RMK AO2 T02690231 KFIG 240154Z AUTO 34005KT 10SM CLR 23/13 A3002 RMK AO2 SLP155 T02330133 EIKY 231830Z 28006KT 250V310 9999 BKN027 16/13 Q1020 PKMR 240154Z 08008KT 15SM FEW015 SCT050 BKN300 31/26 A2975 RMK SLP076 T03090260 KERI 240151Z 00000KT 9SM CLR 24/17 A2998 RMK AO2 SLP148 T02440172 KFHR 240153Z AUTO 22006KT 10SM CLR 19/10 A3022 RMK AO2 SLP233 T01940100 FACT 240201Z 21007KT CAVOK 09/06 Q1027 NOSIG KESC 240235Z AUTO 13007KT 10SM BKN110 23/19 A2989 RMK AO1 EHVK 240225Z AUTO VRB02KT 3200 R06L/P3000N BR FEW004 OVC005 19/18 Q1019 YLO KFHU 240158Z AUTO 30011KT 10SM CLR 33/10 A3005 RMK AO2 SLP090 T03290102 CZVL 240200Z AUTO 32004KT 9SM SCT130 20/12 A2992 RMK SLP132 DENSITY ALT 3400FT EHVL 240247Z AUTO 28003KT 9999 OVC007 17/16 Q1020 GRN KGAD 240156Z AUTO 00000KT 10SM -RA CLR 23/23 A3000 RMK AO2 SLP170 P0001 T02330228 FACV 230718Z 08002KT 9999 FEW025 05/02 Q1026 KFIN 240235Z AUTO 00000KT 10SM CLR 27/24 A3003 RMK AO2 T02660236 KESF 240153Z AUTO 00000KT 10SM CLR 28/27 A2993 RMK AO2 SLP134 T02830272 KGAF 240235Z AUTO 23006KT 10SM SCT060 21/21 A2971 RMK AO2 VIAR 240230Z VRB02KT 1600 BR SCT040 SCT100 28/28 Q1005 NOSIG KGAG 240153Z AUTO 17007KT 10SM CLR 32/14 A2987 RMK AO2 SLP078 T03170144 KEQY 240153Z AUTO 17003KT 10SM CLR 26/21 A3000 RMK AO2 SLP155 T02610206 TSNO KI16 240235Z AUTO 7SM CLR 23/21 A3012 RMK AO2 T02330211 KGAI 240235Z AUTO 00000KT 10SM CLR 26/22 A2997 RMK AO1 KFKA 240233Z AUTO 16008KT 10SM SCT009 SCT025 BKN031 22/20 A2985 RMK AO2 T02150196 TSNO KETB 240230Z AUTO 19007KT 10SM -RA SCT013 SCT070 OVC090 22/21 A2995 RMK AO2 P0003 KFIT 240152Z AUTO 31008KT 10SM CLR 22/15 A2987 RMK AO2 SLP112 T02170150 KI19 240232Z AUTO 00000KT 10SM BKN050 27/22 A3003 RMK AO2 KETC 240240Z AUTO 18004KT 10SM CLR 28/25 A2998 RMK AO2 T02810246 FAEL 231700Z 24007KT CAVOK 11/04 Q1024 KGBD 240235Z AUTO 16009KT 10SM CLR 29/17 A2982 RMK AO1 KERV 240235Z AUTO 11003KT 10SM CLR 30/18 A2993 RMK AO2 T02970183 VICG 240130Z 10002KT 6000 SCT025 SCT250 27/25 Q1006 TEMPO RAIN KESN 240238Z AUTO 00000KT 10SM CLR 25/25 A2995 RMK AO2 T02490249 KGAO 240235Z AUTO 00000KT 10SM CLR 24/23 A2997 RMK AO2 T02400232 EINN 240230Z 11004KT 9999 -RA FEW018 SCT024 BKN043 15/13 Q1017 NOSIG VIBR 240230Z 00000KT 6000 FEW015 SCT030 BKN080 22/20 Q1012 KERY 240234Z AUTO 00000KT 7SM CLR 20/18 A2994 RMK AO2 T02020183 EHWO 240225Z AUTO 00000KT 9999 OVC010 16/15 Q1020 GRN KGBG 240235Z AUTO 15003KT 10SM CLR 28/26 A2992 RMK AO2 LTG DSNT N AND NE T02760255 FADY 230748Z 18007KT 9999 FEW030 06/M00 Q1024 KETH 240219Z AUTO 15008G15KT 10SM VCTS SCT017 SCT029 SCT060 26/24 A2972 RMK AO2 LTG DSNT ALQDS VIDD 240200Z 00000KT 2500 BR SCT030 BKN100 30/27 Q1005 NOSIG KEST 240152Z AUTO 18003KT 10SM CLR 26/25 A2977 RMK AO2 SLP072 T02610250 TSNO KGBK 240235Z AUTO VRB03KT 10SM FEW026 FEW037 30/24 A2997 RMK A01 KGCC 240153Z AUTO 36009KT 10SM CLR 26/01 A3004 RMK AO2 SLP123 T02560006 KFKL 240235Z 00000KT 10SM CLR 21/14 A3006 RMK AO1 KFLD 240153Z AUTO 18007KT 10SM -RA BKN075 BKN090 23/22 A2992 RMK AO2 SLP127 P0003 T02330217 KGCD 240235Z AUTO 32006KT 10SM CLR 26/M01 A3013 RMK AO2 T02601015 KFKN 240235Z AUTO 18005KT 10SM CLR 27/24 A2997 RMK AO2 T02730242 KEUF 240158Z AUTO 00000KT 10SM CLR 27/24 A2998 RMK AO2 SLP148 T02670244 KEUG 240154Z 03015G21KT 10SM FEW050 26/09 A3012 RMK AO2 SLP197 T02560094 KI35 240235Z AUTO 00000KT CLR 23/21 A3007 RMK AO1 KFLG 240157Z 02007KT 10SM -TSRA SCT065 OVC100 19/09 A3031 RMK AO2 SLP163 P0001 T01940094 FAGG 240200Z AUTO 33004KT CAVOK 05/02 Q1027 KFKR 240235Z AUTO 00000KT 7SM CLR A3003 RMK AO2 KFKS 240234Z AUTO 00000KT 10SM CLR 22/18 A2993 RMK AO2 T02230179 KEVB 240147Z 18005KT 10SM FEW030 29/24 A3004 RMK LAST KGDB 240234Z AUTO 06003KT 10SM CLR 27/26 A2974 RMK AO2 T02720260 KGCK 240154Z AUTO 16006KT 10SM CLR 30/17 A2985 RMK AO2 SLP068 T03000172 KI39 240235Z AUTO 00000KT 7SM CLR 27/23 A3001 RMK AO2 VIDN 240200Z 31003KT 5000 HZ SCT020 FEW035CB BKN080 25/23 Q1007 KFLL 240153Z 17005KT 10SM TS BKN065 29/23 A3003 RMK AO2 TSB33 SLP169 T02890228 KGCM 240235Z AUTO 16004KT 10SM 29/22 A2991 RMK AO2 VIDP 240230Z 12005KT 2200 BR SCT030 BKN100 29/27 Q1005 NOSIG KFME 240233Z AUTO 00000KT 10SM SCT070 23/21 A2994 RMK AO1 KGCN 240238Z 18008KT 10SM BKN110 30/06 A3020 RMK AO2 LTG DSNT S T03000056 KFLO 240153Z 13003KT 10SM CLR 28/23 A2999 RMK AO2 SLP151 T02830233 KFLP 240235Z AUTO 00000KT 10SM CLR 28/21 A2992 RMK AO1 KFMH 240155Z 04008 10SM SCT070 23/16 2985 RMK LTNG DIST EAST KGDJ 240235Z AUTO 12004KT 10SM CLR 33/18 A2991 RMK AO2 T03330184 CZZJ 240200Z AUTO 28005KT 22/03 RMK AO1 SLP146 T02190028 50001 KFNB 240153Z AUTO 16009KT 10SM CLR 30/23 A2979 RMK AO2 SLP077 T03000233 KEWB 240153Z 35003KT 10SM CLR 21/18 A2984 RMK AO2 LTG DSNT SE RAE0058 SLP103 P0000 T02060178 URFF 240230Z 21003MPS 9999 OVC011 20/17 Q1012 R19/010095 NOSIG KEVM 240233Z AUTO 12004KT 10SM SCT031 20/18 A2983 RMK AO2 T02000178 KGED 240154Z AUTO 00000KT 10SM FEW060 29/23 A2992 RMK AO2 SLP132 T02940233 KFMM 240235Z AUTO 11020KT 10SM BKN110 25/09 A3003 RMK AO2 T02510091 KFMN 240153Z 03013KT 10SM SCT120 32/04 A3006 RMK AO2 PK WND 31027/0110 WSHFT 0105 SLP103 T03170039 KFLY 240155Z AUTO 16004KT 10SM CLR 22/08 A3025 RMK AO2 LTG DSNT E T02240077 KGDP 240151Z AUTO 08021KT 10SM CLR 31/05 A3008 RMK AO2 PK WND 06026/0107 SLP088 T03110050 KGEG 240153Z 34003KT 10SM FEW075 FEW250 26/03 A3010 RMK AO2 SLP182 T02560033 KFOA 240235Z AUTO 16004KT 7SM CLR 27/25 A2997 RMK AO2 T02650251 KGFA 240158Z AUTO 22011KT 10SM CLR 23/04 A3002 RMK AO2 SLP145 T02340041 TSNO $ FAHS 240200Z AUTO 17013KT //// // ////// 16/12 Q1020 KEWK 240156Z AUTO 16012KT 10SM CLR 32/20 A2985 RMK AO2 SLP089 T03220200 KFNL 240235Z AUTO 13012KT 10SM CLR A3005 RMK AO1 LTG DSNT N FAJB 240200Z AUTO 26002KT //// // ////// 05/M04 Q1021 KGDV 240156Z AUTO 33008KT 10SM CLR 24/11 A2996 RMK AO2 SLP129 T02390111 KEVV 240154Z 00000KT 10SM CLR 29/24 A2996 RMK AO2 SLP140 T02940244 KFOD 240235Z AUTO 19009KT 10SM CLR 28/25 A2979 RMK AO1 DRRM 231800Z 00000KT 9999 SCT033 34/24 Q1013 VIGG 230930Z 13004KT 6000 FEW015B SCT030 BKN080 27/23 Q1007 KEVW 240153Z AUTO 26013KT 10SM CLR 24/M09 A3024 RMK AO2 SLP139 T02441089 KFOE 240153Z 15007KT 10SM CLR 31/23 A2984 RMK AO2 SLP091 T03060228 KEWN 240154Z 19004KT 10SM CLR 26/23 A3001 RMK AO2 SLP162 T02610228 KI63 240235Z AUTO 14004KT 10SM CLR 27/25 A2992 RMK AO2 T02700253 DRRN 240200Z 20002KT CAVOK 25/23 Q1011 NOSIG KFMY 240240Z AUTO 12006KT 10SM BKN028 BKN055 27/23 A3003 RMK AO2 T02670228 EISG 231900Z 28006KT 9999 OVC038 15/13 Q1018 EKAH 240220Z AUTO 00000KT 9999NDV NCD 16/13 Q1020 KEWR 240151Z 36014G22KT 10SM FEW070 FEW250 32/13 A2986 RMK AO2 SLP112 T03170128 KI67 240235Z AUTO 00000KT 10SM CLR 26/22 A2999 RMK AO1 KGFK 240153Z 23004KT 10SM BKN065 BKN075 21/20 A2970 RMK AO2 SLP055 T02110200 KFNT 240153Z 13007KT 10SM CLR 28/18 A2998 RMK AO2 SLP147 T02780183 KFOK 240153Z 00000KT 10SM CLR 23/18 A2986 RMK AO2 SLP110 T02280183 KI69 240234Z AUTO RMK AO2 PWINO PNO KGEU 240150Z 20010KT 20SM FEW120 FEW250 43/12 A2971 RMK LAST DRRT 231800Z 22002KT CAVOK 26/22 Q1012 KGFL 240227Z AUTO 00000KT 2SM BR FEW002 17/16 A2992 RMK AO2 T01720161 KGEV 240245Z AUTO 00000KT 10SM CLR 23/18 A3017 RMK AO2 T02250177 KGGE 240235Z AUTO 17003KT 10SM CLR 26/24 A3002 RMK AO2 KEYE 240153Z AUTO 00000KT 10SM CLR 28/24 A2997 RMK AO2 SLP139 T02830244 KEYF 240245Z AUTO 00000KT 10SM CLR 24/23 A3000 RMK AO2 T02350229 VIGR 240000Z 00000KT 3000 HZ SCT020 OVC080 28/25 Q1003 KGEY 240153Z AUTO 34017KT 10SM CLR 30/M01 A2995 RMK AO2 SLP096 T03001011 KGGG 240230Z 14009KT 1SM R13/P6000FT -TSRA BR SCT047 BKN120 24/23 A2992 RMK AO2 LTG DSNT E-SW PRESFR P0050 T02390233 KI75 240235Z AUTO 17005KT 10SM CLR 28/25 A2985 RMK AO2 T02770247 KGEZ 240153Z AUTO 15004KT 10SM CLR 27/24 A2998 RMK AO2 SLP143 T02720239 KGGI 240235Z AUTO 18006KT 10SM CLR 28/25 A2985 RMK AO2 T02790247 EKBI 240220Z AUTO 11002KT 9999NDV FEW077/// BKN110/// 18/14 Q1020 FALA 240200Z AUTO 21002KT //// // 08/M04 Q1021 KFPK 240235Z AUTO 00000KT 10SM CLR 24/21 A2998 RMK AO2 T02440205 KFOT 240235Z AUTO 30012KT 10SM CLR 15/11 A3007 RMK AO1 KGHB 240235Z AUTO VRB03KT 10SM CLR 30/24 A2997 RMK A01 KFQD 240240Z AUTO 00000KT 10SM 24/24 A3004 RMK AO2 T02430237 FAKM 240200Z AUTO 18004KT //// // ////// M03/M09 Q1023 FAKN 240200Z AUTO 09004KT //// // ////// 13/10 Q1023 KEXX 240235Z AUTO 00000KT 10SM CLR 25/21 A3002 RMK AO2 T02460211 FALE 240200Z 20004KT 9999 -RA BKN049 12/07 Q1025 NOSIG KEZF 240235Z AUTO 00000KT 10SM CLR 28/25 A2992 RMK AO2 T02840251 KGGP 240235Z AUTO 00000KT 10SM SCT032 26/24 A3001 RMK AO2 KGHG 240235Z AUTO 00000KT 10SM CLR 19/19 A2984 RMK AO2 KFOZ 240232Z AUTO 16006KT 10SM SCT023 22/18 A2976 RMK AO2 LTG DSNT W WAAA 240230Z 11003KT 020V180 9999 FEW021 31/22 Q1011 NOSIG EKCH 240220Z 19002KT CAVOK 19/17 Q1021 NOSIG KFPR 240153Z AUTO 11006KT 10SM CLR 28/23 A3002 RMK AO2 SLP166 T02780233 TSNO PKWA 240240Z AUTO 09012KT 10SM SCT023 SCT028 32/24 A2975 RMK AO2 T03210237 KGIC 240235Z AUTO 07005KT 10SM CLR 21/09 A3013 RMK AO1 KEZM 240235Z AUTO 16003KT 10SM CLR 26/19 A3004 RMK AO2 T02550185 KGGW 240153Z AUTO 33009G17KT 10SM CLR 23/09 A2996 RMK AO2 SLP135 T02330094 KEYW 240153Z AUTO 35003KT 10SM FEW049 27/26 A3002 RMK AO2 RAB15E47 SLP167 P0001 T02670256 KGIF 240153Z AUTO VRB03KT 10SM FEW030 SCT080 SCT110 27/23 A3004 RMK AO2 LTG DSNT N RAB11E36 TSE10 SLP169 P0000 T02670233 KFRG 240153Z 35005KT 10SM CLR 30/13 A2985 RMK AO2 LTG DSNT SE AND S SLP109 T03000133 URKA 240230Z AUTO 27002MPS 230V290 9999 NCD 21/18 Q1010 RMK QFE753/1005 KFRI 240158Z AUTO 15011KT 10SM CLR 32/22 A2980 RMK AO2 SLP077 T03190219 KEZS 240235Z AUTO 00000KT 10SM BKN080 OVC100 24/22 A2990 RMK AO2 T02430220 EKEB 240220Z AUTO 12004KT 9999NDV NCD 16/13 Q1019 VIJO 231000Z 24005KT 6000 FEW025 SCT040 37/21 Q1001 NOSIG KFRM 240235Z AUTO 15005KT 10SM CLR 26/24 A2977 RMK AO1 KFSD 240156Z 21004KT 10SM FEW035 FEW080 31/23 A2975 RMK AO2 SLP061 ACC DSNT NE AND NW T03060228 $ VIJP 240230Z 00000KT 6000 SCT030 BKN090 29/25 Q1006 NOSIG FAMM 240200Z AUTO 13008KT //// // ////// 05/M06 Q//// KHAE 240235Z AUTO 15005KT 10SM CLR 30/25 A2991 RMK AO2 KGHW 240233Z AUTO 14008KT 10SM SCT010 23/22 A2976 RMK AO2 LTG DSNT NW KFSE 240235Z AUTO 20006KT 10SM SCT023 BKN031 23/21 A2974 RMK AO2 FALW 240200Z AUTO 21003KT //// // ////// 04/02 Q1027 PMDY 240156Z AUTO 11016KT 9SM SCT020 BKN025 OVC060 27/23 A3011 RMK AO2 SLP195 T02720233 EIWF 232030Z 00000KT 9999 BKN035 16/15 Q1019 URKK 240230Z 24004MPS CAVOK 19/17 Q1009 R23C/CLRD60 TEMPO 2000 TSRA SCT005 BKN020CB RMK QFE753 KFRR 240235Z AUTO 19004KT 10SM CLR 26/22 A2995 RMK AO1 KHAI 240235Z AUTO 00000KT 10SM CLR 26/21 A3000 RMK AO2 T02630213 KFSI 240158Z AUTO 15009KT 10SM CLR 32/21 A2986 RMK AO2 SLP100 T03210212 VIJU 240230Z VRB02KT 6000 SCT030 BKN090 29/25 Q1006 NOSIG USCC 240230Z 34004MPS 2000 R27/1900N BR NSC 18/17 Q1009 R27/000060 NOSIG RMK QFE737 VILD 231000Z 14001KT 5000 HZ NSC 30/25 Q1002 FAOB 240200Z AUTO 02003KT //// // ////// 03/02 Q1027 KFSM 240153Z 11003KT 10SM BKN070 BKN085 31/22 A2991 RMK AO2 SLP122 T03060217 VILH 240230Z VRB02KT 6000 SKC 19/M06 Q1023 NOSIG RMK AC KHAO 240153Z AUTO 00000KT 10SM CLR 26/22 A2999 RMK AO2 SLP150 T02560222 KFSO 240235Z AUTO 00000KT 10SM SCT047 SCT060 BKN070 18/17 A2991 RMK AO2 T01760170 KFTG 240147Z 02010G16KT 10SM -RA BKN100 BKN120 27/08 A3018 KHBG 240153Z AUTO 22004KT 10SM CLR 29/24 A2997 RMK AO2 SLP145 T02890244 VILK 240230Z 05003KT 3000 HZ FEW010 SCT020 BKN100 30/29 Q1003 NOSIG KHBI 240215Z AUTO 00000KT 10SM CLR 26/24 A3004 RMK AO2 T02590238 KGKJ 240153Z AUTO 00000KT 10SM CLR 23/16 A3002 RMK AO2 SLP155 T02280156 TSNO WADD 240230Z 10010KT 9999 FEW011 29/24 Q1011 NOSIG USDD 240230Z 05003MPS 020V080 9999 SCT019 13/11 Q1020 R04/CLRD60 NOSIG RMK QFE759/1012 USCM 240230Z 34003MPS 2900 BR NSC 18/14 Q1009 R01/090065 NOSIG RMK QFE718 KFST 240153Z AUTO 13012G19KT 10SM CLR 33/13 A2991 RMK AO2 SLP073 T03330133 $ KGJT 240153Z 11004KT 10SM SCT080 33/06 A2997 RMK AO2 RAB20E29 SLP068 P0000 T03280061 KFTK 240234Z AUTO 00000KT 10SM CLR 26/24 A2999 RMK AO2 KGLD 240153Z AUTO 08005KT 10SM CLR 28/14 A2992 RMK AO2 SLP082 T02830144 KHCD 240233Z AUTO 11005KT 10SM SCT022 24/24 A2976 RMK AO2 T02430237 URMG 240230Z 24004MPS 9999 -SHRA BKN031CB 19/18 Q1012 R26/000070 NOSIG RMK QFE744/0992 KGLE 240235Z AUTO 14005KT 10SM CLR 29/22 A2993 RMK AO2 T02910216 KFTN 240235Z AUTO RMK A01 PNO FAPE 240200Z 27004KT CAVOK 08/05 Q1027 NOSIG KGLH 240153Z AUTO 16004KT 10SM CLR 27/23 A2995 RMK AO2 SLP144 T02670228 KHBR 240153Z AUTO 16008KT 10SM CLR 32/18 A2987 RMK AO2 SLP094 T03170183 URML 240230Z 33005MPS 9999 NSC 24/15 Q1009 R14/01//70 NOSIG RMK QFE757/1009 FAOR 240230Z 21004KT CAVOK 03/M06 Q1022 NOSIG WADL 240230Z 16008KT 120V180 9999 FEW016 29/22 Q1012 NOSIG DRZA 231800Z 12010KT CAVOK 32/16 Q1010 URMM 240230Z 31005MPS 9999 NSC 17/15 Q1011 R30/000070 NOSIG RMK QFE730/0974 KGKT 240235Z AUTO 00000KT 10SM CLR 23/19 A3004 RMK URMN 240200Z 00000MPS 9999 OVC040CB 20/14 Q1013 NOSIG RMK QFE722 FBFT 231700Z 12003KT CAVOK 17/M09 Q1018 KFUL 240153Z VRB05KT 10SM CLR 27/18 A2979 RMK AO2 SLP088 T02670178 KHDC 240235Z AUTO 00000KT 10SM CLR 26/22 A2997 RMK AO2 URMO 231730Z 00000MPS 9999 NSC 22/18 Q1013 R10/010070 NOSIG RMK QFE716/0954 KHBV 240235Z AUTO 13011KT 10SM CLR 31/22 A2989 RMK AO2 T03090215 ZWSH 240200Z 04004MPS 020V170 7000 NSC 24/08 Q1014 NOSIG KFTW 240153Z 14012KT 10SM CLR 35/20 A2988 RMK AO2 SLP107 T03500200 KFVE 240153Z AUTO 32009KT 10SM CLR 18/12 A2978 RMK AO2 SLP078 T01780122 KHDE 240235Z AUTO 36004KT 10SM CLR 26/24 A2986 RMK AO2 T02630237 FAPN 240200Z AUTO 28002KT //// // ////// 05/M06 Q1019 KHCO 240234Z AUTO 21003KT 10SM SCT065 BKN100 22/21 A2968 RMK AO2 LTG DSNT E KFTY 240153Z 00000KT 10SM CLR 27/22 A3000 RMK AO2 SLP149 T02670217 KGKY 240153Z AUTO 11007KT 10SM CLR 33/21 A2989 RMK AO2 SLP111 T03330211 $ FAPP 240201Z AUTO 20002KT //// // ////// 08/00 Q1020 URMT 240230Z 27005MPS CAVOK 16/15 Q1011 R25/010070 NOSIG RMK QFE719 KGLR 240153Z AUTO 09004KT 10SM CLR 26/16 A2998 RMK AO2 SLP143 T02560161 FAPR 230746Z 00000KT CAVOK 16/M05 Q1022 KGLS 240152Z AUTO 18009KT 10SM CLR 29/26 A2992 RMK AO2 SLP132 T02940261 KFWA 240154Z 19004KT 10SM FEW050 BKN250 27/24 A2998 RMK AO2 SLP145 T02720239 KGNA 240156Z AUTO 07007G15KT 22/13 A2984 RMK AO1 SLP098 T02170133 $ KGMJ 240235Z AUTO 17003KT 10SM CLR 30/25 A2992 RMK AO2 KFWB 240235Z AUTO 00000KT 10SM CLR 29/24 A2996 RMK AO2 KFWC 240235Z AUTO 00000KT 10SM CLR 28/25 A2997 RMK AO1 T02770251 KGNC 240235Z AUTO 15006KT 10SM CLR 31/10 A2997 RMK AO2 T03100104 KHDN 240235Z AUTO 28006KT 10SM CLR 24/04 A3018 RMK AO1 KGLW 240235Z AUTO 16005KT 10SM CLR 28/23 A3000 RMK AO2 T02760226 PWINO KHDO 240151Z AUTO 12008KT 10SM CLR 34/18 A2987 RMK AO2 SLP095 T03390183 $ KHEF 240235Z 00000KT 10SM CLR 26/23 A2993 RMK AO1 KGLY 240235Z AUTO 00000KT 10SM CLR 29/25 A2990 RMK AO2 ZYCC 240200Z 19006MPS 150V210 9999 BKN023 27/22 Q1004 NOSIG KHEI 240153Z AUTO 32012KT 10SM CLR 26/06 A2994 RMK AO2 PK WND 32027/0115 SLP119 T02560061 DRZR 231800Z 18006KT CAVOK 32/20 Q1012 KGMU 240153Z 00000KT 10SM CLR 26/22 A3003 RMK AO2 SLP155 T02610222 KHFD 240153Z 03009KT 10SM CLR 28/16 A2986 RMK AO2 SLP110 T02830156 $ KFWN 240153Z AUTO 00000KT 10SM CLR 23/16 A2991 RMK AO2 SLP125 T02330156 KFXE 240234Z AUTO 27005KT 10SM CLR 26/23 A3004 RMK AO2 PRESRR T02610233 TSNO KHFF 240156Z AUTO 17006KT 10SM CLR 26/23 A2999 RMK AO2 SLP167 T02560233 $ KFVX 240235Z AUTO 00000KT 10SM CLR 26/24 A2995 RMK AO2 T02610242 KHEQ 240235Z AUTO 28007KT CLR 27/11 A2996 RMK AO2 PWINO KGNR 240156Z AUTO 32008KT 18/15 A2980 RMK AO1 SLP086 T01830150 KFWS 240235Z AUTO 00000KT 10SM CLR 29/22 A2992 RMK AO2 T02930215 KHFJ 240230Z AUTO 14004KT 10SM CLR 28/23 A2994 RMK AO2 DTKA 240200Z 20005KT 9999 SCT020 SCT030 22/21 Q1017 NOSIG EKKA 240220Z AUTO 16004KT 9999NDV SCT073/// BKN110/// OVC130/// 18/14 Q1020 KGOK 240153Z AUTO 16008KT 10SM CLR 33/21 A2986 RMK AO2 SLP097 T03280211 KGNT 240235Z AUTO 13018G25KT 10SM RA SCT029 SCT055 OVC110 23/09 A3022 RMK AO2 T02340086 FCBB 240200Z 29004KT 250V320 6000 NSC 19/17 Q1014 NOSIG KGNV 240153Z 20005KT 10SM CLR 27/21 A3002 RMK AO2 LTG DSNT SW-NW SLP162 T02670206 KGON 240156Z 34009KT 10SM CLR 28/15 A2983 RMK AO2 SLP100 T02830150 USHH 240230Z 05003MPS 6000 NSC 17/11 Q1012 R06/010060 TEMPO 3000 HZ RMK QFE755 FBKE 231800Z 00000KT CAVOK 13/M01 Q1018 KGOO 240235Z AUTO 00000KT 10SM CLR 30/02 A3000 RMK AO1 KFYG 240235Z AUTO 13005KT 10SM CLR 29/24 A2992 RMK AO2 KHEY 240153Z AUTO 00000KT 10SM CLR 27/22 A2999 RMK AO2 SLP041 T02670217 KGOP 240230Z AUTO 00000KT 10SM CLR 31/20 A2993 RMK AO2 KGPH 240235Z AUTO 14005KT 10SM CLR 30/23 A2985 RMK AO2 KHEZ 240235Z AUTO 00000KT 10SM CLR 26/22 A2997 RMK AO1 FATH 230850Z 23006KT 5000 HZ NSC 27/M05 Q1017 KGPI 240155Z VRB05KT 10SM CLR 24/06 A3006 RMK AO2 SLP168 T02390061 KFYJ 240235Z AUTO 00000KT 10SM CLR 28/25 A2995 RMK AO2 T02750245 KGOV 240234Z AUTO 12005KT 10SM CLR 23/17 A2999 RMK AO2 T02320172 KGPM 240235Z AUTO 11004KT 10SM CLR 33/20 A2991 RMK AO2 T03280200 KFYM 240235Z AUTO 00000KT 10SM CLR 23/22 A3001 RMK A01 KHHF 240235Z AUTO 17008KT 10SM CLR 31/15 A2988 RMK AO2 T03110152 KFXY 240235Z AUTO 10003KT 10SM SCT004 23/23 A2980 RMK AO2 P0001 KFZG 240235Z AUTO 00000KT 10SM CLR 29/24 A3004 RMK AO2 T02850241 KHHG 240235Z AUTO 00000KT 10SM CLR A2999 RMK AO2 WAHS 240230Z 11007KT 7000 FEW017 31/22 Q1010 NOSIG UTAA 240200Z 30005KT 9999 SKC 29/21 Q1006 NOSIG KHGR 240153Z 00000KT 10SM CLR 29/21 A2993 RMK AO2 SLP138 T02890206 PNO KGPT 240153Z 00000KT 10SM CLR 28/24 A2995 RMK AO2 SLP142 T02830244 KGRB 240153Z 17004KT 10SM FEW120 24/24 A2989 RMK AO2 RAE02 SLP119 P0000 T02440244 KHIB 240217Z AUTO 14007KT 10SM BKN027 20/18 A2980 RMK AO2 T02000178 DTMB 240230Z 35006KT CAVOK 25/23 Q1016 NOSIG KFYV 240153Z AUTO 17004KT 10SM CLR 28/24 A2995 RMK AO2 SLP126 T02830244 KGRD 240156Z AUTO 00000KT 10SM CLR 25/23 A3002 RMK AO2 SLP157 T02500228 KHIE 240228Z AUTO 00000KT 10SM BKN029 OVC037 17/15 A2991 RMK AO2 T01670150 KGRF 240158Z AUTO 30008KT 10SM CLR 22/12 A3019 RMK AO2 SLP226 T02220119 PWINO $ KHIF 240158Z AUTO 04002KT 10SM CLR 30/M05 A3006 RMK AO2 SLP116 T02981049 URRR 240230Z 23003MPS 9999 FEW///CB 18/16 Q1005 R22/290045 NOSIG RMK QFE746/0995 FAUP 240200Z AUTO 00000KT //// // ////// 01/M06 Q1023 KGPZ 240216Z AUTO 15008KT 10SM FEW024 22/18 A2980 RMK AO2 WAJJ 240230Z 17002KT 9999 SCT012 28/23 Q1009 UTAK 240200Z 33004KT CAVOK 24/16 Q1006 NOSIG KGRI 240153Z AUTO 00000KT 10SM CLR 31/23 A2982 RMK AO2 SLP081 T03060233 KHHR 240153Z 17005KT 10SM CLR 25/18 A2980 RMK AO2 SLP091 T02500183 KHII 240230Z AUTO 18010KT 10SM CLR 43/10 A2968 RMK AO2 VISM 230700Z 00000KT 1500 BR SCT020 OVC050 21/21 Q1013 UTAM 240200Z 36004KT CAVOK 23/10 Q1003 NOSIG ZWWW 240230Z VRB01MPS CAVOK 26/12 Q1012 NOSIG KIAB 240158Z AUTO 17013KT 10SM BKN200 33/20 A2984 RMK AO2 SLP090 T03300202 $ KGRK 240158Z AUTO 13007KT 10SM CLR 31/19 A2989 RMK AO2 SLP109 T03120189 KGSB 240158Z AUTO 19005KT 10SM CLR 28/26 A2997 RMK AO2 SLP151 T02790255 $ FAWB 240200Z AUTO 00000KT //// // ////// 05/M04 Q1020 FAUT 231700Z AUTO 17006KT //// // ////// 08/M00 Q1023 KIAD 240152Z 00000KT 10SM FEW060 FEW130 SCT250 25/23 A2992 RMK AO2 RAE01 SLP128 P0000 T02500233 KHHV 240235Z AUTO 14008KT 10SM FEW023 SCT028 SCT037 30/24 A2994 RMK A01 KHHW 240235Z AUTO 12004KT 10SM CLR 27/20 A2993 RMK AO2 T02690196 FBMN 240000Z 00000KT CAVOK 09/M02 Q1017 KHIO 240153Z 32013KT 10SM CLR 22/12 A3017 RMK AO2 SLP214 T02220117 VISR 240230Z VRB02KT 3500 FU FEW025 FEW100 23/18 Q1015 BECMG 5000 KIAG 240153Z 03007KT 10SM SCT250 27/13 A2995 RMK AO2 SLP133 T02720128 KFZY 240154Z AUTO 30004KT 10SM FEW075 23/17 A2992 RMK AO2 SLP128 T02330172 URSS 240230Z 07006MPS 9999 NSC 19/15 Q1012 R06/090070 R02/090070 NOSIG RMK R02/05004MPS QFE758 ZYHB 240200Z 19005MPS 9999 OVC020 25/23 Q1002 NOSIG KIAH 240153Z 17008KT 10SM FEW050 SCT250 32/22 A2990 RMK AO2 SLP123 T03170222 KGSH 231753Z AUTO VRB03KT 10SM FEW045 32/19 A2999 RMK AO2 SLP149 T03220189 10328 20228 58003 KHJH 240235Z AUTO 16006KT 10SM CLR 29/22 A2980 RMK AO2 T02850217 UTAT 240200Z 03008KT CAVOK 27/20 Q1003 NOSIG DTNH 240230Z AUTO VRB04KT CAVOK 25/19 Q1016 KGRR 240153Z 20004KT 10SM FEW060 BKN160 OVC240 28/22 A2995 RMK AO2 SLP137 T02780217 KHKA 240213Z AUTO 18003KT 10SM TS OVC080 28/24 A2996 RMK AO2 TSB07 T02830244 UTAV 240200Z 02004KT CAVOK 23/11 Q1002 NOSIG KGTB 240158Z AUTO 18003KT 10SM CLR 21/19 A2994 RMK AO2 SLP135 T02060191 FAWK 240200Z AUTO 15004KT //// // ////// 05/M05 Q1021 EKOD 231450Z 06008KT 020V090 CAVOK 24/14 Q1020 FAVV 240200Z AUTO /////KT //// // ////// M00/M05 Q1020 KGTF 240153Z 30007KT 10SM BKN100 25/02 A3003 RMK AO2 SLP138 T02500022 KHJO 240153Z AUTO 34006KT 10SM FEW120 36/08 A2979 RMK AO2 SLP087 T03560078 KGSO 240154Z 24005KT 10SM CLR 28/21 A3000 RMK AO2 SLP143 T02830211 KGSP 240153Z 22005KT 10SM CLR 26/21 A3001 RMK AO2 SLP147 T02560211 KGRY 240240Z AUTO 19004KT 9SM FEW025 29/24 A2998 RMK A01 WALL 240230Z 24007KT 9999 FEW020 30/25 Q1010 NOSIG UTDD 240230Z VRB01MPS 9999 NSC 24/14 Q1008 R09/CLRD// NOSIG RMK QFE688/0917 KHLC 240153Z AUTO 03007KT 8SM CLR 33/18 A2982 RMK AO2 SLP067 T03280183 TSNO KGUC 240235Z AUTO 34004KT 10SM CLR 22/06 A3031 RMK AO1 VITX 230430Z 07005KT 6000 FEW060 SCT070 21/04 Q1023 NOSIG RMK AC KIBM 240230Z AUTO 12005KT 10SM CLR 23/13 A3006 RMK AO2 T02300133 KHLG 240153Z 14005KT 10SM SCT055 BKN080 26/21 A2999 RMK AO2 SLP147 T02610206 URWA 240230Z 29003MPS CAVOK 21/16 Q1008 R09/010070 NOSIG RMK QFE758/1010 UTDK 240230Z 03003MPS 9999 NSC 29/10 Q1006 R01/09//70 RMK QFE698/0930 KGTR 240235Z 00000KT 10SM CLR 27/23 A2997 RMK AO1 UTDL 240230Z 00000MPS 9999 FEW230 27/05 Q1007 NOSIG RMK QFE718/0957 88CLRD70 KIDA 240153Z AUTO 19014G23KT 10SM CLR 26/01 A3007 RMK AO2 SLP139 T02610006 KHKS 240208Z AUTO 12005KT 10SM SCT110 25/23 A2998 RMK AO2 LTG DSNT W T02500233 WAMM 240230Z VRB01KT 9999 FEW022 31/24 Q1010 NOSIG KGTU 240246Z 12003KT 10SM CLR 32/19 A2990 KICL 240235Z AUTO 10SM 26/24 A2984 RMK AO2 PWINO KGUL 240235Z AUTO 14009KT 10SM FEW025 30/24 A2995 RMK A01 KHLN 240153Z 29011G17KT 10SM CLR 26/02 A3006 RMK AO2 SLP160 T02610017 $ KGVE 240235Z AUTO 00000KT 10SM SCT075 26/24 A2995 RMK AO1 T02610239 URWI 240230Z AUTO 23005MPS 9999 // NCD 17/13 Q1008 KGUP 240240Z AUTO 16010G20KT 10SM TS FEW075 OVC100 26/10 A3021 RMK AO2 LTG DSNT ALQDS TSB34 T02560100 KHKY 240153Z AUTO 21003KT 10SM CLR 26/23 A3002 RMK AO2 SLP139 T02610228 UTFA 230430Z VRB02KT 9999 NSC 31/09 Q1009 R88/09//70 UTDT 240230Z 18002MPS 150V210 9999 NSC 25/15 Q1004 35////// RMK QFE714/0952 KICR 240153Z AUTO 34008KT 10SM CLR 29/14 A2988 RMK AO2 SLP097 T02890139 KGUR 240235Z AUTO 07008G15KT 10SM CLR 32/03 A3004 RMK AO2 T03210027 PWINO KIDI 240235Z AUTO 00000KT 10SM CLR 25/20 A3006 RMK A01 KHLR 240158Z AUTO 14008KT 10SM CLR 32/20 A2987 RMK AO2 SLP101 T03240198 KGUS 240158Z AUTO 14002KT 10SM FEW044 28/25 A2997 RMK AO2 SLP145 T02770248 KICT 240153Z 15014KT 10SM SCT150 SCT200 33/20 A2983 RMK AO2 SLP083 T03330200 KHNB 240235Z 00000KT 7SM CLR 27/24 A2999 RMK AO1 KGWB 240235Z AUTO 00000KT 10SM CLR 25/20 A3000 RMK AO2 USNN 240230Z 36004MPS 9999 SCT016 19/16 Q1008 R03/0///65 NOSIG RMK QFE752 KGVL 231753Z AUTO 10SM TS FEW042 SCT055 31/21 A3007 RMK AO2 LTG DSNT N AND NE TSB25 SLP163 T03060211 10333 20244 56009 UTFF 240200Z 15004 120V180 9999 NSC 26/09 Q1008 R18/CLRD70 KHND 240156Z 22010G18KT 10SM CLR 42/04 A2979 RMK AO2 SLP050 T04170039 PNO $ KHMN 232058Z AUTO 14007KT 10SM CLR 38/06 A2997 RMK AO2 SLP064 T03810057 57025 $ KHLX 240235Z AUTO 20004KT 10SM CLR 25/20 A3012 RMK AO2 T02490197 KGUY 240153Z AUTO 19008KT 10SM CLR 33/10 A2988 RMK AO2 SLP059 T03280100 $ KIDP 240235Z AUTO 17006KT 10SM CLR 28/20 A2989 RMK AO2 WBGB 240200Z 25005KT 200V310 9999 SCT014 SCT150 BKN300 28/24 Q1011 KGXA 240155Z AUTO 28012KT 4SM HZ FEW048 34/02 A2989 RMK AO2 SLP064 WND DATA ESTMD T03360015 $ KIFA 240235Z AUTO 16006KT 10SM CLR 28/26 A2982 RMK AO2 T02780263 KHOB 240235Z AUTO 12009KT 6SM HZ CLR 31/10 A2998 RMK AO2 KGVT 240235Z AUTO 10006KT 10SM CLR 28/21 A2992 RMK AO2 UTFN 240230Z 15003KT 9999 NSC 26/11 Q1007 R28/CLRD70 NOSIG URWW 240230Z 15003MPS 9999 -SHRA SCT050CB 18/17 Q1006 R24/010070 NOSIG EKRK 240220Z AUTO 16001KT 9999NDV SCT130/// BKN140/// 16/15 Q1021 EKSB 240220Z AUTO 11002KT 8000NDV NCD 16/15 Q1020 WAOO 231200Z 28003KT 9999 SCT019 27/24 Q1008 WBGG 240230Z 12003KT 9999 SCT016 BKN150 28/24 Q1010 NOSIG KIEN 240152Z AUTO 06006KT 10SM CLR 26/11 A2998 RMK AO2 SLP114 T02610106 KHOE 240235Z AUTO 12004KT 10SM BKN050 28/22 A3003 RMK AO2 EKRN 240220Z AUTO 08003KT 9999NDV SCT210/// 16/15 Q1021 KGWO 240153Z AUTO 21004KT 10SM CLR 26/23 A2996 RMK AO2 SLP144 T02560228 KGXF 240158Z AUTO 23016KT 10SM CLR 41/14 A2970 RMK AO2 SLP041 T04080139 KHMZ 240235Z AUTO 34003KT 10SM CLR 25/21 A3000 RMK AO2 T02470205 KGWR 240255Z AUTO 29012KT 10SM FEW042 25/22 A2977 RMK AO1 KHNR 240235Z AUTO 17003KT 10SM CLR 27/25 A2984 RMK AO2 KIER 240235Z AUTO 00000KT 10SM CLR 27/24 A2994 RMK AO2 T02690241 DTTA 240230Z 29004KT 250V340 9999 FEW026 25/17 Q1015 NOSIG KGYB 240235Z AUTO 18007KT 150V210 10SM CLR 31/22 A2993 RMK AO2 T03090217 DTTB 240100Z 28010KT 260V330 9999 SCT020 FEW026CB SCT030 23/22 Q1017 CB/NW FBSK 240200Z 19006KT CAVOK 09/M05 Q1018 NOSIG USPP 240230Z 06003MPS 9000 NSC 19/15 Q1013 R21/090060 NOSIG RMK QFE749 DTTD 240200Z AUTO /////KT NCD 22/19 Q1015 KGWW 240245Z AUTO 20005KT 10SM CLR 27/24 A2999 RMK AO2 T02660240 KHON 240155Z AUTO 34011KT 10SM CLR 28/22 A2977 RMK AO2 SLP073 T02780217 WBGR 240200Z 22006KT 9999 SCT014 FEW015CB BKN150 28/24 Q1011 DTTF 240200Z 05010KT CAVOK 23/08 Q1015 NOSIG KIFP 240235Z AUTO 17012G18KT 10SM CLR 43/10 A2965 RMK AO2 KHOP 240158Z AUTO 34001KT 10SM FEW041 25/25 A2998 RMK AO2 RAE12DZB12E28 SLP148 P0002 T02450245 WBGS 240200Z 29001KT 9999 SCT012 SCT150 BKN300 27/23 Q1011 FBSP 231800Z 00000KT CAVOK 16/05 Q1017 DTTG 240200Z 05006KT 8000 NSC 22/21 Q1015 NOSIG EKSP 240220Z 07001KT CAVOK 16/13 Q1020 KGYH 240235Z AUTO 23003KT 10SM CLR 23/22 A3004 RMK AO2 KGYI 240235Z AUTO 14006KT 10SM CLR 33/21 A2992 RMK AO2 T03300209 DTTJ 240230Z 08006KT 8000 NSC 24/21 Q1014 NOSIG KHOT 240153Z AUTO 00000KT 10SM CLR 26/23 A2996 RMK AO2 SLP137 T02560228 DTTK 240200Z AUTO 00000KT NCD 26/19 Q1016 KHOU 240153Z 18006KT 10SM FEW070 SCT250 30/24 A2990 RMK AO2 SLP128 T03000244 KGYL 240235Z AUTO 10004KT 10SM SCT019 25/24 A2976 RMK AO2 T02460238 DTTL 240200Z AUTO 28005G15KT 180V340 NCD 24/20 Q1017 KIGM 240151Z AUTO 23015KT 10SM CLR 37/08 A2993 RMK AO2 SLP048 T03670083 $ WBGY 240200Z 13003KT 9999 FEW018 SCT300 28/24 Q1010 KHPN 240156Z 32006KT 10SM CLR 27/13 A2987 RMK AO2 SLP106 T02670133 WAQQ 232300Z 00000KT 8000 FEW015 27/25 Q1009 DTTN 240200Z 28003KT 8000 SCT020 SCT030 22/20 Q1017 KGXY 240235Z AUTO 11007KT 10SM CLR 25/09 A3006 RMK AO1 KHQG 240235Z AUTO 20007KT 10SM CLR 29/12 A2989 RMK AO2 LTG DSNT N T02880124 KGZH 240153Z AUTO 00000KT 10SM CLR 26/24 A2999 RMK AO2 SLP150 T02610244 TSNO KIGQ 240235Z AUTO 12006G14KT 10SM SCT120 24/21 A2997 RMK AO2 LTG DSNT NW T02350213 KGYR 240247Z 24010KT 10SM FEW110 FEW200 FEW250 41/13 A2971 KHQI 240235Z AUTO VRB06KT 10SM CLR 30/24 A2994 RMK A01 DTTR 231200Z 33011KT CAVOK 37/07 Q1014 KK88 240235Z AUTO 14007KT 10SM CLR 29/22 A2989 RMK AO1 T02860216 KIIB 240235Z AUTO 14009KT 10SM CLR 22/21 A2984 RMK AO2 KGZL 240235Z AUTO 16006KT 10SM CLR 30/18 A2991 RMK AO2 KHQM 240153Z AUTO 26013KT 6SM HZ CLR 18/13 A3023 RMK AO2 SLP239 T01830128 KGZN 240220Z AUTO 12006KT 10SM CLR 30/17 A2993 RMK AO2 EKVD 240220Z AUTO 12003KT //// ///////// 15/13 Q1020 KIGX 240156Z AUTO 00000KT 10SM CLR 27/22 A2999 RMK AO2 SLP148 T02720222 USRR 240230Z 02005MPS 350V050 7000 SCT016CB 18/15 Q1010 R07/250060 NOSIG RMK QFE752 DTTX 240200Z 33005KT CAVOK 24/20 Q1015 KGYY 240245Z 13008KT 10SM BKN120 OVC250 24/ A2995 RMK LAST WARR 240230Z 10005KT 350V160 8000 FEW018 29/24 Q1011 NOSIG EKVG 240220Z AUTO 16013KT 0300NDV R12/1000D R30/P1500N DZ FG BKN000/// BKN110/// 11/11 Q1012 DTTZ 240200Z 09016KT 7000 FEW033 27/16 Q1014 NOSIG KHRI 240153Z AUTO 21004KT 10SM CLR 29/05 A3002 RMK AO2 SLP160 T02940050 KHSA 240154Z 00000KT 10SM FEW025 27/23 A2996 UUBC 240200Z AUTO 01002MPS 9000 // NCD 16/16 Q1013 RMK QFE743/0990 KHRJ 240240Z AUTO 20003KT 10SM CLR 27/24 A3000 RMK AO2 T02650237 KGZS 240235Z AUTO 00000KT 10SM FEW039 BKN046 BKN055 24/22 A2999 RMK A01 KHSB 240235Z AUTO 00000KT 7SM CLR 27/26 A2998 RMK AO2 T02700261 KHRL 240156Z 13014KT 10SM CLR 32/23 A2987 RMK AO2 T03220233 $ KJAC 240146Z 25009KT 10SM CLR 24/M08 A3018 KHQU 240235Z AUTO 00000KT 10SM CLR 27/25 A3006 RMK AO1 T02710247 KHSD 240235Z AUTO 16010KT 10SM 33/19 A2989 RMK A01 KHSE 240151Z AUTO 23007KT 10SM CLR 28/24 A3001 RMK AO2 SLP162 T02830239 TSNO KHRO 240153Z AUTO 19004KT 10SM CLR 29/23 A2996 RMK AO2 LTG DSNT SW AND W SLP127 T02940228 ELLX 240220Z AUTO 33008KT 2800 BR SCT018/// SCT020/// BKN030/// 18/17 Q1020 NOSIG KHSG 240235Z AUTO 02005KT 10SM 22/00 A3003 RMK AO2 T02191005 USSS 240230Z 33004MPS 9000 SCT026CB 18/16 Q1011 R26R/010060 TEMPO 32012MPS -TSRA RMK QFE738/0984 KHQZ 240235Z AUTO 12005KT 10SM CLR 31/22 A2990 RMK AO1 T03070215 WBKK 240230Z 27002KT 9999 FEW014 FEW016CB SCT140 BKN270 30/25 Q1010 NOSIG KHSI 240153Z AUTO 05004KT 10SM CLR 29/24 A2983 RMK AO2 SLP079 T02940244 WBKL 240200Z 30004KT 9999 SCT008 SCT030 BKN290 26/24 Q1011 KL18 240235Z AUTO 27005KT 10SM CLR 24/17 A2984 RMK AO2 KHRT 240158Z 20003KT 10SM FEW250 29/22 A2996 RMK AO2A SLP147 T02860220 UUBP 240230Z 34004MPS CAVOK 15/14 Q1013 R34/CLRD70 NOSIG RMK QFE742/0989 KJAN 240154Z 00000KT 10SM BKN110 25/24 A2998 RMK AO2 RAE30 SLP146 P0000 T02500239 KHRX 240235Z AUTO 16007KT 10SM CLR 30/11 A3000 RMK AO2 T03030110 USTR 240230Z 01003MPS 0600 R21/0600 FG VV002 17/17 Q1009 R21/CLRD65 TEMPO 0400 FG VV001 RMK QBB060 QFE747/0996 KHSP 240215Z AUTO 31007KT 10SM CLR 24/19 A3018 RMK AO2 KIIY 240235Z AUTO 00000KT 10SM CLR 27/26 A3003 RMK AO2 WBKS 240200Z 30004KT 9999 SCT016 BKN300 31/25 Q1009 KJAQ 240235Z AUTO 33008KT 10SM CLR 34/01 A2988 RMK AO1 T03380011 WATT 240230Z 09009KT 9999 FEW020 30/20 Q1013 NOSIG WBKT 240200Z 28005KT 210V350 9999 FEW015 BKN270 31/25 Q1010 KJCA 240235Z AUTO 00000KT 10SM CLR 23/22 A3003 RMK AO2 KHUA 240158Z AUTO 08003KT 10SM VCTS SCT040 26/22 A2998 RMK AO2 LTG DSNT NW SLP146 T02610222 KJAS 240235Z AUTO 00000KT 10SM CLR 28/24 A2996 RMK AO2 T02750239 UUDD 240230Z 01004MPS 350V060 5000 BR NSC 18/16 Q1013 R32L/290095 NOSIG KHST 240237Z AUTO 08005KT 10SM FEW002 SCT040 SCT070 25/21 A3003 RMK AO2 DZE07RAB07E37 UUBW 240230Z 35002MPS 5000 BR NSC 18/16 Q1013 R30/////// NOSIG WBKW 240200Z 20004KT 9999 FEW017 BKN300 31/23 Q1010 KHTL 240153Z AUTO 14006KT 10SM CLR 24/17 A2998 RMK AO2 SLP146 T02390167 KJAU 240235Z AUTO 00000KT 10SM 24/21 A3007 RMK A01 KHSV 240153Z 05003KT 10SM FEW039 SCT070 OVC200 27/22 A2999 RMK AO2 TSE52 SLP147 OCNL LTGICCG DSNT W CB DSNT W T02670217 $ KILE 240156Z AUTO 14008KT 10SM CLR 33/21 A2989 RMK AO2 SLP120 T03280206 KHUF 240153Z 15004KT 10SM CLR 27/25 A2996 RMK AO2 SLP137 T02720250 KJAX 240156Z 15005KT 10SM FEW040 FEW250 27/23 A3000 RMK AO2 SLP161 FRQ LTGIC DSNT SW CB DSNT SW T02720228 KHTO 240235Z AUTO 00000KT 10SM SCT100 22/18 A2985 RMK AO2 T02240175 KIJX 240235Z AUTO 15006KT 10SM CLR 28/25 A2993 RMK AO2 T02800248 KILG 240151Z 00000KT 10SM CLR 26/20 A2990 RMK AO2 SLP124 T02560200 $ KL35 240235Z AUTO 26004KT 10SM CLR 23/05 A3025 RMK AO2 KJBR 240153Z AUTO 25004KT 10SM CLR 28/22 A2994 RMK AO2 SLP133 T02780222 $ UUDL 240130Z 02002MPS 5000 BR NSC 17/17 Q1015 R23/010095 NOSIG RMK QFE753 KHTS 240151Z 00000KT 8SM CLR 27/24 A2999 RMK AO2 SLP146 T02720239 KL38 240235Z AUTO 00000KT 10SM CLR 25/25 A2996 RMK AO2 T02450245 KIKT 240235Z AUTO VRB06KT 10SM CLR 30/23 A2999 RMK A01 UUEE 240230Z 34002MPS 5000 BR NSC 17/17 Q1014 R06R/CLRD62 R06L/////// NOSIG KHUL 240153Z AUTO 02009KT 10SM SCT065 BKN080 21/18 A2974 RMK AO2 LTG DSNT NE AND E SLP070 T02060183 KILM 240153Z AUTO 21005KT 10SM CLR 27/24 A3000 RMK AO2 SLP159 T02720239 PWINO KIKV 240235Z AUTO RMK AO2 PNO PWINO KJDD 240235Z AUTO 13005KT 10SM CLR 28/23 A2994 RMK AO2 KHUM 240235Z AUTO 00000KT 7SM CLR 27/26 A2998 RMK AO2 T02700256 KIKW 240233Z AUTO 07004KT 10SM CLR 22/19 A2995 RMK AO2 T02230191 KILN 240154Z AUTO 00000KT 10SM FEW047 BKN060 27/24 A3001 RMK AO2 SLP146 T02720239 FCPP 240200Z 13002KT 6000 FEW010 BKN020 22/21 Q1014 BECMG 4000 BR KHUT 240152Z 17007KT 10SM CLR 32/17 A2983 RMK AO2 SLP072 T03170167 KJCT 240151Z AUTO 14009KT 10SM CLR 34/16 A2990 RMK AO2 SLP082 T03390156 UTNN 240230Z 01004KT 9999 TS FEW050CB 26/15 Q1005 R15/CLRD60 NOSIG KIML 240153Z AUTO 35006KT 10SM CLR 29/20 A2995 RMK AO2 SLP101 T02940200 EKYT 240220Z 08002KT 7000 MIFG NSC 17/16 Q1020 KIND 240154Z 00000KT 10SM FEW040 SCT130 SCT250 28/22 A2998 RMK AO2 SLP144 T02830222 KHWD 240154Z 28007KT 10SM CLR 21/12 A2986 RMK AO2 SLP119 T02110117 KHVN 240153Z 34005KT 10SM CLR 28/14 A2985 RMK AO2 SLP108 T02830144 KJDN 240248Z AUTO 03005KT 22/10 A3000 RMK AO1 SLP146 T02170100 53014 KJEF 240153Z 00000KT 10SM CLR 31/24 A2989 RMK AO2 SLP105 T03110244 KINF 240235Z AUTO 08004KT 10SM CLR 25/22 A3005 RMK AO2 ZYTL 240230Z 11004MPS 080V150 8000 SCT033 31/26 Q1006 NOSIG KHVR 240153Z AUTO 01005KT 10SM CLR 26/09 A2997 RMK AO2 SLP130 T02610089 UTNU 240230Z VRB02KT CAVOK 28/15 Q1003 R31/CLRD70 NOSIG KHVS 240235Z AUTO 00000KT 10SM CLR 25/22 A2999 RMK AO2 KIMS 240231Z AUTO 00000KT 10SM CLR 26/24 A3003 RMK AO1 KINJ 240235Z AUTO 11005KT 10SM CLR 30/20 A2991 RMK AO2 T03040198 KINK 240153Z AUTO 12012KT 10SM CLR 35/12 A2987 RMK AO2 SLP061 T03500122 TSNO KIMT 240154Z AUTO 13004KT 10SM SCT042 BKN070 24/17 A2990 RMK AO2 SLP118 T02440172 KIOB 240235Z AUTO 00000KT 10SM SCT060 SCT070 26/24 A3003 RMK AO2 KINL 240155Z AUTO 15006KT 10SM CLR 22/18 A2973 RMK AO2 SLP065 T02220183 KHXD 240235Z AUTO 18005KT 10SM CLR 29/24 A3003 RMK AO2 KHWO 240153Z AUTO 00000KT 10SM CLR 29/23 A3005 RMK AO2 SLP176 T02890228 TSNO KJER 240153Z AUTO 24010KT 10SM CLR 26/M02 A3007 RMK AO2 SLP149 T02611022 KHYA 240156Z AUTO 33005KT 10SM SCT095 BKN120 21/18 A2983 RMK AO2 LTG DSNT SE-SW RAB0057E10 SLP101 P0000 T02110178 KINS 240158Z AUTO 24013KT 10SM CLR 41/M03 A2982 RMK AO2 SLP039 T04051033 KJES 240235Z AUTO 00000KT 10SM CLR 27/24 A3003 RMK AO2 KJFK 240151Z 35009KT 10SM FEW110 SCT260 32/11 A2986 RMK AO2 WSHFT 0043 SLP112 T03170111 KINT 240154Z AUTO 22005KT 10SM CLR 29/21 A3001 RMK AO2 SLP149 T02940211 ZYTX 240230Z 20004MPS 9999 OVC033 29/24 Q1005 NOSIG ENAL 240220Z AUTO 15005KT 9999 FEW082/// OVC100/// 15/14 Q1019 KHWV 240156Z AUTO 00000KT 10SM CLR 26/16 A2985 RMK AO2 SLP107 T02560161 TSNO KINW 240156Z AUTO 22014KT 10SM CLR 33/07 A3005 RMK AO2 SLP087 T03280067 ENAN 240220Z AUTO 34004KT 310V010 9999NDV OVC003/// 10/10 Q1021 KHWY 240235Z AUTO 00000KT 10SM SCT080 27/23 A2994 RMK AO2 T02650225 KJGG 240235Z AUTO 00000KT 10SM CLR 30/25 A2996 RMK AO1 KHYI 240235Z 15010KT 10SM CLR 31/22 A2991 RMK AO1 FDJR 240200Z AUTO 16004KT //// // ////// 09/06 Q1024 KIPJ 240240Z AUTO 00000KT 10SM CLR 24/22 A3002 RMK AO2 T02430224 FDLB 240200Z AUTO 16004KT //// // ////// 15/10 Q1025 KIPL 240202Z AUTO 13014KT 8SM BKN039 41/18 A2962 RMK AO2 T04110178 ENAT 240150Z AUTO 23003KT 9999 NCD 15/12 Q1020 RMK WIND 700FT VRB01KT ENBL 231350Z 25007KT 9999 BKN050 19/13 Q1020 KHZD 240235Z AUTO 00000KT 10SM FEW037 BKN044 BKN055 25/24 A2997 RMK A01 KIOW 240152Z AUTO 13004KT 10SM CLR 27/24 A2986 RMK AO2 SLP105 T02670239 KHZE 240235Z AUTO 32009KT 10SM CLR 22/13 A2989 RMK AO2 ENBN 240220Z AUTO 35003KT 1200NDV R22/P2000U BR BKN001/// BKN003/// OVC006/// 13/13 Q1021 KJFX 240235Z AUTO 00000KT CLR 27/24 A2999 RMK AO2 PWINO ENBO 240150Z 24006KT 6000 -DZ SCT002 OVC003 14/14 Q1021 UTSA 240230Z 07014KT 9000 NSC 26/09 Q1004 R07/CLRD70 NOSIG KJFZ 240235Z AUTO 13003KT 10SM CLR 25/22 A3013 RMK AO2 T02470221 UTSB 240230Z 35006KT CAVOK 23/11 Q1003 R01/CLRD70 NOSIG WBSB 240230Z 24007KT 9999 SCT014 BKN140 28/25 Q1011 NOSIG KHYR 240246Z AUTO 16004KT 10SM SCT011 OVC033 21/19 A2984 RMK AO2 RAB28E39 P0000 T02110194 ENBR 240150Z 12004KT CAVOK 16/14 Q1020 RMK WIND 1200FT 16012KT KHYS 240235Z 17006KT 10SM CLR 29/14 A2981 RMK AO1 ENBS 231050Z 23017KT CAVOK 27/09 Q1019 KIPT 240154Z 00000KT 10SM CLR 26/13 A2992 RMK AO2 SLP126 T02560133 KHZL 240235Z AUTO 01003KT 10SM CLR 23/11 A3002 RMK AO2 ENBV 231150Z 23013KT 200V260 CAVOK 28/09 Q1018 KHYW 240235Z AUTO 00000KT 10SM SCT120 25/23 A3001 RMK AO2 KJHN 240235Z AUTO 00000KT 10SM CLR 27/16 A2991 RMK AO2 LTG DSNT N T02740155 ENCN 240220Z AUTO 07003KT 9999 BKN006/// 14/13 Q1020 KHYX 240235Z AUTO 11006KT 10SM CLR 24/18 A2997 RMK AO2 UTSK 240230Z 09006KT 060V120 CAVOK 25/13 Q1003 R16/CLRD70 KHZR 240235Z AUTO 13004KT 10SM CLR 26/24 A2996 RMK AO2 T02630240 KIRK 240155Z AUTO 16004KT 10SM CLR 28/25 A2989 RMK AO2 SLP113 T02780250 PNO $ KJHW 240235Z AUTO 29007KT 10SM CLR 23/14 A3004 RMK AO1 KHZX 240234Z AUTO 13004KT 10SM CLR 20/18 A2980 RMK AO2 KHZY 240153Z AUTO 00000KT 10SM CLR 22/18 A3001 RMK AO2 SLP155 T02170183 TSNO UTSS 240230Z 11008KT 080V150 9999 NSC 24/10 Q1007 R88/CLRD70 NOSIG UTST 240230Z 00000KT CAVOK 25/15 Q1003 R88/CLRD70 NOSIG VLLB 240200Z 27002KT 6000 SCT010 SCT040 OVC070 24/22 Q1012 NOSIG ENDR 240220Z AUTO 12009KT 13/13 Q1020 KIRS 240234Z AUTO 00000KT 10SM CLR 25/22 A3000 RMK AO2 T02460215 KJKA 240235Z AUTO 00000KT 10SM SCT028 SCT038 26/25 A2998 RMK AO2 T02560253 FDMS 231500Z VRB02KT 9999 FEW035 20/11 Q1017 NOSIG KM19 240156Z AUTO 23004KT 10SM CLR 28/22 A2995 RMK AO2 T02830222 SLP138 ENFB 240220Z AUTO 18016KT 0350NDV FG NCD 14/14 Q1018 W///S2 ENEK 240220Z 19009KT CAVOK 17/12 Q1020 W16/S3 KM21 240235Z AUTO 00000KT 7SM SCT042 27/26 A2998 RMK AO2 T02670262 ENDU 240220Z AUTO 29006KT 0400NDV R28/0800N FG OVC001/// 12/12 Q1020 KISM 240156Z 00000KT 10SM SCT040 26/23 A3004 RMK AO2 LTG DSNT W AND NW TSE07RAE06 SLP175 P0000 T02610233 FDMV 240000Z AUTO 19007KT //// // ////// 17/13 Q1028 KISN 240152Z AUTO 30010KT 10SM CLR 23/13 A2990 RMK AO2 SLP116 T02280128 $ KISO 240240Z AUTO 21004KT 10SM CLR 26/23 A3000 RMK AO2 T02620227 FEFF 240200Z 00000KT CAVOK 21/21 Q1012 NOSIG KM25 240235Z AUTO 21005KT 10SM SCT043 BKN049 BKN065 27/25 A2999 RMK AO2 PWINO KISP 240156Z 33006KT 10SM FEW055 FEW110 FEW260 28/15 A2984 RMK AO2 SLP103 FRQ LTGICCG DSNT S CB DSNT S T02780150 LBBG 240230Z 23005KT CAVOK 19/14 Q1014 NOSIG KISQ 240234Z AUTO 00000KT 10SM CLR 20/18 A2992 RMK AO2 T02020179 KITH 240156Z 00000KT 10SM CLR 19/14 A2997 RMK AO2 SLP140 T01940139 UTTT 240230Z 07003KT 340V100 CAVOK 26/08 Q1007 R26R/CLRD70 NOSIG KJKJ 240234Z AUTO 32005KT 10SM SCT030 OVC039 23/22 A2972 RMK AO2 LTG DSNT S KM30 240235Z AUTO 00000KT 10SM CLR 26/25 A2998 RMK AO2 T02600250 VLLN 240200Z 18002KT 7000 FEW020 FEW050 BKN100 24/22 Q1013 NOSIG KJKL 240153Z AUTO 00000KT 10SM CLR 28/21 A3002 RMK AO2 SLP148 T02780211 ENGC 240220Z 20017KT 0100 FG VV001 14/14 Q1018 W13/S2 ENFL 240220Z AUTO 10005KT 9999NDV FEW046/// OVC064/// 16/15 Q1019 ENEV 240220Z AUTO 02006KT 9999NDV OVC082/// 13/12 Q1020 RMK WIND 1400FT 24014KT KISW 240154Z AUTO 18003KT 10SM BKN100 22/19 A2988 RMK AO2 SLP112 T02170189 KM33 240235Z AUTO 00000KT 8SM FEW046 FEW065 BKN120 25/24 A3002 RMK A01 KITR 240153Z AUTO 10006KT 10SM CLR 28/09 A2997 RMK AO2 SLP086 T02830094 KM40 240235Z AUTO 00000KT 5SM HZ CLR 26/16 A2998 RMK AO2 FEFT 231000Z 32016KT 9999 BKN012 25/21 Q1013 UUMO 231600Z 03004MPS 9999 SCT046 BKN100 24/16 Q1012 R08/090060 NOSIG RMK QFE744/0992 ENGM 240220Z 01001KT CAVOK 14/12 Q1020 ENHD 231850Z VRB03KT CAVOK 18/15 Q1020 KJLN 240153Z 15007KT 10SM CLR 32/23 A2992 RMK AO2 SLP115 T03170233 ENHE 240220Z 15009KT 100V180 9999 FEW003 BKN020 BKN037 14/14 Q1020 W///S2 ENHF 240220Z AUTO 00000KT 9999 NCD 12/11 Q1019 RMK WIND 1253FT 23008KT UUOB 240230Z 35005MPS 9999 FEW020 16/15 Q1008 R29/290055 NOSIG KIWA 240247Z 29007KT 20SM SCT250 41/12 A2975 KIWD 240235Z AUTO 16003KT 10SM BKN070 OVC075 23/21 A2984 RMK AO1